ENHM 261550Z 30028KT 9999 FEW030 05/00 Q1008 W07/S5 UUOK 261600Z 12006MPS 6000 OVC010 M06/M07 Q1024 NOSIG RMK 12410155 KIWI 261553Z AUTO VRB05KT 10SM CLR M09/M22 A3023 RMK AO2 SLP237 T10941217 KJMR 261605Z AUTO 24004KT 4SM SCT008 BKN029 OVC065 00/M02 A2968 RMK AO2 KJMS 261556Z AUTO 32016KT 10SM CLR 03/M01 A2982 RMK AO2 SLP115 T00331006 PPIT 261556Z AUTO 05024KT 9SM CLR M26/M29 A2995 RMK AO2 PK WND 05031/1511 SLP143 T12611289 FZRANO KIXA 261615Z AUTO 03003KT 5SM -RA SCT037 OVC046 05/04 A2966 RMK AO2 UUOO 261600Z 13005MPS 8000 -SN OVC012 M09/M11 Q1025 NOSIG RMK 12800345 KIXD 261553Z 22012KT 10SM CLR 04/00 A2997 RMK AO2 SLP156 T00390000 ENHV 261550Z 18025KT 9999 FEW013 M01/M04 Q0992 KM63 261556Z AUTO 30006KT 10SM CLR 03/M03 A3034 RMK AO2 SLP255 T00331032 PPIZ 261617Z AUTO 00000KT 10SM SCT004 SCT017 M36/ A3028 RMK AO2 TSNO $ KIYA 261555Z AUTO 35012G17KT 10SM CLR 11/02 A3018 RMK AO2 T01080017 TSNO ENKB 261550Z 27013KT 9999 -SHRA FEW014TCU SCT031 BKN099 03/01 Q1002 FDSK 261500Z 04013KT 9999 FEW040 34/20 Q1010 NOSIG KJNX 261555Z AUTO 00000KT 10SM OVC095 08/07 A2965 RMK AO2 LTG DSNT NE AND SE OYMB 261500Z 06003KT CAVOK 21/M16 Q1021 KIZA 261555Z AUTO 06004KT 10SM CLR 10/05 A3002 RMK AO2 ENLA 261550Z AUTO 31036KT 9999NDV BKN023/// 06/02 Q1011 W///S5 KJOT 261555Z AUTO 00000KT 10SM BKN070 BKN100 M05/M08 A2997 RMK AO2 T10551083 FDST 261600Z AUTO 09008KT //// // ////// 26/20 Q1013 KJQF 261559Z 36007KT 10SM BKN075 09/03 A2969 LBGO 261600Z 07002KT 9999 BKN022 OVC049 04/02 Q1022 R99/19//95 NOSIG KIZG 261554Z AUTO 35003KT 10SM CLR M11/M20 A3018 RMK AO2 SLP230 T11061200 ENKR 261550Z 19015KT 9999 -SN BKN015 M02/M04 Q0995 RMK WIND 731FT 20025KT ENLK 261550Z 20019G31KT 9999 8000S -SHRASN SCT012CB SCT025 BKN035 04/M01 Q0991 KM91 261615Z AUTO 33009KT 10SM OVC011 00/M01 A3002 RMK KN03 261615Z AUTO 07007KT 1 1/4SM -SN OVC010 M10/M11 A2993 RMK AO2 ENMH 261550Z 194018KT 9999 SCT021 BKN045 M013/M045 Q0992 KLAA 261553Z AUTO 25011KT 10SM CLR 06/M01 A3024 RMK AO2 SLP245 T00561011 ENNA 261550Z 18013KT CAVOK M04/M08 Q0994 RMK WIND 1800FT 21016KT ENML 261550Z 32005KT 9999 -SHRA FEW012 SCT015CB BKN030 03/01 Q1002 ENNE 261550Z 24026KT 9999 VCSH FEW015 SCT030 03/00 Q0993 W///S7 KLAF 261554Z 26003KT 10SM CLR M06/M11 A2998 RMK AO2 SLP160 T10611106 ENMS 261550Z 17006KT 9999 SCT028 02/M00 Q0997 RMK WIND 412FT 18007KT ENOA 261550Z 31023KT 9999 VCSH BKN030 05/00 Q1006 W///S5 KLBB 261553Z 29011KT 10SM FEW200 FEW300 08/00 A3026 RMK AO2 SLP241 T00830000 ENNK 261550Z VRB05KT 9999 VCSH FEW010 SCT020 BKN045 02/00 Q0993 KJTC 261615Z AUTO 20004KT 10SM CLR 02/M04 A3037 RMK AO2 KLAL 261550Z 30015G21KT 15SM SKC 18/09 A2993 KLAM 261555Z AUTO 01006KT 10SM CLR 05/M06 A3041 RMK AO2 T00481060 ENNM 261550Z 20006KT 120V240 9999 FEW015 SCT025 04/M00 Q1000 KLAN 261553Z 07006KT 10SM CLR M08/M12 A2996 RMK AO2 SLP161 T10831122 KLBE 261550Z 10005KT 1SM -SN SCT004 BKN014 M01/M02 A2972 KJSO 252035Z AUTO 29016G21KT 10SM CLR 19/M03 A2999 RMK AO2 T01911030 KLBF 261553Z AUTO 29011KT 10SM CLR 06/01 A3008 RMK AO2 SLP198 T00610006 ENNO 261550Z 31003KT 9999 OVC008 01/01 Q1004 LATI 261550Z 13002KT 9999 -RA FEW033 SCT046 BKN059 10/05 Q1015 NOSIG KLAR 261553Z AUTO 14003KT 10SM CLR 01/M04 A3035 RMK AO2 SLP276 T00061039 VMMC 261600Z 00000KT 7000 FEW015 17/16 Q1018 NOSIG KLAS 261556Z 19005KT 10SM BKN250 14/M01 A3015 RMK AO2 SLP202 T01391006 KJST 261554Z AUTO 00000KT 3/4SM -SN BR VV016 M06/M07 A2967 RMK AO2 SLP076 P0004 T10561072 KLBL 261615Z AUTO 31012KT 10SM CLR 12/02 A3020 RMK AO1 ENOL 261550Z 21013KT 9999 FEW010CB SCT030 03/M00 Q1001 TEMPO SHRA SCT010CB BKN018 KJSV 261615Z AUTO 23003KT 10SM CLR 05/01 A3017 RMK AO2 KLAW 261553Z 25008KT 10SM CLR 09/02 A3017 RMK AO2 SLP221 T00940017 KLAX 261553Z 11006KT 10SM FEW075 BKN100 BKN120 19/02 A2999 RMK AO2 SLP153 T01890017 KLCG 261555Z AUTO 32013KT 10SM CLR 07/03 A2990 RMK AO2 T00700030 KLCH 261553Z 34008KT 10SM CLR 12/02 A3021 RMK AO2 SLP239 T01220017 KLCI 261615Z AUTO 09005KT 10SM CLR M12/M19 A3013 RMK AO1 KN38 261615Z AUTO 03009KT 3/4SM -RA OVC004 M11/M13 A2980 RMK AO2 ENQA 261550Z AUTO 31028KT 9999NDV -SHRA FEW028/// SCT041/// BKN068/// 06/01 Q1005 W04/S5 KLBT 261554Z AUTO 30005KT 10SM OVC050 11/05 A2964 RMK AO2 SLP035 T01060050 KLCK 261555Z AUTO 34012KT 10SM BKN012 BKN049 OVC055 M05/M08 A2985 RMK AO2 T10551080 ENQC 261550Z AUTO 30025KT 9999NDV BKN029/// 06/00 Q1005 W///S5 ENOV 261550Z VRB01KT 5000 -SHSN VV009 01/00 Q1004 RMK WIND 2175FT /////KT KLBX 261553Z AUTO 30005KT 10SM CLR 13/01 A3028 RMK AO2 SLP254 T01330006 KLCQ 261555Z AUTO 29012KT 10SM BKN034 BKN039 12/05 A2988 RMK AO2 VLVT 261530Z 24002KT 4000 BR NSC 22/18 Q1013 NOSIG KLDJ 261615Z AUTO 07014G19KT 3SM HZ BKN017 OVC025 M01/M05 A2998 RMK AO2 T10151046 KKLS 261615Z 00000KT 1/4SM OVC002 04/03 A3002 RMK AO1 ENRA 261550Z 07003KT 9999 -SHRASN FEW006 SCT012 BKN020 00/M00 Q0997 KLEB 261553Z 00000KT 10SM CLR M14/M19 A3015 RMK AO2 SLP232 T11391194 KJVL 261545Z 15010KT 2 1/2SM -SN BKN014 BKN020 OVC025 M07/M09 A2990 RMK SNB41 KLDM 261615Z AUTO 14007KT 10SM CLR M08/M12 A2996 RMK AO2 T10771121 OYRN 261600Z 08007KT CAVOK 24/15 Q1019 KLEE 261553Z 30015G25KT 10SM CLR 16/06 A2992 RMK AO2 SLP130 T01610056 OYSH 261500Z 14006KT CAVOK 20/M04 Q1027 KJWG 261555Z AUTO 28011KT 10SM CLR 14/02 A3011 RMK AO2 T01360024 ENQR 261550Z AUTO 29020KT 9999NDV FEW099/// 05/00 Q1004 W///S6 KN60 261552Z AUTO 29009KT 04/00 A2992 RMK AO1 SLP148 T00390000 UUWW 261600Z 14003MPS 9999 SCT020 BKN200 M11/M13 Q1022 19410542 NOSIG ENSB 261550Z 15016KT 110V190 9999 -SN FEW035 SCT050 M08/M12 Q1005 RMK WIND 1400FT 10025KT OYSN 261600Z 04006KT CAVOK 15/M11 Q1028 NOSIG ENSD 261550Z VRB01KT 9999 -SHRA SCT010 VV022 02/01 Q1004 RMK WIND 1138FT VRB01KT UWGG 261600Z 19005MPS 9999 SCT020 BKN100 M09/M17 Q1026 NOSIG 18820042 RMK QFE763 ENRM 261550Z 21019KT 9999 SHRASN SCT014TCU FEW016 SCT025 02/00 Q0999 KJVW 261555Z AUTO 10SM OVC025 07/05 A3016 RMK AO2 LCEN 261550Z 28009KT 9999 FEW025 12/07 Q1019 NOSIG ENSE 261550Z AUTO 30016KT 9999NDV NCD 05/00 Q1005 W///S6 OYSQ 261600Z 06014KT 9999 SCT018 26/19 Q1015 ENRO 261550Z VRB01KT 9999 BKN005 M06/M07 Q1000 ENSG 261550Z 25007KT 9999 FEW008 SCT030 M01/M04 Q1003 RMK WIND 3901FT 25023KT ENSH 261550Z 24017KT 9999 VCSH FEW025CB SCT045 04/M00 Q0991 KLFI 261558Z AUTO 01007KT 10SM CLR 08/05 A2968 RMK AO2 DZB1520E1546 SLP057 P0000 T00770046 $ KJXI 261555Z AUTO 34006KT 10SM CLR 08/00 A3022 RMK AO2 T00810004 KLGA 261617Z 05018G27KT 3SM -SN BKN013 OVC032 M06/M08 A2999 RMK AO2 PK WND 04028/1558 P0000 ENRS 261320Z 21024KT 9999 VCSH FEW018 SCT050 04/M01 Q0991 KLGB 261553Z 00000KT 10SM OVC110 18/03 A2998 RMK AO2 SLP151 T01830033 KLFK 261553Z AUTO 32005KT 10SM CLR 13/01 A3023 RMK AO2 SLP235 T01330011 ENSK 261550Z 23014KT 9999 VCSH SCT030 SCT050 05/M00 Q0990 KLGC 261555Z AUTO 32014KT 10SM OVC021 09/06 A2991 RMK AO2 T00860056 EPBC 261600Z 24002KT 3500 BR SCT006 OVC035 M00/M00 Q1021= ENTC 261550Z 21014KT 9999 BKN036 03/M01 Q0991 NOSIG ENSL 261550Z 30035KT 9999 -SHRA FEW015 BKN030 07/01 Q1010 W06/S5 KLGD 261615Z AUTO 19028G41KT 10SM CLR 06/M02 A3019 RMK AO1 LBPD 261600Z 12005KT 9999 -RA FEW034 OVC040 06/05 Q1020 BECMG 5000 BR KLEW 261615Z AUTO 01004KT 10SM CLR M11/M21 A3018 RMK AO1 KJXN 261556Z 08006KT 10SM CLR M08/M13 A2993 RMK AO2 SLP154 T10831133 ENSN 261550Z 28007KT 0500 FG VV001 00/00 Q1003 KLEX 261554Z 31010KT 10SM OVC012 M04/M07 A2992 RMK AO2 SLP139 T10441067 OYSY 261600Z AUTO 07003KT //// ////// 19/M06 Q1020 ENSO 261550Z 32004KT 240V020 9999 -SHRA SCT014 SCT023CB BKN041 04/03 Q1006 KJYG 261613Z AUTO 29016G20KT 10SM CLR 05/02 A2977 RMK AO2 KJWY 261615Z AUTO 23003KT 10SM CLR 13/01 A3024 RMK AO2 T01290012 ENRY 261550Z VRB02KT 0100 R12/0350V0600N R30/0350N FG OVC001 03/03 Q1003 ENSR 260950Z 15016KT 9999 FEW055 M01/M06 Q0991 WIND 1119FT 12015KT ENSS 261550Z 19025KT 6000 -SHSN -BLSN SCT006 BKN009 M02/M03 Q0995 RMK WIND 500FT 21034KT KLFT 261553Z 36015KT 10SM CLR 12/02 A3019 RMK AO2 SLP222 T01170017 KLHB 261615Z AUTO 24005KT 10SM CLR 10/02 A3029 RMK AO2 T01030020 ENST 261520Z 18020KT 9999 VCSH FEW010 FEW015CB SCT030 04/01 Q0997 RESHRAGS RMK WIND 300FT 16024KT KJYL 261615Z AUTO 29013G25KT 10SM BKN034 11/06 A2976 RMK AO2 T01120058 KJYM 261615Z AUTO 04003KT 10SM CLR M08/M13 A2990 RMK AO2 T10801133 UUYY 261600Z 21004MPS 7000 -SN BKN011 OVC066 M08/M09 Q1020 TEMPO 1000 SHSN SCT010CB 19390232 RMK QFE756/1008 EPCE 261600Z 16007KT 130V200 9999 OVC027 M01/M04 Q1016 RMK M010 079 8/8 = KJYO 261555Z AUTO 05005KT 7SM OVC006 00/00 A2981 RMK AO2 OYTZ 261600Z 16009KT CAVOK 17/11 Q1023 ENTO 261550Z VRB02KT 9999 1500N R18/0800V1800U R36/P2000N PRFG SCT051 01/01 Q1002 KJZI 261615Z AUTO 29016G19KT 10SM CLR 13/06 A2970 RMK A02 P000 KJYR 261555Z AUTO 31014KT 10SM CLR 09/02 A2994 RMK AO2 EPDA 261600Z 18010KT 110V200 9999 FEW021 SCT032 01/M01 Q1015 RMK 006 086 4/2 ENVA 261550Z 11003KT 040V180 9999 FEW030TCU FEW060 00/M01 Q1002 NOSIG RMK WIND 670FT VRB03KT FGBT 261600Z 28006KT 9999 FEW012 FEW018CB 30/24 Q1009 NOSIG KLGU 261551Z AUTO 00000KT 1/4SM FZFG VV001 M04/M05 A3042 RMK AO2 SLP323 I1000 T10391050 KLIC 261555Z AUTO 30008KT 10SM CLR 08/M02 A3027 RMK AO2 SLP252 T00831022 KLHM 261555Z AUTO 01005KT 1 1/2SM VV007 03/03 A3008 RMK AO1 ENVD 261550Z 22016KT 9999 BKN013 M01/M03 Q0995 EPDE 261600Z 25002KT 2000 BR BKN007 OVC015 M00/M01 Q1022 RMK M004 093 8/6= EPBY 261600Z 20006KT 170V230 9999 BKN028 01/M04 Q1019 KLHQ 261553Z AUTO 32009KT 10SM FEW014 SCT070 OVC120 M05/M08 A2983 RMK AO2 SNE1456 SLP109 P0000 T10501078 ENVH 261550Z AUTO 31040KT 9999NDV -SHRA BKN020/// 05/01 Q1012 W///S4 UWKD 261600Z 16008MPS CAVOK M18/M21 Q1033 R11/8/0055 NOSIG RMK QFE765/1020 UWKE 261600Z 19007G10MPS 9999 DRSN BKN200 M17/M25 Q1035 NOSIG RMK QFE759/1012 21090070 KMAE 261553Z AUTO 2SM BR CLR 02/01 A3007 RMK AO2 SLP183 T00220011 $ KLHW 261558Z AUTO 28019KT 10SM SCT033 13/04 A2977 RMK AO2 SLP084 T01260041 KMAF 261553Z 29005KT 10SM CLR 10/02 A3030 RMK AO2 SLP249 T01000017 KLHX 261553Z AUTO 26008KT 10SM CLR 06/M02 A3027 RMK AO2 SLP245 T00611017 KLJF 261613Z AUTO 30011G16KT 10SM CLR 04/01 A2973 RMK AO2 LBSF 261530Z 28005KT 8000 OVC021 01/M01 Q1019 NOSIG DXNG 261600Z VRB02KT CAVOK 35/M01 Q1013 NOSIG KLHZ 261555Z AUTO 03005KT 7SM SCT049 BKN080 BKN110 07/06 A2965 RMK AO2 P0001 KMAI 261553Z AUTO 32017G22KT 10SM FEW035 11/03 A2997 RMK AO2 SLP147 T01110028 VOCB 261530Z 09006KT 5000 HZ FEW015 26/14 Q1016 NOSIG ENVR 261450Z 20023G33KT 9999 VCSH FEW015 SCT040 05/01 Q0991 VOBL 261600Z 12005KT CAVOK 24/16 Q1019 NOSIG KLIT 261553Z 30010KT 10SM FEW030 08/M01 A3016 RMK AO2 SLP217 T00781011 KO22 261555Z AUTO 05003KT 10SM CLR 07/03 A3006 RMK AO1 KMAN 261615Z AUTO 12005KT 10SM CLR 00/00 A3034 RMK AO1 KMAO 261635Z AUTO 30003KT 10SM CLR 13/05 A2965 RMK AO2 VOCI 261600Z 00000KT 5000 HZ NSC 26/19 Q1013 NOSIG KMBG 261552Z AUTO 30008KT 10SM CLR 05/02 A2991 RMK AO2 SLP141 T00500017 UWKS 261600Z 16006MPS CAVOK M17/M22 Q1030 NOSIG RMK QFE757 06920350 VNKT 261550Z 00000KT 5000 BR FEW015 SCT025 BKN100 12/08 Q1022 NOSIG VOCL 261600Z 00000KT 6000 NSC 27/22 Q1013 NOSIG KMCB 261553Z AUTO 33011KT 10SM CLR 10/01 A3016 RMK AO2 SLP211 T01000011 KMBL 261615Z AUTO 14006KT 10SM CLR M09/M13 A2996 RMK AO1 KMCC 261615Z AUTO 33004KT M1/4SM FG OVC001 04/04 A3010 RMK AO2 KMCD 261615Z AUTO 07004KT 10SM BKN007 BKN012 M08/M11 A2999 RMK AO2 T10851107 KMCE 261553Z AUTO 25004KT M1/4SM FG VV002 02/01 A3006 RMK AO2 SLP181 T00170011 EPGD 261600Z 21008KT 180V250 9999 BKN019 M00/M04 Q1016 KMCF 261558Z AUTO 34012G19KT 10SM CLR 18/12 A2996 RMK AO2 SLP148 T01840117 $ KLKR 261615Z AUTO 30006KT 10SM SCT050 12/04 A2965 RMK AO2 KMCI 261553Z 22013KT 10SM FEW150 FEW250 03/00 A2993 RMK AO2 SLP142 T00330000 KMBS 261553Z VRB03KT 10SM CLR M08/M12 A3000 RMK AO2 SLP170 T10831122 KLLJ 261555Z AUTO 00000KT 10SM CLR M04/M04 A3038 RMK AO2 SLP317 T10391044 KMCJ 261555Z AUTO 00000KT CLR 13/M01 A3024 RMK AO1 KMCK 261553Z AUTO 30010KT 10SM CLR 10/01 A3010 RMK AO2 SLP200 T01000006 LCLK 261600Z 32006KT 280V340 9999 FEW025 14/08 Q1020 NOSIG UWLW 261600Z 18006MPS P5000 SCT200 M17/M22 Q1037 20800250 NOSIG RMK QFE771 KLKU 261555Z AUTO 07006KT 10SM DZ BKN007 OVC011 04/03 A2972 RMK AO2 P0001 KLKV 261615Z 33005KT 10SM CLR 01/M02 A3019 RMK AO1 KMDD 261555Z AUTO 30004KT 10SM CLR 09/01 A3031 RMK AO2 T00920005 KMCN 261553Z 29013G21KT 10SM BKN028 OVC036 08/04 A2986 RMK AO2 SLP111 T00830039 KMCO 261553Z 30019KT 10SM FEW030 17/07 A2990 RMK AO2 SLP125 T01720072 KMDH 261606Z 32012KT 10SM BKN021 M01/M05 A3008 RMK AO2 T10061050 KLLQ 261553Z AUTO 31008KT 10SM CLR 07/00 A3016 RMK AO2 SLP214 T00720000 KMDJ 261615Z AUTO 33017KT 10SM CLR 13/03 A3018 RMK A01 KMEB 261552Z AUTO 31009KT 10SM FEW060 11/04 A2965 RMK AO2 SLP039 T01110039 KLNC 261615Z AUTO 00000KT 10SM CLR 11/00 A3025 RMK AO2 T01121005 KLND 261553Z AUTO 00000KT 10SM CLR 00/M05 A3028 RMK AO2 SLP261 T00001050 KMCW 261553Z AUTO 26012KT 10SM SCT030 02/00 A2976 RMK AO2 SLP085 T00170000 KLMO 261615Z AUTO 00000KT 10SM CLR 12/00 A3026 RMK AO2 T01211001 KMCX 261615Z AUTO 00000KT 10SM CLR M08/M11 A2998 RMK AO2 T10761112 KO54 261555Z AUTO 00000KT 1/4SM OVC002 02/02 A3013 RMK AO1 KMEH 261556Z AUTO VRB03KT 10SM CLR 06/01 A3012 RMK AO2 SLP207 T00560006 KMDQ 261615Z AUTO 32012KT 10SM OVC016 01/M02 A3001 RMK AO2 KMEI 261558Z 31010G20KT 10SM OVC024 07/01 A3010 RMK AO2 SLP194 T00670006 KMDS 261610Z AUTO 31014KT 10SM CLR 03/03 A2985 RMK AO2 KLMT 261553Z 35003KT 10SM CLR M01/M02 A3015 RMK AO2 SLP223 T10111017 KLNK 261554Z 31012KT 10SM CLR 08/01 A2992 RMK AO2 SLP139 T00830011 KMDT 261556Z 06008KT 9SM BKN017 OVC024 M04/M08 A2987 RMK AO2 SNB01E42 SLP120 P0000 T10441078 LDDU 261530Z 28006KT CAVOK 11/01 Q1016 NOSIG KLNL 261555Z AUTO 17007KT 1SM -SN OVC007 M09/M11 A2974 RMK AO2 T10901110 UWOO 261600Z 04002MPS P5000 SCT240 M26/M30 Q1043 08810353 NOSIG RMK QFE772/1029 KMFD 261552Z 35014KT 10SM OVC012 M07/M10 A2982 RMK AO2 SLP117 T10721100 KMEM 261554Z 28007KT 10SM BKN024 05/M02 A3012 RMK AO2 SLP201 T00501017 ENZV 261550Z 26003KT 150V320 9999 VCSH FEW011 SCT025CB BKN050 05/03 Q1007 TEMPO SHRA KMDW 261553Z VRB03KT 10SM SCT075 BKN120 OVC250 M04/M08 A2996 RMK AO2 SLP159 T10391078 KMFE 261553Z 30003KT 10SM CLR 17/07 A3032 RMK AO2 SLP267 T01720067 KLNN 261555Z AUTO 06016KT 10SM OVC012 M06/M09 A2987 RMK AO1 T10581086 LBWN 261530Z 32006KT 260V020 9999 OVC010 04/02 Q1021 R99/29//95 NOSIG UWOR 261600Z 27005MPS CAVOK M19/M24 Q1040 25820255 NOSIG RMK QFE756/1008 KLNP 261555Z AUTO 30011KT 2SM -SN OVC005 00/00 A2971 RMK AO2 KMDZ 261555Z AUTO 14007KT 3SM -SN OVC017 M09/M10 A2973 RMK AO2 T10871102 KMER 261545Z 00000KT 1/4SM BR BKN030 03/03 A3006 KMFI 261614Z AUTO 16010KT 2 1/2SM -SN BR BKN008 OVC018 M08/M09 A2976 RMK AO2 P0000 T10781094 KLNR 261614Z AUTO 13004KT 1 3/4SM -SN OVC030 M06/M09 A2987 RMK AO2 SNB03 P0000 T10611089 EPIR 261600Z 18012KT 8000 BKN030 00/M02 Q1019 RMK 003 083 7/7= KLNS 261553Z 08012KT 3SM -SN OVC028 M05/M08 A2986 RMK AO2 SLP117 P0000 T10501078 KO69 261615Z AUTO 07003KT 4SM CLR 05/05 A3007 RMK AO1 DXSK 261500Z 00000KT 9999 FEW016 BKN260 35/15 Q//// KLOL 261553Z AUTO 00000KT 10SM CLR M05/M10 A3024 RMK AO2 SLP261 T10501100 KLPC 261615Z AUTO 00000KT 10SM CLR 11/03 A3001 RMK AO1 KMGC 261555Z AUTO 00000KT 10SM CLR M06/M13 A2998 RMK AO2 KLOM 261615Z AUTO 05005KT 4SM SCT005 SCT009 BKN015 M02/M05 A2986 RMK AO1 KMGE 261558Z 27016G23KT 10SM OVC022 06/03 A2984 RMK AO2A PK WND 29027/14 SLP109 T00600028 $ KMGG 261615Z AUTO 29011G14KT 10SM CLR 03/00 A2972 RMK AO2 T00280003 KMEZ 261615Z AUTO 27004KT 10SM CLR 09/01 A3015 RMK AO2 LCPH 261600Z 01004KT 330V030 9999 FEW025 14/07 Q1020 KLOR 261553Z AUTO 34012G22KT 10SM BKN033 10/02 A2996 RMK AO2 SLP146 T01000017 KMFR 261553Z 00000KT M1/4SM R14/1000FT FG VV001 03/03 A3008 RMK AO2 SLP192 T00280028 KMGJ 261612Z AUTO 03013KT 3SM -SN BKN037 OVC045 M09/M13 A3001 RMK AO2 P0000 T10891133 TSNO KLOT 261555Z AUTO 00000KT 10SM SCT070 OVC100 M05/M07 A2996 RMK AO2 T10511074 EPLB 261600Z 28004KT 5000 BR SCT011 OVC019 M00/M01 Q1021 KLOU 261553Z 33006G15KT 10SM OVC019 M02/M07 A2999 RMK AO2 SLP158 T10221067 EPKK 261600Z VRB02KT 6000 BKN033 M00/M02 Q1022 R25/51//95 KMGM 261553Z 29015G19KT 10SM OVC026 08/03 A3001 RMK AO2 SLP160 T00830028 KMFV 261615Z AUTO 06011G14KT 10SM SCT013 BKN032 OVC050 09/05 A2967 RMK AO2 KMHE 261553Z AUTO 28011KT 10SM CLR 06/02 A2991 RMK AO2 SLP140 T00560022 KMGN 261614Z AUTO 07005KT 10SM CLR M12/M15 A2998 RMK AO2 T11211151 FHAW 261550Z 14016KT 9999 FEW014 SCT040 27/22 Q1012 BLU NOSIG VOHS 261540Z 11005KT 6000 NSC 20/12 Q1019 NOSIG KLOZ 261553Z AUTO 29010KT 7SM OVC006 M02/M06 A2988 RMK AO2 UPE01SNB01E03 SLP124 P0000 T10221056 KO86 261610Z AUTO 00000KT M1/4SM OVC002 01/01 A3015 RMK AO1 KLPR 261553Z AUTO 04014KT 10SM OVC010 M07/M09 A2987 RMK AO2 SLP128 T10671089 TSNO KMGR 261555Z AUTO 29012G19KT 10SM OVC026 10/05 A2992 RMK AO2 LCRA 261550Z 27011KT 9999 FEW030 16/08 Q1019 NOSIG KMIA 261614Z 31013G22KT 6SM -RA BR BKN020 OVC050 18/16 A2996 RMK AO2 PK WND 27031/1600 WSHFT 1554 RAB03 P0003 T01780156 EPKS 261600Z 15006KT 9999 BKN030 01/M03 Q1019 RMK 010 073 7/7= KMHK 261552Z 26006KT 10SM CLR 06/M01 A2999 RMK AO2 SLP163 T00611006 KLQK 261615Z AUTO 10SM BKN090 10/ A2970 RMK AO2 T0096 KMIB 261558Z AUTO 29010KT 10SM FEW090 02/02 A2991 RMK AO2 SLP149 T00210016 $ EPMB 261600Z 20006KT 9999 BKN030 00/M04 Q1018 RMK 000 076 7/7= EPLK 261600Z 21004KT 9999 BKN030 M01/M04 Q1021 RMK M012 082 7/7= KMIC 261553Z 26008KT 10SM OVC017 02/M01 A2968 RMK AO2 SLP062 T00221011 EPKT 261600Z 20003KT 160V250 5000 BR BKN026 M01/M03 Q1021 KLRD 261556Z 30010KT 10SM SKC 13/06 A3034 EPLL 261600Z 22005KT 9999 OVC030 M01/M05 Q1021 R25/29//95 VOHY 261140Z 14006KT 5000 HZ NSC 27/08 Q1017 NOSIG KMGW 261553Z 10003KT 4SM -SNRA OVC020 02/M01 A2967 RMK AO2 RAE27B49UPB01E05B27E49SNB49 SLP057 P0002 T00171011 KMIE 261553Z 03003KT 10SM CLR M08/M12 A2994 RMK AO2 SLP150 T10781122 KLRF 261558Z AUTO 29008KT 10SM CLR 07/00 A3015 RMK AO2 SLP214 T00711000 KMGY 261553Z AUTO 33010KT 10SM FEW013 OVC035 M07/M11 A2990 RMK AO2 SLP137 T10721106 KMHR 261545Z 34004KT 6SM BR BKN200 06/06 A3007 EPMI 261600Z 16006KT 9999 BKN014 BKN020 00/M02 Q1016 RMK 002 087 7/5 = KMHS 261556Z AUTO 00000KT 6SM HZ CLR 02/M01 A3013 RMK AO2 SLP227 T00221006 KLRJ 261555Z AUTO 32010KT 10SM FEW090 05/02 A2987 RMK AO2 LEAB 261600Z 30007KT CAVOK 12/M03 Q1025 NOSIG KMHT 261553Z 02006KT 10SM FEW080 SCT200 BKN250 M08/M18 A3015 RMK AO2 SLP231 T10831183 KLSB 261555Z AUTO 15010KT 10SM CLR 05/M03 A3032 RMK AO2 KMHV 261615Z AUTO 32006KT 10SM BKN095 09/01 A3013 RMK AO1 EPMM 261600Z 22002KT 1000 BR OVC003 M00/M01 Q1021 RMK M004 095 8/8 = KLSE 261553Z 18009KT 10SM OVC013 M04/M07 A2979 RMK AO2 SLP102 T10441072 KLRO 261615Z AUTO 28010KT 10SM CLR A2968 RMK AO2 KLSF 261558Z AUTO 30011G19KT 10SM BKN029 09/03 A2993 RMK AO2 SLP138 EPMO 261600Z 21005KT 3500 BR OVC037 M00/M01 Q1021 LEAG 261600Z AUTO 07011KT CAVOK 15/08 Q1025 EPLY 261600Z 21008KT 9999 BKN030 M00/M04 Q1021 RMK 003 074 7/7= UWSS 261600Z 16005MPS CAVOK M18/M21 Q1034 12800355 NOSIG RMK QFE763 LEBA 261600Z 00000KT CAVOK 16/00 Q1026 KMIS 261615Z AUTO 36021G27KT 10SM CLR 11/03 A3012 RMK A01 LEBB 261600Z 32006KT 9999 FEW028 BKN040 10/05 Q1032 NOSIG KNAK 261554Z AUTO 03007KT 5SM -SN BR OVC012 00/M02 A2981 RMK AO2 UPE05B40E51SNB05E40B51 SLP095 P0003 T00001017 LEAL 261600Z 15003KT 100V200 CAVOK 15/00 Q1025 NOSIG KMKC 261554Z 22009KT 10SM CLR 06/M01 A2996 RMK AO2 SLP148 T00561006 KNBC 261556Z 27018G24KT 10SM BKN030 13/05 A2972 RMK AO2 SLP066 T01280050 $ KLRU 261555Z AUTO 33004KT 10SM CLR 05/M01 A3036 RMK AO2 T00521009 LEAM 261600Z 16006KT 130V190 9999 FEW015 15/08 Q1025 KMIV 261554Z AUTO 05012G19KT 10SM OVC008 02/00 A2981 RMK AO2 RAE02 SLP093 P0003 T00170000 KMKE 261552Z 19007KT 9SM BKN070 BKN190 M04/M09 A2993 RMK AO2 SLP146 T10441094 KMIW 261553Z AUTO 22011KT 10SM FEW060 01/M01 A2979 RMK AO2 SLP096 T00061011 LEAO 261600Z 01004KT 320V070 CAVOK 15/M03 Q1026 LEBG 261600Z 04009KT CAVOK 03/01 Q1030 KNBG 261555Z 35014G22KT 10SM CLR 12/01 A3014 RMK AO2 SLP206 T01220011 $ KMKG 261555Z 13006KT 10SM FEW100 BKN200 M09/M13 A2998 RMK AO2 SLP165 T10941133 KMJQ 261613Z AUTO 30011KT 10SM CLR 03/00 A2978 RMK AO2 LEAS 261600Z VRB02KT 9999 FEW030 10/05 Q1033 NOSIG KNCA 261556Z AUTO 28006KT 10SM CLR 09/07 A2963 RMK AO2 SLP037 T00890067 KP28 261556Z AUTO 28006KT 09/01 A3006 RMK AO1 SLP187 T00940011 KLUA 261555Z AUTO 02006KT 10SM -RA BKN004 BKN018 OVC024 02/02 A2974 RMK AO2 KMKJ 261555Z AUTO 26007KT 5SM -RA OVC004 03/02 A2968 RMK AO2 P0001 T00340024 KMLB 261553Z 27018G28KT 10SM CLR 19/08 A2988 RMK AO2 PK WND 28028/1546 SLP119 T01890078 EPOK 261600Z 21009KT 9999 OVC024 01/M03 Q1017 RMK 005 075 8/8 = LEBL 261600Z 22004KT 9999 FEW040 11/01 Q1025 NOSIG KMKL 261553Z 33009KT 10SM OVC021 03/M03 A3009 RMK AO2 SLP190 T00281028 KMLC 261553Z AUTO 18006KT 10SM FEW080 FEW110 07/01 A3016 RMK AO2 SLP216 T00720006 KLSV 261558Z AUTO VRB05KT 10SM CLR 10/01 A3018 RMK AO2 SLP216 T01010005 $ KLUD 261555Z AUTO 25007KT 10SM CLR 09/M01 A3021 RMK AO2 T00901015 KMKN 261555Z AUTO 27008KT 10SM CLR 14/01 A3026 RMK AO2 T01410014 KMLE 261555Z AUTO 30009KT 10SM CLR 06/01 A2988 RMK AO2 T00570006 KMLF 261552Z AUTO 36004KT 10SM CLR 00/M02 A3035 RMK AO2 SLP289 T00001022 TSNO $ KMKO 261553Z AUTO 19009KT 10SM CLR 06/01 A3015 RMK AO2 SLP212 T00610006 KMJX 261615Z AUTO 06017G20KT 1SM OVC005 01/00 A2986 RMK AO1 KLUF 261558Z AUTO 03004KT 10SM CLR 10/03 A3011 RMK AO2 SLP195 T01040034 $ LECH 251700Z 34006KT 320V020 9999 FEW040 12/M10 Q1022 KMLI 261552Z 11003KT 1/2SM R09/2400V3500FT SN FZFG VV010 M06/M07 A2994 RMK AO2 SLP147 P0003 T10561067 LEDA 251700Z 24012KT CAVOK 09/M05 Q1022 UWUU 261600Z VRB01MPS CAVOK M19/M23 Q1041 140///60 NOSIG RMK QFE769/1026 KMKS 261615Z AUTO 25005KT 7SM SCT024 13/06 A2967 RMK AO2 LTG DSNT SE KLTS 261558Z AUTO 26005KT 10SM CLR 09/02 A3018 RMK AO2 SLP222 T00920021 $ KMLJ 261555Z AUTO 29014G20KT 10SM SCT029 BKN036 11/06 A2982 RMK AO2 VOMM 261540Z 06004KT 6000 FEW020 24/20 Q1016 NOSIG LEBT 261600Z AUTO 12003KT 070V150 CAVOK 13/M01 Q1025 KLUK 261553Z 35011KT 10SM SCT018 OVC040 M06/M09 A2996 RMK AO2 SLP151 T10561089 KMKT 261615Z AUTO 31016G21KT 10SM CLR 04/00 A2974 RMK AO1 KNBT 261556Z AUTO A2964 RMK AO2 SLP043 PWINO PNO KLUM 261615Z AUTO 11005KT 4SM BR OVC008 M04/M05 A2971 RMK AO2 T10391048 LECO 261600Z VRB01KT 9999 BKN028 11/08 Q1033 NOSIG DXXX 261600Z 19013KT 9000 FEW015 FEW020CB 30/26 Q1008 TEMPO TS KMLP 261553Z AUTO 18007KT 10SM CLR 06/M03 A3014 RMK AO2 SLP158 T00611028 KMKY 261615Z AUTO 31011G19KT 10SM FEW031 FEW041 22/14 A2996 RMK AO1 EPPO 261600Z 18006KT 9999 BKN027 02/M03 Q1018 LEBZ 261600Z 35004KT 320V030 CAVOK 17/01 Q1027 KMMH 261615Z AUTO 33003KT 10SM CLR M02/M07 A3030 RMK AO1 KMMI 261615Z AUTO VRB05KT 10SM OVC016 01/M01 A2990 RMK EPPR 261600Z 22004KT 9999 BKN027 01/M03 Q1018 RMK 007 075 7/7= KLVJ 261553Z AUTO VRB04KT 10SM CLR 13/00 A3029 RMK AO2 SLP256 T01330000 KMLS 261553Z AUTO 25009KT 10SM CLR 04/00 A3002 RMK AO2 SLP179 T00440000 KLWA 261614Z AUTO 11004KT 10SM SCT100 M07/M11 A2997 RMK AO2 T10701112 EPRA 261600Z 26004KT 3000 BR BKN008 OVC015 00/M01 Q1022 RMK 002 094 8/6= KLVK 261613Z 00000KT 1SM BR VV002 05/04 A3005 RMK AO2 KMLT 261553Z AUTO 00000KT 10SM CLR M14/M22 A3021 RMK AO2 SLP245 T11391217 KMMK 261615Z AUTO 01009KT 1 1/2SM -SN BKN026 OVC032 M08/M13 A3007 RMK AO2 P0000 T10831128 TSNO KLWB 261555Z AUTO 00000KT 3SM -DZ OVC028 03/02 A2965 RMK AO2 T00260020 LEEC 261400Z 03006KT 360V060 CAVOK 16/00 Q1027 KLWC 261552Z AUTO 25011KT 10SM CLR 04/M01 A2998 RMK AO2 SLP157 T00391006 KMLU 261553Z 36009KT 10SM CLR 09/02 A3020 RMK AO2 SLP225 T00940017 KMML 261615Z AUTO 31013KT 10SM CLR 04/M01 A2980 RMK AO1 KLVL 261615Z AUTO 05004KT 10SM SCT065 BKN080 OVC100 06/04 A2967 RMK AO1 T00640042 LECV 261600Z VRB02KT CAVOK 10/M02 Q1027 KLVM 261553Z AUTO 22026G35KT 10SM CLR 13/M04 A3013 RMK AO2 PK WND 22044/1454 SLP182 T01281044 KLWD 261553Z AUTO 22013KT 10SM OVC110 01/M02 A2985 RMK AO2 PRESFR SLP121 T00061017 KLVN 261601Z AUTO 25007KT 10SM BKN018 01/M01 A2970 RMK AO2 KP53 261556Z AUTO 18007KT M08/M13 A2990 RMK AO1 SLP138 T10831128 KMNE 261555Z AUTO 29003KT 10SM CLR 08/02 A3021 RMK AO2 T00840016 EPPW 261600Z 19006KT 9999 OVC033 01/M04 Q1019 RMK 005 073 8/8 = KLUX 261615Z AUTO 30014G19KT 10SM SCT085 11/05 A2969 RMK AO2 LTG DSNT SE KMNH 261616Z AUTO 21006KT 10SM CLR 07/M03 A3034 RMK AO2 KP58 261551Z AUTO 09011KT M07/M11 A2999 RMK AO1 SLP171 T10721106 KLVS 261553Z AUTO 07003KT 10SM CLR 04/M06 A3037 RMK AO2 SLP271 T00391056 KP59 261551Z AUTO 22007G14KT M05/M11 A2981 RMK AO1 SLP114 T10501111 KP60 261556Z AUTO 00000KT M11/M12 A3047 RMK AO1 SLP364 T11061122 KMOB 261556Z 33010G18KT 10SM FEW035 FEW200 10/02 A3008 RMK AO2 SLP186 T01000022 KMMT 261558Z 29015G19KT 10SM SCT025 SCT100 12/05 A2967 RMK AO2A SLP050 T01240046 UWWW 261600Z 13004MPS CAVOK M21/M24 Q1038 23820545 15//99// NOSIG RMK QFE767/1023 KMMU 261545Z 05010G17KT 1 1/2SM -SN OVC015 M06/M08 A2999 EPSC 261600Z 17008KT 9999 BKN011 02/M00 Q1015 KMMV 261553Z AUTO 00000KT 1/4SM FG VV002 06/06 A3003 RMK AO2 SLP171 T00610056 KMOD 261553Z 33004KT M1/4SM FG VV002 03/03 A3007 RMK AO2 SNB47E51 SLP183 P0000 T00330033 KLWM 261601Z 04010KT 6SM -SN OVC018 M09/M14 A3016 RMK AO2 SNB1555 P0000 T10941144 KMNM 261615Z AUTO 15006KT 10SM OVC075 M08/M11 A2989 RMK AO1 KMNN 261553Z AUTO 34014KT 7SM OVC011 M08/M11 A2987 RMK AO2 SLP132 T10781106 TSNO $ KNFE 261556Z AUTO 33004KT 10SM FEW042 12/05 A2966 RMK AO2 SLP044 T01170050 KNFG 261554Z 04003KT 9SM SCT040 BKN120 17/05 A3000 RMK AO2 SLP158 T01720050 $ KNDZ 261556Z 31012G19KT 10SM FEW036 13/03 A3003 RMK AO2 SLP156 T01280028 $ LEGA 261600Z 33007KT CAVOK 15/M02 Q1025 KP68 261553Z AUTO 21003KT M02/M04 A3031 RMK AO1 SLP274 T10221044 KLWS 261556Z AUTO 11015KT 10SM CLR 08/03 A3009 RMK AO2 SLP194 T00830028 KP69 261552Z AUTO 35004KT 02/01 A3024 RMK AO1 SLP258 T00170006 KLWT 261554Z AUTO 29005KT 10SM CLR 10/M02 A3005 RMK AO2 SLP175 T01001017 KLXL 261613Z AUTO 30007KT 273V333 10SM CLR 03/M01 A2969 RMK AO2 KNFL 261556Z 00000KT 10SM FEW180 SCT200 BKN280 M04/M09 A3023 RMK AO2 SLP200 T10391089 FGSL 260600Z 23003KT 9999 FEW008 FEW020CB 25/24 Q1012 NOSIG KLWV 261553Z AUTO 29007KT 10SM OVC017 M01/M04 A3003 RMK AO2 SLP172 T10111044 LEGE 261600Z VRB02KT 9999 SCT080 08/M00 Q1025 KNEW 261553Z AUTO 33017KT 10SM CLR 12/03 A3016 RMK AO2 SLP206 T01170028 TSNO KLXN 261555Z AUTO 30019KT 10SM CLR 08/01 A3004 RMK AO2 T00760010 EPSN 261600Z 16010KT 9999 OVC014 01/M01 Q1015 RMK 006 089 8/8 = KMOP 261615Z AUTO 09007KT 10SM CLR M08/M12 A2997 RMK AO2 T10781119 KLYH 261554Z 04010KT 2SM BR OVC003 04/03 A2969 RMK AO2 SLP056 T00390033 KMNZ 261615Z AUTO 25014KT 10SM CLR 14/01 A3026 RMK AO2 T01440013 KMOR 261615Z AUTO 30012KT 10SM BKN021 BKN080 02/M01 A2980 RMK EPRZ 261600Z 26004KT 5000 -SN BR OVC013 M00/M01 Q1022 R27/62//95 LDOS 261530Z 33005KT 9999 BKN033 02/00 Q1023 KLXT 261553Z AUTO 21013G20KT 10SM CLR 04/M01 A2995 RMK AO2 SLP149 T00391006 KMOT 261554Z 29012KT 10SM FEW090 04/M01 A2991 RMK AO2 SLP142 T00391011 KMQB 261555Z AUTO 17008KT 3/4SM -SN OVC014 M03/M04 A2996 RMK AO2 T10331040 LEHC 261500Z 00000KT CAVOK 09/M02 Q1024 LDPL 261530Z 04009KT 360V070 9999 FEW036 06/M04 Q1021 NOSIG KLXV 261553Z AUTO 00000KT 10SM CLR M02/M11 A3052 RMK AO2 SLP303 T10171106 EPTM 261600Z 21002KT 4000 BR OVC028 M01/M02 Q1021 RMK M011 092 8/8 = KMQE 261554Z AUTO 01009KT M08/M12 A3006 RMK AO1 SLP199 T10831117 KNFW 261552Z 00000KT 10SM FEW250 11/01 A3027 RMK AO2 SLP231 T01110006 $ KMPO 261600Z AUTO 10014G19KT 1 3/4SM -SN SCT019 BKN027 OVC047 M10/M13 A2983 RMK AO2 P0000 T11001128 KMOX 261613Z AUTO 31014KT 10SM CLR 04/01 A2974 RMK AO2 KNGP 261556Z 34005KT 10SM BKN250 15/07 A3030 RMK AO2 SLP259 T01500067 KLXY 261555Z AUTO 00000KT 10SM CLR 11/00 A3024 RMK AO2 T01050000 LEGR 261600Z 28005KT 250V310 CAVOK 17/M01 Q1025 KMQI 261600Z AUTO 00000KT 10SM CLR 10/08 A2963 RMK AO2 KMQJ 261615Z AUTO 33004KT 10SM CLR M04/M13 A2996 RMK AO1 LEGT 261600Z 00000KT CAVOK 14/M01 Q1026 LEIB 261600Z 09006KT 9999 FEW045 12/07 Q1026 NOSIG KMRB 261553Z 01005KT 1 3/4SM -SN BR OVC006 M02/M04 A2981 RMK AO2 SLP098 P0000 T10171039 KNHK 261552Z 02008KT 8SM OVC012 04/02 A2975 RMK AO2 SLP074 T00390017 KMRC 261615Z AUTO 31007KT 10SM OVC016 01/01 A3001 RMK KNGU 261559Z 01006KT 10SM SCT037 SCT110 BKN250 09/04 A2969 RMK AO2 SLP053 T00890039 KP92 261553Z AUTO 34008KT 290V020 12/03 A3016 RMK AO1 SLP213 T01220028 KMPV 261551Z AUTO 09003KT 8SM CLR M17/M21 A3014 RMK AO2 SLP242 T11721206 KLYV 261615Z AUTO 30011KT 10SM CLR 04/01 A2985 RMK AO2 KNID 261556Z 00000KT 10SM OVC240 07/01 A3012 RMK AO2 SLP203 T00720011 $ KMRF 261615Z AUTO 00000KT 10SM CLR 07/01 A3038 RMK AO1 KMRH 261558Z AUTO 00000KT 10SM FEW060 09/07 A2962 RMK AO2 RAB07E28 PRESFR SLP031 P0000 T00890072 TSNO KMPZ 261555Z AUTO 17008KT 10SM SCT009 OVC022 M01/M03 A2989 RMK AO2 T10151026 LDRI 261500Z 08008G19KT 030V150 9999 FEW050 07/M05 Q1021 KMRJ 261550Z AUTO 17008KT 5SM -SN OVC033 M06/M08 A2984 RMK AO2 KMQS 261555Z AUTO 05006KT 4SM -SN BKN011 BKN025 M04/M05 A2984 RMK AO2 EPWA 261600Z VRB02KT 6000 BKN036 00/M01 Q1021 R33/2///95 NOSIG KLZU 261545Z 30011G18KT 10SM BKN019 07/M01 A2980 RMK ATIS A RWY 25 JW KMRN 261555Z AUTO 00000KT 10SM BKN080 BKN095 07/04 A2971 RMK AO2 T00710038 KNIP 261553Z 28015G23KT 10SM SCT033 14/05 A2984 RMK AO2 SLP101 T01440050 $ KMQY 261556Z 33011KT 10SM OVC014 01/M02 A3003 RMK AO2 T00051016 SLP181 KLZZ 261615Z AUTO 29009KT 10SM CLR 15/01 A3026 RMK AO2 T01450006 LFBA 261600Z AUTO 27005KT 9999 OVC030 07/02 Q1031 KOAJ 261615Z AUTO 00000KT 10SM CLR 09/04 A2962 RMK AO1 KOAK 261553Z 00000KT 10SM BKN200 08/05 A3004 RMK AO2 SLP170 T00780050 KMRT 261613Z AUTO 36012G17KT 10SM OVC011 M08/M11 A2988 RMK AO2 T10791108 KNJK 261556Z 15006KT 10SM BKN085 OVC120 15/05 A3009 RMK AO2 SLP205 T01500050 KMSL 261553Z AUTO 32010KT 9SM OVC016 03/M01 A3007 RMK AO2 SLP183 T00281011 KMTC 261555Z 05007KT 10SM SCT250 M07/M13 A2994 RMK SLP157 T10711128 LFBC 261600Z AUTO 19010KT 9999 BKN029 BKN035 OVC080 07/03 Q1031 KNJM 261557Z 00000KT 10SM CLR 10/08 A2963 RMK AO2 PRESFR SLP037 T01000078 $ LFBD 261600Z AUTO 20009KT 9999 OVC029 07/02 Q1030 LFBE 261600Z AUTO 23005KT 8000 -RA BKN013 OVC019 06/03 Q1030 KMSN 261614Z 20006KT 1SM R36/3500VP6000FT -SN BR VV017 M07/M09 A2988 RMK AO2 TWR VIS 1 1/2 P0001 T10721089 KOBE 261615Z AUTO 28012G22KT 10SM SCT030 18/11 A2993 RMK AO2 KMSO 261553Z 00000KT 7SM CLR M03/M03 A3020 RMK AO2 SLP254 T10331033 VOTR 261510Z 05008KT 6000 FEW018 25/19 Q1015 BECMG 5000 HZ KMSP 261553Z 24007KT 10SM BKN019 01/M02 A2969 RMK AO2 SLP066 T00111017 KMRY 261554Z 00000KT 10SM CLR 11/M02 A2999 RMK AO2 SLP169 T01061017 LDSP 261530Z 02009KT 350V060 CAVOK 09/M03 Q1018 NOSIG LFBG 261600Z AUTO 23009KT 3700 BR BKN009 OVC016 08/06 Q1029 LFAQ 261600Z AUTO 33010KT 9999 SCT004 BKN008 BKN017 08/07 Q1021 KMTH 261553Z AUTO 25009G19KT 10SM CLR 24/16 A3000 RMK AO2 SLP159 T02390156 LFBH 261600Z AUTO 26009KT 8000 FEW006 SCT033 OVC040 10/09 Q1028 LEJR 261600Z 35011KT CAVOK 17/03 Q1026 LFBI 261600Z AUTO 24010KT 6000 OVC004 07/07 Q1027 KMSS 261553Z AUTO 08011KT 10SM CLR M16/M21 A3020 RMK AO2 SLP240 T11611206 KMTJ 261553Z AUTO 00000KT 10SM CLR M01/M05 A3048 RMK AO2 SLP336 T10111050 EPWR 261600Z 17005KT CAVOK 01/M04 Q1020 VOTV 261540Z 00000KT 4000 HZ FEW020 28/22 Q1012 NOSIG LFAT 261600Z AUTO 29010KT 9999 NSC 08/05 Q1022 LELC 261600Z 15004KT 100V190 CAVOK 14/07 Q1025 NOSIG KNLC 261556Z 26004KT 1/8SM FG VV002 02/02 A3006 RMK AO2 SLP180 FIRST T00220022 RVRNO $ LFBL 261600Z AUTO 22006KT 0800 0600 R21/P2000 R03/1500U -DZ FG VV/// 03/03 Q1027 KMSV 261615Z AUTO 09013G18KT 2 1/2SM BKN017 OVC026 M11/M13 A2991 RMK AO1 LFBM 261600Z AUTO 26004KT 230V290 9999 OVC029 07/01 Q1032 KMTN 261554Z 03004KT 2 1/2SM -SN OVC011 00/M01 A2984 KMTO 261553Z AUTO 27008KT 10SM OVC011 M04/M07 A3000 RMK AO2 SLP167 T10391067 KOCF 261550Z 28013G23KT 10SM CLR 14/04 A2992 LFBO 261600Z AUTO 29008KT 9999 OVC028 06/01 Q1031 KMTP 261554Z AUTO 04008G19KT M03/M07 A3004 RMK AO1 SLP173 T10331067 KMSY 261553Z 34012G20KT 10SM FEW250 11/02 A3016 RMK AO2 SLP214 T01110017 LFBP 261600Z AUTO 21004KT 190V250 9999 OVC044 07/M00 Q1032 KOCH 261615Z 36010KT 10SM CLR 12/00 A3023 RMK AO1 KMUI 261606Z AUTO 08011G19KT 9SM -SN OVC023 M06/M09 A2988 RMK AO2 KNKT 261554Z 24005KT 10SM BKN065 09/07 A2966 RMK AO2 RAE38 SLP039 P0000 T00890067 $ LFBT 261600Z AUTO 21006KT 9999 BKN041 OVC058 06/M00 Q1031 LFCK 261600Z AUTO 31012KT 9999 -RA BKN026 OVC036 05/01 Q1031 LELL 261600Z 08001KT CAVOK 10/M00 Q1025 LFBU 261600Z AUTO 22007KT 190V250 3400 BR FEW006 OVC014 06/05 Q1029 LEMD 261600Z 00000KT CAVOK 13/M00 Q1027 NOSIG KMTV 261555Z AUTO 34005KT 10SM OVC060 06/03 A2969 RMK AO2 T00600034 LELN 261600Z 36005KT 300V050 CAVOK 10/M01 Q1029 KMVE 261614Z AUTO 34010G16KT 10SM CLR 05/05 A2978 RMK AO2 KMTW 261556Z AUTO 18014KT 10SM SCT060 M03/M07 A2990 RMK AO2 SLP152 T10331067 FZRANO LELO 261600Z 29010KT 260V320 9999 SCT035 08/02 Q1031 KNKX 261555Z 06006KT 10SM SCT050 BKN110 BKN180 16/02 A2999 RMK AO2 SLP152 T01560022 $ KMUO 261558Z AUTO 12011KT 10SM CLR 00/M01 A3033 RMK AO2 SLP294 T00031008 LEMG 261600Z 13006KT 100V160 9999 FEW015 15/11 Q1026 NOSIG LFBY 261600Z 19004KT 9999 BKN033 08/02 Q1032 EPZG 261600Z 06006KT 9999 OVC030 02/01 Q1018 LEMH 261600Z 36019G31KT 320V020 9999 SCT025 BKN045 08/03 Q1024 KMVH 261620Z AUTO 31005KT 10SM CLR 09/M03 A3008 RMK A01 KOCQ 261555Z AUTO 00000KT 10SM OVC055 M08/M10 A2989 RMK AO1 T10801103 LFBZ 261600Z AUTO VRB02KT 9999 OVC037 08/01 Q1032 LFCR 261600Z AUTO 30010KT 8000 OVC006 01/00 Q1028 KMWA 261553Z 29012KT 20SM BKN017 BKN250 00/M05 A3009 KOEB 261615Z AUTO 08003KT 10SM CLR M09/M13 A2993 RMK AO2 T10861133 KMUT 261555Z AUTO 13004KT 3SM -SN FEW003 BKN021 OVC035 M03/M04 A2995 RMK AO2 KMVL 261554Z AUTO 00000KT 10SM CLR M19/M22 A3017 RMK AO2 SLP239 T11941217 TSNO KMWC 261545Z AUTO 17005KT 10SM OVC065 M05/M09 A2993 KNMM 261556Z 30013KT 10SM OVC024 07/01 A3010 RMK AO2 SLP203 T00670006 $ KMVN 261615Z AUTO 28006KT 250V320 10SM FEW022 M01/M07 A3006 RMK AO1 KOCW 261555Z AUTO 00000KT 10SM CLR 07/05 A2964 RMK AO2 T00730048 LEMO 261600Z 04007KT CAVOK 17/01 Q1026 NOSIG KODO 261553Z AUTO 31004KT 10SM 09/01 A3031 RMK AO2 SLP249 T00890011 $ KMWH 261552Z 00000KT 10SM CLR 00/M01 A3008 RMK AO2 SLP196 T00001006 KMWK 261555Z AUTO 00000KT 7SM -DZ SCT003 SCT029 OVC037 05/04 A2968 RMK AO2 P0002 T00500035 KMWL 261553Z AUTO 27003KT 10SM CLR 09/02 A3022 RMK AO2 SLP231 T00890022 KMWM 261614Z AUTO 30011G16KT 10SM CLR 04/01 A2978 RMK AO2 KMWN 261554Z 31020KT 130SM FEW/// BKN080 BKN140 M15/M30 RMK TPS LWR FEW055 SUN DMLY VSBL PR HALO ARND SUN KODX 261553Z AUTO 32010KT 10SM CLR 09/01 A2997 RMK AO2 SLP163 T00940006 KMXF 261558Z AUTO 32010KT 10SM OVC026 08/03 A3000 RMK AO2 SLP162 T00810030 KOFF 261558Z AUTO 28009KT 10SM CLR 05/01 A2988 RMK AO2 SLP130 T00460007 $ KMWO 261555Z AUTO 33009KT 10SM OVC039 M06/M10 A2995 RMK AO2 T10571102 KOEO 261555Z AUTO 22004KT 7SM -SN SCT008 BKN013 OVC022 M01/M01 A2971 RMK AO2 T10071009 KMVY 261607Z 07013KT 3SM -SN BKN022 OVC027 M01/M05 A3005 RMK AO2 P0000 T10111050 KNOG 261556Z AUTO 01003KT 10SM CLR 19/05 A3030 RMK AO2 SLP240 T01890050 $ LEPA 261600Z VRB02KT 9999 FEW025 SCT035 BKN045 09/06 Q1025 NOSIG LFGA 261600Z AUTO 17011KT 9999 -RA FEW007 SCT027 OVC032 02/01 Q1022 KMWS 261600Z 07006G12KT 10/M05 RMK SNOW DEPTH 2.00 PTKK 261550Z 06010KT 15SM FEW014 SCT120 OVC280 27/22 A2976 RMK SLP078 T02730220 KNPA 261556Z 32012G19KT 280V010 10SM SCT040 SCT200 12/03 A3004 RMK AO2 SLP175 T01170028 KOGA 261555Z AUTO 30014KT 10SM CLR 11/00 A3013 RMK AO2 T01070000 KMWT 261553Z AUTO VRB06KT 10SM CLR 07/00 A3013 RMK AO2 SLP209 T00720000 KOGB 261553Z AUTO 28013KT 10SM CLR 12/04 A2968 RMK AO2 SLP050 T01170039 KOFK 261556Z AUTO 32009KT 10SM CLR 09/02 A2991 RMK AO2 SLP138 T00940022 KOGD 261553Z 00000KT 5SM BR CLR 02/M01 A3039 RMK AO2 SLP298 T00171006 KMYF 261553Z 00000KT 10SM SCT110 17/01 A3000 RMK AO2 SLP154 T01670011 KMXO 261555Z AUTO 16010KT BKN017 BKN028 M05/M05 A2986 RMK AO2 KOFP 261554Z AUTO 02004KT 6SM BR OVC007 05/04 A2973 RMK AO2 RAE52 CIG 004V010 SLP068 P0001 T00500039 PTKR 261550Z 12008KT 15SM FEW016 FEW110 BKN300 27/25 A2985 RMK SLP109 T02720250 KNQA 261550Z 30007KT 10SM BKN025 BKN250 04/M01 A3011 LFGJ 261600Z AUTO 19011KT 5000 -SNRA BR BKN004 BKN008 OVC012 01/00 Q1025 LDZA 261530Z 11002KT 9999 BKN040 04/M02 Q1023 NOSIG KMYL 261601Z AUTO 00000KT 3/4SM HZ OVC001 M04/M07 A3027 RMK AO2 T10391067 LDZD 261530Z 09008KT 040V120 CAVOK 07/M04 Q1019 NOSIG LEPP 261600Z 34012KT 300V360 9999 BKN028 06/01 Q1030 ESCF 261550Z 18007KT 4000 -SN VV020 00/00 Q1006 KMYP 261614Z AUTO 07006KT 10SM CLR 03/M13 A3068 RMK AO2 KMZG 261615Z AUTO 36011KT 10SM CLR 18/05 A3028 RMK A01 KMZH 261614Z AUTO 22004KT 4SM BR OVC005 M03/M05 A2964 RMK AO2 KMYR 261545Z 28008KT 10SM SCT028 12/05 A2968 KNQI 261556Z 32003KT 10SM BKN250 17/07 A3030 RMK AO2 SLP257 T01720067 $ GABS 261600Z 06009KT 010V080 8000 NSC 32/M05 Q1014 NOSIG KNRB 261552Z 28011G23KT 10SM SCT034 13/06 A2983 RMK AO2 SLP100 T01330056 $ KMYV 261600Z AUTO 02004KT 1 1/2SM BR SCT005 06/04 A3009 RMK AO2 T00560044 ESDF 261550Z 20013KT 4000 -RADZ BR FEW004 OVC006 02/02 Q1010 FJDG 261555Z 31005KT 9999 FEW020 SCT080 BKN250 28/23 A2989 RMK SLP119 T02790232 KMYZ 261555Z AUTO 30010KT 10SM CLR 06/00 A2995 RMK AO2 LERI 261600Z 00000KT CAVOK 17/M04 Q1025 NOSIG WIBB 261600Z 00000KT 7000 FEW015 FEW018CB 25/24 Q1011 LESA 261600Z VRB02KT CAVOK 08/M00 Q1029 KOJA 261615Z AUTO 30010KT 10SM CLR 11/01 A3014 RMK AO2 KOJC 261553Z 23009G17KT 10SM CLR 03/M01 A2996 RMK AO2 SLP151 T00331006 LGAD 261550Z 14008KT 9999 FEW010 FEW018TCU BKN025 BKN080 12/08 Q1015 KPAE 261606Z 12005KT 10SM SCT001 07/06 A2994 RMK AO2 T00670061 KNSE 261556Z 33012G19KT 10SM SCT040 12/02 A3003 RMK AO2 SLP157 T01170022 PNO $ KNQX 261553Z 25017KT 10SM FEW040 SCT070 24/16 A3002 RMK AO2 SLP163 T02440156 $ KPAH 261608Z 32009G17KT 10SM BKN021 01/M04 A3008 RMK AO2 T00111044 FIMP 261600Z 12013G23KT 9999 VCSH BKN016 26/23 Q1016 KMZZ 261555Z AUTO 00000KT 10SM CLR M09/M13 A2996 RMK AO2 T10861127 KNSI 261557Z 31004KT 10SM BKN190 19/01 A2999 RMK AO2 SLP154 T01890006 $ KNRS 261556Z 11014G19KT 10SM BKN110 BKN250 23/01 A2999 RMK SLP156 T02280011 FIMR 261500Z 12020KT 9999 SCT017 SCT050 27/24 Q1014 LERS 261600Z 26008KT 9999 FEW022 12/01 Q1025 LERT 261600Z 01008KT 340V040 CAVOK 17/04 Q1026 NOSIG LFKB 261600Z 34007KT 9999 FEW050 09/M01 Q1020 NOSIG KOKB 261552Z AUTO 00000KT 10SM CLR 16/05 A2998 RMK AO2 SLP152 T01560050 LFKC 261600Z 02011KT 9999 FEW040 09/M03 Q1020 NOSIG LFJL 261600Z AUTO 19009KT 5000 -RA BR OVC003 02/02 Q1020 KOKC 261552Z 23008KT 10SM CLR 09/00 A3013 RMK AO2 SLP205 T00890000 LGAL 261550Z 03012KT 9999 FEW010 BKN020 OVC070 08/06 Q1018 KPAM 261558Z AUTO 31017G23KT 10SM CLR 12/04 A3000 RMK AO2 SLP162 T01220036 $ KNTD 261556Z 36007KT 10SM FEW060 FEW075 BKN090 BKN150 19/06 A2999 RMK AO2 RAB26E40 SLP155 P0000 T01830056 $ KPAN 261615Z AUTO VRB03KT 10SM CLR 10/M04 A3029 RMK AO2 LESO 261600Z VRB02KT 9999 OVC042 09/04 Q1032 LFKF 261600Z AUTO 05007KT 010V080 9999 SCT060/// 10/M01 Q1019 KPAO 261547Z 00000KT 10SM BKN180 06/05 A3003 KPBF 261553Z AUTO 29006KT 10SM CLR 07/M01 A3017 RMK AO2 SLP216 T00671006 KPBG 261553Z AUTO 35003KT 10SM CLR M15/M20 A3020 RMK AO2 SLP233 T11501200 KPBH 261615Z AUTO 16006KT 2 1/2SM UP OVC009 M08/M09 A2971 RMK AO2 T10821093 LFJR 261600Z AUTO 26007KT 230V290 9999 OVC011 10/09 Q1026 KPBI 261553Z 26011KT 10SM FEW018 BKN047 BKN065 17/15 A2993 RMK AO2 WSHFT 1440 RAE46 SLP135 P0003 T01720150 LFKJ 261600Z 19005KT 9999 FEW040 12/M00 Q1018 NOSIG WIDD 261600Z AUTO 02007KT 9999NDV ///// 26/22 Q1013 METAR WADD 261600Z 25006KT 9999 FEW018 28/24 Q1010 NOSIG LEST 261600Z 04007KT 010V080 9999 BKN011 08/05 Q1033 NOSIG KOKK 261615Z AUTO 00000KT 10SM CLR M09/M12 A2996 RMK AO1 LFLB 261600Z 00000KT 5000 -SNRA BKN013 BKN033 02/M01 Q1027 NOSIG KNUC 261556Z VRB02KT 10SM SCT120 BKN200 19/04 A2998 RMK SLP151 T01910040 LESU 261600Z 05009KT 9999 FEW048 09/M02 Q1023 LETL 261600Z AUTO 35017KT CAVOK 08/M04 Q1026 LFLC 261600Z 11003KT 6000 -RA SCT026 BKN033 05/03 Q1025 NOSIG LGBL 261550Z 25004KT 9999 SCT010 SCT025 BKN080 08/08 Q1017 BLU PTPN 260257Z 17015KT 15SM SCT018 OVC300 29/25 A2978 RMK LAST KOKM 261555Z AUTO 22007KT 10SM CLR 06/00 A3013 RMK AO2 T00580003 LGAV 261550Z 10007KT 9999 TS SCT020CB BKN025 BKN080 13/09 Q1016 NOSIG BECMG TSRA KOLE 261615Z AUTO 09010KT 3SM -SN OVC028 M12/M12 A2977 RMK AO2 LETO 261600Z VRB01KT CAVOK 13/M01 Q1027 NOSIG KOLF 261553Z AUTO 00000KT 10SM CLR 01/M01 A3000 RMK AO2 SLP178 T00061011 KOLG 261555Z AUTO 17005KT 1SM BKN005 OVC010 M05/M06 A2966 RMK AO1 P0001 ESGG 261550Z 18010KT 9999 -RA OVC004 01/00 Q1004 R21/29//95 KNUI 261616Z AUTO 03010G18KT 350V050 10SM SCT013 BKN042 OVC050 05/02 A2971 RMK AO2 T00500017 KOMA 261552Z 31010KT 10SM FEW110 FEW250 06/01 A2988 RMK AO2 SLP123 T00610011 LFKS 261600Z AUTO 35006KT 330V040 9999 NSC 09/M01 Q1020 ESGJ 261550Z 18006KT 9000 -SN SCT005 BKN008 01/00 Q1005 R19/290070 LEVC 261600Z 14005KT 090V170 CAVOK 14/M01 Q1025 NOSIG LFLL 261600Z 14004KT 9999 -RASN SCT009 BKN023 02/01 Q1026 NOSIG KNTU 261556Z 02005KT 10SM SCT042 BKN120 BKN280 10/06 A2965 RMK AO2 SLP043 T01000056 $ KPDC 261555Z AUTO 12005KT 10SM OVC014 M04/M07 A2984 RMK AO2 T10431070 LFMC 261600Z 24003KT 210V270 CAVOK 09/M02 Q1022 LEVD 261600Z VRB01KT CAVOK 07/01 Q1029 LFMD 261600Z AUTO 24005KT 200V270 9999 NSC 10/M03 Q1021 KPCM 261615Z AUTO RMK AO2 PWINO KOLM 261554Z 17005KT 1/4SM FG VV001 05/04 A2996 RMK AO2 SLP147 T00500044 KOKV 261555Z AUTO 06004KT 1 1/4SM -SN OVC005 01/M01 A2978 RMK AO2 LFLN 261600Z AUTO VRB02KT 4200 -RADZ BR OVC009 04/03 Q1025 KPBX 261555Z AUTO 27007KT 230V300 3/4SM -SN OVC003 M02/M02 A2978 RMK AO2 T10161020 LFLP 261600Z AUTO 01002KT 2600 -SN BR FEW010 OVC018 M00/M02 Q1026 LFMH 261600Z 14004KT 8000 -RA BKN014 BKN031 03/01 Q1025 NOSIG ESGP 261520Z 17007KT 8000 -RA OVC004 03/03 Q1004 R19/29//95 KNUQ 261556Z 00000KT 10SM CLR 07/04 A3004 RMK AO2 SLP175 T00720039 KOKZ 261615Z AUTO 29008G22KT 10SM OVC029 10/05 A2983 RMK AO2 LTG DSNT E T00970045 KOMH 261555Z AUTO 01004KT 4SM -RA BKN007 OVC013 04/03 A2976 RMK AO2 P0002 PTSA 260250Z 06012KT 10SM BKN026 BKN300 31/22 A2974 LFMI 261600Z AUTO 34018KT 9999 NSC 07/M01 Q1023 LFLS 261600Z AUTO 09004KT 9999 -RA SCT039 BKN047 OVC056 02/M02 Q1026 ESGR 261550Z AUTO 19010KT 9999 -RA VV010 02/01 Q1004 KONA 261615Z AUTO 16004KT 10SM OVC014 M01/M03 A2975 RMK AO2 KOLS 261554Z AUTO 04005KT 10SM -RA OVC070 12/02 A3021 RMK AO2 RAB31 SLP196 P0000 T01170022 KPEA 261555Z AUTO 26004G09KT 10SM CLR 01/M01 A2985 RMK AO2 T00131007 LFMK 261600Z AUTO 29013KT 9999 BKN034 OVC047 06/M00 Q1030 KOMK 261553Z AUTO 18006KT 3/4SM BR VV003 01/00 A3011 RMK AO2 SLP209 T00060000 KPDK 261553Z 30015G25KT 10SM BKN022 OVC026 06/02 A2984 RMK AO2 SLP111 T00610017 KNY0 261555Z AUTO 05008KT 10SM SCT060 OVC070 M13/M20 A3004 RMK AO2 T11311200 LFLU 261600Z AUTO 01010KT 9999 BKN038 BKN052 OVC074 05/M00 Q1025 LFML 261600Z 33013KT CAVOK 07/M01 Q1023 NOSIG ESIB 261550Z 19010KT 9999 -RA BKN006 BKN021 02/01 Q1004 KOLU 261615Z AUTO 32012G16KT 10SM CLR 09/02 A2995 RMK AO1 ESGT 261550Z 18009KT 9999 RA BKN008 02/01 Q1004 KOLV 261550Z 33007KT 10SM SCT023 04/00 A3012 KOMN 261350Z 27013G18KT 10SM SKC 13/11 A2986 LFLW 261600Z AUTO 31008KT 2900 -DZ BR BKN003 OVC009 01/00 Q1027 LFMN 261600Z 23007KT CAVOK 11/M04 Q1021 NOSIG PTRO 261552Z 07010KT 14SM SCT016 BKN300 27/24 A2986 KPCW 261613Z AUTO 01009KT 10SM CLR M10/M14 A2992 RMK AO2 $ KNUW 261556Z 12006KT 1/2SM BR OVC005 08/07 A2994 RMK AO2 SFC VIS 1 SLP143 T00830067 VISNO E $ LFMO 261600Z AUTO 35016KT 9999 NSC 06/M00 Q1025 LFLX 261600Z 25012KT 4000 -DZ BR BKN004 05/04 Q1026 NOSIG LFLY 261600Z AUTO 11003KT 070V140 9000 -RA OVC011 03/01 Q1026 LFMP 261600Z AUTO 31021KT 9999 BKN078 BKN100 08/M02 Q1027 KOLY 261555Z AUTO 28007KT 10SM OVC012 M02/M04 A3004 RMK AO2 KPCZ 261555Z AUTO 15006KT 1 3/4SM -SN BKN014 OVC021 M06/M10 A2986 RMK AO2 T10621097 KOLZ 261555Z AUTO 17012G18KT 10SM OVC007 M03/M05 A2980 RMK AO2 LEVS 261600Z VRB02KT CAVOK 14/M04 Q1027 KOOA 261555Z AUTO 00000KT 10SM SCT120 00/M01 A2987 RMK AO2 T00041012 LFOA 261600Z AUTO 26010KT 6000 -DZ OVC004 05/05 Q1025 LEVT 261600Z 31003KT 9999 BKN020 OVC030 06/02 Q1031 LFOB 261600Z AUTO 32009KT 9999 SCT010 SCT022 BKN030 09/08 Q1022 LFMT 261600Z 31012KT CAVOK 09/M00 Q1025 NOSIG KPDT 261553Z 30006KT M1/4SM FG VV002 01/01 A3005 RMK AO2 SLP181 T00060006 LFMU 261600Z AUTO 28013KT 9999 NSC 07/00 Q1026 LGEL 261550Z /////KT 5000 -TSRA SCT018CB BKN025 OVC070 11/09 Q1015 KONL 261555Z AUTO 31009KT 10SM CLR 08/03 A2997 RMK AO2 T00800026 LFOC 261600Z AUTO 26010KT 9999 BKN007 OVC011 08/08 Q1024 LFMV 261600Z AUTO 35020KT 9999 NSC 06/M00 Q1024 KONM 261555Z AUTO 34006KT 10SM CLR 02/M02 A3039 RMK AO2 T00191024 ETAD 261618Z AUTO 24007KT 0400 R23/0550 FG OVC002 00/00 A3007 RMK AO2 VIS 0400V1200 $ LFOE 261600Z AUTO 30010KT 270V330 9999 OVC006 09/09 Q1023 LEVX 261600Z VRB02KT CAVOK 12/06 Q1031 NOSIG KPDX 261613Z 08003KT 1/8SM R10R/1400V2400FT FG VV002 04/04 A3004 RMK AO2 TWR VIS 1/4 T00440044 KONO 261614Z AUTO 05003KT 3SM BR FEW002 M01/M02 A3038 RMK AO2 T10061017 KPEO 261553Z AUTO VRB03KT 1SM -SN BKN016 OVC028 M11/M13 A2994 RMK AO2 SLP160 P0002 T11061133 RVRNO KNXF 261556Z AUTO 13006KT 8SM CLR 19/03 A2999 RMK AO2 SLP240 T01940033 PNO $ RCKH 261600Z 34005KT 310V030 3200 BR FEW013 BKN050 BKN070 20/17 Q1016 NOSIG RMK A3003 KONP 261615Z AUTO 18006KT 10SM CLR 11/07 A3002 RMK AO2 LFMY 261600Z AUTO 33014KT 9999 NSC 06/M02 Q1023 LFOH 261600Z AUTO 31012KT 9999 FEW011 BKN020 OVC040 08/07 Q1024 KPEQ 261555Z AUTO 27004KT 10SM CLR 04/01 A3034 RMK AO2 T00420011 KPGA 261553Z AUTO 00000KT 10SM CLR 04/M04 A3036 RMK AO2 SLP276 T00391039 TSNO LEXJ 261600Z 26004KT 9999 FEW032 BKN041 10/04 Q1033 LFOJ 261600Z AUTO 25010KT 3600 BR OVC003 07/07 Q1024 LFPB 261600Z AUTO 26007KT 9999 OVC006 09/08 Q1022 LFOK 261600Z AUTO 23011KT 0650 R10/1900D R28/1300U FG VV/// 05/05 Q1021 KONT 261553Z 00000KT 10SM FEW090 BKN110 BKN250 18/02 A3002 RMK AO2 SLP159 VIRGA DSNT W FU SW T01830017 KNYC 261614Z AUTO 08013G24KT 2 1/2SM HZ BKN015 OVC026 M05/M09 A2999 RMK AO2 SNE1553 P0001 T10501094 LFPC 261600Z AUTO 29004KT 4100 BR BKN004 OVC009 09/08 Q1021 KPGD 261553Z 29016G23KT 10SM SCT045 21/11 A2997 RMK AO2 SLP149 T02060106 WIHH 260800Z 33005KT 5000 HZ SCT017 29/24 Q1010 NOSIG PTTP 261550Z 03006KT 12SM -SHRA BKN017TCU OVC120 25/24 A2981 RMK TCU ALQDS SLP095 T02500241 KOPF 261606Z 32016G25KT 10SM FEW031 BKN039 OVC060 18/15 A2996 RMK AO2 PK WND 28036/1554 WSHFT 1546 RAE06 P0001 T01780150 $ KPEX 261614Z AUTO 25012G17KT 10SM CLR 01/00 A2974 RMK AO2 T00111005 KONX 261615Z AUTO 36005KT 10SM SCT027 10/06 A2964 RMK AO2 T00960055 LFOP 261600Z AUTO 31010KT 280V340 7000 OVC007 09/08 Q1023 LFPG 261600Z 26007KT 8000 FEW004 BKN005 09/08 Q1021 NOSIG KNXP 261556Z 15004KT 10SM FEW065 BKN090 OVC110 09/00 A3021 RMK AO2 SLP211 T00940000 $ KNYG 261556Z 05008KT 3SM -RA OVC009 03/01 A2979 RMK AO2 RAB31 SLP089 P0001 T00280006 $ VQPR 260950Z 13015KT 9999 SCT100 SCT200 19/M05 Q1015 NOSIG KONZ 261614Z AUTO 04009KT 10SM CLR M07/M13 A2994 RMK AO2 KPEZ 261615Z AUTO 00000KT 10SM CLR 14/04 A3031 RMK AO2 T01420040 LFQA 261600Z AUTO 27007KT 9999 OVC008 08/07 Q1021 ETAR 261618Z 23008KT 180V250 9999 -RA OVC008 01/00 A3011 RMK AO2A LFOT 261600Z AUTO 25007KT 3100 -DZ BR OVC004 08/08 Q1025 LFQB 261600Z AUTO 25010KT 6000 SCT006 OVC016 06/05 Q1022 KOPL 261555Z AUTO 35012G15KT 10SM CLR 10/02 A3020 RMK AO2 T01000017 KNYL 261557Z 05008KT 10SM -RA SCT050 BKN090 OVC120 13/09 A3011 RMK AO2 SLP197 P0001 T01330089 LFPM 261600Z AUTO 25008KT 9999 OVC005 08/07 Q1022 LFOV 261600Z AUTO 26008KT 3900 -DZ BR OVC005 10/09 Q1025 KPHD 261611Z AUTO 34006KT 1 1/4SM -SN FEW012 BKN017 OVC024 M04/M08 A2980 RMK AO2 P0000 T10441078 LFPN 261600Z AUTO 26007KT 9000 BKN005 OVC009 08/07 Q1022 KOPN 261555Z AUTO 31013KT 10SM OVC021 08/05 A2989 RMK AO2 LFPO 261600Z 25008KT 4500 -DZ BKN006 08/07 Q1022 TEMPO 2000 -RADZ OVC006 ESKN 261550Z 17009KT 7000 -SNRA VV010 01/00 Q1007 R26/290195 KPHF 261554Z 04007KT 10SM SCT043 11/04 A2968 RMK AO2 SLP050 T01060039 LFQG 261600Z AUTO 27006KT 240V300 5000 +DZ BR OVC005 05/04 Q1025 WIII 261600Z VRB02KT 4000 BR FEW020 25/23 Q1012 NOSIG LEZG 261600Z 32022G33KT 9999 FEW050 09/00 Q1027 LGHI 261550Z 20003KT 9999 FEW020 13/09 Q1016 KPIA 261611Z 18006KT 4SM -SN BR SCT021 OVC070 M04/M07 A2996 RMK AO2 P0000 T10441067 LFPT 261600Z AUTO 27008KT 9999 BKN006 OVC011 09/09 Q1022 LFRB 261600Z 35012KT 9999 BKN032 09/03 Q1029 NOSIG KORB 261613Z AUTO 00000KT 2SM UP OVC014 M04/M06 A2958 RMK AO2 KPIB 261615Z AUTO 32005G15KT 300V360 10SM BKN029 BKN037 09/01 A3014 RMK AO1 GAMB 261500Z 02010KT CAVOK 30/M06 Q1014 LEZL 261600Z 35002G12KT CAVOK 18/M00 Q1026 NOSIG LFRC 261600Z AUTO 31012KT 280V340 9999 BKN025 BKN240 08/03 Q1026 KPHL 261606Z 04015G22KT 3SM -SN SCT013 BKN016 OVC036 M01/M04 A2987 RMK AO2 P0000 T10111039 KORC 261555Z AUTO 30013KT 10SM CLR 04/01 A2984 RMK AO2 LFRD 261600Z AUTO 34013KT 310V030 9999 FEW027 BKN035 09/04 Q1027 KORD 261551Z 21003KT 10SM FEW020 BKN070 OVC120 M05/M09 A2994 RMK AO2 SLP147 T10501094 KPGV 261555Z AUTO 01005KT 10SM SCT055 07/05 A2968 RMK AO2 LTG DSNT W LFPV 261600Z AUTO 26008KT 5000 BR OVC004 08/07 Q1022 KORE 261552Z AUTO 02003KT 10SM BKN090 M08/M19 A3010 RMK AO2 SLP204 T10831194 KPIE 261553Z 32018KT 10SM FEW034 FEW044 17/09 A2996 RMK AO2 SLP146 T01720094 KPHN 261618Z AUTO 02008KT 10SM SCT019 M07/M11 A2997 RMK AO2 KORF 261551Z AUTO 35005KT 10SM SCT037 07/04 A2967 RMK AO2 SLP045 T00720039 TSNO RCMQ 261610Z 33005KT 3000 -RA BR SCT006 BKN016 BKN030 16/14 Q1017 RMK A3005 LFRG 261600Z AUTO 33008KT 290V010 9999 BKN006 OVC011 08/08 Q1024 KPHP 261555Z AUTO 25007KT 10SM CLR 08/00 A3001 RMK AO2 SLP172 T00830000 KORG 261615Z AUTO 32007KT 10SM CLR 13/02 A3025 RMK AO2 T01250016 GAKY 260600Z 04010KT 4000 DU NSC 20/M03 Q1014 LFRH 261600Z AUTO 34008KT 9999 FEW023 10/08 Q1028 LFQQ 261600Z 33010KT 9999 SCT014 BKN020 09/07 Q1021 NOSIG KPIH 261553Z 04006KT 1/4SM R21/1000V1400FT FZFG VV002 M02/M02 A3041 RMK AO2 SLP325 I1002 T10221022 KORH 261554Z 04010KT 10SM OVC012 M11/M16 A3004 RMK AO2 SLP192 T11061156 LFRI 261600Z AUTO 27006KT 9999 BKN009 BKN015 BKN022 10/09 Q1027 KOSA 261555Z AUTO 32004KT 10SM CLR 08/01 A3024 RMK AO1 T00830005 LFRJ 261600Z AUTO 34012KT 9999 OVC034 08/04 Q1029 LFRK 261600Z AUTO 33015KT 9999 SCT015 BKN025 BKN030 09/07 Q1025 LFSB 261600Z 13003KT 1200 R15/P2000 R33/P2000 SN BR BKN002 SCT011 BKN021 00/M00 Q1023 TEMPO 1000 SN BKN002 KOQT 261553Z AUTO 28004KT 10SM OVC024 03/M01 A2986 RMK AO2 SLP120 T00331011 KPHT 261615Z AUTO 31006KT 10SM OVC018 M02/M05 A3008 RMK KOQU 252150Z 30016KT 15SM SCT150 BKN250 00/M12 A2979 ESMK 261550Z 18008KT 9999 DZ FEW007 BKN008 02/02 Q1009 KORL 261553Z 30017G28KT 10SM CLR 17/07 A2990 RMK AO2 PK WND 29028/1547 SLP129 T01670072 KOSC 261613Z AUTO 07008KT 10SM OVC026 M05/M11 A3000 RMK AO2 T10541110 KPIL 261553Z AUTO 36006KT 7SM CLR 18/07 A3030 RMK AO2 SLP259 T01780067 ETEB 261617Z AUTO 19008KT 9000 -SN BR OVC015 00/00 A3010 RMK AO2 SNE1610 LFRL 261600Z AUTO 35016KT 9999 SCT028 OVC036 09/05 Q1029 LFSD 261600Z AUTO 18008KT 100V200 7000 OVC004/// ///TCU 02/02 Q1024 LFRM 261600Z AUTO 25005KT 200V300 2800 BR OVC009 10/08 Q1025 LFRN 261600Z AUTO 32010KT 9999 OVC019 10/07 Q1027 LFRO 261600Z AUTO 33009KT 300V010 9999 OVC033 09/04 Q1028 KPHX 261551Z 09006KT 10SM FEW120 SCT220 BKN250 14/M01 A3011 RMK AO2 SLP188 T01441006 LGIO 261550Z AUTO 16004KT //// -RA ////// 08/06 Q1014 RE// LFSG 261600Z AUTO 19009KT 5000 -SNRA BR OVC011/// ///TCU 01/00 Q1022 KNZY 261552Z 00000KT 10SM BKN110 BKN250 17/03 A2999 RMK AO2 SLP153 T01670028 $ LFRQ 261600Z AUTO 35011KT 9999 OVC028 10/06 Q1029 ESNG 261550Z 17003KT 9999 SCT010 M06/M07 Q0996 KOSH 261553Z 17008KT 10SM OVC070 M06/M10 A2987 RMK AO2 SLP135 T10611100 LFSI 261600Z AUTO 23007KT 5000 -DZ BR OVC004 05/05 Q1021 ESMQ 261550Z 18015KT 6000 BR OVC005 03/02 Q1010 KPIR 261553Z AUTO 28010KT 10SM CLR 07/01 A2996 RMK AO2 SLP157 T00720011 PTYA 261551Z VRB04KT 12SM FEW017 SCT300 27/24 A2985 RMK SLP108 T02660240 LGIR 261550Z 13004KT 9999 FEW020 13/10 Q1017 NOSIG LFRS 261600Z 26007KT 4000 -DZ BKN006 10/10 Q1027 TEMPO 3000 -DZ BKN005 KORS 261615Z AUTO 00000KT 2 1/2SM BR CLR 06/06 A2991 RMK AO2 KQAJ 261555Z 12010KT 9999 BKN200 16/08 A3015 RMK SLP211 T01620076 LFRT 261600Z AUTO 35009KT 9999 FEW019 BKN028 OVC033 08/05 Q1027 KPIT 261551Z 36008KT 1/2SM R28R/4000VP6000FT -SN BKN007 OVC015 M03/M05 A2971 RMK AO2 SFC VIS 3/4 SLP082 P0001 T10331050 KPKB 261553Z 31008KT 280V340 3/4SM R03/5000FT -SN BR BKN007 OVC020 M03/M04 A2978 RMK AO2 SLP090 P0003 T10281044 ESMS 261550Z 19015KT 6000 -RA BR OVC005 03/02 Q1009 R17/29//95 LGKC 261450Z /////KT 9999 FEW012TCU SCT016 12/08 Q1016 LFRU 261600Z AUTO 33010KT 300V360 9999 BKN035 09/04 Q1029 LFSL 261600Z AUTO VRB02KT 4900 BR SCT007 OVC013 03/02 Q1029 ESNK 261550Z 14003KT 1700 -SN FEW006 M02/M02 Q1003 ESMT 261550Z 19011KT 4000 -RA BKN002 02/02 Q1007 REDZ LHBC 261445Z 02005KT CAVOK 03/M01 Q1022 ESNL 261550Z 00000KT CAVOK M04/M06 Q1000 LFRV 261600Z AUTO 36007KT 9999 BKN012 OVC020 10/08 Q1027 KPKD 261553Z AUTO 31015KT 10SM FEW028 03/M01 A2965 RMK AO2 SNB1456E32 SLP060 P0000 T00281011 LFSN 261600Z AUTO 19008KT 160V220 7000 -RA OVC009 02/01 Q1021 LGKF 261550Z 04004KT 9999 SCT018TCU SCT025 BKN080 12/10 Q1014 ESOE 261550Z 16006KT 9000 -SN BKN007 OVC009 01/01 Q1005 ESNN 261550Z 32001KT 2100 -SN BR VV009 M02/M02 Q1003 R16/79//34 KQBF 261555Z AUTO 01007KT 350V060 9999 CLR 34/M06 A2991 RMK AO2 SLP114 T03401064 LFSO 261600Z AUTO 21012KT 9999 -RA FEW005/// OVC011/// ///TCU 02/02 Q1021 ESNO 261550Z 23002KT 2500 -SN BR VV022 M02/M02 Q1002 ESMX 261550Z 17009KT 7000 -RASN BR OVC004 01/01 Q1007 KOTG 261615Z AUTO 30014KT 10SM CLR 04/M01 A2981 RMK AO1 KS25 261615Z AUTO 23006KT 10SM CLR 03/00 A2995 RMK AO2 LFTH 261600Z AUTO 30004KT 9999 NSC 09/01 Q1022 LFRZ 261600Z AUTO 29008KT 260V320 9999 OVC006 11/10 Q1027 KOTH 261615Z 14004KT 10SM CLR 07/07 A3003 RMK AO1 ESNQ 261550Z 20010KT CAVOK M07/M09 Q0993 GANR 261500Z 06006KT 8000 NSC 27/M12 Q//// LFST 261600Z AUTO 18011KT 160V220 3100 -SN BR OVC005 01/00 Q1022 ESPA 261550Z 20008KT 9999 BKN006 M01/M02 Q1000 ESNS 261550Z 21004KT 9999 FEW027 BKN035 OVC048 M01/M01 Q1001 ESOK 261550Z 20006KT 5000 -RA BR OVC003 02/02 Q1003 LGKL 261550Z 00000KT 6000 -RA SCT020TCU BKN030 BKN080 10/09 Q1016 RETS KOSU 261553Z 32010KT 10SM OVC011 M07/M10 A2985 RMK AO2 SLP121 T10721100 KQBL 261556Z AUTO 32007G12KT 10SM CLR 11/02 A3003 RMK AO2 SLP175 T01120020 ESNU 261550Z 18004KT 4000 -SN BR BKN012 M01/M02 Q1002 R14/79//28 KOTM 261553Z AUTO 20010KT 10SM SCT120 01/M01 A2983 RMK AO2 UPE18 SLP109 P0000 T00061011 ESPE 261550Z AUTO VRB02KT 9999NDV OVC100/// M03/M05 Q0998 LGKO 261550Z 00000KT 9999 FEW018TCU 14/09 Q1018 LFSX 261600Z AUTO VRB03KT 1600 -SN BR BKN007 OVC011 00/M00 Q1023 ESNX 261550Z AUTO VRB01KT 9999NDV OVC098/// M05/M06 Q0998 LGKP 261550Z 28003KT 9999 SCT020 16/10 Q1018 KQAY 261555Z AUTO 12001KT 3200 BR CLR 15/12 A3017 RMK AO2 SLP215 T01540123 $ LHBP 261600Z VRB02KT 9999 BKN040 02/M01 Q1022 NOSIG ETGG 261552Z 27015KT 6000 -RA BKN004 BKN028 05/05 Q1008 YLO KQAZ 261615Z AUTO 29001KT 9999 CLR 33/M04 A2991 RMK CDP03565 CLR ESNZ 261550Z 20006KT CAVOK M02/M03 Q1000 LGKR 261550Z 12004KT 8000 -RA SCT010 SCT018TCU BKN025 11/09 Q1014 TEMPO RA ETHA 261520Z 26007KT 9999 BKN080 M02/M05 Q1020 BLACKBLU BLU VRMM 261500Z 05015KT 9999 FEW018 28/23 Q1013 NOSIG WIMM 261600Z 23003KT 4000 HZ SCT025 25/25 Q1012 KS39 261620Z AUTO 17007KT 10SM CLR 09/01 A3011 RMK AO2 ETHB 261600Z 23010KT 2000 DZRA BR SCT004 BKN006 04/03 Q1013 YLO GRN TEMPO YLO KQCL 261555Z AUTO VRB03KT 03/00 A3017 RMK AO2 SLP265 T00341003 PWINO TSNO $ LHDC 261545Z 03003KT CAVOK 02/M02 Q1022 NOSIG ETHC 261520Z 22006KT 3300 -DZ BR BKN004 BKN006 03/03 Q1013 YLO GRN TEMPO YLO KPMD 261553Z AUTO 32005KT 10SM OVC095 08/01 A3012 RMK AO2 SLP196 T00780011 LGLM 261550Z 04006KT 9999 SCT008 FEW016TCU SCT018 10/09 Q1017 LGKV 261550Z 01004KT 8000 -RA FEW006 FEW018TCU OVC030 09/08 Q1017 RERA KPKV 261555Z AUTO 03006KT 10SM CLR 14/06 A3028 RMK AO2 T01390060 LFTW 261600Z AUTO 35006KT 310V010 9999 NSC 08/M01 Q1024 KOVE 261553Z AUTO 28004KT 3SM BR CLR 05/04 A3010 RMK AO2 SLP195 T00500039 KPLN 261554Z AUTO 11003KT 10SM CLR M16/M19 A3000 RMK AO2 SLP180 T11611189 KOUN 261555Z AUTO 23009KT 10SM CLR 10/01 A3015 RMK AO2 ETHE 261520Z AUTO 23007KT //// // ////// 05/05 Q1015 /// ESOW 261550Z 17009KT 4100 -SN BKN005 00/M00 Q1006 REDZ R19/710137 ETHF 261600Z 21007KT 9000 -DZ SCT008 BKN012 02/00 Q1016 GRN FCST CANCEL LGKZ 261550Z 35010KT 9999 BKN018 OVC070 02/00 Q1016 LGLR 261550Z 00000KT 9999 FEW010 BKN030 OVC080 08/08 Q1017 BLU ETGQ 260720Z AUTO VRB02KT //// // ////// 02/01 Q1024 /// KOWA 261615Z AUTO 27009KT 10SM OVC019 02/M01 A2973 RMK AO2 KPNA 261555Z AUTO 33003KT 10SM CLR M08/M08 A3043 RMK AO2 LGMK 261550Z 00000KT 9999 SCT018 15/11 Q1017 KOWB 261556Z 33009KT 10SM OVC016 00/M03 A3003 RMK AO2 T00001027 SLP173 KPNC 261553Z AUTO 24008KT 10SM CLR 06/M01 A3008 RMK AO2 SLP188 T00611011 KOVL 261614Z AUTO 31011G15KT 10SM CLR 03/01 A2975 RMK AO2 KPLU 261555Z AUTO 00000KT 2 1/2SM -DZ FEW001 04/04 A2996 RMK AO2 VIS 2V3 ETHL 261539Z 22009KT 3000 SN BR BKN012 OVC050 M01/M03 Q1021 YLO WHT TEMPO YLO KOWD 261553Z 36006KT 10SM SCT016 BKN022 BKN027 M07/M13 A3012 RMK AO2 SLP201 T10721133 ETIC 261603Z AUTO 16002KT 9999 OVC016 00/00 A3009 RMK AO2 OVC V BKN KPNE 261616Z AUTO 05018KT 2 1/2SM -SN BKN015 OVC037 M01/M06 A2989 RMK AO2 P0000 T10111056 TSNO ETHN 261606Z 20011KT 2000 -SN BR OVC005 M00/M01 Q1018 YLO LFVP 261600Z 27025KT 4000 -SHSN SCT016 BKN026 M06/M07 Q1014 NOSIG KPMP 261553Z 30017G23KT 7SM -RA SCT024 SCT030 BKN035 18/15 A2996 RMK AO2 PK WND 29036/1536 WSHFT 1530 RAB37 SLP145 P0009 T01830150 $ ETIH 261559Z AUTO VRB05KT 9999 FEW018 BKN060 00/M02 A3013 RMK AO2 UPB1502E1517SNB1517E1539B1544 KQEI 261610Z AUTO 12003KT 6000 HZ OVC020 02/M04 A3011 RMK A02 TSNO KQEJ 261610Z AUTO 30005KT 4800 HZ BKN018 01/M03 A3007 RMK A02 TSNO KOVS 261553Z AUTO 17003KT 8SM OVC024 M05/M08 A2986 RMK AO2 SNE29 SLP121 P0000 T10501083 PWAK 261558Z AUTO 09014G18KT 9999 FEW033 SCT047 OVC060 24/21 A2995 RMK AO2 RAB1521E1531 SLP148 P0000 T02360206 $ KOXB 261616Z AUTO 05012KT 7SM BKN006 BKN022 07/06 A2968 RMK AO2 T00720056 TSNO ESSA 261550Z 17011KT 3900 -SN SCT006 BKN007 BKN009 00/00 Q1007 R01L/510168 R08/520157 R01R/510167 TEMPO 4000 -SN KPOB 261618Z AUTO 28003KT 10SM BKN022 OVC060 08/05 A2965 RMK AO2 CIG 022V060 BKN V SCT LGMT 261550Z 31004KT 9999 TS FEW016CB SCT020 BKN080 12/09 Q1017 ETHS 261600Z 24011KT 1500 -DZ BR OVC003 03/03 Q1012 AMB FCST CANCEL KPOC 261547Z 08009KT 10SM OVC110 20/M01 A3005 ESSB 261550Z 16009KT 7000 SN BKN005 01/00 Q1007 R12/19//64 KQEL 261610Z AUTO 30002KT 6000 HZ BKN025 01/M04 A3020 RMK A02 TSNO KOXC 261552Z 06008G15KT 2SM -SN BR OVC030 M09/M18 A3001 ETIK 261558Z AUTO 21007KT 9999 UP BKN026 OVC041 02/01 A3011 RMK AO2 UPB1544 SLP215 P0000 T00150012 WIOO 260200Z 04003KT 9999 BKN011 26/24 Q1013 NOSIG KPNM 261614Z AUTO 27008KT 10SM CLR 03/00 A2969 RMK AO2 KPMV 261555Z AUTO 29009G17KT 10SM CLR 06/01 A2989 RMK AO2 T00560006 ESSD 261550Z VRB02KT 2500 -SN OVC005 00/M00 Q1003 KQEN 261610Z AUTO 6000 BKN010 M04/M08 / RMK A02 TSNO KPOE 261558Z AUTO 35008KT 10SM CLR 10/01 A3020 RMK AO2 SLP229 T01020012 KPOF 261553Z AUTO 29006KT 10SM OVC020 02/M03 A3009 RMK AO2 SLP196 T00221028 KQEP 261610Z AUTO 27005G12KT 8000 HZ CLR 01/M05 A3013 RMK A02 TSNO KQFG 261555Z AUTO 36003KT 6000 RA FEW020 BKN033 06/04 A3025 RMK AO2 SHRAB1455E1522 SLP264 P0007 T00550038 KOWP 261615Z AUTO 22005KT 10SM CLR 08/01 A3010 RMK AO2 T00840005 KQEQ 261610Z AUTO 28007KT 9999 SCT032 BKN140 M00/M05 A3005 RMK A02 TSNO RCSS 261600Z 10006KT 3500 -RA BR FEW012 BKN018 BKN025 18/16 Q1019 NOSIG RMK A3009 RA AMT 0.6MM KQER 261610Z AUTO 24005G12KT 4000 HZ CLR 00/M05 A3011 RMK A02 TSNO KOXI 261555Z AUTO 00000KT 10SM CLR M08/M16 A2996 RMK AO1 T10841165 KQGA 261559Z AUTO VRB06KT 6000 HZ CLR 32/M04 A2992 RMK CDP03659 CLR KQES 261610Z AUTO 9000 HZ SCT022 SCT025 02/M03 A3026 RMK A02 TSNO LGPA 261550Z AUTO 21007KT //// // ////// 15/10 Q1017 RE// KPNS 261553Z 31014G19KT 10SM CLR 11/02 A3004 RMK AO2 SLP173 T01110017 KPPA 261555Z AUTO 28012KT 10SM CLR 09/00 A3022 RMK AO2 T00851001 ESTA 261550Z 16009KT 9000 -RA OVC005 03/02 Q1007 KPNT 261555Z AUTO 23006KT 10SM BKN100 BKN110 M05/M06 A2998 RMK AO2 T10461064 ESSL 261550Z 18006KT 2000 SN FEW004 BKN007 00/00 Q1006 R29/590338 KQEV 261610Z AUTO 31003KT 4800 HZ CLR 02/M02 A3020 RMK A02 TSNO WIPP 261500Z 00000KT 9999 FEW013 25/24 Q1013 NOSIG FKKD 261600Z 24008KT 9999 SCT016 FEW020CB 31/25 Q1008 NOSIG KQEW 261610Z AUTO 25007G14KT 9999 BKN017 02/M02 A3011 RMK A02 TSNO LGNX 261450Z 20006KT 9999 SCT025 16/09 Q1017 RCTP 261600Z 03010KT 2800 -RA BR SCT008 BKN014 BKN032 18/16 Q1019 NOSIG RMK A3009 RA AMT 0.4MM KPPF 261552Z AUTO 20010KT 10SM CLR 04/00 A3008 RMK AO2 SLP189 T00440000 KQEX 261610Z AUTO 36006KT 6000 HZ CLR 04/M01 A3015 RMK A02 TSNO KQEY 261610Z AUTO 32006KT 4800 HZ BKN013 02/M01 A3017 RMK A02 TSNO KQFQ 261555Z AUTO 27007KT 190V290 3SM BR BKN024 01/M02 A3015 RMK AO2 SLP212 T00051024 $ ESSP 261550Z 15005KT 5000 -SN BKN006 OVC011 01/00 Q1007 R27/610149 WIPT 261600Z 19008KT 160V220 5000 R33/M0050N -RA BKN018 26/23 Q1013 KOXR 261551Z 36006KT 10SM BKN120 16/06 A2998 RMK AO2 SLP153 T01610056 KQFS 261556Z AUTO 25005KT 6000 BR M 04/01 A3010 RMK AO2 SLPNO T00440007 $ KOZA 261555Z AUTO 00000KT 10SM CLR 05/00 A3034 RMK AO2 KQFT 261610Z AUTO 30001G11KT 6000 HZ BKN007 02/M04 A3016 RMK A02 TSNO KPOU 261553Z 02009KT 10SM OVC043 M08/M15 A3006 RMK AO2 SLP181 T10781150 KQFU 261610Z AUTO 10003KT 4800 HZ CLR 01/M04 A3018 RMK A02 TSNO ESTL 261550Z AUTO 18007KT 140V240 6000NDV RA SCT006/// BKN010/// 02/02 Q1008 KQFV 261610Z AUTO 28003KT 4800 HZ CLR M00/M05 A3011 RMK A02 TSNO KPOV 261615Z AUTO 34007KT 3SM -SN SCT011 BKN029 OVC034 M05/M09 A2980 RMK AO2 T10551090 KOXV 261555Z AUTO 23010G17KT 10SM SCT110 01/M01 A2979 RMK AO2 ESSV 261550Z 18012KT 9999 BKN020 02/M00 Q1011 R21/19//72 ESUD 261550Z AUTO 00000KT 9999 OVC098/// M06/M07 Q0999 FKKN 261600Z 36006KT CAVOK 31/11 Q1014 KQFX 261610Z AUTO 27002KT 3200 HZ BKN005 01/M03 A3017 RMK A02 TSNO KPPO 261555Z AUTO 00000KT 10SM CLR M07/M10 A2997 RMK AO2 T10661105 KPOY 261555Z AUTO 13010KT 10SM CLR 02/M03 A3020 RMK AO2 KPPQ 261555Z AUTO 19008KT 10SM OVC020 M01/M03 A2997 RMK AO2 T10111035 KPQI 261615Z AUTO 32005KT 10SM CLR M16/M25 A3018 RMK AO1 LFYR 261600Z AUTO 24005KT 220V280 8000 OVC004 07/07 Q1025 FKKR 261500Z 07008KT CAVOK 40/01 Q1007 NOSIG KPRB 261553Z AUTO 00000KT 10SM CLR 04/02 A3005 RMK AO2 SLP176 T00440017 TSNO KPRC 261553Z 19004KT 10SM CLR 03/M04 A3026 RMK AO2 SLP230 T00281044 KPQL 261553Z 33010G19KT 10SM CLR 12/02 A3009 RMK AO2 SLP191 T01170022 KQGV 261555Z 12012G16KT 9000 HZ BKN190 17/04 A3014 RMK SLPNO QNH1020 PA +263 KQHN 261555Z 24004KT 9999 CLR 04/M05 A3027 RMK SLP268 Q1025 DA2443 KPQN 261614Z AUTO 33010G15KT 10SM CLR 03/01 A2982 RMK AO2 KQGX 261558Z AUTO 35006KT 9999 CLR 20/13 A3020 RMK AO2 SLP230 T01980129 PWINO $ KPRG 261555Z AUTO 04007KT 10SM OVC016 M02/M05 A3000 RMK AO2 T10251046 LGPZ 261550Z 10005KT 9999 FEW018TCU SCT030 BKN090 10/07 Q1015 KOZR 261558Z AUTO 30018G23KT 10SM FEW033 11/01 A2997 RMK AO2 PK WND 30026/05 SLP151 T01070013 RVRNO LGSA 261550Z 00000KT 9999 FEW020 BKN030 14/11 Q1016 VTBD 261600Z 18004KT 7000 NSC 26/21 Q1013 NOSIG ESUT 261550Z AUTO 15005KT 9999 SCT042/// M06/M06 Q0996 KPSC 261553Z 00000KT 1/2SM FG VV005 03/03 A3012 RMK AO2 SLP201 T00330033 RVRNO KRAC 261553Z AUTO 23005KT 10SM OVC070 M04/M09 A2995 RMK AO2 SLP152 T10441094 ETML 261520Z AUTO 20009KT //// // ////// 03/03 Q1009 /// KOZW 261615Z AUTO 07004KT 10SM CLR M09/M12 A2994 RMK AO2 T10871122 KPRN 261556Z AUTO 31008G15KT 10SM BKN024 OVC030 08/01 A3000 RMK AO2 SLP159 T00780011 ETMN 261520Z 25013KT 1600 -RADZ BR BKN002 05/04 Q1011 RERA AMB YLO TEMPO RED KPSF 261554Z AUTO 04009KT 10SM OVC060 M08/M19 A2999 RMK AO2 SLP182 T10831194 KPRO 261555Z AUTO 28012G16KT 10SM 03/01 A2981 RMK AO2 T00320006 KQL5 261555Z 32012KT 9999 -RA SCT030 OVC042 09/02 A3021 RMK SLP242 T00850021 KQHY 261556Z AUTO 33009G16KT 10SM CLR 11/02 A3003 RMK AO2 SLP176 T01120024 LGRP 261550Z 00000KT 9999 SCT018TCU BKN020 15/12 Q1017 NOSIG ETNG 261550Z 25009KT 2500 -DZ BR SCT003 OVC006 06/06 Q1018 ETNH 261520Z 22009KT 3500 -RA BR BKN004 04/03 Q1010 YLO YLO TEMPO AMB KQIR 261558Z 12005KT 9000 HZ FEW200 19/12 A3020 RMK AO2A SLP229 T01870116 LIBA 261555Z 34014KT 9999 FEW030 08/03 Q1017 RMK BKN SCT080 VIS MIN 9999 WIND THR29 30010KT BLU VTCC 261600Z 00000KT 8000 FEW040 20/14 Q1017 A3004 NOSIG KPRS 261555Z AUTO 00000KT 10SM CLR 08/02 A3034 RMK AO2 T00770015 LGSK 261150Z /////KT 9999 FEW020 BKN025 12/06 Q1017 KT20 261555Z AUTO 36003KT 10SM CLR 12/05 A3028 RMK AO2 T01240050 KPTB 261555Z AUTO 05004KT 10SM -RA BKN060 BKN070 OVC085 07/05 A2970 RMK AO2 T00720046 KPSK 261555Z AUTO 00000KT 10SM SCT013 BKN027 OVC070 05/02 A2967 RMK AO2 T00490023 LIBC 261550Z 35013KT 9999 SCT030 09/05 Q1014 KRAL 261553Z 04007KT 10SM OVC110 16/02 A3003 RMK AO2 SLP156 T01560017 VTBO 261200Z 00000KT 4000 BR FEW023 26/23 Q1013 LIBD 261550Z 36009KT 9999 FEW030 09/01 Q1017 ETNL 261604Z 20008KT 3000 DZRA BR BKN004 03/03 Q1011 YLO YLO TEMPO AMB LGSM 261550Z 00000KT 9999 FEW018 SCT025 15/11 Q1017 KRBD 261553Z 24006KT 10SM CLR 13/M01 A3022 RMK AO2 SLP231 T01331011 KPSM 261558Z 05009KT 10SM FEW030 BKN200 M08/M21 A3017 RMK AO2A SLP222 T10851206 LHKE 261545Z 25004KT CAVOK 02/00 Q1023 NOSIG RMK BLU KPSN 261615Z AUTO 26003KT 10SM CLR 11/02 A3025 RMK AO2 T01160022 LIBF 261450Z 32013KT 9999 SCT040 08/03 Q1017 ETNN 261520Z 22007KT 4000 -DZRA BR FEW006 BKN008 06/06 Q1017 GRN GRN TEMPO YLO VTCH 260900Z VRB03KT CAVOK 30/11 Q1012 A2990 INFO LGRX 261550Z VRB03KT 9999 -RA FEW012 FEW020TCU SCT035 OVC080 11/10 Q1015 BLU LGSO 261550Z 20005KT 9999 SCT020 14/10 Q1017 KPSO 261615Z AUTO 00000KT 10SM CLR 04/M09 A3042 RMK AO2 T00371086 KPRX 261615Z 00000KT 10SM CLR 09/01 A3022 RMK AO1 LIBG 261550Z 01012KT 9999 FEW040 09/04 Q1014 LGTG 261550Z 28008KT 4000 -TSRA FEW020CB BKN030 BKN080 11/10 Q1016 RMK CB OVER STATION GRN KPSP 261553Z 32003KT 10SM BKN090 17/01 A3010 RMK AO2 SLP192 T01670011 KRAP 261552Z 30004KT 10SM CLR 14/M02 A3005 RMK AO2 SLP185 T01391017 KRBG 261553Z AUTO 00000KT 1/4SM FG VV002 07/06 A3002 RMK AO2 SLP169 T00670061 LIBH 261555Z 31006KT 9999 SCT020 10/05 Q1016 RMK BKN BKN200 QUK / QUL / VIS MAR 18 KM VIS MIN 9999 VTBS 261600Z 20004KT 7000 NSC 25/21 Q1014 NOSIG LGSR 261550Z VRB03KT 9999 FEW020 13/09 Q1017 BLU VTCL 261100Z VRB02KT CAVOK 25/17 Q1013 A2992 INFO VTBU 261600Z 05003KT 3000 BR NSC 24/22 Q1013 A2993 LICA 261550Z 02007KT 9999 FEW030 SCT080 12/04 Q1015 KRCA 261558Z AUTO 33015KT 10SM CLR 14/M01 A3003 RMK AO2 SLP170 T01441009 $ KRAS 261555Z AUTO 35003KT 10SM CLR 14/07 A3030 RMK AO2 T01360067 LICB 261605Z 29005KT 260V320 8000 DZ SCT015 BKN030 08/06 Q1013 ETNS 261520Z 22011KT 2200 -RA BR BKN002 04/03 Q1009 AMB YLO TEMPO AMB KPTK 261553Z 07007KT 10SM SCT250 M08/M12 A2993 RMK AO2 SLP152 T10831122 KPUB 261553Z 22005KT 10SM CLR 03/M01 A3029 RMK AO2 SLP267 T00281011 ETNT 261520Z 29014KT 9000 BKN008 BKN015 06/06 Q1013 GRN GRN BECMG WHT VTCN 261500Z 36003KT CAVOK 18/17 Q1014 A2997 RWY/02 INFO/P KPUC 261553Z AUTO 00000KT 10SM CLR 04/M05 A3039 RMK AO2 SLP312 T00441050 KRBL 261554Z AUTO 32009KT M1/4SM FG VV002 07/06 A3011 RMK AO2 SLP198 T00670061 LICC 261550Z 04009KT 9999 FEW015TCU SCT020 BKN090 10/06 Q1014 LICD 261550Z 24007KT 9999 SCT025 11/05 Q1013 VTCP 260700Z 23002KT 7000 NSC 32/12 Q1013 A2992 INFO G RWY 01 LIBN 261555Z 02010KT 9999 FEW030 SCT040 10/05 Q1015 RMK BKN BKN100 VIS MIN 9999 WIND THR14 01010KT BLU KPTN 261615Z AUTO 36012G20KT 10SM CLR 12/01 A3017 RMK AO1 KRCE 261615Z AUTO 24010KT 10SM CLR 09/02 A3014 RMK AO2 KRBO 261555Z AUTO 31004KT 10SM CLR 17/07 A3030 RMK AO2 T01650073 ETNW 261545Z 23012KT 7000 BKN007 04/03 Q1013 GRN GRN TEMPO YLO LICF 261555Z VRB03KT 9999 FEW020 BKN036 11/09 Q1013 RMK BKN BKN080 QUK 2 QUL 0 VIS MAR 12 KM MON E CIME INC NC MON W LIB VAR RAPID VIS MIN 9999 KPSX 261553Z AUTO 01008KT 10SM CLR 15/04 A3028 RMK AO2 SLP254 T01500044 LICG 261555Z /////KT 9999 SCT020 10/07 Q1012 LIBP 261550Z 23004KT 9999 FEW040 SCT070 BKN090 07/03 Q1020 LGSY 261520Z 00000KT 9999 SCT020 BKN180 12/08 Q1015 BLU KT35 261555Z AUTO 26006KT 10SM CLR 13/00 A3028 RMK AO2 T01250003 LIBQ 261555Z 03012KT 0000 FZFG VV/// M01/M01 Q1010 RMK MON INVIS VAL INVIS VIS MIN 0000 VTCT 261500Z 27004KT CAVOK 17/14 Q1016 A3002 RMK/RWY03 INFO P LIBR 261545Z 34008KT 9999 -RA SCT020 BKN030 11/09 Q1016 NOSIG LICJ 261550Z 05011KT 9999 FEW040 13/07 Q1013 LGTS 261550Z 32016KT 6000 RA FEW008 FEW018TCU BKN020 OVC060 07/05 Q1018 NOSIG KPUJ 261615Z AUTO 31013G18KT 270V330 10SM BKN009 OVC016 05/03 A2986 RMK AO2 KPTS 261555Z AUTO 23008KT 10SM CLR 04/02 A3005 RMK AO2 T00440021 KPTT 261555Z AUTO 31014KT 10SM CLR 10/00 A3008 RMK AO2 KPVB 261555Z AUTO 15008KT 7SM SCT016 OVC025 M07/M08 A2987 RMK AO1 T10701084 LICL 261555Z 05005KT 6000 RA BKN015 11/08 Q1013 RMK OVC OVC080 QUK 2 QUL 0 VIS MAR 6 KM VIS MIN 6000 KPVC 261615Z 06015G19KT 10SM BKN026 OVC035 M01/M07 A3010 RMK AO1 LIBV 261555Z 34011KT 9999 BKN025 07/02 Q1015 RMK BKN SCT100 VIS MIN 9999 WIND THR32 /////KT WIND THR14 34013KT BLU KPVD 261551Z 02011KT 7SM -SN OVC042 M07/M13 A3010 RMK AO2 SNB21 SLP193 P0000 T10721128 KRDD 261553Z 29003KT 6SM BR CLR 05/04 A3011 RMK AO2 SLP196 T00500044 KPTV 261615Z AUTO 00000KT 1 3/4SM CLR 05/03 A3006 RMK AO1 ETOU 261601Z 19007KT 9999 OVC006 01/01 A3009 RMK AO2A $ KRCM 261615Z AUTO 19011G15KT 10SM CLR 04/00 A2998 RMK AO2 GCFV 261600Z 05010KT 9999 FEW025 19/14 Q1026 GCGM 261600Z 21003KT 140V300 9999 FEW030 20/10 Q1025 RMK CAB09 VRB03KT KPVE 261615Z AUTO 28007KT 10SM OVC018 01/M03 A3005 RMK KPTW 261610Z AUTO 06009KT 2SM -SN BKN020 OVC033 M06/M08 A2989 RMK AO2 P0000 T10561083 KRBW 261615Z AUTO 28009KT 10SM SCT029 13/03 A2970 RMK AO2 KPVF 261615Z AUTO 09005KT 10SM CLR 15/M02 A3009 RMK AO1 LIBY 261555Z 05013KT 9999 FEW012CB SCT014 09/05 Q1014 RMK OVC BKN080 QUK 3 QUL 2 NE VIS MAR 10 KM VIS MIN 9999 KPVG 261615Z AUTO 03006KT 10SM OVC034 09/04 A2968 RMK AO1 KRDG 261554Z 03010G14KT 2 1/2SM -SN FEW023 BKN032 OVC044 M06/M09 A2989 RMK AO2 SFC VIS 5 SLP130 P0000 T10611089 KQLP 261555Z AUTO 04005KT 21/01 Q1023 RMK AO2 SLP150 T02090011 PWINO TSNO $ LICR 261550Z 32002KT 9999 SCT060 10/08 Q1014 KRCR 261555Z AUTO 00000KT 10SM CLR M06/M10 A2997 RMK AO2 GCHI 261600Z VRB01KT 9999 FEW030 21/11 Q1026 LIEA 261550Z 04010KT 9999 FEW035 10/02 Q1019 KPWA 261553Z 23011KT 10SM CLR 09/00 A3013 RMK AO2 SLP204 T00940000 KPVJ 261615Z AUTO 22010KT 10SM CLR 10/00 A3016 RMK AO2 T00961002 LIEB 261555Z 01019G30KT 9999 SCT020 BKN025 09/03 Q1016 RMK BKN QUK 4 QUL 4 NE VIS MAR 20 KM MON W CIME INC VIS MIN 9999 LICT 261555Z 35005KT 9999 BKN022 SCT030TCU 10/09 Q1013 KRDK 261555Z AUTO 25008KT 230V290 10SM CLR 04/00 A2987 RMK AO2 LIEC 261555Z 01016KT 9999 SCT020 BKN030 09/06 Q1015 RMK BKN QUK 3 QUL 0 VIS MAR 18 KM VIS MIN 9999 KPWC 261613Z AUTO 28005KT 10SM SCT022 BKN029 OVC036 01/M01 A2970 RMK AO2 LIED 261555Z 35003KT 9999 SCT015 BKN030 11/05 Q1016 RMK BKN VIS MIN 9999 WIND THR35 35004KT WIND THR17 34004KT BLU KRCV 261610Z AUTO 25006KT 10SM CLR M01/M08 A3048 RMK AO2 T10101085 KQND 261555Z AUTO VRB01KT 7SM CLR 37/M01 A2978 RMK AO2 SLP066 T03661012 $ KRDM 261556Z 11005KT 10SM CLR 05/00 A3008 RMK AO2 SLP184 T00500000 LIEE 261550Z 36006KT 9999 FEW030 SCT050 11/04 Q1017 KPUW 261553Z AUTO 09015KT 10SM CLR 07/02 A3009 RMK AO2 SLP197 T00670017 FLHN 261500Z 13009KT 9999 SCT045 31/14 Q1014 KRCX 261615Z AUTO 15007KT 2SM BR OVC007 M07/M07 A2974 RMK AO2 T10661075 KPWG 261615Z AUTO 24008KT 10SM CLR 13/02 A3028 RMK AO1 LICZ 261555Z 07006KT 9999 FEW020 SCT050 BKN080 10/10 Q1014 RMK BKN VIS MIN 9999 WIND THR28 06007KT A2996 BLU KRCZ 261615Z AUTO 34005KT 10SM 09/05 A2963 RMK AO2 T00900047 KQMR 261550Z AUTO 26008KT 9999 CLR 31/23 A2981 RMK AO2 SHRAB1418E1500 SLP095 T03050227 $ KRDR 261558Z AUTO 33015G21KT 10SM CLR 04/M01 A2975 RMK AO2 SLP089 T00371010 ETSA 261557Z 24008KT 5000 -SN SCT025 BKN050 M01/M06 Q1021 WHT FCST CANCEL KPWK 261552Z 00000KT 10SM BKN070 OVC120 M05/M09 A2996 RMK AO2 SLP155 T10501094 ETSB 261609Z 25006KT 0400 FZFG VV000 M00/M01 Q1017 RED FCST CANCEL KRDU 261551Z 05004KT 10SM SCT005 BKN060 BKN090 BKN250 08/05 A2965 RMK AO2 SLP039 T00780050 KPVU 261335Z AUTO 00000KT 3SM CLR M03/M04 A3042 RMK AO1 KPWM 261551Z 05005KT 10SM FEW030 SCT200 M09/M19 A3021 RMK AO2 SLP232 T10891189 KRFD 261554Z 17005KT 10SM FEW045 OVC055 M07/M10 A2994 RMK AO2 SLP151 T10671100 KPVW 261555Z AUTO 29013KT 10SM CLR 10/02 A3024 RMK AO2 T01000017 KPXE 261555Z AUTO 31018G24KT 10SM BKN026 OVC033 10/04 A2988 RMK AO2 T01040039 ETSE 261520Z 19003KT 9999 FEW130 00/M03 Q1021 BLU+ LIEO 261550Z 01008KT 330V050 9999 BKN035 10/03 Q1020 KREO 261552Z AUTO 02008KT M02/M04 A3023 RMK AO1 SLP260 T10221039 KT65 261555Z AUTO 03004KT 7SM CLR 17/07 A3031 RMK AO2 T01740068 ETSH 261520Z 20010KT 9999 BKN025 BKN090 04/00 Q1016 BLU BLU TEMPO GRN KRFI 261555Z AUTO 00000KT 10SM CLR 10/01 A3023 RMK AO2 T01010011 ETSI 261520Z 22007KT 9999 FEW018 SCT040 BKN070 02/M02 Q1021 BLU BLU TEMPO GRN LHPA 261545Z 05001MPS CAVOK 00/M04 Q1023 NOSIG RMK BLU KPWT 261615Z AUTO 00000KT M1/4SM OVC002 06/06 A2997 RMK AO1 ETSL 261520Z 22006KT 9999 FEW020 BKN030 BKN050 M00/M05 Q1021 BLU BLU TEMPO GRN ETSN 261520Z 24007KT 9999 -SG FEW018 SCT027 BKN100 02/M02 Q1021 BLACKBLU LGZA 261550Z 18006KT 9999 FEW018TCU SCT020 11/08 Q1014 GCLA 261600Z 02008KT 340V070 9999 FEW020 SCT050 19/13 Q1027 KRGK 261610Z AUTO 00000KT 10SM BKN013 OVC018 01/M02 A2970 RMK AO2 FLKK 261400Z 02007KT 9999 SCT030 SCT090 26/19 Q1017 KPYM 261552Z AUTO 05011KT 10SM SCT028 OVC065 M02/M07 A3008 RMK AO2 SLP187 T10171072 KT82 261555Z AUTO 00000KT 10SM CLR 09/03 A3028 RMK AO2 T00910025 LHPP 261545Z 33003KT CAVOK 01/M03 Q1023 FMCH 261500Z 29009KT 9999 SCT020TCU SCT030 27/24 Q1013 NOSIG KRHI 261609Z AUTO 15008KT 3/4SM -SN BR VV018 M09/M12 A2975 RMK AO2 P0001 T10941117 LHPR 261545Z 31003KT CAVOK M01/M05 Q1023 AGGH 261600Z 14002KT 9999 -RA FEW015 FEW016CB BKN028 OVC100 24/24 Q1005 KQRB 261550Z AUTO 26005KT 9999 FEW024 SCT210 31/24 A2981 RMK AO2 SLP093 T03070241 KRIC 261554Z 04008KT 10SM SCT015 BKN055 OVC250 08/05 A2970 RMK AO2 RAB15E45 SLP064 P0000 T00830050 KPYX 261555Z AUTO 30011KT 10SM 10/01 A3019 RMK AO2 T00950009 KRHP 261555Z AUTO 00000KT 7SM DZ OVC022 04/02 A2978 RMK AO2 P0001 T00350015 GCLP 261600Z 03016KT 9999 FEW025 19/14 Q1026 NOSIG KPZQ 261614Z AUTO 14005KT 7SM -SN BKN032 M08/M10 A3002 RMK AO2 T10771102 KQRH 261556Z AUTO VRB05KT 9999 CLR 25/16 A3011 RMK AO2 SLPNO T02490164 KSAA 261615Z AUTO 00000KT 10SM CLR 00/M04 A3044 RMK AO2 KQSA 261558Z 10005KT 9999 FEW065 SCT085 BKN120 01/M03 A3013 RMK AO2A CIG 090 RWY21 SLP183 T00121030 KRIL 261553Z AUTO 05003KT 10SM CLR M02/M06 A3048 RMK AO2 SLP347 T10171056 KSAC 261602Z 33004KT 2 1/2SM BR OVC150 06/04 A3009 RMK AO2 $ KRHV 261550Z 00000KT 10SM BKN150 06/03 3005 KSAD 261551Z AUTO 11008KT 10SM CLR 09/M04 A3029 RMK AO2 SLP243 T00941039 FMEE 261600Z AUTO 13015KT 9999 FEW034 26/21 Q1016 KQSF 261555Z AUTO 11001KT 6000 CLR M01/M06 A3018 RMK AO2 SLP315 T10101062 KSAF 261553Z 01018KT 10SM CLR 02/M05 A3037 RMK AO2 SLP286 T00171050 KQQY 261555Z AUTO 31005KT 9999 FEW065 SCT150 30/19 A2998 RMK AO2 SLP127 T03040186 $ KU16 261458Z AUTO 24003KT 3SM BR CLR M04/M05 A3038 RMK AO2 SLP902 T10391050 55000 TSNO $ 01/26/15 09 FMCZ 261600Z AUTO 22017KT 9999 -RA FEW015/// BKN028/// BKN045/// 25/23 Q1012 KSBA 261553Z 10004KT 10SM OVC100 13/07 A2999 RMK AO2 SLP156 T01280072 KQTC 261555Z AUTO 35008KT 10SM CLR 34/M07 A2991 RMK AO2 SLP084 T03421070 KSBD 261550Z 22003KT 10SM SCT080 BKN110 14/00 A3003 KRKD 261615Z AUTO 03008KT 10SM CLR M11/M18 A3022 RMK AO1 KRIV 261558Z AUTO VRB06KT 10SM FEW095 16/01 A3004 RMK AO2 SLP167 T01580014 LHSM 261545Z 02004KT CAVOK 02/M05 Q1024 NOSIG ETWM 261520Z 26006KT 4000 -RA BR SCT002 BKN003 06/05 Q1014 YLO KSAN 261551Z 00000KT 10SM BKN110 BKN200 18/00 A3000 RMK AO2 SLP159 T01780000 LHSN 261545Z 29002KT 9999 FEW013 BKN070 03/00 Q1022 NOSIG RMK BLU KRIW 261553Z AUTO 05004KT 10SM CLR 01/M03 A3030 RMK AO2 SLP276 T00061033 FMEP 261600Z AUTO 11019KT 9999 NCD 27/20 Q1015 KQTH 261555Z AUTO 04005KT 9999 CLR 20/01 A3024 RMK AO2 SLP239 T01970011 $ KSAR 261615Z AUTO 30007KT 10SM OVC024 M01/M05 A3009 RMK AO2 T10131049 KSAT 261551Z 26004KT 10SM BKN250 14/03 A3028 RMK AO2 SLP245 T01390028 KQTM 261559Z AUTO 02007KT 9999 CLR 25/M12 A2973 RMK CDP03569 CLR KSAV 261553Z 29018G25KT 10SM BKN034 12/03 A2976 RMK AO2 PK WND 28027/1518 SLP076 T01220033 KSBM 261553Z AUTO 17008KT 10SM OVC080 M04/M08 A2990 RMK AO2 SLP138 T10441083 KQUD 261555Z AUTO 25003KT 10SM CLR 23/17 A3014 RMK AO2 SLP156 T02300171 $ KSCD 261615Z AUTO 32010G16KT 10SM OVC013 05/02 A2999 RMK AO2 T00470023 LHUD 261545Z 34004KT 8000 FEW025 SCT083 02/M01 Q1023 GBYD 261600Z 04009KT CAVOK 34/05 Q1010 KSBN 261554Z 00000KT 10SM CLR M08/M12 A2997 RMK AO2 SLP160 T10781122 KSAW 261548Z 19010KT 10SM SCT050 BKN060 OVC080 M10/M12 A2982 LJCE 261600Z AUTO 10002KT 9999 NSC 02/M03 Q1023 KSBO 261555Z AUTO 29012G22KT 10SM OVC030 11/01 A2980 RMK AO2 LTG DSNT E KRKP 261553Z AUTO 29003KT 10SM CLR 14/04 A3030 RMK AO2 SLP261 T01440039 KSBP 261556Z 05007KT 10SM BKN150 11/03 A3000 RMK AO2 SLP159 T01060033 KSCH 261548Z 04008KT 10SM OVC060 M11/M18 A3011 KSAZ 261613Z AUTO 27009KT 10SM OVC044 01/M01 A2969 RMK AO2 KRKR 261615Z AUTO 21006KT 10SM CLR 06/00 A3018 RMK AO2 T00600000 LIMA 261550Z 00000KT CAVOK 05/M09 Q1021 KRKS 261554Z AUTO 08003KT 10SM CLR 02/M03 A3042 RMK AO2 SLP309 T00171028 KSBS 261615Z AUTO 00000KT 10SM CLR M09/M10 A3050 RMK AO1 T10891103 KSDA 261555Z AUTO 24007KT 10SM CLR 04/01 A2990 RMK AO2 KSDB 261548Z AUTO 07012KT 10SM OVC090 12/M03 A3015 RMK AO2 SLP176 T01221033 KSCK 261555Z 35003KT M1/4SM FG VV001 05/04 A3007 RMK AO2 SLP181 T00500044 RVRNO LIMC 261550Z 24004KT CAVOK 05/M01 Q1021 NOSIG LIME 261550Z 22006KT 9999 FEW100 06/M04 Q1021 KRME 261553Z 11012KT 10SM OVC050 M11/M17 A3006 RMK AO2 SLP188 T11061172 LIMF 261550Z VRB01KT 9999 BKN140 05/M09 Q1021 KQVF 261555Z AUTO VRB02KT 9999 CLR 26/21 A2994 RMK AO2 SLP137 T02600208 $ KSDF 261556Z 29011KT 10SM OVC019 M02/M06 A2999 RMK AO2 SLP158 T10171061 LIMG 261550Z 09006KT CAVOK 10/M12 Q1020 KRMG 261553Z AUTO 30018G24KT 10SM OVC020 05/01 A2990 RMK AO2 SLP124 T00500006 KSBY 261554Z 03005KT 10SM OVC012 08/04 A2972 RMK AO2 SLP067 T00830039 LIMH 261555Z /////KT 0100 -SN FZFG VV/// M12/M14 Q1008 RMK MON INVIS VAL INVIS VIS MIN 0100 KQTZ 261555Z 14005KT 5000 DU FEW027 BKN150 OVC200 18/02 A3004 RMK DU FEW027 SLP172 WND DATA ESTMD ALSTG/SLP ESTMD KSCR 261555Z AUTO 00000KT 10SM SCT004 BKN047 OVC070 06/05 A2965 RMK AO2 T00610050 LIMJ 261550Z 01009KT CAVOK 09/M08 Q1021 KSEA 261607Z 15003KT 3SM R16L/2600VP6000FT BCFG FEW001 SCT250 06/05 A2997 RMK AO2 TWR VIS 10 VIS S-W 1 FKYS 261600Z VRB02KT 9999 BKN020 30/20 Q1013 NOSIG LIML 261550Z 22005KT CAVOK 08/M02 Q1021 NOSIG KSDL 261553Z 00000KT 10SM CLR 14/M01 A3014 RMK AO2 SLP193 T01441011 KRNC 261615Z AUTO 33007KT 10SM OVC009 M01/M01 A2996 RMK KSDM 261553Z 13015KT 10SM OVC095 21/01 A3001 RMK AO2 SLP157 T02110006 KRND 261558Z AUTO 32002KT 10SM CLR 14/02 A3028 RMK AO2 SLP254 T01400022 LIMN 261555Z /////KT CAVOK 06/02 Q1021 RMK BKN BKN080 VIS MIN 9999 BLU KRMN 261555Z AUTO 05005KT 7SM DZ OVC006 03/ A2981 RMK AO2 T0028 KSEE 261555Z AUTO 00000KT 10SM BKN110 13/03 A3002 RMK AO2 LIMP 261550Z 00000KT CAVOK 09/M03 Q1022 KSEG 261553Z AUTO 04004KT 5SM -SN OVC024 M05/M08 A2989 RMK AO2 SNE1455B22 SLP128 P0000 T10501078 KRNH 261555Z AUTO 22006KT 7SM SCT008 BKN012 OVC018 M01/M02 A2968 RMK AO2 T10121017 LIMS 261555Z 00000KT CAVOK 07/M02 Q1020 KROA 261554Z 02004KT 10SM OVC017 05/01 A2969 RMK AO2 SLP057 T00500011 LIMT 260555Z 07005KT 0000 FZFG VV/// 01/01 Q1018 RMK MON INVIS VAL INVIS VIS MIN 0000 KSFB 261553Z 31017G27KT 10SM CLR 17/07 A2989 RMK AO2 PK WND 31027/1546 SLP123 T01670067 LIMU 261555Z 01012KT CAVOK 10/M16 Q1021 RMK BKN SCT070 QUK 3 QUL 1 E VIS MAR 50 KM VIS MIN 9999 KROC 261554Z 05011KT 5SM -SN BKN035 OVC045 M09/M17 A2999 RMK AO2 SNB39 SLP170 P0000 T10941167 KRNM 261453Z AUTO 07009KT 10SM CLR 16/02 A3003 RMK AO2 SLP162 60000 T01610017 53009 $ KQWM 261555Z 15012KT 9000 HZ BKN200 15/08 A3014 RMK SLP209 QNH1020 KSEM 261615Z AUTO 30012KT 10SM 08/02 A3003 RMK AO2 VTPH 261200Z 16005KT 140V200 9000 NSC 26/23 Q1012 NOSIG KSFF 261553Z 00000KT 10SM OVC004 03/02 A3009 RMK AO2 SLP200 T00330017 KRNO 261555Z 00000KT 10SM FEW150 SCT250 M01/M04 A3023 RMK AO2 SLP240 T10061039 KRMY 261614Z AUTO 08004KT 10SM CLR M08/M14 A2994 RMK AO2 T10831136 KSDY 261615Z AUTO 00000KT 10SM CLR 02/01 A3000 RMK AO1 KRNP 261615Z AUTO 08004KT 10SM CLR M09/M12 A2997 RMK AO2 T10871120 KSEP 261615Z AUTO 25007KT 10SM CLR 12/01 A3027 RMK AO2 T01190011 KROG 261557Z 22007KT 10SM CLR 05/M01 A3010 RMK AO2 SLP197 T00501006 LIMZ 261550Z 34003KT 9999 BKN090 03/M03 Q1021 GCRR 261600Z 06014KT 9999 FEW025 19/14 Q1025 LIPA 261555Z 20003KT CAVOK 07/M03 Q1020 RMK SKC VIS MIN 9999 A3015 BLU KU68 261555Z AUTO 00000KT 10SM CLR M03/M03 A3024 RMK AO2 PWINO LIPB 261550Z 00000KT CAVOK 04/M09 Q1020 KRNT 261553Z 00000KT 8SM CLR 07/07 A2996 RMK AO2 SLP151 T00670067 KSET 261554Z AUTO 21004KT 10SM OVC023 M02/M04 A3004 RMK AO2 SLP178 T10171044 FLSK 261400Z 20003KT 9999 TSRA FEW028CB OVC080 17/17 Q1018 LIPC 261555Z 03004KT 9999 FEW030 07/M00 Q1021 VTPO 261000Z 23002KT 6000 NSC 31/13 Q1011 FNBC 261600Z 27006KT 9999 SCT016 FEW020 28/26 Q1010 KSFM 261615Z AUTO 03008KT 10SM CLR M11/M20 A3018 RMK AO1 KRNV 261615Z AUTO 36008KT 10SM OVC026 06/02 A3017 RMK AO2 T00630021 KRPD 261615Z AUTO 14005KT 2SM BR OVC004 M05/M06 A2971 RMK AO2 T10531061 VTPP 261300Z 00000KT 6000 NSC 23/16 Q1013 LIPE 261550Z VRB02KT 9999 FEW045 08/M03 Q1022 LIPF 261555Z 00000KT CAVOK 08/M02 Q1022 KSGF 261552Z 24008KT 10SM CLR 03/M01 A3006 RMK AO2 SLP187 T00331011 KSFO 261556Z 03006KT 10SM FEW010 BKN200 12/09 A3003 RMK AO2 SLP167 T01170089 FNBG 261600Z 30014KT 9999 FEW020 SCT120 30/22 Q1010 LIPH 261545Z /////KT CAVOK 08/M04 Q1021 KSGH 261556Z AUTO 33013KT 7SM BKN012 OVC037 M08/M11 A2990 RMK AO2 T10831111 BKN V SCT SLP140 KSEZ 261555Z AUTO 07007KT 10SM CLR 11/M04 A3026 RMK AO2 KSFQ 261555Z AUTO 04004KT 10SM BKN026 08/04 A2967 RMK AO2 T00770042 KRPH 261550Z AUTO 23004KT 10SM CLR 09/03 A3022 RMK AO2 T00920029 LIPI 261555Z 21003KT CAVOK 05/M02 Q1022 RMK SKC VIS MIN 9999 WIND THR06 18001KT BLU KROS 261616Z AUTO 23003KT 10SM BKN012 OVC028 M01/M03 A2968 RMK AO2 T10121026 KRPJ 261555Z AUTO 00000KT 10SM BKN048 OVC050 M07/M09 A2994 RMK AO2 T10741095 KSGJ 261558Z 29014G20KT 10SM BKN032 14/07 A2985 RMK AO2 SLP106 T01390067 LIPK 261550Z 03005KT CAVOK 08/M07 Q1022 FNCA 261600Z 25007KT 9999 FEW020 29/25 Q1009 KQXT 261555Z 30006KT 9999 CLR 07/M07 A3030 RMK SLP293 WND DATA ESTMD ALSTG/SLP ESTMD Q1026 KRQB 261614Z AUTO 00000KT 10SM CLR M11/M13 A2995 RMK AO2 T11121132 LIQC 261555Z ///03KT 9999 SCT040 10/05 Q1017 RMK BKN BKN080 QUK 2 QUL 1 NE VIS MAR 18 KM VIS MIN 9999 LIPL 261555Z /////KT CAVOK 09/M06 Q1022 RMK SKC VIS MIN 9999 WIND THR31 26001KT BLU KSHD 261555Z AUTO 00000KT 1SM -SN OVC003 01/00 A2973 RMK AO2 T00080000 KROW 261551Z 34004KT 10SM CLR 03/M01 A3032 RMK AO2 SLP263 T00331011 KRQE 261553Z AUTO 00000KT 10SM CLR 00/M03 A3039 RMK AO2 SLP279 T00001033 TSNO LIPO 261550Z 27005KT CAVOK 07/M03 Q1021 KROX 261614Z AUTO 32014G18KT 10SM SCT009 BKN025 OVC032 02/M01 A2967 RMK AO2 KSFY 261555Z AUTO 17006KT 1 1/4SM -SN BKN006 BKN015 OVC032 M06/M08 A2993 RMK AO2 T10611082 LIPQ 261550Z VRB01KT CAVOK 07/M05 Q1021 KSFZ 261615Z 02010KT 10SM BKN034 M08/M15 A3006 RMK AO1 VTSB 261400Z 33006KT 7000 FEW020 25/22 Q1013 A2992 LIPR 261545Z 35004KT 9999 FEW020 08/00 Q1021 KSGR 261553Z 30007KT 10SM CLR 13/01 A3028 RMK AO2 SLP255 T01330011 VTSC 260500Z 08007KT 030V130 9000 SCT022 SCT300 28/22 Q1014 A2997 RWY20 INFO E LIPS 261555Z 00000KT CAVOK 09/M05 Q1021 RMK SKC VIS MIN 9999 WIND THR26 /////KT WIND THR08 00000KT BLU LIRA 261545Z 34008KT 9999 FEW018 11/M02 Q1015 KSGS 261610Z AUTO 24004KT 10SM SCT019 BKN040 02/00 A2970 RMK AO2 T00171004 GCTS 261600Z 08019KT 9999 FEW030 21/12 Q1025 NOSIG KSGT 261615Z AUTO 34006KT 10SM CLR 07/M01 A3017 RMK AO1 KSGU 261615Z AUTO 00000KT 10SM CLR 07/M02 A3029 RMK AO1 KSHL 261555Z AUTO 31012KT 10SM CLR 03/02 A2982 RMK AO2 VTSF 261400Z VRB01KT 7000 FEW018 BKN300 25/24 Q1013 A2993 INFO O / RWY 19 KSHM 261556Z AUTO 28004KT 10SM CLR 12/M05 A3032 RMK AO2 SLP254 T01161052 LIQN 261550Z 11011KT CAVOK 07/M05 Q1016 VTSG 261600Z 07004KT 030V090 9999 FEW020 24/20 Q1014 A2994 INFO J RWY32 LIRE 261555Z 33004KT 9999 FEW025 11/M04 Q1017 RMK FEW VIS MIN 9999 WIND THR31 /////KT BLU KSHN 261553Z AUTO 00000KT 1/4SM FG VV002 05/04 A2993 RMK AO2 SLP139 T00500044 VTSH 260900Z 09006KT 8000 FEW020 BKN300 29/21 Q1011 A2987 LIPX 261545Z 24005KT CAVOK 07/M05 Q1021 LIRF 261550Z 35006KT CAVOK 10/01 Q1017 NOSIG KRQO 261615Z AUTO 27013G16KT CLR 11/02 A3013 RMK AO2 PWINO KSIF 261555Z AUTO 00000KT 10SM SCT070 07/03 A2966 RMK AO2 T00720026 LIRG 261555Z 35006KT 9999 FEW040 12/M02 Q1015 LIPY 261550Z 34007KT 9999 SCT030 SCT050 06/00 Q1020 WMBA 261600Z 06001KT 9999 FEW032 SCT140 BKN260 26/25 Q1012 LIRH 261555Z 15005KT 9999 FEW040 09/M06 Q1015 LIPZ 261550Z VRB03KT CAVOK 07/M02 Q1021 LIRI 261550Z 05009KT 9999 FEW020 BKN060 10/01 Q1016 KSHR 261553Z AUTO 05003KT 10SM CLR 08/M02 A3010 RMK AO2 SLP198 T00831022 FMMI 261600Z 13010KT 100V180 9999 FEW017 BKN020 20/19 Q1022 NOSIG VTSM 261500Z 13003KT 6000 FEW020 BKN300 27/22 Q1014 A2997 LIRK 261555Z AUTO 10012KT //// M07/M08 Q1012 LIRL 261555Z 22005KT 9999 SCT040 11/01 Q1015 KSJC 261553Z 00000KT 10SM FEW080 SCT120 BKN150 07/03 A3003 RMK AO2 SLP168 T00670033 KRRL 261555Z AUTO 16006KT 3SM -SN OVC031 M09/M11 A2976 RMK AO2 T10881108 LIRM 261555Z 09010KT 9999 FEW030 09/03 Q1017 KTAD 261554Z AUTO 25013KT 10SM CLR 06/M04 A3033 RMK AO2 SLP261 T00611039 KSHV 261556Z 33005KT 10SM CLR 09/01 A3021 RMK AO2 SLP230 T00940011 LIQW 261555Z 35004KT 9999 FEW040 09/M05 Q1021 VTSP 261600Z 07003KT 350V140 7000 FEW020 BKN300 26/20 Q1014 A2994 NOSIG LIRN 261550Z 06009KT 9999 BKN070 10/01 Q1016 VTSR 261000Z 09009KT 7000 FEW025 SCT200 31/22 Q1010 A2984 VOR/DME RWY02 INFO C LIRP 261545Z 08007KT 9999 FEW070 10/M02 Q1021 NOSIG VTSS 261600Z 32005KT 8000 FEW020 SCT300 24/21 Q1014 A2994 NOSIG LIRQ 261550Z 03008KT 340V070 CAVOK 08/M07 Q1021 VTST 261200Z 05010KT 9999 FEW020 28/22 Q1010 RWY08 INFO M WMAU 261600Z 03009KT 300V060 9999 FEW025 SCT150 BKN280 26/23 Q//// QFF1013 LIRS 261555Z /////KT CAVOK 08/M07 Q1019 KSKA 261558Z AUTO 07007KT M1/4SM R05/1400FT UP FG VV001 01/01 A3006 RMK AO2 UPE06UPB47 SLP201 P0000 T00100010 VTUD 261400Z VRB02KT 8000 NSC 22/15 Q1014 A2994 INFO P RWY30 LIRT 261155Z 03006KT 0000 FZFG VV/// 00/M02 Q1015 RMK MON INVIS VAL INVIS VIS MIN 0000 KRRT 261614Z AUTO 30011KT 10SM OVC013 01/M01 A2966 RMK AO2 LIRU 261550Z 35010KT CAVOK 11/M02 Q1016 FMMT 261600Z 16008KT 8000 -RA FEW007 SCT017TCU BKN033 28/25 Q1013 TEMPO 4000 RA KRSL 261553Z AUTO 31015KT 10SM CLR 11/01 A3004 RMK AO2 SLP182 T01110011 LIRV 261555Z 30012KT CAVOK 06/M03 Q1016 FMNM 261600Z 14004KT 9999 SCT020CB BKN100 27/24 Q1010 NOSIG KTAN 261552Z AUTO VRB05KT 10SM OVC065 M06/M10 A3008 RMK AO2 SLP187 T10561100 KSJN 261554Z AUTO 00000KT 10SM CLR M02/M05 A3034 RMK AO2 SLP276 T10171050 KRSN 261615Z AUTO 34005KT 10SM CLR 09/01 A3023 RMK AO2 T00880013 LIRX 261555Z 36002KT CAVOK 07/M02 Q1017 RMK SKC VIS MIN 9999 VIS MAR 40 KM FMNN 261500Z 24004KT 9999 SCT020 28/24 Q1009 KSKF 261558Z AUTO 29001KT 10SM CLR 15/02 A3027 RMK AO2 SLP250 T01470023 $ VTUI 261300Z 23003KT 5000 BR NSC 22/19 Q1013 A2993 INFO M RWY23 KSIY 261553Z AUTO 00000KT M1/4SM FZFG VV001 M02/M02 A3016 RMK AO2 SLP238 I1000 T10221022 KRSP 261554Z AUTO 3/4SM -SN BR OVC001 M04/M06 A2963 RMK AO2 SLP059 P0000 T10441061 $ LIRZ 261550Z 05012KT CAVOK 06/M03 Q1019 VTUK 261600Z 01003KT 6000 NSC 22/14 Q1013 A2993 NOSIG VTUL 261100Z VRB02KT 5000 HZ NSC 26/17 Q1011 A2990 KSJS 261615Z AUTO 27009KT 2SM -SN BKN010 OVC013 M02/M04 A2981 RMK AO2 T10221036 KSJT 261551Z 27004KT 10SM CLR 07/01 A3030 RMK AO2 SLP264 T00720011 KRST 261554Z 20014KT 6SM BR OVC006 M01/M03 A2971 RMK AO2 SLP077 T10111028 KSLB 261555Z AUTO 31014KT 10SM CLR 03/01 A2982 RMK AO2 KSLC 261553Z 08006KT 9SM CLR 02/M01 A3039 RMK AO2 SLP300 T00171011 KTCC 261553Z AUTO 27007KT 10SM CLR 04/M01 A3029 RMK AO2 SLP259 T00391006 VTUO 260900Z 08004KT 9000 NSC 33/13 Q1010 A2985 INFO J RWY 04 KRSV 261615Z AUTO 31008KT 10SM OVC017 M01/M04 A3003 RMK AO2 T10141038 KRSW 261553Z 31011G17KT 10SM FEW029 BKN037 OVC047 19/13 A2996 RMK AO2 SLP144 T01940128 KRTN 261553Z AUTO 05008KT 10SM CLR 01/M03 A3035 RMK AO2 SLP287 T00111028 KRUE 261553Z AUTO 29008KT 10SM CLR 07/00 A3015 RMK AO2 SLP206 T00670000 KSLE 261556Z 21003KT 1/4SM R31/1800V2000FT FG VV002 06/05 A3002 RMK AO2 SLP168 T00560050 KTBN 261558Z AUTO VRB05KT 10SM CLR 03/M01 A3003 RMK AO2 SLP181 T00251007 KSJX 261616Z AUTO 13005KT 10SM BKN090 M08/M12 A2998 RMK AO2 T10851120 GCXO 261600Z 13008KT 090V170 9999 BKN009 13/12 Q1027 NOSIG VVCR 261600Z 30002KT CAVOK 21/19 Q1016 NOSIG KSLG 261615Z AUTO 21006KT 10SM CLR 06/M02 A3011 RMK AO1 KRUG 261555Z AUTO 31015KT 10SM CLR 00/M02 A2985 RMK AO2 KSLH 261618Z AUTO 00000KT 10SM CLR M10/M13 A3000 RMK AO2 T11021130 KTAZ 261555Z AUTO 26008KT 10SM BKN070 OVC090 M03/M07 A3002 RMK AO2 VVCT 261030Z 11004KT 070V180 9999 SCT015 27/19 Q1012 NOSIG KSLI 261558Z 18011KT 10SM BKN110 18/08 A2999 RMK AO2A SLP159 T01760081 KTBR 261555Z AUTO 30013G24KT 10SM BKN032 BKN038 11/05 A2977 RMK AO2 T01140050 FNGI 261600Z VRB02KT 9999 FEW010 SCT020 22/19 Q1015 VTUU 261600Z 00000KT 8000 NSC 18/16 Q1013 A2993 NOSIG KRTS 261615Z AUTO 02004KT 10SM CLR M02/M04 A3022 RMK AO2 LJLJ 261600Z 17003KT 9999 FEW030 SCT037 02/M04 Q1021 NOSIG VTUV 261500Z 18002KT 4000 BR NSC 22/17 Q1014 A2994 INFO P RWY 36 KSLK 261551Z AUTO 00000KT 10SM CLR M18/M21 A2998 RMK AO2 SLP205 T11831211 LJMB 261600Z 22002KT CAVOK 02/M04 Q1022 VTUW 261000Z 25004KT 7000 NSC 32/09 Q1011 A2985 RWY15 INFO J LIVC 261555Z 03017KT 0100 FZFG VV001 M08/M09 Q1013 RMK MON INVIS VAL INVIS VIS MIN 0100 VVDN 261600Z 00000KT 5000 BR FEW015 18/17 Q1016 NOSIG KTCL 261553Z 34009KT 10SM OVC024 06/00 A3007 RMK AO2 SLP183 T00560000 LIVD 261555Z 00000KT CAVOK M02/M09 Q1018 RMK SKC VIS MIN 9999 KTCM 261618Z AUTO 15003KT 1/2SM R16/5500FT FG CLR 03/03 A2996 RMK AO2 VIS 1/2V3 $ LIVE 261555Z /////KT CAVOK M03/M13 Q1018 RMK SCT SCT070 VIS MIN 9999 KSLN 261553Z 32007KT 10SM CLR 09/02 A3003 RMK AO2 SLP174 T00890017 KSME 261555Z AUTO 30006KT 10SM OVC011 M03/M05 A2994 RMK AO2 LIVF 260255Z 08003KT 0500 -SN FG VV/// 01/00 Q1018 RMK MON INVIS VAL INVIS VIS MIN 0500 KSMF 261553Z 33006KT 1/8SM R16R/1200FT FG VV001 04/04 A3008 RMK AO2 SLP184 T00440039 $ KSKX 261615Z AUTO 00000KT 10SM CLR 01/M05 A3043 RMK AO1 KTBX 261615Z AUTO 16009KT 10SM CLR 07/M06 A3039 RMK AO2 KSLO 261615Z AUTO 29008KT 10SM CLR M01/M06 A3005 RMK AO2 T10071058 KTDF 261555Z AUTO 36003KT 10SM OVC005 06/06 A2967 RMK AO2 LTG DSNT S KRUQ 261555Z AUTO 35006KT 10SM SCT070 SCT100 07/02 A2966 RMK AO2 T00710021 KSLR 261555Z AUTO 00000KT 10SM CLR 08/01 A3025 RMK AO2 T00800007 KSNA 261553Z 20010KT 10SM BKN120 BKN330 21/06 A2998 RMK AO2 SLP151 T02060056 KTCS 261553Z AUTO 00000KT 10SM CLR 03/M04 A3036 RMK AO2 SLP261 T00281039 TSNO EVRA 261550Z 18005KT 5000 BR OVC032 M02/M02 Q1018 R18/190095 TEMPO 4000 KTEB 261551Z 04009G16KT 5SM -SN BR FEW017 OVC036 M06/M09 A2999 RMK AO2 SLP156 P0000 T10561094 $ KRUT 261615Z 36005KT 10SM BKN080 M13/M19 A3008 RMK AO1 KSNC 261555Z AUTO 03007KT 1 1/4SM -SN BKN001 OVC012 M07/M09 A3004 RMK AO2 P0024 LIVM 261555Z ///04KT CAVOK 08/M01 Q1021 RMK SKC QUK 2 QUL 1 E VIS MAR 30 KM VIS MIN 9999 LKCV 261600Z 20005KT 9999 FEW026 BKN050 03/M01 Q1020 NOSIG RMK BLU BLU KSMN 261615Z AUTO 08003KT M1/4SM OVC002 M05/M06 A3039 RMK AO1 LIVO 261555Z 00000KT CAVOK 00/M09 Q1018 RMK SKC VIS MIN 9999 KSMO 261551Z 04006KT 10SM BKN120 21/M01 A2999 RMK AO2 RAB1455E11 SLP153 P0000 T02111006 KRWF 261553Z AUTO 29012KT 10SM CLR 04/01 A2976 RMK AO2 SLP087 T00440006 KSMQ 261601Z AUTO 06011G19KT 4SM HZ SCT018 BKN024 OVC048 M04/M09 A2994 RMK AO2 SNE1559 P0000 T10441089 TSNO KSNH 261615Z AUTO 30009KT 10SM BKN020 BKN026 02/M03 A3008 RMK LIVR 261555Z 35003KT CAVOK M07/M15 Q1014 RMK SKC MON LIB VIS MIN 9999 KTDR 261556Z AUTO 31011G20KT 10SM FEW033 12/04 A2998 RMK AO2 SLP156 T01220039 KRWI 261553Z AUTO 01006KT 10SM SCT030 BKN060 OVC095 07/05 A2965 RMK AO2 LTG DSNT SW RAE00B31E50 SLP042 P0002 T00720050 KRVS 261553Z 20006KT 10SM CLR 06/00 A3012 RMK AO2 SLP206 T00610000 KSMS 261615Z AUTO 30013KT 10SM CLR 13/06 A2966 RMK AO2 KSOA 261555Z AUTO 00000KT 10SM CLR 04/01 A3036 RMK AO2 LIVT 261555Z 05009G19KT CAVOK 07/M04 Q1021 RMK SKC QUK 2 QUL 1 NE VIS MAR 20 KM VIS MIN 9999 KSNK 261555Z AUTO 25008KT 10SM CLR A3029 RMK AO2 TSNO KRWL 261553Z AUTO 20007KT 10SM CLR 03/M04 A3041 RMK AO2 SLP288 T00281039 KSNL 261615Z AUTO 23011KT 10SM CLR 11/02 A3014 RMK AO2 FNHU 261600Z 00000KT 9999 DZ OVC060 17/16 Q1021 FMSD 261600Z 06012KT 9999 FEW016 SCT033 27/24 Q1016 KRXE 261553Z AUTO 07004KT 10SM CLR M06/M07 A3042 RMK AO2 SLP339 T10611072 KSMX 261551Z 00000KT 10SM BKN120 13/04 A3000 RMK AO2 SLP162 T01330044 $ KTDZ 261603Z AUTO 36008KT 10SM SCT015 M08/M13 A2996 RMK AO2 T10781133 TSNO KSPA 261635Z AUTO 30016G22KT 10SM SCT055 SCT090 12/00 A2968 RMK AO2 KSNS 261553Z 10011KT 10SM CLR 12/02 A2999 RMK AO2 SLP165 T01220017 KSNT 261551Z AUTO 00000KT M10/M13 A3042 RMK AO1 SLP321 T11001128 KSPB 261553Z AUTO 00000KT 1/4SM FG VV002 02/02 A3002 RMK AO2 SLP167 T00220017 KSPD 261556Z AUTO 31012KT 12/M02 A3024 RMK AO1 SLP225 T01221017 KRWV 261555Z AUTO 27004KT 10SM CLR 12/M01 A3032 RMK AO2 KTEW 261614Z AUTO 08006KT 10SM CLR M09/M13 A2995 RMK AO2 T10861127 KSPF 261555Z AUTO 28012G16KT 10SM CLR 13/M02 A3009 RMK AO2 KTEX 261615Z AUTO 11007KT 10SM CLR 03/M09 A3049 RMK AO2 T00301094 KSNY 261553Z AUTO 29010KT 10SM CLR 09/M01 A3019 RMK AO2 SLP221 T00941011 KSPG 261553Z 33013G20KT 10SM FEW033 SCT042 17/10 A2994 RMK AO2 SLP139 T01720100 KSOP 261615Z AUTO 00000KT 10SM BKN055 OVC070 07/04 A2965 RMK AO1 KTFP 261555Z AUTO 33003KT 10SM CLR 14/07 A3030 RMK AO2 T01380069 KSPI 261552Z 21005KT 10SM OVC023 M03/M07 A3000 RMK AO2 SLP166 T10331072 KTGI 261542Z AUTO 36009KT BKN018 BKN026 OVC110 06/04 A2971 RMK AO1 KTHA 261615Z AUTO 31012KT 10SM OVC010 M01/M02 A2998 RMK KSPL 261555Z AUTO 00000KT 10SM CLR A3030 RMK AO1 KRYN 261546Z 12005KT 10SM CLR 13/00 A3017 KSQE 261615Z AUTO 32018KT 9SM CLR 14/03 A3020 RMK A01 KSOW 261555Z AUTO 00000KT 10SM CLR 00/M04 A3036 RMK AO2 KSQI 261615Z AUTO 22003KT 2 1/2SM SCT006 BKN011 OVC050 M07/M09 A2994 RMK AO1 KSPR 261615Z AUTO 33013G18KT 10SM CLR 12/02 A3019 RMK A01 KSPS 261552Z 23006KT 10SM CLR 09/02 A3019 RMK AO2 SLP222 T00890022 MBGT 261600Z 12010KT 9999 SCT012 27/22 Q1016 FNMA 261600Z 30004KT 9999 SCT009 BKN057 25/22 Q1015 EVVA 261550Z AUTO 17005KT 9999 -RASN FEW008 BKN012 BKN030 00/M00 Q1015 RERASN KSRB 261615Z AUTO 32011KT 10SM OVC008 M01/M02 A2995 RMK KRYT 261605Z AUTO 06006KT 2SM BR OVC006 M03/M06 A2979 RMK AO2 $ KSQL 261547Z 00000KT 8SM BKN200 08/07 A3004 KSRC 261556Z AUTO 26007KT 230V290 10SM CLR 07/00 A3016 RMK AO2 SLP220 T00720000 TSNO KRZL 261615Z AUTO 00000KT 10SM CLR M05/M08 A2998 RMK AO2 FNKU 261500Z 34005KT 9999 FEW014 SCT100 22/16 Q1018 KRYV 261555Z AUTO 18005KT 10SM BKN043 OVC050 M07/M09 A2989 RMK AO2 T10661090 KSPW 261553Z AUTO 31012KT 10SM CLR 04/01 A2980 RMK AO2 SLP103 T00440006 TSNO LIYW 261558Z AUTO 17003KT 9999 CLR 06/M04 A3015 RMK AO2 SLP220 T00631036 KRYW 261615Z AUTO 27006KT 10SM CLR 13/02 A3028 RMK AO2 T01260018 KRZN 261555Z AUTO 15003KT 5SM BR OVC005 M03/M04 A2968 RMK AO2 T10351038 KTIF 261555Z AUTO 29011G15KT 10SM CLR 09/01 A3005 RMK AO2 T00920010 KRYY 261547Z 32012G22KT 10SM OVC027 A2986 WMKA 261600Z 00000KT 9999 FEW030 BKN300 24/21 Q1013 LJPZ 261600Z 06004KT CAVOK 07/M06 Q1021 WMKB 261600Z 36003KT 7000 FEW025 BKN280 27/22 Q1012 NOSIG KRZR 261615Z AUTO 32008KT 10SM OVC017 02/M02 A2991 RMK WMKC 261600Z 00000KT 9999 FEW022 BKN280 24/22 Q1014 WMKD 261600Z 36003KT 9000 FEW025 BKN280 24/22 Q1013 NOSIG KRZT 261615Z AUTO 33011KT 10SM BKN012 OVC060 M05/M08 A2987 RMK AO2 KTIK 261617Z 25008KT 10SM CLR 10/00 A3013 WMKE 261100Z 01006KT 9999 FEW018 SCT140 BKN270 26/22 Q1011 KSSC 261613Z 27011KT 10SM SCT030 12/05 A2964 RMK AO2A GEML 261600Z 02003KT 340V060 CAVOK 16/06 Q1026 KTHV 261612Z AUTO 08009KT 2SM -SN OVC014 M03/M06 A2984 RMK AO2 SNB04 P0000 T10331061 FNLU 261600Z 26010KT 9999 FEW020 SCT100 BKN230 28/22 Q1009 NOSIG KW13 261615Z AUTO 36004KT 2 1/2SM OVC003 00/00 A2970 RMK AO1 T00000000 KSSF 261553Z 28003KT 10SM CLR 14/04 A3028 RMK AO2 SLP251 T01390044 FNMO 261600Z 25007KT 9999 FEW015 28/20 Q1012 WMKI 261600Z 08002KT 7000 FEW005 BKN290 25/24 Q1013 KTIP 261555Z AUTO 27005KT 10SM BKN012 M03/M06 A2998 RMK AO2 T10301056 WMKJ 261600Z 07003KT 9999 FEW023 BKN280 24/22 Q1013 KSRQ 261553Z 30019G26KT 10SM CLR 20/09 A2995 RMK AO2 PK WND 29027/1537 SLP140 T02000089 WMKK 261600Z 09003KT 9999 FEW017CB SCT140 BKN280 26/24 Q1012 NOSIG KSSI 261553Z AUTO 27014G25KT 10SM FEW034 13/04 A2980 RMK AO2 SLP092 T01280039 KSRR 261555Z AUTO 00000KT 10SM CLR 04/M04 A3039 RMK AO2 WMKL 261600Z 03005KT 340V070 8000 FEW026 BKN280 27/21 Q1013 WMKM 261600Z 02005KT 330V070 9999 FEW028 BKN140 BKN270 25/23 Q1013 LKKB 261600Z 22010KT 9999 FEW027 BKN034 02/M02 Q1019 NOSIG WMKN 261600Z 03004KT 9000 FEW024 BKN280 26/22 Q1013 KSTC 261553Z 30014KT 10SM CLR 02/M01 A2969 RMK AO2 SLP074 T00221011 KTKC 261613Z AUTO 31010KT 10SM CLR 04/01 A2979 RMK AO2 T00430009 KW22 261555Z AUTO 00000KT 4SM BR 03/03 A2964 RMK AO2 WMKP 261600Z 03008KT 7000 FEW025 BKN280 28/21 Q1012 NOSIG KTIW 261555Z 00000KT 1SM BR VV002 06/06 A2997 RMK AO2 T00560056 KUBE 261555Z AUTO 16007KT 1 3/4SM BR OVC004 M05/M06 A2968 RMK AO2 KSTE 261555Z AUTO 15006KT 1 1/2SM UP OVC030 M09/M11 A2982 RMK AO2 T10901109 KTIX 261555Z 28018G24KT 7SM FEW030 17/08 A2989 KUAO 261553Z AUTO 00000KT 1/4SM FG VV002 06/06 A3004 RMK AO2 SLP173 T00560056 KSTF 261615Z AUTO 31006KT 10SM OVC027 06/00 A3012 RMK AO2 LLBG 261550Z 36006KT CAVOK 17/13 Q1020 NOSIG KTKI 261553Z 00000KT 10SM CLR 11/00 A3022 RMK AO2 SLP242 T01060000 $ KSTJ 261553Z 24010KT 10SM CLR 03/00 A2994 RMK AO2 SLP146 T00330000 KSUA 261547Z 27011G18KT 7SM SCT015 BKN060 17/13 A2994 KSTK 261610Z AUTO 20006KT 10SM CLR 08/01 A3020 RMK AO2 KW29 261558Z AUTO 05005KT 5SM -RA 00/00 A2981 RMK AO1 KSTL 261551Z 25006KT 10SM OVC021 00/M04 A3005 RMK AO2 SLP187 T00001044 KW31 261555Z AUTO 36003KT 5SM SCT004 BKN031 OVC048 06/05 A2968 RMK AO1 P0002 T00550047 KSUE 261615Z AUTO 18010KT 10SM SCT070 BKN075 OVC090 M05/M09 A2991 RMK AO1 KSTP 261553Z 10003KT 7SM OVC020 00/M02 A2970 RMK AO2 SLP066 T00001017 KTLH 261553Z 31016KT 10SM FEW033 13/03 A2994 RMK AO2 PK WND 28028/1534 SLP138 T01330028 $ VVNB 261600Z 12008KT 8000 SCT030 20/17 Q1015 NOSIG KSTS 261553Z 00000KT 6SM BCFG SCT001 BKN120 02/01 A3004 RMK AO2 SLP168 T00170011 KTMA 261555Z AUTO 29014G23KT 10SM OVC025 09/03 A2989 RMK AO2 KTMB 261616Z 29021G36KT 1 3/4SM +RA FEW029 BKN047 OVC075 19/16 A2997 RMK AO2 PK WND 30036/1612 RAB12 PRESRR P0007 T01940161 LKKU 261500Z VRB02KT 9999 BKN037 01/M06 Q1022 KSVC 261615Z AUTO 33004KT 10SM CLR 07/M06 A3036 RMK AO2 KTKV 261555Z AUTO 00000KT 7SM -SN OVC027 M09/M11 A2975 RMK AO2 T10921113 LKKV 261600Z 21004KT 6000 -SN FEW005 BKN010 BKN016 M01/M01 Q1017 R29/////// LKLN 261600Z AUTO 23007KT 9999 FEW033 OVC050 02/M01 Q1020 KSUN 261547Z 29010G18KT 10SM SKC 01/M03 A3036 KTME 261615Z AUTO RMK AO2 PWINO KW43 261615Z AUTO RMK AO2 TSNO PWINO KUCP 261556Z AUTO 36007KT 1/2SM -SN FZFG OVC001 M06/M07 A2978 RMK AO2 T10551072 OVC V BKN P0000 SLP114 KUDG 261615Z AUTO 34004KT 10SM CLR 12/05 A2964 RMK AO1 KSVH 261555Z AUTO 01004KT 10SM DZ BKN033 OVC046 05/03 A2966 RMK AO2 T00470034 KSUS 261554Z 26004KT 10SM OVC021 M01/M04 A3005 RMK AO2 SLP185 T10061039 LKNA 261600Z 18002KT 9999 FEW027 SCT041 M01/M03 Q1020 NOSIG RMK BLU BLU KSUT 261615Z AUTO 33008G14KT 10SM CLR 11/06 A2964 RMK AO2 T01070061 KTNB 261555Z AUTO 31013G21KT 10SM OVC013 02/00 A2964 RMK AO2 T00160002 KTMK 261555Z AUTO 26003KT 4SM BR CLR M03/M05 A2998 RMK AO2 KSUU 261558Z AUTO 03006KT 4SM BR CLR 04/04 A3005 RMK AO2 VIS 1/4 RWY03R SLP183 T00410036 $ KSVN 261558Z AUTO 29013G21KT 10SM SCT035 13/04 A2974 RMK AO2 PK WND 29029/47 SLP074 T01270044 KSUW 261555Z AUTO 21003KT 1 1/4SM -SN OVC010 M05/M05 A2968 RMK AO2 T10461052 KSWF 261545Z 05010KT 4SM -SN BR OVC025 M09/M13 A3004 KSUX 261552Z 32014KT 10SM CLR 06/02 A2987 RMK AO2 SLP123 T00610022 KUCY 261615Z AUTO 31012KT 10SM OVC023 00/M02 A3009 RMK VVPB 261600Z VRB02KT 3000 BR FEW017 SCT060 21/20 Q1016 NOSIG KTOA 261547Z 00000KT 20SM BKN200 20/04 A2999 FNSA 261600Z 00000KT 9999 SCT043 28/20 Q1016 KTOB 261614Z AUTO 23012KT 7SM OVC022 01/00 A2970 RMK AO2 LKMT 261600Z 23009KT 9999 BKN032 M00/M06 Q1021 R04/29//95 NOSIG KTOC 261555Z AUTO 29010G16KT 10SM BKN050 BKN060 OVC095 11/01 A2976 RMK AO2 T01080009 KW63 261615Z AUTO 07005KT 7SM BKN006 BKN040 OVC046 05/05 A2966 RMK AO1 KSWO 261553Z 24009KT 10SM CLR 09/M01 A3009 RMK AO2 SLP190 T00941006 KTOI 261553Z AUTO 31010KT 10SM OVC026 09/02 A2999 RMK AO2 SLP156 T00890022 KTPA 261553Z 30013G23KT 10SM FEW035 18/08 A2996 RMK AO2 SLP144 T01780083 KUES 261545Z 16006KT 10SM SCT065 M08/M11 A2992 LLET 261550Z 04018KT CAVOK 23/09 Q1019 KTOL 261552Z 34003KT 10SM CLR M08/M13 A2994 RMK AO2 SLP151 T10831133 KTNU 261555Z AUTO 22006KT 10SM FEW014 FEW120 01/M01 A2982 RMK AO2 LKPD 261600Z 22004KT 9999 OVC042 02/M02 Q1020 NOSIG RMK BLU BLU KSWW 261555Z AUTO 24010KT 10SM CLR 10/00 A3031 RMK AO2 T01020003 VVPQ 261230Z 09001KT 8000 NSC 23/19 Q1013 NOSIG KTPF 261615Z AUTO 33009G15KT 295V355 10SM BKN040 BKN046 18/10 A2996 RMK AO2 KSYF 261555Z AUTO 29011KT 10SM CLR 11/M02 A3015 RMK AO2 T01111021 FNSO 261600Z 19009KT 9999 SCT016 30/25 Q//// KTOP 261553Z 24009KT 10SM CLR 05/M01 A2996 RMK AO2 SLP150 T00501006 KW75 261615Z AUTO 06004KT 10SM OVC018 08/04 A2970 RMK AO1 T00790040 KTPH 261556Z AUTO 36006KT 10SM CLR 02/M07 A3027 RMK AO2 SLP241 T00221067 KSYI 261615Z AUTO 32012KT 10SM OVC016 01/M01 A3002 RMK KTOR 261553Z AUTO 18003KT 10SM CLR 06/M01 A3018 RMK AO2 SLP224 T00561011 LLHA 261550Z 33009KT 9999 FEW025 18/14 Q1020 KSXS 261556Z AUTO 31006G26KT 10SM BKN030 09/02 A3000 RMK AO2 SLP161 T00890022 KW78 261555Z AUTO 04004KT 7SM OVC006 05/04 A2967 RMK AO1 T00530044 KSXT 261556Z AUTO 18008KT 10SM CLR 13/M01 A3008 RMK AO2 SLP156 T01281006 FNUB 261600Z 09005KT 9999 BKN030 26/14 Q1021 KTPL 261615Z AUTO 23004KT 10SM CLR 13/01 A3026 RMK AO1 KW81 261555Z AUTO 00000KT 5SM OVC005 05/04 A2969 RMK AO1 P0001 T00470038 FNSU 261400Z 25007KT 9999 BKN080 28/21 Q1013 KSYM 261610Z AUTO 30009G16KT 8SM OVC010 M05/M07 A2990 RMK AO2 KSYN 261614Z AUTO 24007KT 10SM OVC019 03/00 A2970 RMK AO2 T00251001 KTQE 261554Z AUTO 32015G20KT 10SM CLR 07/02 A2986 RMK AO2 SLP116 T00720022 KUGN 261555Z 22004KT 10SM OVC070 M05/M09 A2994 RMK AO2 SLP153 T10501094 FNUE 261600Z 18010KT 5000 TSRA FEW033 BKN040 24/// Q1017 FNUG 261600Z 27010KT 9999 SCT020 29/20 Q1012 WMSA 261600Z 00000KT 3500 HZ FEW026 SCT140 BKN280 26/25 Q1012 KTQH 261555Z AUTO 00000KT 10SM CLR 04/00 A3013 RMK AO2 KSYR 261554Z 08008KT 10SM OVC050 M10/M16 A3002 RMK AO2 SLP171 T11001156 $ LKPR 261600Z 21009KT 9999 BKN025 01/M02 Q1019 NOSIG LLIB 261550Z 31009KT CAVOK 16/00 Q1020 KSZL 261558Z AUTO 22013KT 10SM CLR 03/00 A2999 RMK AO2 SLP165 T00321005 $ MBPV 261600Z 21006KT 9999 SCT012TCU 28/24 Q1015 GFLL 261600Z 28005KT 9999 SCT015 30/24 Q1009 KW96 261615Z AUTO 07004KT 10SM OVC080 08/03 A2969 RMK AO1 T00800033 KTRI 261553Z 25008KT 10SM SCT012 OVC019 04/03 A2973 RMK AO2 SLP060 T00440028 MDAB 261600Z 09005KT 9999 SCT020 28/24 Q1017 KSZT 261615Z AUTO 00000KT M1/4SM FG OVC002 01/01 A3012 RMK AO2 KTRK 261545Z 00000KT 10SM FEW001 SCT220 M06/M07 A3024 RMK NOSPECI KW99 261555Z AUTO 01004KT 2SM -SN OVC013 00/00 A2976 RMK AO2 T00020000 KTRL 261553Z AUTO 00000KT 10SM CLR 11/01 A3023 RMK AO2 SLP237 T01060011 KUIL 261553Z AUTO 06005KT 8SM CLR 06/06 A2985 RMK AO2 SLP111 T00610056 KTRM 261552Z AUTO 35006KT 10SM BKN110 14/02 A3005 RMK AO2 SLP177 T01440022 TSNO KVAD 261558Z AUTO 30016G19KT 10SM OVC030 11/04 A2989 RMK AO2 SLP124 T01060039 $ KUIN 261554Z AUTO 19010KT 8SM OVC024 M02/M04 A2993 RMK AO2 SLP145 T10171039 KVAF 261615Z AUTO 36010G16KT 10SM CLR 19/03 A3026 RMK A01 KTTA 261615Z AUTO 25004KT 4SM RA OVC003 06/06 A2965 RMK AO2 T00600060 LKTB 261600Z 13004KT 9999 BKN040 M01/M05 Q1022 NOSIG KTTD 261611Z 00000KT 1 3/4SM BR BKN003 04/03 A3003 RMK AO2 T00390028 KTTF 261616Z AUTO 04005KT 10SM CLR M07/M12 A2993 RMK AO2 KUKF 261555Z AUTO 00000KT 10SM SCT003 BKN055 BKN085 04/03 A2971 RMK AO2 P0001 KVBG 261555Z 09003KT 10SM SCT120 BKN180 OVC220 14/04 A3001 RMK AO2 SLP153 T01390039 $ KTSP 261555Z AUTO 13009KT 10SM FEW085 09/M02 A3014 RMK AO2 MDBH 261600Z 13008KT 9999 FEW023 29/22 Q1018 FOOG 261600Z ////KT 9999 SCT008 FEW020CB SCT040 29/26 Q1009 VVTS 261600Z 16005KT 140V200 9999 FEW020 24/20 Q1013 NOSIG KUKI 261556Z AUTO 00000KT 10SM CLR 04/02 A3007 RMK AO2 SLP180 T00390022 KVCB 261553Z AUTO 05003KT 2SM BR CLR 04/03 A3009 RMK AO2 SLP188 T00440033 FOOL 261434Z 23007KT 200V260 6000 -TSRA SCT010 FEW016CB BKN033 29/26 Q1009 TEMPO 4000 TSRA KTTN 261617Z 06020G26KT 1 3/4SM -SN OVC015 M03/M07 A2988 RMK AO2 PK WND 07026/1617 P0000 T10281067 FOON 261600Z /////KT 9999 FEWN020 32/22 Q1008 KVAY 261556Z AUTO 04008G17KT 1 1/4SM -SN BR BKN012 OVC017 M02/M04 A2988 RMK AO2 P0000 T10221044 KTTS 261558Z AUTO 28014G19KT 10SM CLR 17/08 A2986 RMK AO2 SLP115 T01710084 KVBS 261115Z AUTO 03022KT 10SM CLR A3010 RMK A01 KVBT 261615Z AUTO 21007KT 10SM CLR 05/M02 A3010 RMK AO1 KTUL 261553Z 20010KT 10SM CLR 07/01 A3011 RMK AO2 SLP198 T00670006 KTVC 261553Z 00000KT 10SM SCT090 BKN220 M11/M13 A2997 RMK AO2 SLP163 T11061133 KULM 261614Z AUTO 31015G23KT 10SM CLR 04/01 A2975 RMK AO2 KVBW 261555Z AUTO 02005KT 2SM OVC012 00/00 A2971 RMK AO2 P0002 T00030000 KVDF 261615Z AUTO 31012G20KT 10SM SCT042 18/08 A2996 RMK AO2 KTVF 261615Z AUTO 32018KT 10SM FEW015 BKN030 OVC037 02/00 A2970 RMK AO1 KTUP 261553Z 35008KT 10SM OVC023 05/M01 A3011 RMK AO2 SLP195 T00501006 RJAA 261600Z 02004KT 3000 -SHRA BR FEW002 BKN020 09/08 Q1014 BECMG FEW004 BKN008 KVDI 261615Z AUTO 30012G22KT 10SM OVC029 11/05 A2982 RMK AO2 LTG DSNT E KTVI 261555Z AUTO 28012G22KT 250V320 10SM BKN030 11/03 A2993 RMK AO2 KTUS 261553Z 11009KT 10SM BKN080 OVC095 17/M03 A3017 RMK AO2 SLP192 T01671033 $ KVCT 261551Z 02007KT 10SM CLR 16/04 A3029 RMK AO2 SLP255 T01610044 KTVK 261550Z AUTO 21013G17KT 10SM CLR 00/00 A2987 RMK AO2 KTVL 261553Z AUTO 19003KT 10SM CLR M03/M06 A3023 RMK AO2 SLP240 T10331061 KVCV 261555Z AUTO 00000KT 10SM BKN100 09/00 A3012 RMK AO2 RJAF 260700Z 17014KT 9999 VCSH SCT050 BKN090 06/M02 Q1017 LKVO 261200Z 25008KT 9999 SCT023 BKN035 03/M01 Q1022 KTWF 261553Z 09012KT 1/4SM FZFG VV002 M01/M02 A3033 RMK AO2 SLP276 I1002 T10061022 MDCY 261600Z 15005KT 9999 FEW022 29/23 Q1015 RJAH 261600Z 36004KT 3000 -SHRA BR SCT010 OVC025 07/06 Q1014 KTVR 261611Z AUTO 32006G15KT 10SM BKN029 09/01 A3019 RMK AO2 T00890011 KUNI 261550Z AUTO 31007KT 3SM -SN OVC014 M04/M06 A2979 RMK AO2 T10361059 RJAK 260443Z 21006KT 9999 FEW020 SCT025 12/05 Q1020 RMK 1CU020 4CU025 A3012 RJBB 261600Z 01004KT 350V080 9999 VCSH FEW005 BKN025 FEW025CB BKN060 10/09 Q1013 BECMG 30010KT RJBD 261000Z 16007KT 130V190 9999 -SHRA FEW003 SCT015 BKN025 13/12 Q1015 KVEL 261553Z AUTO 32004KT 10SM CLR M02/M06 A3048 RMK AO2 SLP352 T10221056 RJBE 261200Z 06013KT 2500 R09/1300VP1800D +SHRA BR FEW006 SCT015 BKN030 09/08 Q1014 SABE 261600Z 05006KT 9999 FEW030 BKN200 29/24 Q1009 KTWM 261614Z AUTO 00000KT 7SM SCT013 OVC018 M04/M07 A2964 RMK AO2 P0001 KUNO 261613Z AUTO 27009KT 10SM SCT018 03/M03 A3008 RMK AO2 T00281028 SAAR 261600Z 36012KT 9999 FEW032 SCT200 33/22 Q1008 RJCA 260442Z VRB02KT 9999 FEW020 BKN035 02/M05 Q1021 RMK 2CU020 5CU035 A3015 KVER 261555Z AUTO 21007KT 10SM SCT120 02/M01 A3000 RMK AO2 T00231010 RJAT 252342Z 25001KT 9999 FEW020 SCT150 04/M01 Q1024 RMK 1CU020 4AC150 A3026 RJCB 261100Z 28003KT 9999 FEW005 SCT160 M10/M11 Q1021 RJCC 261600Z 13011KT 9999 -SHRA FEW008 BKN015 03/01 Q1013 EYKA 261550Z 20003KT 170V240 3000 BR OVC002 M01/M02 Q1019 R08/290095 KTXK 261553Z 33007KT 10SM CLR 08/01 A3020 RMK AO2 SLP224 T00830006 KUNU 261555Z AUTO 16009KT 10SM OVC050 M06/M09 A2989 RMK AO2 T10611093 RJAW 261500Z 12013KT 9999 SCT020 19/14 Q1018 RMK 3CU020 A3009 KUNV 261553Z 05007KT 2SM -SN OVC015 M09/M10 A2981 RJCH 261100Z 13013KT 9999 FEW025 SCT040 06/01 Q1018 RJBT 260900Z 20008KT 6000 -RA BCFG FEW000 BKN060 OVC080 09/08 Q1014 RJCK 261100Z 33003KT 0300 R17/0750N FZFG VV001 M01/M02 Q1022 RJDC 261200Z 32004KT 250V010 8000 -SHRA FEW010 SCT020 BKN030 11/10 Q1016 RJCM 261100Z 22007KT 9999 FEW020 SCT/// M01/M03 Q1021 RJCN 260900Z 21005KT 9999 -SHSN BKN005 00/00 Q1023 RJCO 260111Z 15015KT 9999 FEW030 SCT080 02/M02 Q1025 RMK 1CU030 4AC080 A3027 SADF 261600Z 34007KT 9999 SCT030 BKN200 32/21 Q1009 SACO 261600Z 05009KT 9999 FEW030 32/23 Q1010 KUOX 261555Z AUTO 31010KT 10SM OVC021 03/M02 A3015 RMK AO2 PWINO PNO KTYQ 261615Z AUTO 32005KT 10SM CLR M04/M10 A2995 RMK AO2 T10451096 FQCH 261500Z /////KT 9999 BKN015 31/19 Q1016 KTYR 261553Z 01004KT 10SM CLR 10/01 A3022 RMK AO2 SLP233 T01000006 FQBR 261600Z 05016KT 9999 SCT020 BKN/// 30/26 Q1009 RJCT 260733Z 21001KT 9999 SCT013 BKN015 M04/M08 Q1023 RMK 3ST013 5SC015 A3021 W/E RJEB 260700Z VRB02KT 9999 FEW040 BKN/// 02/M05 Q1020 KTYS 261553Z 29010KT 10SM OVC023 03/M01 A2985 RMK AO2 SLP108 T00281011 RJEC 261100Z 13008KT 9999 FEW030 SCT/// M03/M07 Q1017 KVGT 261553Z 30004KT 10SM CLR 10/M01 A3018 RMK AO2 SLP235 T01001006 RJDM 260042Z 29002KT 9000 FEW015 BKN030 BKN040 11/10 Q1018 RMK 1ST015 5CU030 7SC040 A3008 RJCW 260900Z 15007KT 9999 FEW010 SCT018 BKN045 01/M01 Q1018 KVIH 261613Z AUTO 23009KT 10SM SCT014 02/M02 A3001 RMK AO2 T00171017 KTZR 261550Z 32013G17KT 7SM SCT006 BKN011 M07/M10 A2986 RJDT 261100Z 29006KT 9999 FEW010 SCT025 BKN045 11/09 Q1017 MDJB 261600Z 00000KT 9999 SCT022 28/21 Q1017 NOSIG RJFE 260521Z 30006KT 280V340 8000 FEW010 SCT015 BKN050 13/12 Q1016 RMK 1CU010 3CU015 5SC050 A3001 LLSD 261550Z 35011KT CAVOK 18/14 Q1019 RMK FEW150 RJFF 261600Z 31005KT 8000 -SHRA FEW010 BKN015 BKN025 11/10 Q1017 KUSE 261615Z AUTO 03007KT 10SM CLR M09/M13 A2994 RMK AO2 RJFG 260900Z 31017KT 6000 FEW016 SCT020 14/13 Q1016 KVJI 261615Z AUTO 29004KT 10SM DZ BKN008 OVC013 04/03 A2970 RMK AO2 T00400030 RJFK 261200Z 32008KT 9000 FEW015 10/08 Q1017 KUTA 261615Z AUTO 32007KT 10SM OVC021 04/00 A3016 RMK AO2 KVIS 261615Z AUTO 00000KT 1 3/4SM CLR 03/01 A3005 RMK AO1 KY19 261555Z AUTO 31013G17KT 10SM CLR 05/00 A2995 RMK AO2 RJFM 261200Z 26013KT 9999 FEW030 13/09 Q1015 KWAL 261606Z 04010KT 10SM SCT013 BKN020 08/06 A2968 RMK AO2 T00830056 RJFO 261200Z 28010KT 250V320 9999 FEW005 SCT050 13/10 Q1016 KY23 261555Z AUTO 13005KT 1 3/4SM BR OVC005 M06/M07 A2971 RMK AO2 T10601066 RJGG 261600Z 01009KT 2500 -SHRA BR FEW002 SCT004 BKN030 08/08 Q1012 TEMPO 1500 SHRA BR FEW002 BKN004 BKN015 SAEZ 261600Z 32010KT 290V360 CAVOK 34/20 Q1009 RJFR 261600Z 30006KT 9999 FEW015 SCT020 BKN030 10/09 Q1017 RJFS 261600Z 34005KT 4500 BR FEW025 SCT030 BKN040 09/08 Q1017 RJFT 261200Z 31003KT 260V030 5000 BR FEW025 BKN030 10/10 Q1017 RJFU 261200Z 32004KT 9999 FEW015 BKN020 BKN035 11/10 Q1018 EYPA 261550Z 19008KT 9999 OVC022 01/M02 Q1017 R19/0///95 KVLD 261553Z 30009G18KT 260V350 10SM BKN030 11/04 A2990 RMK AO2 SLP133 T01110039 RJFY 260508Z 24011KT 9000 FEW002 SCT008 BKN030 16/15 Q1015 RMK 1ST002 4ST008 7CU030 A2999 KUTS 261553Z AUTO 33005KT 10SM CLR 12/00 A3025 RMK AO2 SLP243 T01220000 KUVA 261615Z AUTO 00000KT 10SM CLR 12/03 A3032 RMK AO2 T01220032 KVKS 261615Z AUTO 32011KT 10SM OVC028 08/01 A3019 RMK A01 KVLL 261617Z AUTO 05009KT 10SM CLR M06/M13 A2996 RMK AO2 GGOV 261600Z 07009KT 8000 NSC 35/10 Q1009 NOSIG KVKY 261615Z AUTO 35021G26KT 10SM FEW032 11/04 A3011 RMK A01 KWDG 261550Z 26010KT 10SM SKC 09/00 A3009 SBAA 261600Z 18004KT 9999 SCT025 BKN100 32/23 Q1014 MDLR 261600Z 13008KT 9999 FEW023 28/22 Q1016 KY50 261556Z AUTO 17005KT 1SM -SN BR SCT010 OVC020 M07/M09 A2987 RMK AO2 TSNO T10721088 P0000 SLP126 KY49 261555Z AUTO 29007KT 10SM OVC010 01/00 A2964 RMK AO2 T00051002 LMML 261545Z 34006KT 9999 SCT020 SCT027CB 10/07 Q1012 NOSIG KUUU 261616Z AUTO 02010KT 3SM -SN BKN026 OVC035 M07/M09 A3005 RMK AO2 P0000 T10671094 KVNC 261555Z AUTO 30014G21KT 10SM CLR 20/11 A2997 RMK AO2 TSNO KY51 261555Z AUTO 17011KT 10SM OVC011 M06/M07 A2977 RMK AO1 T10621072 SBAF 261600Z 20010KT 9999 SCT020 FEW025TCU SCT080 35/22 Q1012 RJKA 261000Z 30010KT 260V330 6000 -SHRA FEW008 SCT015 BKN025 17/14 Q1018 KWDR 261555Z AUTO 30013G21KT 10SM BKN019 OVC027 08/05 A2983 RMK AO1 LTG DSNT SE KVOA 261615Z AUTO 32023G28KT 10SM SCT032 12/04 A3008 RMK A01 EYSA 261550Z 18004KT 9999 OVC030 M01/M01 Q1018 R14L/2///95 R14R/2///95 SBAN 261600Z 32004KT 9999 BKN030 26/17 Q1020 SBBE 261600Z 10004KT 9999 SCT016 BKN100 28/24 Q1013 KY63 261617Z AUTO 30014G17KT 10SM CLR 02/00 A2975 RMK AO2 T00151001 SBBG 261600Z 13007KT 9999 BKN040 33/22 Q1011 FQIN 261400Z 06010KT 9999 SCT020 31/24 Q1012 SBAQ 261600Z 32005KT 9999 SCT040 31/21 Q1017 SBBH 261600Z 02004KT 9999 SCT043 FEW048TCU 30/15 Q1017 SBBI 261600Z 33006KT 9999 BKN040 29/17 Q1018 SBAR 261600Z 13013KT 9999 FEW017 SCT100 29/21 Q1014 SBCA 261600Z 02010KT 9999 FEW030 28/20 Q1016 SBAT 261600Z 10007KT 9999 VCSH BKN022 FEW030TCU SCT100 30/22 Q1014 SBCB 261600Z 10011KT 9999 FEW025 36/26 Q1012 SBCC 261600Z 07006KT 9999 SCT020 SCT100 27/20 Q1015 SBAU 261200Z 01008KT 9999 FEW040 26/18 Q1016 KY70 261614Z AUTO 09005KT 10SM CLR M08/M11 A2996 RMK AO2 T10811115 KVOK 261558Z 16011KT 3SM -SN BR BKN014 OVC024 M06/M06 A2980 RMK AO2A CIG 014V019 SLP110 MDPC 261600Z 14008KT 9999 FEW025 28/21 Q1016 KVPC 261553Z AUTO 00000KT 10SM OVC020 06/01 A2989 RMK AO2 SLP119 T00560011 KUXL 261555Z AUTO 35008KT 10SM CLR 13/02 A3023 RMK AO2 T01270016 SBAX 261600Z 03002KT 9999 BKN020 30/18 Q1019 SBCF 261600Z 34007KT 9999 SCT035 29/15 Q1018 KUYF 261615Z AUTO 34014G20KT 10SM BKN011 M07/M10 A2986 RMK AO2 SBCG 261600Z 35006KT 260V030 9999 BKN033 FEW040TCU 29/21 Q1014 SBBQ 261600Z 36004KT 9999 BKN035 FEW040TCU 26/16 Q1020 SBCH 261600Z 31006KT 9999 FEW018 29/19 Q1015 KVNY 261551Z 00000KT 10SM BKN110 16/04 A3001 RMK AO2 SLP156 T01560044 SBCI 261600Z 28003KT 9999 SCT020 SCT100 32/23 Q1014 SBBR 261600Z 01008KT 9999 BKN030 FEW036TCU SCT080 24/16 Q1019 SBCJ 261600Z 14004KT 9999 SCT019 BKN100 25/20 Q1017 KUZA 261554Z AUTO 33006KT 10SM OVC060 09/02 A2966 RMK AO2 SLP045 T00890022 SBBU 261600Z 32011KT 9999 SCT030 30/23 Q1016 SBCM 261600Z 14006KT 9999 SCT030 32/22 Q1011 FPST 261600Z 04006KT 9999 FEW017CB BKN250 30/25 Q1010 NOSIG SBBV 261600Z 05016KT 9999 SCT040 BKN100 29/18 Q1013 FQLC 260600Z 04006KT 9999 FEW004 BKN090 19/18 Q1022 SBBW 261600Z 08006KT 9999 SCT015 SCT020 BKN090 25/23 Q1016 SAME 261600Z 14007KT 9999 VCTS SCT050TCU SCT056CB BKN080 29/20 Q1008 SBCO 261600Z 35006KT 9999 SCT040 FEW045TCU 33/21 Q1011 SBCP 261600Z 09014KT 9999 FEW030 34/21 Q1012 MDPP 261600Z 09010KT 9999 FEW022 29/21 Q1015 SBCR 261600Z 03003KT 9999 BKN020 BKN100 30/24 Q1011 KVPS 261555Z 35012KT 10SM FEW035 FEW250 12/02 A3001 RMK AO2A SLP169 T01200019 $ SBCT 261600Z 02005KT 9999 BKN040 28/14 Q1018 FQMA 261600Z 06016KT 9999 SCT025 29/21 Q1010 NOSIG KVRB 261553Z 28022KT 10SM FEW022 SCT030 BKN038 18/12 A2991 RMK AO2 PK WND 29026/1553 SLP127 T01830117 SBDN 261600Z 31006KT 9999 BKN040 31/18 Q1013 SBCX 261400Z 36010KT 9999 SCT030 26/21 Q1017 RJNG 261430Z 04003KT 5000 SHRA BR FEW008 SCT015 BKN025 07/07 Q1014 RMK 1CU008 4CU015 7CU025 A2996 SBEG 261600Z 03009KT 9999 SCT020 28/22 Q1013 SBCY 261600Z 36006KT 9999 BKN020 FEW025TCU 30/22 Q1012 SBCZ 261600Z 36005KT 9999 BKN020 BKN100 28/26 Q1013 KWHP 261547Z 33006KT 10SM SCT090 OVC110 19/M01 A3005 KVQQ 261550Z 28015G26KT 10SM BKN030 13/05 A2986 KVPZ 261556Z AUTO 20004KT 10SM CLR M08/M12 A2997 RMK AO2 SLP161 T10831117 TSNO RJOA 261200Z 30003KT 260V050 3000 BCFG BR FEW000 SCT003 BKN009 07/07 Q1014 SBEK 261600Z 13005KT 9999 FEW018 32/25 Q1012 RJNK 261600Z 12004KT 9999 -SHRA FEW020 SCT030 BKN050 09/07 Q1012 RJOB 261215Z 31005KT 270V330 1200 R07/1200VP1800N -SHRA BCFG BR FEW000 BKN003 BKN005 07/07 Q1014 RMK 1ST000 5ST003 6ST005 A2996 FG BANK ALL QUAD EYVI 261550Z 25003KT 210V270 2900 BR SCT010 OVC033 M02/M02 Q1018 R20/5/0295 NOSIG SAOC 261600Z 14028G38KT 9999 FEW025 FEW040CB 27/17 Q1008 RJOC 261116Z 04002KT 4000 BR FEW002 BKN015 09/08 Q1014 RMK 1ST002 7CU015 A2995 KVQT 261615Z AUTO 35014G21KT 10SM CLR 14/05 A3022 RMK A01 RJOE 260512Z VRB01KT 8000 -RA FEW010 SCT030 BKN045 08/03 Q1020 RMK 1ST010 3CU030 5SC045 A3013 MDSD 261600Z 12008KT 9999 SCT022 29/22 Q1016 NOSIG RJOF 260736Z VRB02KT 3500 -SHRA BR FEW003 BKN008 BKN018 11/11 Q1014 RMK 1ST003 6ST008 7CU018 A2995 VIS W-N 4500M KVSF 261554Z AUTO 11004KT 10SM OVC090 M12/M19 A3015 RMK AO2 SLP222 T11221194 TSNO KWJF 261556Z 00000KT 10SM OVC100 06/01 A3013 RMK AO2 SLP209 T00560011 RJOH 261600Z VRB02KT 2500 -SHRA BR FEW008 BKN015 BKN030 09/08 Q1013 KVSH 261615Z AUTO 01007G16KT 320V030 10SM CLR 11/01 A3016 RMK AO1 RJOI 261555Z 30004KT 8000 BR FEW010 BKN045 09/08 A2999 RMK SLP154 T00890078 SBFI 261600Z 33007KT 9999 FEW030 31/21 Q1012 SBES 261600Z 17009KT 140V210 9999 FEW025TCU SCT070 35/17 Q1012 RJNS 261100Z 33004KT 300V360 9999 -RA FEW015 SCT020 BKN035 10/08 Q1017 SANT 261600Z 14008KT 9999 FEW040TCU SCT200 33/24 Q1006 RJOK 261100Z 02009KT 8000 -SHRA FEW007 SCT020CB BKN050 12/11 Q1013 RJNT 261209Z 15010KT 100V190 8000 -RA FEW040 BKN050 OVC080 08/04 Q1015 RMK 1SC040 6SC050 8AS080 A2999 KVTA 261554Z AUTO 36008KT 10SM SCT014 BKN120 M04/M08 A2981 RMK AO2 SNE03 SLP103 P0000 T10441078 SBFL 261600Z 12007KT 9999 FEW032 33/22 Q1011 RJOM 261200Z 14004KT 8000 FEW007 SCT012 BKN025 09/09 Q1015 SBFN 261600Z 16012KT 9999 SCT019 29/22 Q1013 RJNW 261000Z 14004KT 110V210 9999 FEW030 SCT040 BKN050 08/05 Q1015 LOAN 261500Z 30003KT 40KM FEW040CU RMK FEW RJOO 261122Z 06006KT 020V090 4500 SHRA BR FEW008 SCT015 BKN030 09/08 Q1015 RMK 1ST008 4CU015 6CU030 A2998 RJNY 261514Z 35003KT 320V050 5000 SHRA BR FEW007 BKN030 BKN045 10/09 Q1014 RMK 1ST007 7SC030 7SC045 A2994 RJOP 261341Z 32019KT 8000 -SHRA FEW015 BKN030 BKN045 10/09 Q1012 RMK 1CU015 5CU030 7SC045 A2990 FQNP 261500Z 28005KT 9999 TS BKN020 FEW025CB BKN090 27/21 Q1013 RMK CB TO V/D RJOR 261200Z 18003KT 9999 -SHRA FEW015 SCT040 BKN070 09/08 Q1014 RJOS 261513Z 36012KT 5000 BR FEW008 BKN030 OVC050 10/08 Q1013 RMK 1ST008 5CU030 8SC050 A2993 SBFS 261600Z 05020KT 9999 FEW020 ///// Q1013 KVTI 261615Z AUTO 17012G18KT 10SM BKN009 BKN020 BKN038 M01/M03 A2981 RMK AO2 T10101031 RJOT 261247Z 23004KT 190V250 5000 -SHRA BR FEW000 SCT005 BKN015 08/07 Q1014 RMK 1ST000 3ST005 5CU015 A2996 VYMD 261130Z 00000KT 7000 NSC 25/15 Q1013NOSIG MDST 261600Z 13010KT 9999 FEW023 28/20 Q1015 SBGL 261600Z 11013KT 9999 FEW025 FEW030TCU 33/20 Q1011 SBGM 261600Z 34008KT 9999 BKN016 27/24 Q1013 FQPB 261500Z 09010KT 9999 SCT020 FEW025CB BKN/// 28/24 Q1009 RMK CB TO NW/W LOAV 261500Z 30007KT 35KM FEW030CU 02/M04 Q1023 RMK FEW RJOW 261000Z 29012KT 9000 FEW005 SCT009 BKN020 12/11 Q1015 KWLD 261554Z AUTO 24010KT 10SM CLR 06/M01 A3006 RMK AO2 SLP187 T00561011 KVTN 261552Z AUTO 29009KT 10SM CLR 07/01 A3002 RMK AO2 SLP181 T00720006 SBGO 261600Z 33010KT 9999 SCT033 28/16 Q1017 RJOY 261000Z 36003KT 4000 -RA BR FEW015 SCT025 BKN050 09/08 Q1016 RJOZ 261308Z 34009KT 9999 FEW010 SCT015 BKN030 11/09 Q1016 RMK 1CU010 4CU015 7CU030 A3003 SBFZ 261600Z 11016KT 9999 FEW030 31/17 Q1012 KXBP 261615Z AUTO 25005KT 10SM CLR 11/03 A3024 RMK AO2 T01140031 SBGR 261600Z 29007KT 9999 BKN025 BKN080 28/20 Q1017 KVUJ 261555Z AUTO 00000KT 10SM BKN050 OVC060 07/06 A2969 RMK AO2 LTG DSNT E T00700055 SBIC 261600Z 08006KT 9999 SCT018 BKN090 29/24 Q1013 SBGU 261600Z 35006KT 9999 BKN020 FEW030TCU 26/18 Q1018 SARC 261600Z 02010KT 9999 FEW027 SCT200 33/22 Q1009 KWMC 261556Z AUTO 15005KT 10SM CLR M02/M04 A3024 RMK AO2 SLP254 T10171039 $ SBGW 261600Z 09003KT 9999 SCT025 FEW030TCU 31/17 Q1015 SARE 261500Z 36008KT 9999 FEW030 SCT200 33/21 Q1009 SARF 261600Z 36008KT CAVOK 32/22 Q1010 KVUO 261617Z AUTO 05004KT 1SM BR OVC002 04/04 A3004 RMK AO2 T00440039 SBIH 261600Z 09007KT 9999 SCT015 SCT100 29/24 Q1012 KVVG 261555Z AUTO 27016KT 8SM 16/06 A2981 RMK A01 SARI 261600Z 05006KT 9999 FEW030 30/22 Q1014 RJSA 261200Z 08004KT 9999 FEW030 BKN080 01/M01 Q1016 SBHT 261600Z 11003KT 9999 SCT023 BKN100 31/23 Q1013 RKJB 261600Z 34012KT 3500 BR BKN015 04/02 Q1023 NOSIG SBIL 261600Z 06008KT 9999 SCT025 FEW030TCU SCT100 28/23 Q1015 RJSC 261000Z 10003KT 9999 FEW020 SCT070 BKN100 02/M00 Q1019 SARL 261600Z 05006KT 9999 BKN025TCU SCT200 34/23 Q1009 FQQL 261500Z 11010KT 9999 SCT020 FEW025CB 29/25 Q1011 RMK CB TO NW SBJF 261600Z 12002KT 9999 TS VCSH SCT020CB BKN022 26/19 Q1018 RJSF 261000Z 01004KT 8000 FEW020 SCT030 BKN/// 03/02 Q1019 SBIP 261600Z 05008KT 9999 SCT035 32/16 Q1013 SARP 261600Z 32006KT 9999 VCRA SCT020TCU 32/22 Q1011 RJSI 261000Z 36001KT 5000 BR FEW005 SCT010 BKN015 02/M00 Q1020 SASJ 261600Z 07006KT 9999 FEW035 30/20 Q1010 SCBA 261600Z 30022KT 260V340 9999 SCT020 18/06 Q1005 RJSK 261200Z 13007KT 9999 FEW030 BKN050 03/M01 Q1016 RKJK 261558Z AUTO 32013KT 8SM FEW017 03/00 A3022 RMK AO2 SLP238 T00330004 $ RJTE 261550Z 04003KT 340V100 4900 -SHRA BR FEW008 SCT012 BKN020 12/12 Q1013 RMK 2ST008 3CU012 6CU020 A2994 RJSN 261200Z 17003KT 9999 BKN060 07/03 Q1015 KVVV 261614Z AUTO 31012G19KT 10SM CLR 04/00 A2979 RMK AO2 RJTF 260700Z 20004KT 150V230 9999 FEW030 SCT120 BKN/// 13/04 Q1018 SCAP 261400Z VRB03KT 9999 OVC040 18/11 Q1015 SBKG 261600Z 10008KT 9999 SCT040 31/16 Q1015 SBJP 261600Z 14011KT 090V170 9999 SCT035 31/19 Q1013 SBIZ 261600Z 12008KT 9999 SCT020 31/24 Q1012 SBJR 261600Z 20005KT 9999 FEW025 33/26 Q1012 RJTI 260700Z 18006KT 9999 FEW040 BKN/// 11/06 Q1019 RJSR 261000Z 05003KT 9999 FEW010 BKN040 01/01 Q1018 SCAR 261600Z 22010KT CAVOK 25/14 Q1010 SCAS 261400Z 24016KT 9999 SCT020 BKN033 15/11 Q1008 RESHRA RJSS 261200Z VRB02KT 8000 FEW007 BKN010 BKN020 05/05 Q1018 RJTK 260113Z 36003KT 9999 SCT020 SCT100 09/04 Q1024 RMK 3CU020 4AC100 A3026 SBLB 261600Z 01015KT CAVOK 28/24 Q1015 W///S5 SCAT 261600Z VRB04KT CAVOK 23/13 Q1013 RJSU 260310Z 36004KT 4500 -RADZ BR FEW005 BKN012 BKN025 05/02 Q1023 RMK 1ST005 5SC012 6SC025 A3021 RJTL 261545Z 36004KT 300V060 4500 -SHRA BR FEW006 BKN008 BKN020 08/07 Q1014 RMK 2ST006 5ST008 7CU020 A2997 SBJU 261600Z 14004KT 9999 SCT020 34/17 Q1016 SBJV 261600Z 13005KT CAVOK 32/23 Q1011 KVWU 261613Z AUTO 28006KT 10SM OVC014 01/00 A2963 RMK AO2 SBLE 261600Z 30005KT 9999 BKN040 31/21 Q1017 RJTO 260700Z 22010KT 9999 FEW020 SCT035 BKN/// 13/08 Q1019 SCCF 261600Z 26020KT CAVOK 23/00 Q1022 RKJY 252327Z 12002KT 1200 R35/P2000N BR BKN010 07/06 Q1017 NOSIG RJSY 261200Z 10010KT 9999 FEW020 BKN070 05/01 Q1016 SBKP 261600Z 28007KT 150V320 9999 SCT033 27/18 Q1017 SCCH 261400Z 23003KT CAVOK 22/14 Q1013 RJTR 252230Z 32003KT 7SM BKN012 OVC040 06/00 A3027 RMK FIRST SCCI 261600Z 34007KT 9999 BKN025 BKN100 15/08 Q0998 NOSIG SBMA 261600Z 20002KT 9999 BKN023 BKN070 28/24 Q1013 SCDA 261600Z 20012KT CAVOK 24/14 Q1011 RJTT 261609Z 35009KT 4500 -SHRA BR FEW010 BKN025 09/07 Q1014 RMK 1ST010 7CU025 A2996 RJTU 260015Z 04004KT 9999 FEW020 BKN030 BKN150 07/02 Q1025 RMK 2SC020 5SC030 5AC150 A3028 SAVC 261600Z 29013KT 250V320 9999 SCT045 SCT200 28/11 Q1002 SBMD 261600Z 12005KT 9999 BKN017 BKN100 ///// Q1015 SBME 261600Z 12010KT 9999 SCT025 FEW030TCU 30/22 Q1012 SBLO 261600Z 05006KT 9999 SCT030 FEW040TCU 30/22 Q1015 SBLP 261615Z 33003KT 9999 SCT030 32/20 Q1015 SBMG 261600Z 08002KT 9999 VCSH SCT030 FEW040TCU 26/19 Q1014 RJTY 261558Z AUTO 35002KT 4SM R18/4000FT -RA BR OVC037 07/07 A3002 RMK AO2 SLP172 P0003 T00720068 SBLS 261600Z 34004KT 9999 SCT035 30/16 Q1018 SBMK 261600Z VRB05KT 9999 VCSH FEW035 FEW040TCU 32/14 Q1016 KVYS 261555Z AUTO 20004KT 10SM SCT038 BKN044 OVC050 M06/M08 A2997 RMK AO2 T10581084 SBML 261200Z 04008KT 9999 SCT010 SCT040 BKN100 24/18 Q1017 KWRB 261558Z AUTO 28013G20KT 10SM BKN027 OVC033 10/04 A2986 RMK AO2 SLP115 T00950040 FQTT 261000Z 23005KT 9999 FEW020 SCT100 32/24 Q1013 SAWE 261600Z 34013KT 8000BR BKN018 12/09 Q1001 SBMN 261600Z 08012KT 9999 BKN015 26/22 Q1013 SBNF 261600Z 07008KT CAVOK 32/26 Q1011 SBMO 261600Z 13007KT 9999 SCT020 31/16 Q1014 SCCY 261400Z 12005KT 9999 BKN030 18/13 Q1006 RESHRA SAWG 261600Z 05008KT 9999 FEW035 SCT100 19/08 Q0998 SBMQ 261600Z 06007KT 9999 SCT020 BKN090 31/22 Q1013 SAWH 261600Z 02012KT 9999 BKN040 BKN080 12/04 Q0998 LOIH 261300Z 00000KT 35KM BKN080AC 03/M03 Q1026 RMK BKN KXIH 261615Z AUTO 32005KT 10SM CLR 13/02 A3026 RMK A01 SBMS 261600Z 11008KT 9999 FEW030 36/16 Q1011 KWRI 261618Z AUTO 03017G23KT 3SM -SN BR BKN010 OVC015 M02/M03 A2984 RMK AO2 $ SCFA 261600Z 21009KT 9999 FEW023 23/14 Q1011 NOSIG SBMT 261600Z 30006KT 9999 SCT030 BKN100 28/17 Q1016 SCEL 261600Z 18005KT CAVOK 29/10 Q1012 NOSIG KWRL 261553Z AUTO 18006KT 10SM CLR M07/M09 A3024 RMK AO2 SLP295 T10721089 FQVL 261600Z 07010KT 020V110 9999 FEW020 26/22 Q1011 SBMY 261600Z 12008KT 9999 SCT018 BKN100 30/23 Q1013 SBOI 261600Z 11003KT 6000 2000NE -RA VCSH SCT018 FEW020TCU SCT0 70 27/24 Q1013 SBPA 261600Z 10003KT 9999 SCT035 FEW045TCU 33/22 Q1010 SBPB 261600Z 06014KT 9999 FEW020 34/23 Q1012 SBNT 261600Z 10015KT 9999 SCT020 31/21 Q1013 SBPC 261600Z 21010KT 9999 TS BKN018 FEW025CB 23/20 Q1020 RKPC 261600Z 33006KT 7000 FEW015 BKN025 OVC100 07/02 Q1022 NOSIG SCGE 261400Z 20006KT CAVOK 22/15 Q1014 SBPF 261600Z 05004KT 9999 BKN040 24/16 Q1015 RKNY 261600Z AUTO 27013KT 3000 NCD 05/M01 Q1015 LPAR 261600Z 36007KT CAVOK 17/06 Q1028 SBPJ 261600Z 27005KT 9999 SCT025 BKN100 28/21 Q1014 SAZB 261539Z 07007KT 6000 RA FEW005 BKN010 20/19 Q1009 LPBJ 261600Z 30009KT CAVOK 16/04 Q1027 RKPK 261500Z 34002KT 9999 FEW030 07/05 A3008 SCFT 261300Z VRB02KT 9999 VCSH SCT016 BKN040 16/11 Q1010 SBPK 261600Z 10008KT 9999 BKN035 31/25 Q1011 MGCB 261600Z 05004KT 9999 OVC012 14/12 QFE 875.2 PCPN T.D. KWST 261616Z AUTO 02009G17KT 5SM -SN SCT032 OVC042 M06/M09 A3005 RMK AO2 P0000 T10611089 SBPL 261600Z 07004KT 9999 FEW040 32/18 Q1015 SBPN 261600Z 16007KT 9999 SCT025 29/23 Q1013 SBPP 261600Z 00000KT 9999 TS BKN020 FEW025CB BKN070 25/22 Q1015 RERA SBPR 261600Z 27003KT 9999 BKN030 27/19 Q1018 LPAZ 261600Z 13011KT 9999 SCT028 16/11 Q1036 SBPS 261600Z 09015KT 9999 VCSH SCT030 FEW040TCU 30/23 Q1015 SBRB 261600Z 03009KT 9999 SCT013 BKN100 27/24 Q1012 SCIC 261400Z 19006KT CAVOK 22/14 Q1012 SAZM 261600Z 05007KT 9999 BKN025 BKN100 24/20 Q1010 SBPV 261600Z 09006KT 9999 BKN020 BKN100 28/22 Q1012 KXLL 261555Z AUTO 03009KT 10SM BKN012 OVC024 M06/M08 A2992 RMK AO2 SAZN 261600Z 23007KT CAVOK 31/12 Q1007 SCIE 261600Z 23014KT CAVOK 22/13 Q1013 SBRF 261600Z 14010KT 9999 FEW025 30/21 Q1013 MGCP 251900Z 22006KT 9999 FEW018 31/24 QFE 1007.1 SBRJ 261600Z 16012KT 9999 FEW025 FEW030TCU SCT090 34/22 Q1012 SAZS 261600Z 29020KT 9999 FEW045 FEW200 22/07 Q1011 KWVI 261553Z AUTO 00000KT 10SM CLR 11/04 A3001 RMK AO2 SLP160 T01060039 $ KXNA 261553Z 20006KT 10SM CLR 04/M01 A3010 RMK AO2 SLP196 T00441006 SBSC 261600Z 18010KT 9999 FEW030 FEW040TCU 32/21 Q1012 FSIA 261600Z 34014KT 9999 BKN016 BKN080 27/23 Q1013 NOSIG SBQV 261600Z 02003KT 9999 BKN018 28/19 Q1019 KWVL 261615Z 00000KT 10SM CLR M13/M21 A3018 RMK AO1 KWWD 261615Z AUTO 05017G25KT 10SM OVC011 A2972 RMK AO1 RKSG 261558Z AUTO 31007KT 7SM R32/5500FT CLR 02/M02 A3020 RMK AO2 SLP231 T00151019 $ SCIP 261600Z 34009KT 300V010 9999 SCT020 25/20 Q1019 NOSIG SBRP 261600Z 29006KT 9999 SCT033 29/19 Q1015 SCIR 261400Z 19009KT 9999 BKN010 OVC015 19/17 Q1019 RKSI 261600Z 33013KT 8000 SCT030 BKN180 M01/M04 Q1023 NOSIG SBTA 261300Z 05003KT CAVOK 25/20 Q1014 SBSJ 261600Z 25007KT 9999 VCTS SCT030 FEW035CB SCT070 33/16 Q10 16 KXMR 261558Z AUTO 28018G23KT 10SM CLR 18/09 A2987 RMK AO2 SLP118 T01760094 SBTC 261600Z 06004KT 9999 FEW020 BKN070 30/23 Q1015 SBSL 261600Z 08016KT 9999 BKN020 33/17 Q1012 SBSM 261600Z 17003KT 130V200 9999 BKN030 FEW035TCU 30/24 Q1010 RKSM 261600Z 31006KT 8000 BR SCT020 02/M03 A3019 SBTE 261600Z 18005KT 9999 SCT030 32/20 Q1012 SBSN 261600Z 03004KT 9999 SCT010 BKN100 27/25 Q1013 SCJO 261600Z VRB06KT 9999 BKN023 22/13 Q1013 SBTF 261600Z 07007KT 9999 SCT018 31/26 Q1011 RKSO 261558Z 29009KT 6SM BR BKN030 02/02 A3019 RMK AO2A SLP227 T00160016 $ SBSP 261600Z 31009KT 9999 SCT035 27/18 Q1017 SBSR 261400Z 03007KT 9999 SCT045 BKN080 28/18 Q1016 SBUA 261115Z 03001KT 0100 FG FEW005 23/23 Q1010 RKSS 261600Z 31008KT 4000 HZ FEW025 BKN200 00/M06 Q1022 NOSIG KWWR 261555Z AUTO 24008KT 10SM CLR 11/00 A3016 RMK AO2 SBTK 261600Z 03005KT 9999 SCT025 FEW030TCU BKN100 30/24 Q1012 MGES 261600Z 05006KT 8000 OVC014 15/15 QFE 915.0 PCPN T.D. SBST 261300Z 03004KT 9999 FEW030 30/20 Q1013 LPFL 261600Z 18011KT 9999 FEW010 18/16 Q1033 SBSV 261600Z 11012KT 9999 SCT017 29/22 Q1014 RKTN 261500Z 31005KT 9000 BR FEW200 03/M00 A3008 SBUF 261600Z 09006KT 9999 FEW022 36/17 Q1014 SBUG 261600Z 36005KT 9999 BKN022 32/21 Q1010 LPFR 261600Z 23006KT CAVOK 16/07 Q1026 SBTT 261600Z 28003KT 9999 FEW020 BKN100 29/25 Q1012 SBTU 261400Z 13005KT 9999 SCT018 27/24 Q1016 SBUL 260900Z 07003KT 9999 FEW030 OVC100 19/17 Q1018 RKTU 261400Z 29005KT 3200 BR BKN018 02/M01 A3017 VYYY 261600Z 35002KT 7000 NSC 23/16 Q1015 NOSIG SBVH 261100Z 34009KT 5000 BR BKN005 BKN008 21/21 Q1015 SBUR 261600Z 18005KT 9999 3000N -TSRA BKN005 SCT010 FEW030CB 21/21 Q1019 SCMK 261400Z 24010KT CAVOK 16/09 Q1010 MGGT 261600Z 36018KT 9999 BKN015 17/12 Q1028 A3036 SBUY 261100Z 00000KT CAVOK 23/22 Q1010 KXPY 261615Z AUTO 36009KT 10SM CLR 12/02 A3019 RMK A01 YABA 261600Z AUTO 08009KT 9999 // NCD 16/13 Q1014 LPHR 261600Z 14006KT 9999 FEW017 SCT030 18/12 Q1036 KXSA 261615Z AUTO 02006KT 10SM OVC013 06/02 A2972 RMK AO2 LTG DSNT S T00620019 SBVT 261600Z 07019KT 9999 FEW040 30/20 Q1013 MGHT 261600Z 00000KT 9999 OVC018 15/10 QFE 821.6 MTN N CUB/CL WSAP 261500Z 05007KT 9999 FEW018 BKN300 26/22 Q1013 KYIP 261553Z 06008KT 10SM CLR M06/M13 A2995 RMK AO2 SLP151 T10561133 SCNT 261600Z 20009KT 9999 SCT033 BKN200 15/05 Q0999 MHAM 261600Z 36004KT 9999 FEW028 28/21 SCON 261400Z 21004KT CAVOK 17/11 Q1012 LPLA 261600Z /////KT 9999 FEW025 18/12 Q1035 RMK ESTMD WND 20009KT MHCA 261600Z 08002KT 9999 BKN016TCU 25/21 Q1020 TCU ALL LQBK 261600Z 17006KT 9999 SCT015 BKN033 02/00 Q1023 NOSIG KYKM 261609Z 22005KT 1/4SM R27/2000V2200FT FG VV002 01/00 A3009 RMK AO2 T00060000 KYKN 261615Z AUTO 30015G19KT 10SM CLR 07/02 A2991 RMK AO1 SCPQ 261600Z 35004KT 270V060 9999 FEW033 BKN050 20/09 Q1012 MHCH 261600Z 03018KT 9999 FEW030 30/19 HZ SBYS 261600Z 30005KT 9999 BKN030 BKN100 31/21 Q1016 LPMA 261600Z 03014G26KT 350V060 9999 FEW020 16/09 Q1029 RS06018KT 0505019KT 2303014KT SCRD 261400Z 30004KT 9999 VCFG SKC 18/14 Q1013 SCRG 261400Z 16006KT CAVOK 23/16 Q1013 SCQP 261600Z VRB06KT 9999 SCT038 22/15 Q1013 KXVG 261616Z AUTO 29007G14KT 10SM BKN012 OVC040 02/M01 A2964 RMK AO2 SCSE 261600Z 28006KT 9999 SCT017 20/15 Q1012 LOWG 261550Z 15006KT 9999 FEW060 M00/M04 Q1021 R17/1///95 NOSIG KYNG 261606Z 01009KT 1SM -SN BR BKN025 BKN035 OVC045 M06/M09 A2978 RMK AO2 T10611089 LPMR 261600Z 34009KT 9999 FEW020 13/08 Q1030 LOWI 261550Z VRB02KT 9999 FEW060 M01/M07 Q1021 R08/1///95 NOSIG SCTB 261400Z 27003KT CAVOK 24/19 Q1014 MGMT 261600Z 05018KT CAVOK 31/14 QFE 1009.0 LPMT 261600Z 34008KT CAVOK 16/08 Q1028 LOWK 261550Z 09003KT CAVOK 04/M08 Q1020 NOSIG LOWL 261550Z 35003KT 9999 FEW012 BKN025 01/M01 Q1022 R08/590194 NOSIG SCTE 261600Z 25009KT 9999 BKN040 SCT080 19/11 Q1014 NOSIG SCSN 261400Z VRB03KT 9999 FEW007 18/14 Q1013 LOWS 261550Z 16004KT 120V180 9999 FEW045 M02/M05 Q1022 R15/19//95 NOSIG MGPB 261600Z 27014KT 9999 SCT018 OVC090 22/18 Q1022 A3018 LPPD 261600Z 09006KT 060V150 9999 FEW018 BKN040 16/11 Q1036 LOWW 261550Z 01003KT 9999 BKN026 01/M03 Q1022 R88/19//95 NOSIG LOWZ 261500Z 14004KT 50KM FEW040CU 00/M05 Q1020 RMK FEW LOXT 261450Z 25011KT 20KM FEW025CU SCT045SC 02/M01 Q1023 NOSIG RMK SCT SCVD 261600Z 25006KT 210V300 9999 SCT022 BKN025 22/15 Q1014 LPOV 261600Z 36009KT CAVOK 12/07 Q1030 LOXZ 261520Z 09005KT 50KM FEW060SC 02/M08 Q1020 NOSIG RMK FEW LPPR 261600Z 34004KT CAVOK 13/07 Q1030 LPPS 261600Z 07007KT 360V100 9999 FEW015 SCT030 16/11 Q1030 LPPT 261600Z 34008KT 310V010 9999 FEW025 15/07 Q1028 SCVM 261400Z 33003KT 7000 BKN016 17/14 Q1013 YBAF 261600Z AUTO 12009KT 9999 // NCD 25/22 Q1006 MGQZ 261600Z 27012KT CAVOK 16/07 QFE 771.7 FEW070 YBAS 261600Z AUTO 00000KT 9999 // SCT110 22/14 Q1012 MGSJ 261600Z 18004KT CAVOK 31/20 Q1014 A2994 MGRT 261600Z 00000KT CAVOK 28/20 Q1016 A3000 FEW200 VOL. STA. MARIA Y SANTIAGUITO EN ACTIVIDAD YBBN 261600Z 11007KT 9999 SCT020 BKN250 26/22 Q1006 LRBC 261600Z 28002KT 9999 OVC034 02/02 Q1022 R16/19//95 YBCG 261600Z AUTO 14005KT 9999 // SCT021 25/22 Q1007 YBCK 261600Z AUTO 20011KT //// // ////// 30/08 Q1003 YAMB 261607Z AUTO 20003KT 9999 // BKN018 BKN026 OVC052 23/22 Q1006 LRAR 261600Z 03003KT 8000 BKN014 02/00 Q1022 R09/19//95 LPST 261600Z 33010KT 310V010 9999 FEW020 13/09 Q1029 MHLC 261600Z 17009KT 9999 -DZ SCT022 BKN070 21/20 Q1021 A3015 RERA BECMG 6000 RA LRBM 261600Z VRB02KT 9999 BKN014 BKN043 02/00 Q1022 YBDG 261600Z AUTO 15011KT 9999 // NCD 13/05 Q1014 MHLE 261600Z 05012KT 0100 FG VV/// 12/12 0.1 KM ALL FG YBCS 261600Z 19004KT 9999 -RA FEW020 SCT050 BKN120 24/23 Q1004 NOSIG LRBS 261600Z 07003KT 7000 FEW003 SCT008 BKN012 03/03 Q1022 R07/29//95 NOSIG YBCV 261600Z AUTO 19008KT 9999 // NCD 27/07 Q1004 LRCK 261600Z 32008KT 5000 BR FEW003 BKN006 OVC010 02/02 Q1021 R36/290295 NOSIG SEGU 261600Z 24002KT 9999 FEW023 BKN033 BKN100 28/19 Q1011 NOSIG RMK A2988 MGTU 261600Z 05004KT CAVOK 28/21 LRCL 261600Z 01003KT 350V050 9999 BKN012 OVC030 03/02 Q1020 MHLM 261600Z 16004KT 9999 SCT025 BKN080 20/20 Q1022 A3018 REDZ NOSIG YBDV 261600Z AUTO 15010KT //// // ////// 24/04 Q1008 LRCT 261500Z 19003KT 6000 BKN010 OVC022 03/02 Q1020 WHT WHT LRCV 261600Z 07002KT 6000 FEW008 OVC012 02/02 Q1021 R27/29//95 LQMO 261500Z 32008KT 290V040 9999 FEW045 09/M03 Q1016 BGBW 261550Z 21009KT 160V240 9999 -SHSN SCT030 OVC050 00/M03 Q0974 ROAH 261600Z 04004KT 9999 -RA FEW010 SCT035 BKN050 19/17 Q1017 SFAL 261600Z 35010KT 9999 FEW030 BKN100 XX/XX Q1008 GMAD 261600Z 27010KT CAVOK 19/07 Q1024 NOSIG MHNO 261600Z 33018KT 9999 SCT035 19/14 Q1022 VCSH N ENE W HZ GMAG 261600Z ///12KT CAVOK 21/03 Q1022 NOSIG FTTA 261600Z 04006KT CAV0K 37/08 Q1009 FTTC 261500Z 16008KT CAVOK 36/M04 Q1010 FTTD 261500Z 10008KT CAVOK 38/M04 Q1009 HDAM 260800Z 11012KT 9999 ST023 28/17 Q1021 YBHI 261600Z AUTO 19008KT 9999 // NCD 15/02 Q1013 KZPH 261615Z AUTO 31015G21KT 10SM CLR 17/06 A2995 RMK AO2 MGZA 261600Z 02004KT 9999 FEW017 SCT020 24/16 QFE 995.0 FEW080 FTTJ 261600Z 02006KT 350V050 7000 NSC 37/10 Q1009 NOSIG YBHM 261600Z AUTO 32007KT 9999 // NCD 27/25 Q1003 MHPL 261600Z 00000KT 9999 SCT028TCU 26/22 Q1018 TCU ALL HZ GMAT 261600Z 36010KT CAVOK 20/12 Q1023 NOSIG YARG 261603Z AUTO 33003KT 9999 // NCD 28/20 Q1007 LRIA 261600Z 31003KT 9999 SCT023 01/00 Q1022 R14/19//95 BGGH 261550Z 02010KT 9999 -SHSN SCT020 BKN030 M10/M15 Q0970 SELT 261600Z 15006KT 9999 BKN026 SCT100 17/11 Q1029 FVBU 261600Z 12007KT 090V160 CAVOK 30/08 Q1015 NOSIG RODN 261612Z AUTO 00000KT 9SM R23/5500FT SCT038 BKN050 18/17 A3006 RMK AO2 FTTY 261500Z 04004KT CAVOK 32/M05 Q//// YCBA 261600Z AUTO 19008KT //// // ////// 20/02 Q1010 YCBB 261600Z AUTO 24005KT //// // ////// 18/17 Q1011 SEMT 261600Z 20009KT 9999 BKN020 27/21 Q1012 WSSL 261500Z 01007KT 9999 FEW018 BKN300 26/22 Q1013 RMK 1430Z Q1013 LQSA 261530Z VRB01KT 8000 FEW015 BKN024 BKN045 01/M02 Q1021 NOSIG YBKE 261600Z AUTO 18009KT //// // ////// 23/02 Q1007 MHSC 261558Z AUTO 35018G23KT 9999 BKN030 BKN041 OVC055 20/15 A3019 RMK AO2 SLP199 T02000146 $ MHRO 261600Z 31012KT 2000 RA BKN018 OVC070 23/20 Q1020 A3012 NOSIG YCAR 261600Z AUTO 22011KT 9999 // SCT012 24/21 Q1005 YCAS 261600Z AUTO 17003KT //// // ////// 23/21 Q1007 WSSS 261600Z 03006KT 360V070 9999 FEW020 SCT060 26/22 Q1013 NOSIG FVFA 261500Z 09006KT 050V140 CAVOK 30/17 Q1014 NOSIG MHTE 261500Z 31004KT 9999 SCT024TCU OVC080 21/19 Q1020 TCU ALL VCSH W HZ YCBP 261600Z AUTO 16009KT //// // NCD 21/04 Q1013 MHTG 261600Z 36016KT 9999 BKN026 22/16 Q1023 A3021 NOSIG GMFF 261600Z 26007KT 240V300 CAVOK 16/04 Q1026 NOSIG YBMA 261600Z AUTO 19009KT 9999 // NCD 28/01 Q1007 YBKT 261600Z AUTO 34006KT //// // ////// 26/26 Q1004 MHSR 261500Z 32006KT 1000 -DZ SCT006 OVC020 14/14 1KM ALL DZ VCSH YBLN 261600Z AUTO 10014KT //// // ////// 23/10 Q1009 GMFK 261600Z 24009KT 220V280 CAVOK 17/M07 Q1025 NOSIG GMFM 261600Z 29005KT CAVOK 15/06 Q1026 NOSIG BGJN 261550Z 03008KT 9999 FEW010 SCT180 M17/M23 Q0977 GMFO 261600Z 08003KT 040V120 CAVOK 16/02 Q1024 NOSIG YBNA 261600Z AUTO 10007KT 9999 // BKN021 BKN051 25/22 Q1007 YBLT 261600Z AUTO 15013KT 9999 // NCD 09/08 Q1016 MHTR 261600Z 26005KT 1000 RA FEW002 SCT018 OVC070 21/20 1KM ALL VCSH YBMK 261600Z AUTO 09002KT 9999 // NCD 25/24 Q1002 FVHA 261600Z 10005KT 9999 SCT040 26/15 Q1019 NOSIG YCEE 261600Z AUTO 13013KT //// // ////// 16/08 Q1017 SEQM 261600Z 32006KT 280V350 9999 SCT030 BKN036 BKN100 18/11 Q1025 NOSIG RMK A3027 YCDO 261600Z AUTO 28004KT //// // ////// 16/06 Q1009 YCCY 261600Z AUTO 20005KT //// // ////// 26/08 Q1005 ROIG 261100Z 17002KT 9999 FEW023 SCT050 BKN130 21/17 Q1017 LQTZ 261500Z 28004KT 9999 BKN015 OVC025 01/01 Q1022 YCDU 261600Z AUTO 14011KT 9999 // NCD 15/09 Q1016 YCEM 261600Z AUTO 15009KT //// // ////// 13/06 Q1015 GLRB 261430Z 22008KT 9999 BKN020 FEW027 CB 31/25 Q1010 RMK CB-NE YBNS 261600Z AUTO 17003KT 9999 // SCT036 OVC059 15/10 Q1016 YBOK 261600Z AUTO 10011KT 9999 // NCD 22/19 Q1007 YCFL 261600Z AUTO 30004KT //// // ////// 28/24 Q1005 YAYE 261600Z AUTO 00000KT 9999 // SCT125 27/17 Q1011 LROD 261600Z 33002KT CAVOK 01/M02 Q1022 R01/19//95 GLRN 261600Z 23010KT 9999 BKN018 FEW026 CB 29/26 Q1009 RMK CB-NE/NW YCFS 261600Z AUTO 11011KT 7000 -RA SCT019 BKN025 OVC043 24/22 Q1009 RERA SGAS 261330Z 02004KT 310V070 CAVOK 30/22 Q1012 HEBA 261600Z 01006KT CAVOK 16/08 Q1020 NOSIG FVKB 261500Z 26003KT 9999 FEW040CB SCT100 33/22 Q1010 YBPN 261600Z AUTO 00000KT 9999 // NCD 25/24 Q1003 LSGC 261550Z 23004KT 1200 SN OVC004 M02/M03 Q1021 R/SNOCLO LROP 261600Z 10002KT 2000 BR SCT004 BKN005 OVC012 03/02 Q1022 R08R/19//95 R08L/29//95 NOSIG LSGG 261550Z VRB03KT 2100 SN SCT003 BKN020 00/M00 Q1026 TEMPO 0500 YCHK 261600Z AUTO 32014KT 9999 // NCD 28/21 Q1008 HEAR 261600Z 00000KT 8000 NSC 17/16 Q1019 NOSIG HECA 261600Z 04008KT 9999 FEW025 BKN070 18/11 Q1019 NOSIG HEAT 261600Z 31011KT CAVOK 19/10 Q1017 NOSIG HEBL 261600Z 05002KT CAVOK 28/14 Q1012 NOSIG HEAX 261600Z 05006KT CAVOK 16/09 Q1019 NOSIG MHYR 261600Z 00000KT 9999 SCT023 BKN080 18/17 HZ YBRK 261600Z AUTO 02002KT 9999 // NCD 27/25 Q1003 LSGS 261550Z VRB01KT 2500 -SN BR BKN010 OVC025 M01/M03 Q1026 YBRM 261600Z AUTO 30007KT 9999 // SCT016 29/26 Q1007 YCIN 261600Z AUTO 36005KT //// // ////// 25/23 Q1006 GMMB 261600Z 32005KT 280V350 8000 NSC 17/11 Q1027 NOSIG FWCL 261200Z 04006KT 9999 FEW030CB SCT035 27/19 Q1016 NOSIG GMMC 261600Z /////KT CAVOK 16/11 Q1025 YBSG 261600Z AUTO 00000KT //// // SCT018 BKN079 BKN092 25/24 Q1006 GMME 261600Z 30004KT 280V350 CAVOK 15/09 Q1026 NOSIG GMMH 261600Z 34016KT CAVOK 20/12 Q1021 NOSIG GMMI 261600Z 05008KT CAVOK 22/06 Q1023 NOSIG LTAB 261010Z 24003KT 210V280 6000 SCT040 BKN100 08/02 Q1018 NOSIG RMK RWY06 VRB01KT LRSB 261600Z 35002KT 9999 FEW005 OVC015 03/02 Q1020 R27/19//95 LTAC 261550Z 26003KT 9999 SCT040 04/01 Q1019 NOSIG SGEN 261300Z 05010KT CAVOK 27/21 Q1014 LTAD 260707Z 00000KT 3200 BR SCT040 SCT100 03/03 Q1019 NOSIG RMK RWY29 00000KT KZZV 261553Z AUTO 34006KT 1SM -SN BR BKN021 OVC035 M06/M08 A2979 RMK AO2 SLP096 P0001 T10561078 GMML 261600Z 05004KT CAVOK 24/05 Q1024 NSG YBRY 261600Z AUTO 35011KT 9999 // SCT015 28/19 Q1008 LTAE 260219Z VRB01KT 6000 BKN035 M01/M01 Q1017 REFZRA NOSIG RMK RWY21 VRB01KT YBTH 261600Z AUTO 20004KT 110V270 9999 // OVC021 17/13 Q1013 ROMY 261100Z 16003KT 9999 FEW026 BKN120 20/15 Q1018 LTAF 261550Z 21003KT 4000 HZ FEW040 13/06 Q1018 NOSIG GMMN 261600Z 36006KT CAVOK 18/09 Q1026 NOSIG LTAG 261550Z 06002KT CAVOK 12/06 Q1018 NOSIG SGES 261330Z 03010KT CAVOK 29/22 Q1013 LTAI 261550Z 21003KT 9999 SCT030 12/08 Q1020 NOSIG YBSU 261600Z AUTO 12012KT 9999 // NCD 26/22 Q1005 YBTL 261600Z AUTO 33005KT 9999 // NCD 29/27 Q1002 LTAJ 261550Z 27004KT 230V310 CAVOK 08/01 Q1018 NOSIG LTBA 261550Z 03010KT 340V080 9999 SCT010 BKN022 08/05 Q1020 NOSIG YBUD 261600Z AUTO 14007KT //// // ////// 26/25 Q1004 YCKN 261600Z AUTO 29006KT 9999 // NCD 28/24 Q1004 LTAL 260801Z 00000KT 9999 FEW025 SCT090 08/01 Q1018 LRTC 261600Z 33008KT 9999 OVC014 03/02 Q1022 R16/190095 LRSM 261600Z 24002KT 9999 OVC048 02/M00 Q1021 FVMV 260900Z 18010KT CAVOK 30/12 Q1019 LTAN 261550Z 33004KT 9999 SCT044 07/M01 Q1019 NOSIG LTBF 261550Z 34002KT 9999 -SHRA SCT033 BKN100 10/07 Q1018 NOSIG GMMW 261600Z 02006KT CAVOK 16/02 Q1025 NOSIG LTBG 261405Z 02015KT 9999 -SHRA SCT035 BKN100 08/07 Q1018 NOSIG RMK RWY18 03018KT LTAP 261550Z 00000KT CAVOK 04/02 Q1018 NOSIG GMMX 261600Z 01003KT 320V050 CAVOK 20/05 Q1025 NOSIG LTBH 261110Z 04011KT 3500 -RA BR SCT002 BKN028 OVC080 10/09 Q1018 BGSF 261550Z AUTO 08003KT 9999NDV FEW095/// M30/M34 Q0980 LTAR 261550Z 00000KT 4800 BR SCT011 BKN030 OVC080 M01/M01 Q1019 RESN GMMZ 261600Z VRB03KT CAVOK 18/M09 Q1024 NOSIG LTAS 260628Z 17004KT 130V200 8000 NSC 05/01 Q1018 RMK RWY18 VRB02KT LTCA 261550Z 24003KT 200V260 9999 SCT035 BKN100 03/M00 Q1020 NOSIG LTBJ 261550Z 19003KT 140V270 9999 SCT030 BKN100 11/10 Q1017 R162///95 NOSIG LTAT 261550Z 30003KT 240V340 6000 BKN018 M02/M02 Q1021 NOSIG LTBL 261202Z 13008KT 9999 -SHRA SCT030 BKN100 14/09 Q1017 BECMG 22009KT RMK RWY17 15009KT LTAU 261550Z 02006KT 9999 -RA BKN035 BKN090 03/01 Q1020 NOSIG LTCC 261550Z 26004KT CAVOK 06/00 Q1017 NOSIG LTCD 261550Z 00000KT 7000 SCT038 BKN090 01/M00 Q1021 NOSIG LRSV 261600Z 28003KT 7000 BKN030 M00/M00 Q1021 LRTM 261600Z 21003KT 8000 FEW025 SCT034 OVC040 03/02 Q1020 R07/19//95 LTAW 261207Z 27004KT 230V320 9999 SCT034 BKN100 08/03 Q1019 RERA RMK RWY22 33005KT 290V350 YDBY 261600Z AUTO 00000KT //// // ////// 27/24 Q1006 LTCE 261550Z 27002KT 3200 -SN BR BKN020 BKN070 M04/M04 Q1020 BECMG TL1650 9999 NSW LTBO 261327Z 27003KT 250V310 6000 -RA BKN030 BKN090 09/03 Q1018 RMK RWY09 VRB02KT BIBD 261432Z 19007KT 9999 SCT030 02/// Q0996 LTCF 261550Z 36004KT 9999 SCT035 M04/M08 Q1020 LTCG 261550Z 00000KT 9000 SCT035 BKN100 12/03 Q1019 NOSIG LTAZ 261550Z 13008KT 9999 SCT040 BKN100 06/03 Q1019 LTBQ 261550Z 34005KT 300V100 8000 SCT035 SCT130 08/05 Q1020 NOSIG LTBR 261550Z 31003KT 6000 SCT035 BKN100 09/05 Q1018 NOSIG LRTR 261600Z 00000KT 3000 -RA BR BKN010 02/01 Q1022 R11/290095 LTCI 261550Z 13003KT 110V210 4000 BR SCT040 SCT120 M02/M06 Q1019 BECMG TL1650 8000 LTCJ 261550Z 17006KT 8000 NSC 09/00 Q1017 LTBS 261550Z 13006KT 9999 -SHRA SCT025 BKN090 13/10 Q1019 NOSIG LSMA 261550Z 00000KT 2300 -SN FEW016 SCT018 OVC021 M01/M03 Q1024 RMK YLO YCMM 261600Z AUTO 18008KT //// // ////// 11/08 Q1018 LTBT 261310Z VRB02KT 9999 SCT030 BKN090 14/10 Q1017 RESHRA RMK RWY14 13004KT LTCK 261350Z 12004KT 2500 BR OVC007 M10/M11 Q1023 BIAR 261600Z 20021KT 9000 SCT030 BKN050 BKN130 01/M05 Q0998 R/01750270 LTBU 261550Z 04015KT 7000 BKN025 BKN090 05/04 Q1020 RESHRA LTCM 260817Z 05004KT 0800 R23/0800D R05/0800D FG BKN004 08/05 Q1018 RMK RWY05 04006KT LSMD 261550Z AUTO 19003KT 130V230 9999NDV -SHRA OVC053 M01/M03 Q1023 RMK WHT BGTL 261558Z AUTO 09006KT 9999 CLR M33/M34 A2931 RMK AO2 PRESFR SLP920 LSME 261550Z AUTO 27003KT 5000NDV -SN FEW018 BKN023 M01/M02 Q1024 RMK GRN HEGN 261600Z 36007KT 6000 NSC 23/19 Q1016 NOSIG LTCP 260330Z 06009KT CAVOK 04/M01 Q1021 RMK RWY23 05006KT YCMT 261600Z AUTO 07002KT //// // ////// 25/22 Q1002 YCNK 261600Z AUTO 20005KT //// // ////// 20/19 Q1010 YCNM 261600Z AUTO 07009KT //// // ////// 23/18 Q1007 YCOE 261600Z AUTO 00000KT //// // ////// 26/24 Q1006 LSMM 261550Z AUTO 12003KT 1700NDV -SN SCT014 M02/M03 Q1024 RMK AMB YBWP 261600Z AUTO 34004KT 9999 // SCT022 SCT060 SCT085 26/25 Q1005 LSMP 261550Z AUTO 22004KT 1200NDV R05/P2000N R23/P2000N -SN SCT010 BKN015 M01/M01 Q1025 RMK RED RORS 261000Z 18003KT 9999 FEW026 BKN120 20/15 Q1017 LTFA 261158Z 13010KT 8000 -SHRA SCT035 BKN100 14/10 Q1017 RMK RWY17 13009KT LSMS 261550Z VRB01KT 2500 -SN BR BKN010 OVC025 M01/M03 Q1026 YCOM 261600Z AUTO 07006KT //// // OVC013 10/09 Q1016 LTFC 261550Z VRB02KT 9999 SCT035 BKN100 08/04 Q1019 LTFD 261426Z VRB02KT 3800 -SHRA BR SCT030 BKN090 11/09 Q1017 R05250170 RMK RWY23 01002KT YBWX 261600Z AUTO 25014KT //// // ////// 26/21 Q1006 YCNY 261600Z AUTO 36001KT //// // ////// 26/21 Q1006 LTFE 261550Z 28005KT 9999 SCT030 BKN090 13/11 Q1018 NOSIG LTFG 260532Z 04006KT 8000 BKN030 10/09 Q1019 RESHRA RMK RWY26 02006KT LTFH 261550Z 29009KT CAVOK 10/07 Q1019 NOSIG BIEG 261600Z 17013KT 9999 NSC 00/M09 Q1001 LTFJ 261550Z 03009KT 9999 SCT035 BKN100 07/06 Q1020 NOSIG RPLB 261600Z 00000KT 9999 FEW020 23/19 Q1014 NOSIG RMK A2994 RPLC 261600Z 30006KT 9999 FEW042 BKN300 22/20 Q1015 RMK NOSIG A2998 GMTA 261600Z 34008KT CAVOK 17/12 Q1025 NOSIG ROTM 261558Z 00000KT 3200 BR BKN005 BKN015 OVC030 18/18 A3008 RMK SLP172 T01780178 RPLI 261500Z 16004KT 9999 FEW019 22/20 Q1014 NOSIG RMK A2994 FWKI 261300Z 29005KT 9999 FEW030CB SCT035 27/17 Q1017 NOSIG RPLL 261600Z 00000KT 9999 FEW025 23/20 Q1014 NOSIG RMK A2994 RPMD 261500Z 36006KT 9999 FEW016 SCT090 BKN290 25/23 Q1012 RMK A2988 GMTN 261600Z 10009KT CAVOK 17/07 Q1025 NOSIG HEMA 261600Z 08007KT CAVOK 23/20 Q1016 NOSIG GMTT 261600Z 25008KT 220V280 9999 BKN016 15/10 Q1026 NOSIG HEMM 261600Z 09005KT CAVOK 16/04 Q1020 NOSIG BIHN 261600Z 10004KT CAVOK M00/// Q1002 R18/790139 RMK RWY SANDED HELX 261600Z 00000KT CAVOK 27/19 Q1014 NOSIG RPMZ 261500Z 02002KT 9999 FEW018 SCT300 25/23 Q1013 RMK A2991 NCAI 261600Z AUTO 07002KT //// ///// 25/24 Q1006 MKJP 261600Z 21007KT 9999 FEW026 29/20 Q1016 MKJS 261600Z 05006KT 9999 FEW022 28/24 Q1016 YCUN 261600Z AUTO 12011KT //// // ////// 25/06 Q1010 BIIS 261600Z VRB06KT 9999 FEW018 BKN040 02/M05 Q0995 R88/790240 LUBL 261530Z AUTO 31005KT 9999 ///036 00/M01 Q1021 YDLQ 261600Z AUTO 23006KT //// // ////// 11/04 Q1013 YCWA 261600Z AUTO 08007KT 9999 // NCD 27/19 Q1009 GOGG 261600Z 04004KT CAVOK 35/06 Q1012 BIKF 261600Z 17018KT 9000 -RA FEW008 BKN014 OVC027 04/03 Q0995 GOGK 261500Z 06004KT CAVOK 37/04 Q1010 HEPS 261600Z 05007KT CAVOK 17/13 Q1020 NOSIG GOGS 261600Z 32004KT CAVOK 28/19 Q1011 YCWR 261600Z AUTO 15006KT //// // ////// 19/13 Q1011 HESC 261600Z 03008KT CAVOK 16/12 Q1023 NOSIG HESH 261600Z 01006KT 8000 NSC 24/20 Q1016 NOSIG YDPO 261600Z AUTO 16010KT 9999 // NCD 11/05 Q1016 HESN 261600Z 34006KT CAVOK 29/13 Q1014 NOSIG LSZA 261550Z 19003KT 9999 BKN100 06/M06 Q1021 NOSIG LSZB 261550Z VRB01KT 1100 R14/1200N SN VV007 M01/M02 Q1024 TEMPO 4000 -SN LSZC 261550Z VRB02KT 3500 SN OVC035 M01/M03 Q1024 LSZG 261550Z 24007KT 1000 SN VV010 M01/M01 Q1024 R25/590591 NOSIG LSZH 261550Z 17005KT 3000 -SN FEW005 SCT015 BKN025 M01/M02 Q1023 R10/29 R14/29//// R16/29//// TEMPO 1500 SN BKN014 LSZL 261550Z 00000KT 9999 SCT100 BKN130 05/M06 Q1021 RMK WHT RPVM 261600Z 35004KT 9999 FEW020 BKN100 25/22 Q1013 RMK A2991 LSZR 261550Z VRB01KT 9999 -SN BKN060 OVC080 01/M03 Q1023 NOSIG RMK K LSZS 261550Z VRB01KT 9999 BKN095 M07/M17 Q1016 MMAA 261542Z 36003KT 8SM BKN300 27/20 A2998 RMK 8/002 HZY AC FXMM 261500Z 27012KT 9999 -TS SCT030 FEW035CB 26/12 Q1021 NOSIG YELD 261600Z AUTO 30018KT //// // ////// 29/// Q//// CAHR 261600Z AUTO 28008KT M13/M19 RMK AO1 SOG 03 1035 SLP210 T11311190 BIRK 261600Z 13007KT 9999 -RA FEW016 SCT028 OVC050 03/00 Q0997 R19/790195 GOOD 261500Z 08006KT CAVOK 34/M02 Q1012 MMAN 261540Z 29002KT 15SM FEW090 OVC200 15/03 A3036 RMK 8/032 YFBS 261600Z AUTO 08006KT //// // ////// 19/14 Q1010 GOOG 261500Z 04008KT 6000 NSC 33/01 Q//// MMAS 261544Z 03008KT 10SM FEW080 SCT200 13/M01 A3043 RMK 8/032 MMCB 261545Z 00000KT 10SM SCT080 BKN200 22/10 A3027 RMK 8/072 LUKK 261530Z 33007KT 9999 OVC011 01/M02 Q1021 R26/290152 NOSIG GOOK 261500Z 08008KT CAVOK 35/12 Q1013 FYGB 261600Z AUTO 04004KT //// // ////// 31/06 Q1018 YFDF 261600Z AUTO 32014KT 9999 // NCD 27/21 Q1008 MMCE 261542Z 03009KT 6SM SCT015 SCT030 OVC065 23/17 A3021 RMK 8/87/ HZY LWR SC CBBC 261617Z AUTO 00000KT 9SM BKN004 BKN014 BKN095 OVC120 06/06 A2980 RMK SLP092 FYGF 261600Z AUTO 34004KT //// // ////// 31/06 Q1017 YEML 261600Z AUTO 05007KT 9999 // NCD 26/23 Q1002 MMBT 261559Z 00000KT 6SM BKN220 28/24 A3002 RMK 8/001 HZY MMCL 261540Z 00000KT 10SM OVC090 23/15 A3003 RMK 8/07/ MMCM 261541Z 33005KT 7SM SCT230 21/16 A3016 RMK 8/002 RTS MMCN 261540Z 35003KT 10SM SCT035 BKN070 OVC100 18/12 A3003 RMK 8/47/ BINOVC PCPN NW MMCP 261548Z 33009KT 7SM SCT025 BKN100 BKN250 22/17 A3019 RMK 8/521 NCMH 261600Z AUTO 01009KT //// ////// 27/26 Q1004 GOOY 261600Z 36010KT 8000 NSC 25/08 Q1012 NOSIG MMCS 261540Z 04005KT 10SM SCT100 BKN250 05/01 A3028 RMK 8/032 MMCT 261547Z 31014KT 8SM SCT015 BKN200 23/14 A3018 RMK 8/101 HZY MSGTX MMMD MMCU 261547Z 00000KT 10SM SCT040 BKN080 OVC100 08/M04 A3036 RMK 8/57/ HZY MMCV 261541Z 00000KT 10SM SCT100 BKN200 16/06 A3034 RMK 8/072 MMDO 261547Z 07002KT 10SM BKN025 OVC080 09/08 A3039 RMK 8/62/ BINOVC LWR SC RTS MMCZ 261544Z 32015KT 7SM FEW250 20/15 A3015 RMK 8/008 SC RTS BIVM 261613Z 19018KT 9000 DZ BR BKN012 OVC025 04/03 Q0999 MMEP 261554Z 12008KT 12SM BKN100 OVC250 20/14 A3018 RMK 8/027 S GOSM 261500Z 12006KT 6000 NSC 32/03 Q1014 GOSP 261500Z 04006KT 2500 BRDU NSC 31/01 Q1014 GOSS 261600Z 10012KT 7000 SNC 32/M02 Q1013 GOTK 261500Z 10010KT 8000 35/04 Q1011 MMGL 261557Z RTD 00000KT 7SM BKN025 BKN100 OVC300 16/11 A3035 RMK 8/557 BINOVC MMGM 261549Z 00000KT 10SM OVC070 20/14 A3003 RMK 8/01/ HZY FYKM 261600Z 00000KT 9999 FEW030 32/17 Q1013 MMIA 261544Z 00000KT 8SM SCT200 27/16 A3012 RMK 8/001 YERN 261600Z AUTO 12011KT //// // ////// 24/01 Q1014 GOTT 261500Z 02008KT 4500 DU NSC 34/03 Q1011 FYKT 261600Z AUTO 35010KT //// // ////// 27/16 Q1016 MMHO 261548Z 03005KT 10SM OVC035 22/13 A3010 RMK 8/7// HZY NCRG 261600Z 09003KT 9999 SCT016 26/25 Q1005 NCPY 260600Z 04004KT //// //// 30/26 Q1005 FYML 261600Z AUTO 15002KT //// // ////// 29/16 Q1017 YESP 261600Z AUTO 05011KT 9999 // NCD 16/11 Q1016 MMIO 261540Z 00000KT 10SM SCT100 OVC200 12/02 A3040 RMK 8/077 YGBI 261600Z AUTO 30007KT //// // ////// 28/25 Q1007 YEST 261600Z AUTO 07008KT 9999 // NCD 16/10 Q1016 FYLZ 261600Z AUTO 20013KT //// // ////// 26/15 Q1011 FYOA 261300Z AUTO 01008KT //// // ////// 23/18 Q1016 YGAY 261600Z AUTO 10002KT //// // ////// 25/23 Q1004 YFLI 261600Z AUTO 06008KT 9999 // NCD 06/05 Q1016 MNBL 261600Z 36006KT 9999 SCT022 27/23 Q1016 YGDH 261600Z AUTO 14012KT //// // ////// 21/16 Q1008 MNCH 261600Z 04008KT 9999 FEW025 SCT300 31/18 Q1014 MMMA 261541Z 34005KT 7SM FEW080 BKN200 17/09 A3032 RMK 8/056 HZY MMLM 261541Z 13004KT 10SM BKN100 BKN220 20/13 A3005 RMK 8/038 MMMD 261546Z 33019KT 7SM BKN020 24/14 A3018 RMK 8/500 AC CI FYOW 261600Z AUTO 29003KT //// // ////// 24/03 Q1017 MMLO 261546Z 03005KT 8SM BKN160 BKN220 16/M03 A3045 RMK 8/078 HZY MMLP 261543Z 00000KT 10SM FEW035 BKN080 OVC200 18/16 A3005 RMK 8/527 HZY YGEL 261600Z AUTO 16011KT 9999 // NCD 23/20 Q1004 MMLT 261544Z 00000KT 8SM BKN050 OVC100 17/15 A3006 RMK 8/72/ BINOVC MMML 261552Z 11007KT 10SM BKN050 OVC100 15/07 A3011 RMK 8/67/ MMMM 261543Z 33007KT 8SM SCT230 15/05 A3037 RMK 8/002 HZY MMMT 261542Z 34010G20KT 12SM BKN020 OVC040 20/16 A3022 RMK 8/5// BINOVC MMNL 261541Z 00000KT 12SM BKN200 12/06 A3033 RMK 8/002 YGFN 261610Z AUTO 15004KT 9000 // SCT012 BKN015 BKN022 22/21 Q1008 SKBG 261600Z 33003KT 9999 SCT015 SCT240 23/18 A2998 FYRN 261600Z 00000KT 9999 FEW035CB 33/13 Q1013 MMMX 261546Z 10003KT 8SM BKN200 14/04 A3046 NOSIG RMK 8/002 HZY AC MMMY 261547Z 32004KT 15SM OVC200 16/01 A3033 RMK 8/007 ISOL AC MMMZ 261546Z 28006KT 15SM BKN080 OVC120 19/17 A3003 RMK 8/07/ MMPA 261545Z RTD 27006KT 6SM BKN220 18/14 A3034 RMK 8/008 HZY MMPB 261543Z 34013KT 7SM OVC220 16/05 A3043 RMK 8/008 HZY SKCC 261600Z 02008KT 9999 FEW020 29/22 A2994 SKBO 261600Z 12012KT 9999 BKN023 19/07 A3032 SKCG 261600Z 31007KT 9999 FEW012 29/24 A2986 MMPG 261540Z 30004KT 10SM SCT050 10/03 A3031 RMK 8/500 SKBQ 261600Z 08004KT 9999 FEW015 32/23 A2987 SKCL 261600Z 32006KT 9999 SCT030 28/18 A2997 MMPN 261541Z 00000KT 12SM SKC 18/10 A3027 RMK HZY AC CI MMOX 261540Z 06002KT 7SM SCT200 16/08 A3036 RMK 8/008 HZY/AC MMPQ 261545Z 27003KT 2SM BR BKN007 BKN015 OVC030 19/18 A3012 RMK 8/7// MSGTX MMMD MMPR 261543Z 00000KT 15SM BKN120 OVC250 25/18 A3003 RMK 8/077 MMPS 261541Z 15006KT 10SM FEW015 SCT260 26/21 A3010 RMK 8/102 HZY YHBA 261600Z AUTO 11009KT 9999 // SCT019 27/23 Q1005 MMQT 261545Z 10006KT 10SM FEW120 13/M07 A3047 RMK 8/030 CI BKPR 261600Z 36006KT 9999 SCT020 BKN030 01/M03 Q1019 NOSIG RMK 17010095 FYWB 261600Z AUTO 29010KT //// // ////// 23/17 Q1013 MMSD 261540Z 26005KT 8SM SCT035 OVC120 20/18 A3006 RMK 8/72/ OCNL DROPS FYWE 261600Z 00000KT 9999 FEW025 25/12 Q1019 MNJG 261600Z 36004KT 9999 BKN018 20/16 Q1017 YGLA 261600Z AUTO 14005KT 9999 // SCT022 25/22 Q1004 TAPA 261600Z 11011KT 9999 SCT022 28/21 Q1016 FYWH 261600Z AUTO 06004KT //// // ////// 25/08 Q//// GQNI 261500Z 04018KT 3000 BLSA NSC 26/M09 Q1017 MMSL 261548Z 04010KT 10SM BKN045 BKN120 20/19 A3009 RMK 8/530 HZY MSGTX MMSD MMTC 261540Z 00000KT 10SM BKN100 OVC200 10/03 A3035 RMK 8/077 HZY YHAY 261600Z AUTO 18010KT //// // ////// 15/06 Q1012 MMRX 261540Z 29003KT 6SM SCT080 16/04 A3031 RMK 8/040 HZ FU BR GQNN 261600Z 09014KT 3000 BLDU NSC 28/M08 Q1014 NOSIG YGLI 261600Z AUTO 11007KT //// // ////// 18/16 Q1013 MMTG 261548Z 36006KT 8SM FEW017 SCT300 22/14 A3018 RMK 8/102 HZY MMSP 261542Z 12006KT 15SM BKN210 12/M08 A3042 RMK 8/008 ISOL AC MMTJ 261540Z 11014KT 9SM SCT040 BKN090 21/M02 A3003 RMK 8/550 GQPA 261500Z 10018KT 2000 BLSA NSC 24/08 Q1021 MNJU 261600Z 09010KT 9999 SCT025 27/21 Q1015 MMTM 261554Z 33008KT 10SM SCT070 BKN200 20/10 A3031 RMK 8/078 YFTZ 261600Z AUTO 26003KT //// // ////// 25/22 Q1007 MMTO 261540Z 05003KT 4SM BKN200 13/03 A3049 RMK 8/002 HZY FYWW 261600Z AUTO 10001KT //// // ////// 25/12 Q1019 MMTP 261541Z 00000KT 10SM SKC 29/22 A2996 RMK HZY YGLS 261600Z AUTO 00000KT //// // ////// 25/17 Q1012 MMVA 261542Z 00000KT 6SM FEW008 OVC040 21/20 A3025 RMK 8/5// HZY MMUN 261543Z 33011KT 7SM SCT018 BKN250 23/15 A3013 RMK 8/508 AS K04V 261615Z AUTO 00000KT 10SM CLR M04/M09 A3050 RMK AO2 K06D 261555Z AUTO 33026G31KT 10SM CLR 02/00 A2980 RMK AO2 K04W 261614Z AUTO 21003KT 3SM -SN OVC005 M02/M03 A2967 RMK AO2 MNMG 261600Z 08020KT 9999 SCT022 29/19 Q1015 A2998 NOSIG GQPP 261600Z 07007KT 5000 DU NSC 26/01 Q1018 NOSIG GQPZ 261500Z 12016KT 7000 VCBLSA NSC 24/M08 Q1022 MMVR 261547Z 00000KT 7SM SCT250 23/14 A3027 RMK 8/001 HZY K08D 261555Z AUTO 30010KT 10SM OVC090 02/00 A2993 RMK AO2 LWOH 261500Z 33009KT 9999 SCT033 SCT090 BKN200 02/00 Q1015 SLCA 261600Z 00000KT 9999 SCT036 30/19 Q1014 SLCB 261600Z 00000KT 9999 SCT025 21/07 Q1025 LXGB 261550Z 07005KT 9999 FEW020 15/09 Q1026 NOSIG MNPC 261600Z 36012KT 6000 VCRA BKN016TCU SCT100 25/24 Q1016 TCURA N NE E SE NFFN 261600Z 13004KT 9999 FEW028 23/22 Q1001 NOSIG YHID 261600Z AUTO 29006KT 9999 // SCT019 BKN023 OVC075 27/26 Q1007 MMZC 261506Z RTD 01005KT 10SM BKN080 BKN200 09/03 A3043 RMK 8/077 SLCO 261617Z 36008KT 0800 +RA BKN004 SCT020CB OVC070 24/24 Q1012 SLCP 261600Z 00000KT 3000 -RA BKN010 OVC070 23/23 Q1016 MMZH 261545Z 00000KT 7SM BKN250 27/21 A2998 RMK 8/002 SKLT 261600Z 00000KT 9999 SCT012 BKN080 28/25 A2987 MMZO 261555Z RTD 36005KT 10SM SCT100 BKN250 27/20 A2993 RMK 8/036 HZY K11R 261615Z AUTO 29005KT 10SM CLR 14/00 A3029 RMK AO2 T01410002 YGTE 261617Z AUTO 36007KT 9999 // BKN017 BKN023 BKN027 27/26 Q1004 YGTH 261600Z AUTO 16010KT 9999 // NCD 16/05 Q1011 K12N 261554Z AUTO VRB04KT M09/M12 A2995 RMK AO1 SLP158 P0002 T10891117 YHLC 261600Z AUTO 24002KT //// // ////// 27/22 Q1009 MNRS 261600Z 02010KT 9999 FEW018 28/21 Q1014 SLET 261600Z 05004KT 9999 BKN020 FEW030CB BKN070 28/21 Q1012 TBPB 261600Z 08021KT 9999 SCT020 29/22 Q1015 NOSIG LWSK 261530Z 02008KT 8000 -RA SCT015 BKN040 OVC070 03/00 Q1020 NOSIG YGTN 261600Z AUTO 28003KT //// // ////// 22/21 Q1007 SKPE 261600Z VRB02KT 9999 FEW023 25/18 A3004 LYBE 261600Z 26004KT 1500 -SNRA BR BKN003 00/00 Q1023 NOSIG MPBO 261600Z 26007KT 230V310 9000 VCSH FEW009 SCT016 OVC080 Q1017 YHML 261600Z AUTO 15005KT 9999 // SCT023 07/06 Q1017 MPDA 261600Z 11006KT CAVOK 30/19 Q1011 LYBT 261600Z 28004KT 2000 -SNRA BR BKN005 01/01 Q1023 NOSIG SKRG 261600Z 04006KT 9999 BKN020 19/13 A3028 K14Y 261615Z AUTO 27009KT 10SM BKN032 OVC043 01/M01 A2971 RMK AO2 NFNA 261600Z 00000KT 9999 FEW020 23/23 Q1001 K0A9 261615Z AUTO 25007KT 10SM -RA OVC011 02/02 A2972 RMK SLJE 261600Z 36005KT 9999 BKN015 OVC070 28/23 Q1015 YHOO 261600Z AUTO 09005KT //// // ////// 26/21 Q1008 SLJO 261600Z 32008KT 5000 -RA BKN015 FEW023CB OVC070 24/24 Q1013 SKSP 261600Z 03008KT 9999 FEW018 28/24 A2997 YHOT 261530Z AUTO 14004KT //// // ////// 06/05 Q//// K19A 261615Z AUTO 28012G21KT 10SM BKN024 BKN032 OVC038 08/04 A2979 RMK AO2 TDCF 261600Z 13005KT 9999 FEW020 29/18 Q1015 NGFU 261600Z 28023KT 9999 VCSH SCT018CB OVC100 27/25 Q1002 K0E0 261615Z AUTO 01003KT 10SM CLR 03/M01 A3039 RMK AO2 T00281009 K21D 261611Z AUTO 23003KT 10SM OVC017 00/00 A2970 RMK AO2 SLMG 261600Z 32008KT 9999 SCT015 BKN080 28/24 Q1012 SLLP 261600Z 10012KT 070V130 9999 SCT015 SCT200 12/05 Q1037 YJAB 261600Z AUTO 00000KT //// // ////// 26/25 Q1006 K20U 261555Z AUTO 26008KT 10SM CLR 04/01 A2999 RMK AO2 K20V 261614Z AUTO 00000KT 1 3/4SM BR OVC003 A3059 RMK AO2 K0F2 261550Z AUTO 26003KT 10SM CLR 11/01 A3020 RMK AO2 T01070014 K0CO 261614Z AUTO 32015KT 10SM CLR M03/M06 A3061 RMK AO2 YHSM 261600Z AUTO 18006KT //// // NCD 09/05 Q1016 HKEL 261600Z 02004KT 9999 FEW021 BKN300 21/02 YHUG 261600Z AUTO 32005KT //// // ////// 24/13 Q1005 HKEM 261400Z 05014KT 9999 FEW025TCU 26/09 NFTF 261600Z 00000KT 9999 FEW016 BKN270 22/19 Q1004 SLOR 261600Z 20008KT 9999 SCT017 16/05 Q1035 HKGA 261400Z 09008KT CAVOK 36/14 Q1009 K24J 261615Z AUTO 28014G21KT 10SM BKN040 12/04 A2992 RMK AO1 NFTL 261200Z 00000KT 9999 FEW020 24/20 Q1004 SLPO 261400Z 00000KT 9999 SCT017 13/04 Q1036 SLRA 252100Z 32004KT 9999 FEW017 BN200 28/24 Q1007 SLPS 261600Z 00000KT 9999 SCT017 FEW027CB BKN070 31/24 Q1011 SLRB 261600Z 00000KT 9999 FEW020 BKN070 30/23 Q1014 NFTV 261600Z 00000KT 9999 FEW017 20/19 Q1003 LYKV 261600Z 29003KT 240V320 9999 SCT008 BKN030 02/01 Q1022 NOSIG MPMG 261600Z 34014KT 9999 SCT020 30/21 Q1013 NOSIG K0J4 261558Z AUTO 33011G16KT 10SM SCT031 11/02 A3001 RMK AO2 SLP160 T01110022 $ SLRI 261600Z 04006KT 9999 SCT015 FEW020CB BKN200 29/23 Q1012 K1A5 261615Z AUTO 00000KT 10SM 03/00 A2978 RMK AO2 T00261002 SLSA 261600Z 32014KT 1500 TSRA BKN006 FEW020CB OVC070 24/24 Q1012 K1A6 261555Z AUTO 36003KT 10SM OVC021 00/M03 A2985 RMK AO2 T00001032 SLSB 261100Z 00000KT 2500 -RA BKN006 OVC070 23/23 Q1012 K1A9 261615Z AUTO 30011G19KT 10SM BKN024 OVC031 07/03 A2999 RMK AO2 T00720027 SLRQ 261600Z 35006KT 9999 FEW007 BKN013 BKN070 24/24 Q1012 SLSI 261600Z 36005KT 9999 BKN013 OVC070 25/23 Q1013 LYNI 261600Z 33004KT 9999 SCT010 BKN027 02/M00 Q1022 R11/2///95 NOSIG SLRY 261600Z 00000KT 9999 SCT006 BKN020 OVC080 24/23 Q1013 SMJP 261600Z 07010KT 040V100 8000 - SHRA FEW025TCU SCT030 30/21 Q1014 NOSIG SLTJ 261600Z 13005KT 9999 FEW036 26/12 Q1017 MPPA 261600Z 02010KT 9000 SCT020 Q1013 SLSU 261600Z 17008KT 9999 FEW017 18/06 Q1029 K28J 261555Z AUTO 30014G24KT 10SM FEW033 14/06 A2988 RMK AO2 HKJK 261600Z 04011KT 9999 FEW027 SCT280 24/04 Q1020 LYPG 261600Z 05010KT 9999 FEW050 BKN070 09/M03 Q1016 NOSIG SLTR 261600Z 30006KT 8000 -RA BKN004 FEW020CB OVC070 24/23 Q1013 HKKG 261300Z 32010KT 9999 SCT0030 32/06 HKKI 261600Z 29014KT 9999 FEW027CB 28/15 Q1015 ZBAA 261600Z 33007MPS CAVOK M05/M21 Q1038 NOSIG HKKR 260000Z 00000KT SKC 11/09 HKKS 261600Z 18005KT 9999 FEW025 SCT100 24/16 LZIB 261600Z 01003KT CAVOK 00/M04 Q1023 R88/CLRD// NOSIG SLVM 261600Z 00000KT 9999 FEW023 33/23 Q1008 HKKT 261600Z 11004KT 9999 FEW024 BKN290 24/07 K1F0 261555Z AUTO 00000KT 10SM CLR 08/00 A3019 RMK AO2 HKME 261300Z 11005KT 9999 FEW025TCU SCT240 25/15 HKLO 261300Z 05014KT SKC 35/14 SLVR 261600Z 35006KT 9999 SCT010 BKN015 BKN070 28/22 Q1013 HKML 261600Z 07014KT CAVOK 27/22 Q1011 HKNC 261600Z 07009KT CAVOK 23/03 Q1021 HKLU 261300Z 09008KT 99 FEW025 SCT280 29/21 HKMO 261600Z 06010KT 9999 FEW024 26/21 Q1012 NOSIG GUCY 261600Z 20008KT 5000 HZ NSC 30/23 Q1010 NOSIG SLYA 261600Z 05008KT 9999 FEW023 33/24 Q1010 YJLC 261600Z AUTO 21010KT //// // ////// 27/03 Q1004 HKNI 261300Z 10007KT 9999 FEW026TCU 25/10 TDPD 261600Z 11010KT 9999 SCT018 28/21 Q1017 HKNK 261600Z 36005KT 9999 FEW025 25/00 HKMU 261500Z 09006KT CAVOK 30/09 K1H2 261555Z AUTO 27009KT 10SM BKN013 M02/M07 A3004 RMK AO2 T10251069 CERM 261600Z AUTO 29007KT M16/M24 RMK AO1 SOG 26 1019 SLP230 T11641235 50002 HKNO 260600Z 20004KT SKC 16/09 HKMY 261500Z 09004KT CAVOK 30/06 K33V 261616Z AUTO 00000KT 10SM CLR M06/M09 A3050 RMK AO2 HKNW 261600Z 06012KT 9999 FEW026 24/04 Q1019 MPTO 261600Z 35010KT 9999 SCT020 31/21 Q1012 NOSIG HKNY 261400Z 03010KT 9999 FEW028 25/00 Q1021 NGTT 261600Z 32008KT 9999 FEW020 27/23 Q1005 K1J0 261558Z AUTO 29009G16KT 10SM BKN033 11/03 A2999 RMK AO2 SLP140 T01060033 YIVO 261600Z AUTO 20006KT //// // ////// 16/02 Q1011 LYTV 261600Z VRB01KT CAVOK 10/04 Q1016 NOSIG LZKZ 261600Z 03008KT CAVOK 01/M02 Q1021 NOSIG K1K1 261615Z AUTO 28010KT 10SM CLR 08/00 A3004 RMK AO2 T00751002 HKRE 261600Z 06009KT 9999 FEW027 BKN310 24/08 Q1021 LYUZ 261600Z 34005KT 310V020 0500 FZFG VV002 M04/M04 Q1018 R10/////// LYVR 261600Z 23002KT 5000 BR BKN013 02/02 Q1022 NOSIG K1II 261615Z AUTO 29006KT 10SM BKN017 M02/M07 A2997 RMK AO2 K1L0 261555Z AUTO 34009G16KT 10SM CLR 12/02 A3016 RMK AO2 T01230015 GVAC 261600Z 05017KT 9999 SCT015 SCT100 BKN200 22/16 Q1016 NOSIG K36U 261555Z AUTO 00000KT 7SM CLR M05/M06 A3045 RMK AO2 SOCA 261600Z AUTO 04011KT 010V070 9999 SCT028/// BKN034/// BKN043/// 29/21 Q1013 GVBA 261600Z 05016KT 9999 FEW015 SCT100 BKN200 22/17 Q1016 NOSIG K2C8 261555Z AUTO 35015G18KT 10SM BKN018 OVC025 01/00 A2977 RMK AO2 ZBHH 261600Z 09002MPS 040V120 CAVOK M18/M22 Q1034 NOSIG K1M4 261556Z AUTO 33005KT 10SM 02/M01 A3006 RMK AO2 T00161005 SLP190 $ K0V4 261555Z AUTO 04004KT 7SM OVC005 06/06 A2968 RMK AO1 T00620060 K2D5 261615Z AUTO 29013KT 10SM 03/01 A2983 RMK AO2 K40J 261615Z AUTO 29015G20KT 10SM SCT036 13/05 A2993 RMK AO2 T01270046 YKII 261600Z AUTO 00000KT 9999 // NCD 07/06 Q1018 LZPP 261600Z 33003KT 9999 BKN040 M00/M04 Q1022 HLLM 261555Z 28010KT 8000 FEW030 SCT080 13/02 Q1015 AYGN 260600Z 27010KT 9999 SCT020 33/22 Q1006 K0VG 261555Z AUTO 28010KT 10SM FEW018 BKN024 00/M02 A2981 RMK AO2 YLBD 261600Z AUTO 29004KT 9999 // SCT014 28/26 Q1006 K42J 261615Z AUTO 31015G25KT 9SM FEW036 14/06 A2987 RMK AO1 TSNO MSAC 261550Z 08010KT CAVOK 30/15 Q1012 A2989 K1P1 261615Z AUTO 00000KT 10SM SCT120 M12/M18 A3016 RMK AO2 T11171183 TFFF 261600Z AUTO 08019KT 9999 SCT029 SCT034 28/21 Q1015 HKVO 261600Z 09004KT 9999 FEW025 29/16 K2G4 261600Z AUTO 13006KT 1 3/4SM BR OVC005 M03/ A2962 RMK AO1 K2DP 261556Z AUTO 02003KT 10SM CLR 09/08 A2964 RMK AO2 LTG DSNT SW SLPNO T00900075 HKWJ 260700Z 08012KT CAVOK 28/17 K2G9 261615Z AUTO 10004KT 10SM UP SCT012 SCT020 OVC033 M05/M07 A2968 RMK AO2 LZSL 261600Z 10001KT 9999 OVC036 01/M03 Q1020 TFFR 261600Z 11015KT 090V150 9999 SCT026 28/20 Q1016 NOSIG MRLB 261600Z 07004KT CAVOK 30/15 A2989 K2I0 261615Z AUTO 33008G15KT 10SM OVC014 00/M02 A3005 RMK AO2 T00031018 YLEC 261600Z AUTO 19008KT //// // ////// 17/09 Q1013 K1R7 261615Z AUTO 30008KT CLR 09/02 A3017 RMK AO2 LZTT 261600Z VRB01KT 9999 -SN FEW013 SCT023 BKN053 M03/M05 Q1019 NOSIG MRLM 261600Z 25004KT 7000 +DZ HZ BKN010 SCT090 23/21 A3003 YKMP 261600Z AUTO 13007KT //// // ////// 22/20 Q1009 SMZO 261600Z 09014KT 9999 SCT025 30/22 Q1014 NOSIG K46D 261615Z AUTO 10SM CLR 01/01 A2985 RMK AO2 K2J9 261555Z AUTO 32012G17KT 10SM BKN032 13/03 A2997 RMK AO1 P0016 YLEO 261600Z AUTO 10014KT 9999 // NCD 28/04 Q1010 YKNT 261600Z AUTO 01005KT //// // ////// 23/21 Q1011 MROC 261600Z 11015G25KT 9999 FEW045 25/13 A3004 NOSIG AYMO 260000Z VRB02KT 9999 BKN018 SCT140 BKN300 28/23 QNIL YKOW 261600Z AUTO 00000KT //// // NCD 25/24 Q1005 K3D2 261615Z AUTO 21004KT 10SM BKN020 OVC028 M05/M09 A2990 RMK AO2 T10541095 YLHI 261600Z AUTO 21013G23KT 9999 // BKN023 OVC028 23/18 Q1006 K1V4 261554Z AUTO M19/M22 A3015 RMK AO1 SLP242 T11891222 K1V6 261615Z AUTO 27017KT 10SM CLR 12/M02 A3031 RMK AO2 SPCL 261600Z 34007KT 9999 SCT015 BKN080 28/23 Q1013 RMK BIRD HAZARD RWY 02/20 PP000 YLHR 261600Z AUTO 33006KT //// // SCT021 BKN085 27/24 Q1006 LZZI 261600Z 00000KT 9999 OVC029 00/M03 Q1021 YKSC 261600Z AUTO 19007KT 9999 // OVC047 14/07 Q1018 MRPV 261600Z 07020G30KT CAVOK 21/13 A3008 NOSIG YMBA 261600Z AUTO 00000KT //// // ////// 22/21 Q1008 YLIS 261600Z AUTO 14004KT 9999 // SCT035 BKN041 23/23 Q1007 ZBSJ 261600Z 16001MPS CAVOK M01/M12 Q1037 NOSIG OAHR 261554Z 30002KT 8000 NSC 01/M04 Q1028 RMK SCK VIS MIN 8000 BLU YMBD 261600Z AUTO 18010KT //// // ////// 13/07 Q1018 YKRY 261600Z AUTO 11006KT //// // ////// 22/20 Q1007 ZBTJ 261600Z 35006MPS CAVOK M04/M19 Q1036 NOSIG AYPY 261000Z 29003KT 9999 -DZ BKN020 28/25 Q1007 RMKS OAKB 261550Z 16005KT CAVOK M01/M06 Q1020 NOSIG RMK BLU BLU YMAV 261600Z AUTO 16007KT 9999 // NCD 12/08 Q1016 YLLE 261600Z AUTO 18013KT //// // ////// 22/03 Q1008 YMAY 261600Z AUTO 14005KT 9999 // NCD 16/09 Q1012 GVNP 261600Z 03016KT CAVOK 23/15 Q1015 NOSIG OBBI 261600Z 05004KT 020V080 8000 NSC 18/12 Q1022 NOSIG K54J 261555Z AUTO 33011G15KT 10SM SCT028 10/03 A3000 RMK AO2 T01030027 SPGM 261600Z /////KT 1000 -RA BR OVC010 22/21 Q1016 RMK PP010 YMCO 261600Z AUTO 30005KT //// // ////// 14/11 Q1016 NIUE 252000Z 16005KT 9999 FEW020 27/22 Q1014 K3I2 261615Z AUTO 30006KT 1 3/4SM -SN BKN009 OVC014 M01/M02 A2982 RMK AO2 YMDG 261600Z AUTO 15006KT //// // OVC025 19/15 Q1011 SPHI 261600Z 21008KT 160V240 CAVOK 26/19 Q1012 RMK PP000 SPHO 261600Z VRB02KT 9000 VCSH FEW030 BKN070 18/10 Q1027 RMK PP000 MSLP 261550Z 36012G22KT CAVOK 29/15 Q1014 A2994 YMEK 261601Z AUTO 10018G30KT 9999 // NCD 23/15 Q1009 K4A6 261555Z AUTO 34009G14KT 10SM OVC019 02/M01 A2999 RMK AO2 K3J7 261615Z AUTO 28008G16KT 230V330 10SM BKN027 OVC034 11/06 A2975 RMK AO2 LTG DSNT SE MSLU 261550Z 00000KT CAVOK 30/15 Q1014 A2995 K1YT 261556Z AUTO 00000KT 1/16SM FG VV002 00/00 A3007 RMK AO2 SLPNO T00030001 SPIM 261600Z 18008KT 140V230 CAVOK 26/19 Q1012 NOSIG RMK PP000 K4A9 261615Z AUTO 30005G17KT 10SM OVC010 01/M01 A2994 RMK AO2 YMEN 261600Z AUTO 15007KT 9999 // NCD 13/07 Q1016 SPHY 261600Z /////KT 9000 SCT013 BKN060 12/07 Q1033 RMK BIRD HAZARD RWY 03/21 RMK PP000 K3K3 261555Z AUTO 27009G14KT 10SM CLR 06/00 A3021 RMK AO2 YMER 261600Z AUTO 27004KT 9999 // OVC044 16/11 Q1016 YMES 261600Z AUTO 18006KT 9999 // ////// 14/09 Q1017 SPJI 261600Z 00000KT 9999 BKN030 30/25 Q1020 RMK PP000 YMGB 261600Z AUTO 28005KT //// // ////// 27/26 Q1006 SPJJ 252110Z 09013KT 9999 SCT040TCU 18/06 Q1022 OAMS 261550Z 01001KT 9000 BKN030 02/00 Q1034 BLU BLU+ TEMPO BLU YMGD 261600Z AUTO 28006KT 9999 // NCD 27/26 Q1006 SPJL 261600Z 11012KT 9999 VCSH FEW010 BKN080 09/05 Q1037 RMK PP000 SPJR 261600Z 17005KT 9999 SCT030 BKN043 18/11 Q1027 RMK BIRD HAZARD RWY 16/34 PP000 YMHB 261600Z 12005KT 9999 FEW039 BKN050 BKN075 13/08 Q1017 ZBYN 261600Z 35004MPS CAVOK M04/M17 Q1030 NOSIG AYWK 260300Z 36002KT 9999 FEW020 SCT140 BKN300 31/24 Q1009 RMKS K2V5 261615Z AUTO 29013KT 10SM CLR 11/M01 A3017 RMK AO2 T01141011 YMIA 261600Z AUTO 17008KT 9999 // NCD 16/04 Q1014 YLRE 261600Z AUTO 23010KT 9999 // NCD 28/02 Q1003 SPME 261600Z 35008KT 9999 OVC017 26/23 Q1011 RMK BIRD HAZARD RWY 32/14 PP000 SPLO 261600Z 17007KT 9999 FEW030 24/19 Q1008 TMK PP000 GVSV 261600Z 06024KT 9999 FEW022 BKN100 BKN200 23/15 Q1017 NOSIG K4BM 261616Z AUTO 04006G22KT 010V080 10SM CLR 04/M14 A3056 RMK AO2 K3LF 261555Z AUTO 27005KT 10SM OVC023 M03/M06 A3002 RMK AO2 T10291057 K2W6 261558Z AUTO 05004KT 10SM OVC009 02/01 A2976 RMK AO1 YMHU 261600Z AUTO 35002KT 9999 // SCT090 SCT115 26/26 Q1005 K3N8 261555Z AUTO 29009KT 10SM BKN045 00/M01 A2970 RMK AO2 T00001015 YMIN 261600Z AUTO 16008KT //// // ////// 11/07 Q1017 SPMS 261600Z 04004KT 6000 -RA BKN015 SCT070 24/23 Q1016 RMK BIRD HAZARD 09/27 PP020 MSSA 261550Z 32008G19KT CAVOK 24/14 Q1022 A3020 YNAR 261600Z AUTO 00000KT //// // ////// 15/06 Q1012 YLST 261600Z AUTO 32010KT 9999 // SCT092 26/14 Q1010 YLTN 261600Z AUTO 10015KT //// // ////// 26/04 Q1012 MSSM 261550Z 36005G16KT CAVOK 29/14 Q1014 A2994 DAAD 261600Z 36020KT 7000 BKN030 09/M00 Q1023 YNBR 261600Z AUTO 16004KT //// // ////// 21/18 Q1008 DAAE 261600Z 26008KT 8000 -RA SCT016 FEW023CB BKN040 08/06 Q1023 YMMB 261600Z AUTO 14004KT 9999 // NCD 10/06 Q1016 DAAG 261600Z 34011KT 9999 FEW020 FEW026CB BKN040 11/04 Q1026 MSSS 261550Z 33012KT CAVOK 24/16 Q1019 A3010 RMK G18KT YLTV 261600Z AUTO 00000KT 9999 // OVC048 13/08 Q1016 DAAJ 261600Z 27009KT CAVOK 17/M01 Q1019 DABB 261600Z 35009KT 7000 -RA FEW023 SCT026CB BKN040 11/08 Q1016 REGR DABC 261600Z 31016KT 3000 -SN RA SCT013TCU BKN023 02/00 Q1020 K4I3 261617Z AUTO 34012KT 10SM SCT013 M04/M07 A2980 RMK AO2 MUCF 261550Z 35004KT 300V020 9999 BKN035 22/15 Q1019 K2WX 261556Z AUTO 29009KT 08/00 A2993 RMK AO1 SLP149 T00830000 YMLT 261600Z AUTO 18006KT 9999 // NCD 11/05 Q1016 DAAP 261600Z 33020KT 8000 NSC 14/M09 Q1020 K4I7 261615Z AUTO 28004KT 7SM OVC014 M04/M09 A2998 RMK AO2 K3R7 261555Z AUTO 36009KT 10SM CLR 10/02 A3020 RMK AO2 T01000023 YMML 261600Z 15009KT 9999 FEW045 12/06 Q1016 NOSIG YMNE 261600Z AUTO 32010KT 9999 // SCT125 21/18 Q1012 MUCL 261551Z 30008KT 270V340 9999 FEW020 24/14 Q1018 DAAS 261600Z 28008KT 4000 -SN SCT010 BKN026 01/M02 Q1020 DAAT 261600Z 30013KT CAVOK 17/// Q1020 MUCM 261550Z 30010KT 250V330 9000 SCT018 26/18 Q1017 YMNG 261600Z AUTO 19011KT 9999 // NCD 13/05 Q1014 DAAV 261600Z 30016KT 6000 TSRA SCT016TCU FEW023CB BKN030 09/05 Q1021 TGPY 261600Z 13020KT 9999 -SHRA BKN017TCU SCT035 27/25 Q1014 TEMPO SHRA TCU-ALL QUADS DAAY 261600Z 36014KT CAVOK 11/M00 Q1027 SPQT 261600Z 36006KT 310V040 9999 BKN020 BKN100 29/24 Q1011 NOSIG RMK BIRD HAZARD RWY 06/24 PP000 K65S 261615Z AUTO 09003KT 10SM OVC003 02/01 A3011 RMK AO2 SPQU 261600Z 26010KT 210V290 9999 FEW070 21/07 Q1024 NOSIG RMK PP000 YNEN 261600Z AUTO 26012KT 9999 // OVC230 29/24 Q1008 DABS 261600Z 34017KT 9999 SCT013 BKN030 04/02 Q1016 MUCU 261551Z 16006KT 140V200 9999 FEW030 29/17 Q1016 DABT 261600Z 28018KT 7000 SCT020 BKN023 03/01 Q1019 RERA YMOG 261600Z AUTO 05005KT //// // ////// 23/17 Q1008 K3T5 261555Z AUTO 00000KT 10SM CLR 12/04 A3026 RMK AO2 T01220044 K66R 261555Z AUTO 34003KT 10SM CLR 12/03 A3028 RMK AO2 T01210029 SPRU 261600Z 14006KT 9999 BKN020 OVC130 22/18 Q1012 RMK PP000 K5C1 261555Z AUTO 33004KT 10SM CLR 16/02 A3029 RMK AO1 SPSO 261600Z 30008KT CAVOK 22/19 Q1011 RMK BIRD HAZARD RWY 22/04 PP000 YMOR 261600Z AUTO 13004KT 9999 // NCD 21/19 Q1007 DAEF 261600Z 30016KT CAVOK 12/M09 Q1020 SPST 261600Z 31004KT 9999 FEW025 SCT100 29/22 Q1011 RMK BIRD HAZARD RWY 17/35 PP000 SPTN 261600Z 20004KT CAVOK 25/15 Q1009 RMK PP000 DAEN 261500Z 30018KT 8000 NSC 13/M04 Q1021 YMRB 261600Z AUTO 00000KT 9999 // NCD 25/23 Q1003 YNHL 261600Z AUTO 16009KT //// // ////// 11/06 Q1016 DAFH 261600Z /////KT 5000 DRSA FEW033 09/M03 Q1022 MUHA 261555Z 24007KT 200V290 9999 SCT025 23/14 Q1018 SPTU 261600Z 21009KT 0400 +RA FG BKN004 OVC025 23/23 Q1011 RMK BIRD HAZARD RWY 01/19 PP160 K4M9 261555Z AUTO 33007KT 10SM 03/M02 A3012 RMK AO2 MUGM 261556Z 16005KT 9999 SCT034 SCT270 29/21 A3001 RMK SLP163 T02940211 MTPP 261600Z VRB02KT 9999 FEW026 30/// Q1016 A3002 MUHG 261551Z 20002KT 5000 VCFG SCT018 25/20 Q1016 K4O4 261615Z AUTO 31006KT 10SM CLR 09/00 A3019 RMK AO2 YMRY 261600Z AUTO 24003KT 9999 // SCT005 BKN023 BKN031 15/15 Q1015 YMTG 261600Z AUTO 29004KT 9999 // NCD 07/05 Q1018 YMTI 261600Z AUTO 00000KT //// // ////// 27/24 Q1005 K4MR 261556Z AUTO 28010KT 10SM CLR 04/M02 A3031 RMK AO2 SLP265 T00441021 K5H4 261555Z AUTO 29011KT 10SM CLR 01/M01 A2987 RMK AO2 SPZA 261530Z 26005KT CAVOK 29/17 Q1013 SPYL 261600Z 15015KT CAVOK 29/19 Q1012 RMK BIRD HAZARD RWY 17/35 PP000 DBBB 261600Z 19011KT 8000 SCT012 30/26 Q1008 NOSIG K6A2 261615Z AUTO 30009G15KT 10SM OVC020 07/05 A2986 RMK AO2 SPZO 261600Z VRB02KT 9999 SCT040 BKN100 17/04 Q1030 NOSIG RMK PP000 UAAA 261600Z 02002MPS 3900 BR FU SCT100 M18/M21 Q1035 R88/CLRD65 NOSIG K6B0 261555Z AUTO 35007KT 10SM SCT120 M13/M20 A3014 RMK AO2 T11321198 UAAH 261130Z 13002MPS CAVOK M23/M27 Q1039 R05/450140 RMK QFE741/0988 YMYB 261600Z AUTO 14005KT 9999 // BKN017 BKN021 OVC048 26/23 Q1005 DAMH 261600Z 29016KT CAVOK 14/M03 Q1022 UACC 261600Z 20002MPS 9000 SKC M32/M36 Q1042 R22/8/0065 NOSIG RMK QFE750/1000 DAOB 261600Z 32011KT 9999 BKN023 07/01 Q1024 TJBQ 261550Z 11005KT 10SM FEW010 28/19 A3002 RMK RWY08 ATIS H DAOF 261600Z 00000KT CAVOK 22/M07 Q1024 YNRC 261600Z AUTO 16007KT //// // ////// 07/05 Q1018 UACK 261600Z 23006MPS 9999 DRSN NSC M22/M26 Q1038 R20/450542 NOSIG RMK QFE754/1006 DAOI 261600Z 26003KT 9999 SCT023 14/04 Q1026 K79J 261556Z AUTO 36014G23KT 10SM BKN032 13/02 A3000 RMK AO2 SLP157 T01280022 UADD 261600Z 32001MPS 9999 NSC M15/M17 Q1034 R13/492031 NOSIG RMK QFE717/0956 K5M9 261555Z AUTO 29006KT 10SM OVC013 M02/M04 A3005 RMK AO2 T10171042 UACP 261130Z 24007MPS 9999 DRSN NSC M23/M25 Q1038 R23/8/99// NOSIG RMK QFE765/1021 DAON 261600Z 00000KT CAVOK 16/01 Q1025 DAOO 261600Z 21002KT 9999 FEW020 16/06 Q1026 DAOR 261600Z 28010KT CAVOK 16/M04 Q1025 YPAD 261600Z 18007KT CAVOK 14/08 Q1017 FM1600 MOD TURB BLW 5000FT K82C 261615Z AUTO 15008KT 2 1/2SM -SN BKN028 OVC036 M06/M08 A2979 RMK AO2 T10601078 YPAG 261600Z AUTO 17015KT //// // NCD 16/08 Q1015 DAOV 261600Z 00000KT 9999 FEW020 12/04 Q1025 YNSM 261600Z AUTO 09015KT //// // ////// 18/10 Q1014 OEAB 261600Z 21010KT CAVOK 16/10 Q1027 NOSIG MUSC 251736Z 02007KT 7000 BKN010 OVC025 19/17 Q1018 OEAH 261600Z 15005KT CAVOK 17/M01 Q1021 NOSIG OEBA 261600Z 09008KT CAVOK 21/M12 Q1023 NOSIG YPCC 261600Z AUTO 15010KT 9999 -SHRA SCT040 BKN082 26/24 Q1012 RESHRA YOLD 261600Z AUTO 16010KT 9999 // NCD 18/08 Q1013 YNTN 261600Z AUTO 05004KT //// // ////// 24/24 Q1004 YPBO 261600Z AUTO 30013KT 9999 // NCD 31/19 Q1006 K82V 261615Z AUTO 30019G22KT 10SM CLR 12/M04 A3023 RMK AO2 OEAO 261600Z 00000KT CAVOK 25/M06 Q1018 OEBH 261600Z 06005KT CAVOK 20/M16 Q1020 NOSIG MWCB 261600Z 32005KT 9999 FEW020 27/22 Q1017 K6I2 261610Z AUTO 00000KT 10SM OVC012 M03/M05 A2996 RMK AO2 YPEA 261600Z AUTO 10019G30KT 9999 // NCD 29/04 Q1007 YPED 261600Z AUTO 13004KT 030V190 9999 // NCD 12/07 Q1017 K5R8 261555Z AUTO 35007KT 10SM CLR 11/01 A3022 RMK AO2 T01070012 YOLW 261600Z AUTO 23011KT //// // ////// 25/21 Q1006 DAUA 261600Z 36014KT CAVOK 18/M04 Q1024 YPDN 261600Z 27005KT CAVOK 26/25 Q1006 DAUB 261600Z 34015KT 9999 SCT040 14/03 Q1018 TJIG 261600Z 11009KT 10SM SCT040 29/21 A3003 RMK RY09 IN USE ATIS F DATM 261200Z 02023KT CAVOK 19/M11 Q1020 OEDF 261600Z 13006KT CAVOK 17/07 Q1022 NOSIG DAUE 261600Z 34013KT CAVOK 14/M06 Q1024 UAII 261600Z 00000MPS 1500 R10/P2000 BR BKN050 M11/M13 Q1035 R10/850545 TEMPO 0700 -SN FZFG BKN003 RMK QFE740/0987 MWCR 261600Z 01006KT 330V060 9999 SCT016 27/23 Q1017 DAUG 261600Z 35022KT 2000 DRSA SCT040 12/M05 Q1022 DAUH 261600Z 33014KT 5000 SCT046 15/M02 Q1020 YOOD 261600Z AUTO 16009KT //// // ////// 23/04 Q1011 DAUI 261500Z 36014KT CAVOK 18/M09 Q1023 YNWN 261200Z AUTO 18013KT 070V190 9999 // OVC091 OVC120 29/19 Q1007 OEDM 261600Z 12010KT CAVOK 18/M12 Q1020 DAUK 261600Z 32016KT CAVOK 15/M01 Q1019 DAUL 261600Z 36020KT 9999 BKN030 09/M04 Q1022 DAUO 261600Z 320//KT 9999 FEW033 15/01 Q1018 MUVR 261550Z 25010KT 9000 SCT025 BKN100 22/13 Q1018 UBBB 261530Z 14012KT 9999 BKN017 06/03 Q1025 88CLRD70 NOSIG YOOM 261600Z AUTO 18006KT //// // ////// 20/06 Q1009 UAKD 261100Z 05003MPS 7000 NSC M24/M28 Q1040 R04/95//40 NOSIG RMK QFE746/0995 DAUT 261600Z 06008KT CAVOK 17/M07 Q1025 ZGGG 261600Z VRB01MPS 4500 BR SCT030 16/15 Q1018 NOSIG DAUU 261600Z 31012KT 6000 FEW046 SCT100 15/M04 Q1020 UBBG 261530Z 00000KT 9999 BKN083 04/M01 Q1023 R30/CLRD70 NOSIG K6L4 261615Z AUTO VRB06G14KT 1/4SM -SN OVC021 M00/M00 A2973 RMK AO2 ZGHA 261600Z 33003MPS 1000 R36/1600N BR SCT003 BKN004 OVC033 08/07 Q1023 NOSIG TIST 261553Z 12013KT 10SM FEW034 28/21 A3003 RMK AO2 SLP169 T02830211 DAUZ 261600Z 27017KT 8000 NSC 13/M10 Q1018 UAKK 261600Z 08002MPS CAVOK M33/M37 Q1039 R05/920555 NOSIG RMK QFE731/0975 UBBL 261600Z 00000KT 9000 BKN026 06/05 Q1025 R33/CLRD70 RMK MT OBSC UBBN 261530Z 27002KT 4000 BR SCT100 03/M02 Q1020 R14R/CLRD60 NOSIG RMK MT OBSC QFE689 TISX 261553Z 11015KT 10SM FEW026 BKN120 29/21 A3003 RMK AO2 SLP167 T02890206 K5SM 261614Z AUTO 00000KT 10SM CLR 02/M05 RMK AO2 UBBQ 261500Z 24005KT 9999 OVC030 05/02 Q1023 R16/CLRD70 NOSIG RMK MT OBSC YPGV 261600Z AUTO 00000KT 9999 // SCT110 25/25 Q1006 OEGN 261600Z 18008KT CAVOK 27/21 Q1016 NOSIG K7BM 261614Z AUTO 00000KT 10SM CLR 08/M11 A3050 RMK AO2 UBBY 261500Z 00000KT 9999 OVC045 05/M02 Q1025 R33/////// NOSIG RMK MT OBSC OEGS 261600Z 00000KT CAVOK 21/M02 Q1018 OEGT 261500Z 28008KT CAVOK 18/03 Q1017 NOSIG OEHL 261600Z 26006KT CAVOK 21/M08 Q1020 NOSIG UBEE 261500Z 00000KT CAVOK 07/02 Q1024 R30/CLRD70 NOSIG YPKA 261600Z AUTO 29011KT 9999 // BKN021 28/23 Q1006 YPKG 261600Z AUTO 08013KT 9999 // NCD 24/M01 Q1013 TJNR 261553Z AUTO 11011KT 10SM FEW033 BKN065 27/21 A3006 RMK AO2 SLP178 T02720211 $ YPJT 261600Z AUTO 10017KT 9999 // NCD 28/03 Q1008 YPLC 261600Z AUTO 15013KT 9999 // BKN041 16/09 Q1018 ZHCC 261600Z 01006MPS 2500 BR OVC030 01/M03 Q1032 NOSIG ZGKL 261600Z 03003MPS 010V150 2900 BR FEW033 OVC066 14/11 Q1018 NOSIG UAOO 261600Z 02004MPS CAVOK M21/M23 Q1041 R06/CLRD70 NOSIG RMK QFE769/1025 OEJN 261600Z 18009KT CAVOK 27/20 Q1014 NOSIG YPKS 261600Z AUTO 07007KT //// // ////// 19/14 Q1010 YPKT 261600Z AUTO 27004KT //// // ////// 28/25 Q1005 OEKJ 261600Z 15007KT CAVOK 19/M06 Q1023 YPKU 261600Z AUTO 22006KT 9999 // NCD 27/23 Q1006 OEKK 261600Z 16005KT CAVOK 18/M03 Q1019 NOSIG YPLM 261600Z AUTO 24017KT 9999 // NCD 24/19 Q1006 OEKM 261600Z 24008KT CAVOK 17/09 Q1026 NOSIG K6R3 261240Z AUTO 00000KT 10SM CLR 08/01 A3020 RMK AO2 T00750012 K6R6 261553Z AUTO 26006KT 11/02 A3032 RMK AO1 SLP255 T01110017 TJPS 261550Z 11010KT 10SM FEW030 30/22 A3000 OEMA 261600Z 35004KT CAVOK 26/M22 Q1019 NOSIG K8A0 261555Z AUTO 32008G15KT 10SM OVC013 02/01 A2996 RMK AO2 K96D 261555Z AUTO 34021G29KT 10SM 02/01 A2979 RMK AO2 YPMQ 261600Z AUTO 13006KT 9999 // SCT029 SCT034 BKN045 22/20 Q1009 SUAA 261600Z 05004KT 9999 FEW030 SCT070 BKN200 32/19 Q1009 YPOD 261600Z AUTO 00000KT 9999 // NCD 06/05 Q1018 OEMK 261600Z 26004KT CAVOK 28/19 Q1014 ZGNN 261600Z VRB01MPS 6000 SCT009 17/16 Q1016 NOSIG OENG 261600Z 08006KT CAVOK 17/M12 Q1023 NOSIG UARR 261600Z 13006MPS CAVOK M20/M23 Q1041 R22/711065 NOSIG RMK QFE777/1037 TJSJ 261556Z 08014KT 10SM FEW035 SCT080 29/20 A3001 RMK AO2 SLP162 T02940200 UASK 261600Z 01001MPS 2500 BR PRFG FEW003 M37/M41 Q1045 R12/850242 TEMPO 2000 BR SCT003 RMK QBB090 QFE758/1011 YPPD 261600Z AUTO 33006KT 9999 // SCT024 27/23 Q1006 YPPF 261600Z AUTO 19001KT 9999 // NCD 13/08 Q1017 UATE 261600Z 10011MPS 2700 DU NSC M06/M19 Q1030 R12/0///70 NOSIG RMK QFE771/1028 K7L2 261555Z AUTO 29010KT 10SM CLR 03/02 A2993 RMK AO2 UATG 261600Z 11008MPS CAVOK M13/M17 Q1038 R14/82//68 NOSIG RMK QFE780/1041 UASP 261600Z 17004MPS CAVOK M32/M36 Q1045 R21/0///60 NOSIG RMK QFE772/1029 YPPH 261611Z 09020G30KT CAVOK 28/03 Q1007 SUCA 261600Z 36008KT 9999 FEW020 BKN200 32/19 Q1007 UASS 261030Z 16002MPS CAVOK M30/M34 Q1046 R26/82//45 NOSIG RMK QFE765/1021 OEPA 261600Z 12010KT CAVOK 24/12 Q1019 NOSIG ZGOW 261600Z VRB01MPS 2800 BR BKN026 16/16 Q1019 NOSIG ZHHH 261600Z 03003MPS 350V070 2800 BR SCT018 07/04 Q1025 NOSIG K8D3 261556Z AUTO 33019G26KT 04/01 A2979 RMK AO1 PK WND 33026/1550 SLP106 T00440006 UATT 261600Z 15002MPS CAVOK M28/M31 Q1042 R13/820255 NOSIG RMK QFE761/1015 CMGB 261615Z AUTO 04005KT M15/M22 RMK AO1 SOG 13 8001 SLP236 T11531219 CMFM 261600Z AUTO 35003KT M18/M25 RMK AO1 SOG 76 1010 SLP204 T11831249 50010 UAUU 261600Z 17003MPS CAVOK M24/M27 Q1039 R15/820260 NOSIG RMK QFE762/1017 OERF 261600Z 20010KT 9999 SCT040 BKN100 23/M02 Q1016 SUDU 261600Z 04008KT 9999 FEW030 32/21 Q1008 OERK 261600Z 15004KT CAVOK 19/M09 Q1022 NOSIG OESH 261600Z 07005KT CAVOK 20/M03 Q1021 NOSIG OERR 261600Z 10003KT 8000 FEW040 BKN100 19/05 Q1016 NOSIG OETB 261600Z 23008KT CAVOK 23/07 Q1017 NOSIG OESK 261600Z 00000KT 9999 SCT040 BKN100 22/M04 Q1018 NOSIG YPTN 261619Z AUTO 32005KT 9999 SHRA SCT013 BKN060 OVC110 23/22 Q1007 RESHRA UCFM 261200Z 28003MPS 250V360 9000 NSC M12/M15 Q1034 R26/CLRD70 NOSIG UCFO 261600Z 10001MPS 2600 BR FU BKN007 BKN050 M03/M05 Q1031 R12/19//65 TEMPO 1000 BR FU OETF 261600Z 32006KT CAVOK 21/09 Q1022 NOSIG ZGSZ 261600Z 11003MPS 5000 BR SCT033 18/15 Q1018 NOSIG OERY 261500Z 13010KT CAVOK 21/M04 Q1022 TKPK 261600Z 09011KT 9999 FEW023 29/23 Q1017 TKPN 261600Z 10015KT 9999 SCT018 29/21 Q1016 OETR 261600Z 19005KT 9999 SCT030 BKN100 17/04 Q1017 NOSIG SVAC 261600Z 1010/KT 9999 BKN017 ///// Q1015 YREN 261600Z AUTO 19010KT //// // ////// 14/06 Q1015 OEWD 261600Z 12006KT CAVOK 18/02 Q1020 NOSIG YPWR 261600Z AUTO 15015KT 9999 // NCD 17/08 Q1014 OEWJ 261600Z 33005KT CAVOK 24/19 Q1015 NOSIG YPXM 261600Z AUTO 23003KT 9999 // NCD 24/22 Q1013 SVBC 261600Z 36010KT 9999 FEW010 32/24 Q1014 SVBI 261600Z 11004KT 9999 SCT020 SCT080 29/26 Q1014 SVBM 261600Z 11012KT 9999 SCT016 27/17 Q1016 MYGF 261600Z 26013KT 9999 BKN025 22/17 A2988  SVBS 261600Z 27005KT 9999 SCT013 30/20 Q1015 K9D7 261555Z AUTO 33022G27KT 10SM CLR 03/00 A2981 RMK AO2 SVCN 261600Z 00000KT CAVOK ///// Q1020 OEYN 261600Z 23007KT CAVOK 25/20 Q1014 NOSIG K7W4 261615Z AUTO 00000KT 7SM OVC004 04/03 A2972 RMK AO1 T00350030 SVCR 261500Z 09020KT 9999 SCT016 XX/XX Q1013 SULS 261600Z 17010KT 9999 FEW026 BKN200 29/19 Q1009 SVCU 261500Z 09013KT 9999 FEW013 30/18 Q1013 SUMU 261600Z 15008KT 9999 FEW026 BKN200 31/23 Q1008 NOSIG YSCB 261600Z AUTO 15005KT 9999 // BKN023 BKN033 OVC041 14/10 Q1015 TLPC 261600Z 11013G25KT 9999 FEW024 28/21 Q1015 NOSIG SVFM 261600Z 10008KT 9999 SCT040 ///// Q1017 SVGD 261600Z 09008KT 9999 FEW020 32/19 Q//// SVGI 261200Z /////KT 9999 BKN010 25/22 Q1009 YRMD 261600Z AUTO 23006KT //// // ////// 26/11 Q1004 TLPL 261600Z 10020KT 9999 SCT020 29/23 Q1015 NOSIG YSCO 261600Z AUTO 19009KT //// // ////// 19/18 Q1010 YSCR 261600Z AUTO 09011KT //// // ////// 25/04 Q1012 SVGU 261600Z /////KT 9999 BKN017 30/20 Q1013 MZBZ 261600Z 33007KT CAVOK 24/17 A3016 Q1021 NOSIG YSDU 261609Z AUTO 10011KT 6000 // SCT037 SCT077 BKN115 20/17 Q1009 HRYR 261600Z 09010KT 9999 -RA FEW023CB SCT023 23/19 Q1019 TEMPO TS SVJC 261600Z 09019KT 9999 SCT016 XX/XX Q1012 YROM 261600Z AUTO 06011KT 9999 // NCD 24/19 Q1005 YSGE 261600Z AUTO 05008KT //// // ////// 24/19 Q1005 SVJM 261600Z /////KT 9999 SCT020 32/14 Q1014 SUSO 261600Z 02006KT 9999 SCT023 SCT200 33/21 Q1009 MYNN 261600Z 27014KT 9999 FEW020 BKN035 22/13 A3000 K9L2 261555Z AUTO 34004KT 10SM OVC075 04/00 A3010 RMK AO2 SLP197 T00440000 TSNO $ TNCA 261600Z 10015G25KT 070V140 9999 SCT025 29/23 Q1012 A2990 NOSIG TNCB 261600Z 10015KT 060V140 9999 SCT021 30/24 Q1013 NOSIG TNCC 261600Z 14019KT 100V160 9999 FEW029 31/21 Q1013 NOSIG TNCE 261600Z AUTO 08012KT //// ////// ///// Q1017 SVLF 261500Z 00000KT 9999 SCT030 XX/XX Q1014 DFFD 261300Z 05006KT 350V090 8000 NSC 33/M04 Q1013 NOSIG YSHK 261600Z AUTO 23010KT //// // ////// 23/20 Q1004 ZJHK 261600Z 07003MPS 3000 BR SCT010 18/16 Q1017 NOSIG SVMC 261600Z /////KT 9999 FEW016 33/24 Q1012 HSSS 261600Z 36006KT CAVOK 34/97 Q1010 NOSIG SVMD 261600Z 23006KT CAVOK 26/16 Q1021 TNCM 261600Z 12012G221KT 9999 FEW020 28/21 Q1017 A3003 NOSIG K8W2 261615Z AUTO 01007KT 1 3/4SM OVC004 00/00 A2973 RMK AO1 T00031001 SVMG 261600Z /////KT 9999 FEW010 31/23 Q1014 NOSIG SVMI 261600Z 07005KT 9999 FEW016 32/25 Q1014 NOSIG YSHT 261600Z AUTO 18010KT //// // ////// 13/06 Q1013 SVMN 261500Z /////KT 9999 FEW020 23/// Q1012 UEEE 261600Z 18001MPS 5000 -SN SCT100 OVC200 M27/M30 Q1015 NOSIG RMK QFE752 23490245 SVMT 260600Z 02003KT CAVOK 23/23 Q1010 OIAA 261600Z 15006KT 9999 FEW040 BKN100 16/12 Q1020 K9MN 261613Z AUTO 19006KT 10SM BKN008 OVC012 M01/M02 A2971 RMK AO1 T10071020 YTAR 261600Z AUTO 18009KT //// // ////// 17/07 Q1015 YRTI 261600Z AUTO 09017KT //// // ////// 27/09 Q1007 OIAG 261600Z 11004KT 9999 FEW035CB BKN040 18/01 Q1022 SVPA 261200Z /////KT 9999 FEW013 24/22 Q1011 OIBA 261500Z 30006KT 5000 HZ SKC 22/10 Q1019 SVPC 261500Z 09010KT CAVOK 32/// Q1015 OIBB 261600Z 00000KT CAVOK 17/09 Q1022 A3018 DGAA 261600Z 21016KT 8000 BKN017 30/25 Q1009 NOSIG OIAM 261600Z 17006KT CAVOK 17/08 Q1020 HUEN 2614000Z 18004KT 9999 FEW023 FEW025CB BKN250 25/19 Q1016 OIBJ 261500Z 00000KT CAVOK 15/05 Q1023 OIBK 261600Z 29008KT CAVOK 20/11 Q1021 SVPM 261500Z 00000KT 9999 SCT060 XX/XX Q1016 OICC 261600Z 13008KT 9999 FEW045 BKN100 08/M13 Q1022 A3018 OIBL 261600Z 26006KT CAVOK 19/11 Q1022 OIAW 261600Z 17002KT 9999 FEW035CB SCT040 BKN100 OVC200 17/06 Q1020 YSMH 261600Z AUTO 00000KT 9999 // SCT011 SCT038 SCT073 24/23 Q1003 YSMI 261600Z AUTO 18005KT //// // ////// 04/04 Q1017 SVPR 261200Z 12002KT CAVOK ///// Q1015 OIBQ 261500Z 00000KT CAVOK 18/12 Q1022 OICI 261600Z 14006KT 9999 SCT045 BKN090 12/M08 Q1021 A3017 OIBS 261500Z 06006KT CAVOK 22/13 Q1021 OICK 260730Z 00000KT CAVOK 07/M03 Q1027 YTEE 261600Z AUTO 22007KT 9999 // NCD 25/00 Q1006 KMG 261600Z AUTO 17015KT 9999 // NCD 09/06 Q1015 YSNF 261600Z AUTO 07012KT 9999 // NCD 21/16 Q1006 YTEF 261620Z AUTO 33010KT //// // ////// 24/19 Q1008 OIBV 261400Z 27006KT CAVOK 22/10 Q1020 SVSA 261600Z /////KT 9999 SCT020 32/17 Q1013 OICS 261000Z 22002KT 9999 FEW040 11/M06 Q1022 YTEM 261600Z AUTO 10010KT //// // ////// 18/12 Q1012 SVSE 261600Z 13008KT 9999 BKN050 ///// Q//// CPBT 261500Z AUTO 25023KT 12/M05 RMK AO1 PK WND 26029/1445 T01241048 UDSG 261600Z VRB02MPS 7000 SCT050 BKN100 M03/M07 Q1019 R02/CLRD70 NOSIG YSNW 261600Z AUTO 17007KT 2700 // SCT006 BKN017 OVC026 16/16 Q1014 SVSO 261600Z 00000KT 9999 OVC017 24/22 Q1018 SVSP 252100Z 04012KT 9999 SCT070 XX/XX Q1012 SVSR 261600Z /////KT 9999 SCT016 BKN300 32/XX Q1014 SVST 261500Z 10010KT 9999 SCT090 ///// Q1017 HUJI 261000Z 16010KT 9999 FEW025 FEW028CB 29/15 CPEH 261500Z AUTO 18003KT 01/M00 RMK AO1 T00051003 YTGM 261600Z AUTO 18010KT //// // ////// 25/M00 Q1007 HUKA 261200Z 14005KT 9999 -RA BKN023 FEW025CB BKN120 25/18 OIFM 261600Z 11006KT 7000 FEW040 BKN100 OVC200 11/M10 Q1022 A3018 SVSZ 261500Z 00000KT 9999 BKN010 XX/XX Q1011 OIGG 261600Z VRB02KT 4000 BR FEW015CB SCT020 OVC080 09/06 Q1024 YTIB 261600Z AUTO 17014KT //// // ////// 21/// Q1010 SVVA 261400Z 11003KT 9999 FEW016 SCT100 28/20 Q1016 OIFS 261600Z 05004KT 9999 FEW040 SCT090 BKN190 05/M14 Q1025 CPFI 261500Z AUTO 20012KT 04/M00 RMK AO1 T00391001 K9V9 261555Z AUTO 29011KT 10SM CLR 07/01 A2996 RMK AO2 T00650014 SVVG 261600Z 34001KT 9999 BKN013 31/24 Q1010 YSRI 261600Z AUTO 22006KT 9999 // OVC019 18/17 Q1012 DFOO 261300Z 06006KT CAVOK 32/01 Q1014 OIHH 261100Z 35004KT 9999 FEW035CB FEW040 BKN090 10/M06 Q1022 HULI 261200Z 09010KT 9999 FEW025 35/XX SVVL 261500Z 34003KT 9999 FEW033 28/16 Q1017 YSRN 261600Z AUTO 04005KT 9999 // NCD 08/07 Q1017 OIIE 261600Z 15004KT CAVOK 08/M07 Q1022 OIII 261555Z 00000KT CAVOK 07/M06 Q1022 A3021 NOSIG HUMI 260900Z 34003KT 9999 BKN021 FEW023CB 29/20 OIIK 261600Z 05004KT CAVOK 05/M04 Q1022 PAAD 261615Z AUTO 25032G36KT 1/4SM +SN BKN003 OVC021 M23/M26 A3013 RMK AO2 YSTH 261600Z AUTO 36001KT //// // ////// 14/09 Q1016 OIIP 261600Z 12010KT 7000 FEW040 SCT100 06/M09 Q1021 OJAI 261600Z 30006KT 6000 NSC 12/05 Q1019 NOSIG PABA 261601Z AUTO 28033G38KT 1 1/4SM -SN BR CLR M22/M24 A3012 RMK AO2 PK WND 27038/1601 SLP200 P0000 T12221244 FZRANO PAAK 261616Z 06005KT 10SM SCT028 BKN042 OVC055 03/M02 A2921 RMK AO1 OIKB 261600Z 03006KT CAVOK 16/10 Q1021 A3016 OJAM 261600Z 30004KT 4000 HZ NSC 13/03 Q1020 NOSIG ZJSY 261600Z 36002MPS 310V090 9000 NSC 19/16 Q1016 NOSIG YSSY 261600Z 09007KT 8000 -SHRA FEW005 SCT015 BKN045 19/18 Q1012 FM1645 18010KT 9999 -SHRA FEW008 BKN025 TEMPO 1645/1900 4000 SHRA BKN008 PABE 261553Z 02016KT 10SM SCT120 BKN180 M26/M29 A2991 RMK AO2 SLP134 T12611289 PAAP 260155Z 21006KT 7SM -RA FEW009 SCT015 06/04 A2983 RMK LAST NO SPECI OJAQ 261600Z 36013KT CAVOK 20/08 Q1017 NOSIG PAAQ 261553Z AUTO 00000KT 10SM CLR M22/M24 A3001 RMK AO2 SLP173 I1000 T12171239 TSNO PABI 261553Z 13005KT 10SM CLR M39/ A3016 RMK AO2 SLP309 T1394 CPIR 261500Z AUTO 25010KT 08/M02 RMK AO1 T00781015 OIKK 261600Z 00000KT CAVOK 07/M08 Q1025 A3028 PABL 261616Z AUTO 15005KT 10SM CLR M39/ A3032 RMK AO1 YSTW 261600Z AUTO 12011KT 9999 // NCD 22/15 Q1009 OIKM 260200Z 28012KT CAVOK 05/M03 Q1020 PACD 261553Z 15016KT 10SM SCT044 03/02 A2933 RMK AO2 RAE01 SLP932 P0001 T00280017 OIKQ 261600Z 00000KT 8000 NSC 18/09 Q1021 OIKR 261100Z 34008KT CAVOK 16/M08 Q1024 A3025 PABR 261553Z 30016KT 7SM -SN BKN042 OVC050 M27/M30 A3013 RMK AO2 SLP204 SNB00 PCPN VLGT DRFTG SNOW P0000 T12721300 PABT 261553Z 00000KT 10SM FEW002 M45/ A3025 RMK AO2 SLP290 T1450 OIMB 261600Z 00000KT CAVOK 02/M09 Q1024 OIMC 261600Z 00000KT 9999 BKN025 BKN090 M01/M04 Q1033 YTMO 261600Z AUTO 21010KT //// // ////// 27/03 Q1007 PABV 261616Z AUTO 19003KT 10SM CLR M21/M22 A3005 RMK AO1 PACM 261556Z AUTO 00000KT 10SM CLR M29/M32 A3014 RMK AO2 FZRANO TSNO T12881316 SLP204 $ OIMD 261600Z 01008KT CAVOK 04/M02 Q1021 YTNG 261600Z AUTO 14005KT 9999 // NCD 24/21 Q1004 PADE 261553Z AUTO 00000KT 10SM CLR M35/ A3026 RMK AO2 SLP248 T1350 TSNO YSWG 261600Z AUTO 09008KT 9999 // OVC047 18/11 Q1011 YSWH 261600Z AUTO 17007KT //// // ////// 13/04 Q1014 PADG 261610Z 03002KT 7SM SKC M36/M31 A3014 UDYZ 261600Z VRB01MPS 6000 SCT050 BKN100 02/M03 Q1021 R09/000070 NOSIG YTNK 261600Z AUTO 16007KT 9999 // NCD 26/20 Q1008 PADK 261616Z AUTO 02021G27KT 10SM BKN027 OVC033 03/M03 A2934 RMK AO1 PAEC 260148Z 36010KT 40SM FEW180 M21/M23 A2971 RMK NOSPECI PADL 261616Z 10SM BKN030 OVC070 M19/M24 A2987 RMK AO1 PACV 261553Z 18003KT 10SM FEW048 M08/M10 A2993 RMK AO2 SLP136 I1000 T10831100 PAED 261608Z 05004KT 10SM BKN005 OVC190 M20/M23 A3003 RMK AO2A BKN V OVC PADM 261556Z AUTO 04013KT CLR M27/M31 A3009 RMK AO2 TSNO T12661311 SLP178 $ OIMM 261600Z 09008KT 8000 OVC012 M02/M02 Q1027 A3034 OIMN 261600Z 00000KT CAVOK M01/M06 Q1024 OINE 261600Z 17004KT CAVOK 04/00 Q1022 PAEG 261553Z AUTO 00000KT 10SM CLR M42/ A3022 RMK AO2 SLP281 T1417 TSNO OING 261600Z 08006KT CAVOK 06/01 Q1025 PADQ 261553Z 28004KT 8SM -SN OVC021 M03/M05 A2986 RMK AO2 SLP110 P0000 T10281050 PACZ 261555Z 07030KT 1 3/4SM -SHSN BR CLR M19/M24 A2994 RMK AO2A SNE21SHSNB21SHSNE34SHSNB55 SLP159 RCRNR PAEH 261555Z 10017KT 10SM BKN100 BKN130 M13/M20 A2972 RMK AO2A SLP082 RCRNR OIMQ 261600Z 05004KT CAVOK 03/M03 Q1025 PAEI 261613Z 00000KT 1 1/2SM R32/3500FT BR SCT002 M43/ A3025 RMK AO2A VIS 1 1/2V2 $ OIMS 252000Z 07006KT 9999 FEW035 00/M04 Q1025 NSFA 261600Z 17010KT 9999 FEW024 BKN280 28/24 Q1002 PAFA 261553Z 31003KT 6SM BR SCT002 SCT010 M40/ A3028 RMK AO2 SLP278 T1400 OIMT 261200Z 00000KT CAVOK 15/M05 Q1022 PAFB 261555Z 00000KT 1/2SM FZFG SCT002 M42/ A3027 RMK SLP276 PWR PLUME SCT002 PAEL 260146Z 27008KT 12SM OVC030 04/00 A2978 RMK NOSPECI LAST PADU 261556Z 19003KT 10SM BKN028 OVC033 04/00 A2923 RMK AO2 SLP903 MH T00390000 PAEM 261508Z 00000KT 10SM CLR M32/M A3015 RMK VIA PHONE PAEN 261553Z 03005KT 10SM CLR M22/M23 A3004 RMK AO2 SLP176 T12171233 PAFE 261616Z AUTO 00000KT 10SM CLR M01/M01 A2994 RMK AO1 OINN 261600Z 15004KT 9999 FEW025 BKN180 09/05 Q1023 OINR 261600Z 00000KT 9999 FEW025CB BKN027 OVC090 09/05 Q1023 PAGA 261558Z AUTO 00000KT 2SM BR CLR M44/ A3032 RMK AO2 SLP277 T1444 FZRANO HUSO 261200Z 02007KT 9999 SCT022 BKN300 34/04 Q1014 OINZ 261600Z 13004KT 9999 FEW035 BKN090 06/04 Q1023 SYCJ 261600Z 06008KT 9999 SCT022 29/22 Q1014 NOSIG PAGK 261553Z AUTO 32004KT 8SM CLR M30/M34 A3005 RMK AO2 SLP251 T13001339 TSNO PAGL 261556Z AUTO 00000KT 10SM CLR M34/ A3024 RMK AO1 PAHC 261556Z AUTO 36013G20KT 10SM FEW006 M32/M36 A3012 RMK AO2 TSNO T13161355 SLP205 $ YTRE 261600Z AUTO 15005KT //// // OVC037 21/19 Q1010 PAGM 261616Z AUTO 07012KT 10SM CLR M19/ A3018 RMK AO1 PAGN 261556Z AUTO 00000KT 10SM OVC004 01/01 A2992 RMK AO2 TSNO T00110005 SLP134 $ PAGS 261616Z AUTO 00000KT 10SM SCT040 BKN048 OVC050 01/M01 A2990 RMK AO1 PNO PAHL 261616Z AUTO 31003KT 1 1/4SM CLR M47/ A3029 RMK AO1 PAHN 261554Z AUTO 00000KT 10SM CLR 01/M02 A2987 RMK AO2 SLP119 T00061017 TSNO PAHO 261553Z 03006KT 10SM CLR M12/M17 A2994 RMK SLP138 T11171172 VIA AUTODIAL PAGY 261553Z AUTO 20011KT 10SM OVC070 03/M01 A2986 RMK AO2 PK WND 21028/1530 SLP113 T00331006 TSNO PAHP 261616Z AUTO 05009KT 10SM CLR M24/M28 A3006 RMK AO1 PAIG 261556Z AUTO 00000KT 10SM CLR M18/M21 A2986 RMK AO2 TSNO T11831205 SLP116 $ PAII 261616Z AUTO 05012KT 10SM M15/M17 A2977 RMK AO1 NTAA 261600Z 07004KT 9999 FEW016 26/21 Q1008 NOSIG PAIK 261601Z AUTO 00000KT 6SM HZ CLR M38/ A3033 RMK AO2 SLP323 T1378 FZRANO PAIL 261553Z 01012KT 10SM SCT029 M18/M21 A2991 RMK AO2 SLP135 T11831206 PAJC 261616Z AUTO 12008KT 5SM OVC014 02/M01 A2959 RMK AO1 PAIM 261555Z AUTO 00000KT 10SM CLR M37/ A3010 RMK AO2 SLP283 T1371 PAIN 261616Z AUTO 00000KT 10SM CLR M41/M44 RMK AO1 PAHX 261556Z AUTO 04011KT 10SM CLR M31/M34 A3016 RMK AO2 SLP218 T13111339 FZRANO YTTI 261600Z AUTO 24003KT //// // ////// 27/28 Q1007 PAHY 261616Z AUTO 35004KT 10SM OVC022 03/00 A2986 RMK AO1 OISL 261600Z 00000KT CAVOK 15/00 Q1021 PAJN 261553Z 00000KT 10SM FEW016 BKN038 OVC055 02/01 A2992 RMK AO2 SLP130 T00170006 PAIW 261558Z AUTO 05008KT 10SM CLR M32/M34 A3025 RMK AO2 SLP243 T13171344 FZRANO DIAD 261100Z 00000KT 8000 BKN013 FEW020CB N/W 31/24 Q1012 NOSIG PAKF 261601Z AUTO 16009KT 10SM -RA FEW018 BKN026 OVC030 03/01 A2934 RMK AO2 SLP028 P0003 T00330011 $ CPRO 261500Z AUTO 13002KT M03/M04 RMK AO1 T10341043 PAKH 261556Z AUTO 05014KT M01/M05 RMK AO2 PWINO TSNO T10051050 SLPNO $ OISR 260750Z 00000KT CAVOK 18/05 Q1025 PAKI 261556Z AUTO 02023KT 10SM CLR M26/M28 A2986 RMK AO2 TSNO T12551283 PK WND 02026/1555 SLP114 $ ZLLL 261600Z 05002MPS 010V080 CAVOK M07/M14 Q1023 NOSIG OISS 261600Z 29006KT CAVOK 13/M05 Q1024 A3025 OKBK 261600Z 13012KT 7000 NSC 17/11 Q1020 NOSIG PAKK 261616Z AUTO 01008KT 10SM CLR M26/ A3014 RMK AO1 OITK 261000Z 30002KT 6000 FEW035 SCT040 05/M03 Q1020 OITL 261300Z 07010KT CAVOK 01/M01 Q1019 OITM 261600Z 06008KT CAVOK 06/M07 Q1018 SYGO 261600Z 06014KT 9999 SCT022 29/22 Q1015 PAKN 261554Z 01010KT 10SM BKN050 OVC075 M16/M18 A2980 RMK AO2 SLP094 T11611183 PAKP 261616Z AUTO 00000KT 10SM BKN037 OVC043 M34/ A2994 RMK AO1 PALG 261556Z AUTO 05007KT 020V110 CLR M24/M29 RMK AO2 PWINO TSNO T12381288 SLPNO $ OISY 261600Z 11006KT CAVOK 10/M10 Q1026 PALH 261553Z 36004KT 9SM CLR M19/M22 A3006 RMK AO2 SLP181 T11941222 CPRY 261500Z AUTO 21013KT 08/M02 RMK AO1 T00811024 DIAP 261600Z 24008KT 200V270 9999 TS FEW008 SCT011 FEW020CB 29/25 Q1010 TEMPO 2500 TSRA BKN008 FEW020CB OITR 261600Z 23004KT 6000 SKC M01/M05 Q1018 PALJ 260153Z 11005KT 25SM BKN012 M22/M27 A2994 RMK 411831250 LAST EST PASS OPEN NOSPECI PAKT 261553Z 31007KT 10SM CLR 03/02 A2986 RMK AO2 SLP111 T00280017 OITT 261600Z 06004KT 8000 FEW035 02/M06 Q1020 A3012 NOSIG PAKU 261545Z 25024KT 1SM R24/P6000FT BLSN BR OVC021 M27/M34 A3013 PAMC 261553Z 00000KT 10SM CLR M41/ A3016 RMK AO2 SLP233 T1406 DIBK 261600Z 28004KT 9999 BKN016 33/17 Q1012 NOSIG CPST 261600Z AUTO 23003KT 05/M02 RMK AO1 T00521019 PAKV 261604Z AUTO 00000KT 5SM HZ SCT003 M42/ A3032 RMK AO1 T1417 FZRANO TSNO PAMD 261616Z 00000KT 10SM OVC037 01/M07 A2991 RMK AO1 PAKW 261553Z AUTO 00000KT 10SM OVC031 04/03 A2987 RMK AO2 SLP116 T00390028 TSNO CPSV 261600Z AUTO 21007KT 05/01 RMK AO1 T00500010 PALP 261553Z 23018KT 1SM BLSN BR SCT028 BKN050 M29/M32 A3012 PAMH 261616Z AUTO 00000KT 3SM CLR M41/ A3013 RMK AO1 OITZ 261500Z 12010KT 9999 SCT035 SCT080 07/M08 Q1019 PANA 261556Z AUTO 04013G19KT 10SM CLR M26/M29 A2990 RMK AO2 SLP125 T12561289 FZRANO PAMK 261556Z AUTO 06008KT 10SM BKN018 OVC025 M28/M31 A3017 RMK AO2 TSNO T12771305 BKN V OVC SLP224 $ PANC 261553Z 35008KT 10SM FEW005 SCT060 M20/M23 A3004 RMK AO2 SLP177 LOW ST E T12001233 PALU 261555Z AUTO 20001KT 10SM CLR M24/M26 A3027 RMK AO2 SLP249 T12401257 PAMM 261616Z AUTO 36014KT 10SM CLR 06/03 A2985 RMK AO1 DIBU 261100Z 28004KT 8000 SCT013 29/21 Q1012 NOSIG PAMO 261556Z AUTO 03009KT 10SM CLR M27/M30 A3006 RMK AO2 TSNO T12661300 SLP066 $ PAMR 261553Z 01004KT 4SM -SN BR OVC015 M18/M21 A3004 RMK AO2 SLP176 P0000 T11831206 $ PANI 261616Z 07003KT 10SM CLR M29/M34 A3006 RMK AO1 UHBB 261600Z 25002MPS 220V300 CAVOK M23/M29 Q1023 NOSIG RMK QFE750/1000 36410260 DIDK 261100Z ///// 9999 BKN015 34/27 Q//// NOSIG DIDL 261100Z ///// 9999 BKN015 28/23 Q1014 NOSIG PANN 261553Z AUTO 08008KT 10SM CLR M33/M36 A3023 RMK AO2 SLP260 T13281361 TSNO PAMY 261616Z AUTO 07018G21KT 5SM CLR M21/M26 A2995 RMK AO1 PAOH 261556Z AUTO 00000KT 10SM BKN039 OVC050 00/00 A2993 RMK AO2 TSNO T00000000 SLP136 $ PANT 261553Z 33006KT 10SM CLR 03/03 A2984 RMK AO2 SLP105 T00330028 PAPB 261608Z AUTO 05030G41KT 2SM -SN BR BKN018 OVC025 M03/M05 A2948 RMK AO2 PK WND 05041/1602 P0000 T10331050 TSNO PAOM 261553Z 00000KT 10SM CLR M32/M34 A3022 RMK SLP236 T13171344 VIA AUTODIAL PANV 261616Z AUTO 03012KT 10SM CLR M32/ A3011 RMK AO1 PANW 261556Z AUTO 36013KT 10SM -SN OVC007 M24/M28 A2990 RMK AO2 TSNO T12381277 SNB51 P0000 SLP113 $ UGKO 261600Z 05007KT 340V100 9999 BKN047 10/M02 Q1019 R07/09//70 NOSIG PAOO 261556Z AUTO 05017G33KT 10SM CLR M21/M27 A2994 RMK AO2 TSNO T12051272 PK WND 04043/1505 SLP140 $ PAPG 261616Z 22004KT 10SM FEW017 OVC047 02/01 A2989 RMK AO1 PAPH 261616Z AUTO 09009KT 10SM FEW048 BKN110 00/M05 RMK AO1 PAOR 261553Z 00000KT 10SM SCT060 M34/ A3008 RMK AO2 SLP284 T1344 PAOT 261553Z 08007KT 10SM CLR M34/M37 A3031 RMK AO2 SLP263 T13391367 OIZB 261600Z 30006KT CAVOK 07/M06 Q1027 DIGA 261100Z 36006KT 8000 BKN013 31/23 Q1012 NOSIG PAOU 261556Z AUTO 09014KT OVC004 01/M01 A2944 RMK AO2 TSNO T00111005 UPB14E39 P0000 SLP972 $ PAPM 261556Z AUTO 01015KT 10SM CLR M13/M18 A2977 RMK AO2 TSNO T11271183 SLP082 $ CPXL 261600Z AUTO 21011KT 06/M00 RMK AO1 PK WND 22017/1544 T00641003 PAPN 261556Z AUTO 10014KT 10SM SCT043 BKN050 BKN060 M02/M05 A2971 RMK AO2 PWINO TSNO T10221050 SLP061 $ PAPO 261616Z AUTO 15011KT 10SM CLR M22/M28 A3025 RMK AO1 OIZH 261600Z 36006KT CAVOK 05/M05 Q1025 A3028 PAQH 261556Z AUTO 36012KT 10SM FEW120 M23/M26 A2982 RMK AO2 SLP101 T12331261 FZRANO OIZI 261600Z 30004KT CAVOK 15/M02 Q1023 OIZJ 261600Z AUTO 28008KT //// // ////// 22/11 Q1021 PAPT 260147Z 27005KT 25SM SKC M23/M26 A2970 RMK NO SPECI PARC 261616Z AUTO 2 1/2SM CLR M44/ A2991 RMK AO1 OIYY 261600Z 00000KT 9999 BKN100 OVC200 12/M06 Q1024 UGMS 261200Z /////KT 9999 OVC020 03/M00 Q1017 RMK MT CLSD QFE 855.3HPA PASA 261616Z AUTO 8SM OVC002 M27/M33 A3019 RMK AO1 PAQT 261553Z AUTO 25020KT 1SM HZ OVC043 M28/M31 A3013 RMK AO2 SLP204 T12781311 TSNO PASC 261553Z 25025G30KT 3/4SM R05/6000VP6000FT BLSN OVC026 M26/M29 A3010 RMK AO2 PK WND 25030/1544 SLP197 T12561294 PASD 261616Z 14012G17KT 6SM BKN010 OVC015 05/04 A2944 RMK AO1 WEA YWCA 261600Z AUTO 20007KT //// // ////// 16/03 Q1010 PASH 261551Z 09003KT 10SM CLR M/M A3029 RMK VIA PHONE PASI 261553Z 09005KT 10SM BKN050 02/00 A2992 RMK AO2 SLP132 T00170000 YWBL 261600Z AUTO 03002KT //// // ////// 10/10 Q1018 OLBA 261600Z 02004KT 9999 FEW026 17/04 Q1021 PATA 261616Z 00000KT 3/4SM BR VV001 M43/ A3032 RMK AO2 T1428 PARS 261556Z AUTO 00000KT 10SM CLR M29/M32 A3007 RMK AO2 TSNO T12881322 SLP191 $ PASK 261616Z AUTO 07004KT 10SM CLR A3034 RMK AO1 PASL 261556Z AUTO 00000KT 10SM CLR M36/ A3014 RMK AO1 PATC 261555Z AUTO 05006KT 10SM CLR M21/M23 A3019 RMK AO2 SNB1437E1508SHSNB1508E1520 SLP239 T12121230 PASM 261616Z AUTO 03006KT 10SM CLR M27/ A3003 RMK AO1 PASN 261553Z 05023G32KT 8SM -SN BKN020 OVC024 M05/M08 A2960 RMK AO2 PK WND 04035/1540 SLP025 P0000 T10501083 $ PATE 261558Z AUTO 14008KT 10SM CLR M25/M28 A3019 RMK AO2 SLP240 T12501278 FZRANO PASO 261553Z AUTO 00000KT 10SM CLR M12/M14 A2993 RMK AO2 SLP134 T11221139 TSNO YWBR 261600Z AUTO 07009KT //// // ////// 26/10 Q1011 PATG 261616Z AUTO 01009KT 10SM BKN038 M14/M18 A2979 RMK AO1 PARY 261556Z AUTO 08006KT 10SM CLR M37/ A3018 RMK AO2 TSNO T1372 SLP256 $ PATK 261553Z AUTO 06004KT 10SM CLR M31/M34 A3006 RMK AO2 SLP195 T13061339 TSNO PATL 261555Z AUTO 13002KT 10SM FEW250 M31/M34 A3007 RMK AO2 SLP244 T13111343 PASV 261555Z AUTO 00000KT 10SM SCT140 SCT170 M31/M33 A2981 RMK AO2 SLP193 T13071334 PASW 260152Z 00000KT 30SM SKC M20/M22 RMK MAX M12 LAST NOSPECI PATO 261553Z AUTO 26003KT 10SM SCT033 OVC044 M16/M18 A3001 RMK AO2 SLP165 I1/// T11611178 TSNO $ PASX 261616Z AUTO 10004KT 10SM CLR M21/M23 A3003 RMK AO1 UHHH 261600Z 25006MPS CAVOK M13/M15 Q1013 NOSIG PASY 261556Z AUTO 36024G32KT 10SM SCT038 01/M13 A2972 RMK AO2 PK WND 01032/1551 SLP067 T00061128 TSNO PATQ 261556Z AUTO 26013KT 5SM -SN SCT029 OVC090 M32/M36 A3019 RMK AO2 TSNO T13161355 P0000 SLP231 $ PAVA 261557Z AUTO 03013KT 10SM CLR M26/M28 A3010 RMK AO2 SLP196 T12561283 FZRANO PAVC 261556Z AUTO 10SM BKN026 OVC032 04/01 A2938 RMK AO2 TSNO T00440005 RAE18 P0001 SLP950 $ NSTU 261550Z VRB03KT 10SM SCT022 SCT040 27/25 A2958 RMK SHRAE20 SLP019 T02680246 PAVD 261616Z 00000KT 10SM CLR M13/M16 A3001 RMK AO1 1547Z WEA PAUN 261616Z AUTO 09006KT 10SM CLR M28/M33 A3020 RMK AO1 DIKO 261100Z 06008KT 5000 HZ NSC 29/M00 Q1015 NOSIG UIAA 261600Z 20002MPS 9999 SKC M20/M25 Q1030 NOSIG RMK QFE713 29450160 UGSB 261600Z 25010KT 9999 FEW033 BKN100 11/08 Q1021 R13/CLRD70 NOSIG PAUT 261615Z AUTO 10SM BKN019 BKN030 OVC037 04/02 A2926 RMK AO2 T00400016 PAVL 261553Z AUTO 06004KT 10SM CLR M33/M37 A3028 RMK AO2 SLP253 T13331367 TSNO PAWD 261553Z AUTO 01012G20KT 10SM CLR M12/M18 A2997 RMK AO2 SLP148 T11171183 TSNO PAWG 261616Z 36005KT 10SM SCT015 BKN030 BKN050 04/02 A2991 RMK AO1 WEA PAWI 261553Z AUTO 29009KT 10SM CLR M25/M28 A3019 RMK SLP225 T12501278 TSNO VIA AUTODIAL UIBB 261600Z 24003MPS P5000 FEW100 M19/M23 Q1034 NOSIG RMK QFE732/0976 30490145 UGTB 261600Z 02006KT CAVOK 00/M03 Q1024 R31L/CLRD80 NOSIG PAWM 261558Z AUTO 36007KT 10SM CLR M29/M32 A3019 RMK AO2 SLP237 T12941322 FZRANO PAWN 261616Z AUTO 00000KT 10SM CLR RMK AO1 YWHA 261600Z AUTO 15011KT 9999 // NCD 17/09 Q1015 PAYA 261553Z 00000KT 9SM FEW045 BKN065 M02/M03 A2993 RMK AO2 SLP134 I1000 T10221028 PAWS 261616Z AUTO 27005KT 10SM CLR M27/M33 A3001 RMK AO1 ZLXY 261600Z 06002MPS 030V100 1000 R05L/P2000 R05R/P2000 BR NSC 03/M01 Q1028 NOSIG UHMA 261600Z 34006MPS 4000 -SN SCT026 OVC080 M31/M34 Q1021 RMK QFE762/1016 YWGT 261600Z AUTO 18005KT //// // ////// 11/07 Q1012 YVRD 261600Z AUTO /////KT //// // ////// 28/22 Q1006 UHMD 260300Z 33006MPS 9999 DRSN SCT100 M20/M22 Q1022 NOSIG RMK QFE766/1021 PAZK 261616Z AUTO 00000KT 10SM CLR M26/M29 A2977 RMK AO1 UHMM 261600Z 11004MPS 8000 -SN BKN024 OVC100 M13/M21 Q1017 RMK QFE748 YWIS 261600Z AUTO 00000KT //// // ////// 26/26 Q1003 OMAA 261600Z 34006KT CAVOK 20/14 Q1021 A3016 NOSIG OMAD 261600Z 34004KT 300V030 CAVOK 21/15 Q1021 A3017 NOSIG ZMUB 261600Z 15002MPS CAVOK M29/M33 Q1032 NOSIG RMK QFE664.9 64 OMAL 261600Z 26005KT CAVOK 20/03 Q1022 A3019 NOSIG YWLG 261600Z AUTO 07007KT 9999 // SCT066 SCT125 25/17 Q1007 TQPF 261600Z 11015KT 9999 BKN020 28/23 Q1017 YWLM 261600Z AUTO 12005KT 9999 // SCT032 OVC040 21/19 Q1010 DITB 261100Z 24004KT 9999 SCT013 30/25 Q1012 NOSIG UHPP 261600Z 36004MPS 9999 NSC M16/M24 Q1025 NOSIG RMK QFE765/1021 SC060 EBBE 261540Z 31009KT 9999 FEW005 BKN008 BKN012 07/06 Q1019 GRN GRN BECMG WHT DISP 261100Z 30006KT 9999 SCT013 31/25 Q1012 NOSIG OMDB 261600Z 36008KT CAVOK 22/12 Q1022 NOSIG DISS 261100Z 00000KT 9999 FEW016 31/25 Q1012 NOSIG EBBL 261555Z 30005KT 9999 FEW007 SCT022 BKN035 07/06 Q1018 WHT GRN TEMPO WHT EBAW 261550Z 32012KT 9999 FEW016 BKN042 08/05 Q1019 NOSIG UIII 261600Z 09003MPS CAVOK M23/M26 Q1036 NOSIG RMK QFE734/0979 12820350 EBCI 261550Z 32008KT 290V350 7000 -RA FEW005 BKN010 BKN030 07/06 Q1019 R25/290095 BECMG BKN030 EBBR 261550Z 33008KT 9999 SCT010 BKN016 08/06 Q1019 NOSIG VAAH 261540Z 34003KT 4000 FU NSC 18/08 Q1017 NOSIG YWOL 261600Z AUTO 21008KT 9999 // BKN041 OVC064 18/17 Q1013 VABB 261540Z 33006KT 2200 FU FEW100 24/15 Q1015 NOSIG KA08 261555Z AUTO 33018KT 10SM OVC025 06/02 A3004 RMK AO2 T00620016 OMDW 261600Z 35004KT CAVOK 18/11 Q1023 NOSIG EBCV 261525Z AUTO 32008KT 9999 FEW029/// SCT038/// BKN044/// 08/07 Q1020 BLU UHSS 261600Z 15004MPS 9999 BKN027CB 00/M02 Q1012 NOSIG RMK MT OBSC QFE758/1010 19820336 OMFJ 261600Z 20003KT CAVOK 21/08 Q1022 A3018 EBDT 261603Z AUTO 32009KT 9999 FEW036/// OVC048/// 07/06 Q1019 BLU EBFN 261603Z 32014KT 9999 FEW022 SCT030 BKN200 07/03 Q1022 BLU FCST CANCEL EBFS 261604Z 33012KT 2000 -DZ FG FEW001 BKN002 BKN005 06/06 Q1019 AMB AMB TEMPO RED DIYO 261600Z 08004KT 9999 SCT015 34/22 Q1009 NOSIG YWUD 261600Z AUTO 16006KT //// // ////// 12/08 Q1017 YWTN 261600Z AUTO 22007KT //// // ////// 25/07 Q1004 UHWW 261600Z 33009G15MPS 5000 -SHSN BLSN BKN030CB OVC100 M07/M17 Q1019 NOSIG RMK 530005 QFE763/1018 25450145 TRPG 261600Z 12017KT 9999 SCT023 27/21 Q1017 EBLB 261525Z AUTO 23004KT 1800 BKN001/// OVC003/// 01/01 Q1017 RED EBLG 261550Z 28009KT 1800 -RA BR BKN002 BKN003 06/05 Q1018 TEMPO 1200 BR YWWL 261600Z AUTO 13007KT //// // ////// 17/12 Q1011 UKBB 261600Z 02002MPS 9000 -SN SCT007 OVC012 M02/M03 Q1021 86521040 36821040 NOSIG YWYM 261600Z AUTO 28005KT //// // ////// 26/24 Q1005 CTNK 261600Z AUTO 13003KT M17/M22 RMK AO1 SOG 32 3003 SLP215 T11661216 UKDD 261600Z 13003MPS 080V160 9999 OVC008 M00/M01 Q1021 08210360 NOSIG UKDE 261600Z 12001MPS 9999 OVC005 00/M01 Q1021 02210368 NOSIG YWYY 261600Z AUTO 20008KT 9999 // NCD 11/06 Q1015 TTCP 261600Z 12015KT 5000S VCSH SCT015 BKN038 26/22 Q1015 BECMG 1630 8000 RMK JP-SE-S-SW WSW NW UIUU 261600Z VRB01MPS 9999 SCT100 M24/M27 Q1038 NOSIG RMK QFE733/0978 26822050 EBOS 261550Z 31012KT 9999 FEW022 SCT045 07/03 Q1021 NOSIG UKDR 261600Z 10003MPS 1900 BR OVC004 01/00 Q1020 18290150 NOSIG OMRK 261600Z 08003KT CAVOK 19/12 Q1022 A3019 CTRA 261600Z AUTO 32002KT M05/M06 RMK AO1 3025 SLP054 T10481059 50002 VANP 261540Z 00000KT 4000 HZ NSC 20/10 Q1017 NOSIG OMSJ 261600Z 36004KT CAVOK 19/10 Q1022 EDAC 261550Z 20012KT 9999 SCT023 BKN062 03/01 Q1017 EDAH 261550Z 17011KT 9000 BKN019 02/01 Q1013 EDBC 261550Z 20013KT 1000 R26/P2000N VCSH FEW021 BKN043 02/02 Q1014 RESH UKHH 261602Z 10004MPS 9000 -FZRASN BKN007 OVC020 M05/M06 Q1023 07720137 BECMG 2100 BR PFCL 261556Z AUTO 04017G25KT 10SM OVC025 M19/M23 A2986 RMK AO2 PK WND 03029/1538 SLP114 T11891233 FZRANO YYNG 261600Z AUTO 13011KT //// // ////// 16/12 Q1012 ULAA 261600Z 24002MPS 9999 -SN OVC007 M04/M04 Q1015 NOSIG RMK QFE759/1013 SC039 EDDB 261550Z 20012KT 9999 BKN019 04/01 Q1015 NOSIG EDDC 261550Z 20010KT 9999 -RA FEW027 BKN044 03/M01 Q1017 R04/29//95 NOSIG EDDE 261550Z 22008KT 2500 SN BKN004 BKN013 01/01 Q1016 NOSIG EDDF 261550Z 20009KT 3500 -RASN BR BKN004 01/01 Q1019 TEMPO 6000 RASN BKN005 EDDG 261550Z 24009KT 4500 -DZRA BR FEW004 BKN005 05/05 Q1015 BECMG 6000 EDDH 261550Z 23011KT 5000 -RA BR BKN004 04/04 Q1011 TEMPO 4500 KAAA 261615Z AUTO 19004KT 10SM SCT041 BKN047 OVC060 M03/M07 A2999 RMK AO2 T10301069 KC09 261555Z AUTO 00000KT 10SM SCT070 SCT075 SCT110 M06/M07 A2996 RMK AO2 T10591074 PFEL 261558Z AUTO 35007KT 10SM CLR M25/M28 A3023 RMK AO2 SLP241 T12501283 FZRANO EDDK 261550Z 17007KT 3000 DZ BR BKN002 04/04 Q1017 NOSIG EDDL 261550Z 23006KT 2200 -DZRA BR SCT002 OVC003 06/06 Q1016 NOSIG EDDM 261550Z VRB01KT CAVOK M01/M04 Q1021 NOSIG KAAF 261553Z AUTO 33016G24KT 10SM CLR 15/03 A2997 RMK AO2 SLP149 T01500028 TSNO EDDN 261550Z 21006KT 160V240 9999 -SN FEW018 SCT035 BKN050 02/M00 Q1020 R28/29//95 BECMG 4000 BKN012 VCBI 261510Z 03010KT 9000 FEW017 BKN030 26/20 Q1013 NOSIG EDDP 261550Z 20014KT 9999 -DZ SCT020 BKN028 03/01 Q1016 NOSIG UKKK 261600Z 09002MPS 6000 -SN OVC011 M01/M02 Q1021 08290150 NOSIG EDDR 261550Z 22008KT 1800 -RASN BR OVC002 00/00 Q1020 R27/92//95 TEMPO SNRA EDDS 261550Z 20008KT 6000 -SN FEW006 SCT016 BKN043 01/M01 Q1020 R25/29//95 TEMPO 2500 SN BKN006 UKKM 261600Z 03002MPS 8000 -SN OVC014 M01/M01 Q1021 33450245 NOSIG EDDT 261550Z 20010KT 9999 BKN018 04/01 Q1015 NOSIG ZPPP 261600Z 22007MPS CAVOK 08/M01 Q1020 NOSIG KABE 261553Z 06014KT 2 1/2SM -SN OVC030 M07/M11 A2992 RMK AO2 SFC VIS 3 P0000 EDDV 261550Z 22008KT 200V260 7000 -DZ OVC007 04/03 Q1013 TEMPO 4500 EDFE 261550Z 20007KT 4000 -RA BR OVC004 01/00 Q1019 EDDW 261550Z 24012KT 3200 -DZRA BR BKN004 BKN006 05/04 Q1012 TEMPO 2800 KAAO 261554Z AUTO 27013KT 10SM CLR 07/M01 A3003 RMK AO2 SLP179 T00671011 UKLI 261600Z 33002MPS 9999 BKN008 BKN015 M00/M02 Q1022 28290065 NOSIG KABH 261556Z AUTO 00000KT CLR A3030 RMK AO2 SLPNO $ KABI 261552Z 27005KT 10SM CLR 13/01 A3026 RMK AO2 SLP240 T01330011 EDFH 261602Z 26013KT 1000 0700NW R21/P2000N -RA PRFG BKN001 00/00 Q1017 UKLL 261600Z 28003MPS 4700 BR OVC005 M01/M02 Q1021 31710042 NOSIG KACB 261615Z AUTO 00000KT 10SM CLR M12/M15 A2998 RMK AO2 T11251149 KAAT 261555Z AUTO 00000KT 10SM CLR 01/M02 A3016 RMK AO2 SLP217 T00111022 KC29 261615Z AUTO 19007KT 4SM SCT010 BKN020 OVC030 M06/M09 A2988 RMK AO1 T10621088 UKLN 261600Z 31002MPS 9999 BKN018CB OVC100 01/M00 Q1021 33290260 NOSIG EDFM 261550Z 19007KT 160V220 3000 -SNRA BR SCT004 OVC005 01/01 Q1020 UKLR 261500Z 31002MPS 9999 OVC027 M00/M02 Q1020 3039//24 NOSIG KC35 261555Z AUTO 18006KT 2 1/2SM -SN SCT012 SCT019 OVC032 M07/M09 A2985 RMK AO2 VIS 1 1/4V5 T10751092 KABQ 261552Z 27004KT 10SM FEW250 02/M04 A3039 RMK AO2 SLP287 T00171039 KABR 261553Z AUTO 27008KT 10SM CLR 04/00 A2987 RMK AO2 SLP128 T00390000 UKLU 261600Z 00000MPS 9999 SCT100 01/M03 Q1021 10090070 NOSIG KACJ 261555Z AUTO 29015G20KT 10SM OVC022 08/03 A2992 RMK AO2 KACK 261602Z 07013G18KT 2 1/2SM -SN FEW023 BKN028 OVC034 01/M04 A3005 RMK AO2 P0000 T00061039 KADC 261615Z AUTO 29008KT 10SM OVC045 02/M01 A2970 RMK AO2 KADF 261556Z AUTO 00000KT 10SM CLR 07/01 A3019 RMK AO2 T00720005 SLP239 KADG 261553Z AUTO 06007KT 10SM CLR M08/M13 A2994 RMK AO2 SLP155 T10831133 KABY 261553Z 30010G21KT 10SM OVC028 09/03 A2995 RMK AO2 PK WND 29028/1506 SLP141 T00940028 KACP 261555Z AUTO 33009KT 10SM CLR 11/02 A3021 RMK AO2 T01110016 KACQ 261615Z AUTO 30012G15KT 10SM CLR 02/00 A2974 RMK AO2 KADH 261615Z AUTO 24009KT 10SM CLR 11/02 A3016 RMK AO2 EDHI 261550Z 23011KT 4000 -RADZ BKN004 04/04 Q1011 EDGS 261550Z 22007KT 1700 -FZFG PRFG SCT001 OVC002 M00/M00 Q1015 KACT 261551Z 21006KT 10SM CLR 10/02 A3026 RMK AO2 SLP246 T01000022 EDHK 261520Z 22010KT 200V270 8000 -RADZ OVC004 03/03 Q1009 EDHL 261620Z 23009KT 9999 -RA BKN004 04/03 Q1010 RMK ATIS WHI KACV 261553Z AUTO 15003KT 10SM CLR 06/05 A3001 RMK AO2 SLP169 T00610050 KADM 261555Z 00000KT 10SM SKC 06/01 A3019 KAEG 261554Z 01009KT 10SM FEW200 05/M04 A3038 KACY 261554Z 05017G25KT 9SM UP OVC008 02/01 A2980 RMK AO2 PK WND 06028/1526 RAB40E43UPB43SNE40 CIG 007V012 SLP093 P0003 T00170006 KAEJ 261615Z AUTO 00000KT 10SM CLR 04/M08 A3046 RMK AO2 T00381076 KADS 261549Z 26003KT 13SM SKC 10/M01 A3023 DNAA 261200Z 26009KT 8000 NSW FEW013 32/20 Q1013 NOSIG EDJA 261550Z 23013KT 9999 -SN BKN021 BKN046 M02/M05 Q1021 KAEL 261614Z AUTO 28009KT 10SM CLR 03/01 A2972 RMK AO2 KADU 261555Z AUTO 28007KT 10SM CLR 03/01 A2983 RMK AO2 UKON 261600Z 00000MPS 1700 -SHRA BR BKN012 BKN020CB 04/04 Q1019 NOSIG UKOO 261600Z 36004MPS 9999 OVC005 02/02 Q1020 34290054 NOSIG KADW 261559Z AUTO 07012KT 4SM -SN BR OVC005 00/00 A2978 RMK AO2 UPB1526E1548SNB1548RAB1513E1526 $ CWAE 261600Z 00000KT 1SM BR OVC004 00/M00 A2994 RMK SC8 WND ESTD SLP154 KAFF 261558Z AUTO 36008KT 10SM CLR 04/M03 A3033 RMK AO2 SLP289 T00361030 CWAF 261600Z AUTO 00029KT M17/M19 RMK AO1 T11681188 KAFJ 261615Z AUTO 00000KT 1SM OVC008 M02/M04 A2971 RMK AO1 CWAJ 261600Z AUTO 35007KT M08/M12 RMK AO1 SLP139 T10791117 51008 CWBA 261600Z AUTO 20002KT M20/M22 RMK AO1 SOG 38 T12021220 KAFK 261555Z AUTO 28015G24KT 10SM CLR 05/00 A2989 RMK AO2 T00521005 KAGC 261609Z VRB04KT 1/2SM R28/3000V3500FT SN FZFG BKN006 OVC011 M02/M04 A2969 RMK AO2 P0001 T10221039 TTPP 261600Z 13013KT 9999 BKN022 30/21 Q1014 NOSIG KAFN 261552Z AUTO VRB06KT 10SM OVC070 M09/M19 A3007 RMK AO2 SLP209 T10941189 CWBE 261600Z AUTO 10011KT M15/M19 RMK AO1 SLP210 T11521192 53003 KAEX 261553Z 32007KT 10SM CLR 10/02 A3020 RMK AO2 SLP230 T01000017 KAFO 261555Z AUTO 16003KT 1 1/2SM BR OVC003 M07/M07 A3046 RMK AO2 KAFP 261555Z AUTO 02003KT 10SM SCT065 OVC085 08/06 A2964 RMK AO2 T00800059 KC75 261555Z AUTO 00000KT 4SM -SN SCT006 SCT015 BKN028 M06/M09 A2997 RMK AO2 T10561088 CWAQ 261600Z AUTO 20001KT 01/M02 RMK AO1 SOG 00 0010 SLP156 T00131017 CWAR 261600Z AUTO 24030G37KT M02/M07 RMK AO1 PK WND 12040/1539 SLP113 T10221071 51040 PFKT 261558Z AUTO 10014KT 10SM CLR M29/M32 A3025 RMK AO2 SLP246 T12941322 FZRANO CWCA 261600Z 25019G25KT 15SM DRSN FEW030 BKN250 M17/M24 A2939 RMK CU1CS3 TR CU SLP954 CWBK 261600Z AUTO 29015G22KT M11/M16 RMK AO1 PK WND 29022/1530 SLP214 T11051156 51037 PFKW 261556Z AUTO 03012KT 10SM SCT100 M24/M27 A2991 RMK AO2 SLP130 T12391272 FZRANO CWAV 261600Z AUTO 20002KT M04/M06 RMK AO1 SOG 13 1001 SLP148 T10381058 KAFW 261553Z 22007KT 10SM FEW250 12/M01 A3022 RMK AO2 SLP235 T01221011 CWCF 261600Z AUTO 32007KT M09/M10 RMK AO1 SOG 20 3042 SLP116 T10871102 CWBO 261600Z AUTO 18003KT 00/M00 RMK AO1 SLP130 T00001003 53001 CWCI 261500Z AUTO 19020G25KT M06/M07 RMK AO1 PK WND 18025/1459 SLP140 T10571073 56009 KAIA 261553Z AUTO 28014KT 10SM CLR 07/M01 A3014 RMK AO2 SLP215 T00671006 KAGS 261553Z 30018G23KT 10SM FEW034 12/03 A2972 RMK AO2 SLP064 T01220033 CWDA 261500Z AUTO 28011G32KT M09/M13 RMK AO1 PRESRR PK WND 29032/1455 SLP005 T10941133 53064 EDMA 261620Z 23007KT 9999 SCT023 OVC057 00/M04 Q1021 RMK ATIS ZUL CWCJ 261600Z AUTO 20007G15KT M05/M08 RMK AO1 SOG 47 2002 PK WND 18022/1512 SLP121 T10451084 50002 CWBS 261600Z AUTO 36003KT M19/M26 RMK AO1 T11901262 KAIB 261615Z AUTO 00000KT 10SM CLR 01/M04 A3046 RMK AO2 CWBT 261600Z AUTO 27006KT M17/M18 RMK AO1 SLP151 T11661182 51033 KAID 261547Z 36010KT 10SM CLR M07/M13 A2996 CWBU 261600Z AUTO 26006KT M01/M01 RMK AO1 SOG 16 3009 SLP118 T10091013 CWDC 261600Z AUTO 27004KT M10/M11 RMK AO1 SOG 34 1003 SLP074 T11011111 CWCL 261600Z AUTO 19006KT 1/8SM M01/M01 A2989 RMK SLP160 CWBV 261600Z AUTO 30007KT M07/M18 RMK AO1 SLP208 T10731175 51032 KAHN 261551Z 29015G26KT 10SM BKN032 11/02 A2977 RMK AO2 PK WND 29026/1542 SLP083 T01060022 EDLN 261620Z 28007KT 3000 -RA BR OVC004 07/07 Q1017 RMK ATIS T CWCO 261600Z AUTO 14004KT M15/M21 RMK AO1 SLP199 T11461211 53005 KAIG 261555Z AUTO 16010KT 1 1/4SM -SN SCT013 SCT018 OVC026 M10/M12 A2978 RMK AO2 T11031120 CWBY 261600Z AUTO 29012G18KT M17/M20 RMK AO1 SOG 11 3033 PK WND 29020/1522 SLP150 T11721200 EDLP 261550Z 22010KT 4500 -RA BR BKN007 03/03 Q1015 RMK ATIS QUE KAHQ 261555Z AUTO 32014G18KT 10SM CLR 08/02 A2989 RMK AO2 T00840015 CWBZ 261600Z AUTO 07007KT M16/M21 RMK AO1 SLP239 T11601206 53003 KD07 261556Z AUTO 30011KT 07/M01 A2998 RMK AO1 SLP167 T00671011 OOMS 261550Z 09004KT CAVOK 20/10 Q1022 NOSIG UMBB 261330Z 29003MPS 3100 -SHSN BR OVC013CB M00/M01 Q1022 R29/290050 NOSIG CWDJ 261600Z AUTO 28006KT 01/M02 RMK AO1 SOG 03 2008 SLP146 T00081022 KAIK 261615Z AUTO 27016G22KT 240V310 10SM SCT030 SCT038 12/04 A2973 RMK AO2 LTG DSNT E PNO KBAB 261613Z 33005KT 2SM BR CLR 05/05 A3008 RMK AO2A $ KBAC 261615Z AUTO 32022G26KT 10SM CLR 04/02 A2980 RMK AO2 CWEB 261600Z AUTO 10014G22KT 09/08 RMK AO1 PK WND 07022/1551 SLP096 T00860082 56016 CWDK 261600Z AUTO 29012KT 12/M03 RMK AO1 SOG 01 3001 SLP130 T01191030 CWCT 261600Z AUTO 17002KT M03/M04 RMK AO1 SOG 00 6002 SLP135 T10331035 KBAD 261558Z AUTO 34009KT 10SM CLR 08/01 A3022 RMK AO2 SLP237 T00830005 CWDM 261600Z AUTO 28012G17KT M17/M22 RMK AO1 SOG 15 1053 PK WND 28019/1546 SLP084 T11681221 EDLV 261550Z 31006KT 270V350 9999 -SHRA FEW012 BKN036 07/07 Q1017 PFNO 261558Z AUTO 06007KT 10SM CLR M37/ A3033 RMK AO2 SLP274 T1367 FZRANO CWEE 261500Z AUTO M31/M34 RMK AO1 SLP229 T13061340 53022 KBAF 261553Z 36014KT 10SM OVC060 M10/M18 A3010 RMK AO2 SLP204 T11001183 EDLW 261620Z 24010KT 2500 -DZ BR OVC005 04/03 Q1015 RMK ATIS Y KAIO 261555Z AUTO 26013KT 10SM CLR 03/00 A2984 RMK AO2 EDMO 261620Z 27006KT 9999 -SN FEW049 BKN089 M01/M05 Q1021 RMK ATIS U CWEF 261500Z AUTO 29030G35KT M09/M12 RMK AO1 PK WND 29038/1434 SLP145 T10911115 53054 CWDO 261600Z AUTO 25030G40KT M05/M12 RMK AO1 SOG 12 1049 PK WND 25040/1544 SLP035 T10471119 KAJG 261615Z AUTO 27009KT 10SM OVC016 00/M02 A3002 RMK AO2 CWDQ 261600Z AUTO 34002KT M23/M25 RMK AO1 SOG 33 1012 SLP261 T12291249 CWEH 261600Z AUTO 27009KT 05/M01 RMK AO1 SOG 31 8002 SLP146 T00461007 EEEI 261550Z 18006KT 9999 OVC027 01/M04 Q1015 R24/190095 NOSIG KBAK 261550Z 34006KT 10SM SKC M04/M09 A2997 KAIT 261613Z AUTO 26004KT 10SM SCT016 OVC060 02/M02 A2963 RMK AO2 KBBB 261613Z AUTO 33011KT 10SM OVC055 04/01 A2976 RMK AO2 CWEK 261600Z AUTO 02015KT 06/ RMK AO1 PK WND 02019/1534 SLP089 T0062 56027 CWDT 261600Z AUTO 23004KT M24/M30 RMK AO1 SLP231 T12371295 51026 KAJL 261615Z AUTO 28010KT 10SM CLR 03/M07 A3048 RMK AO2 T00261074 CWEL 261600Z AUTO 06001KT 08/07 RMK AO1 SLP123 T00800071 58008 KBBD 261615Z AUTO 22003KT 10SM CLR 13/03 A3028 RMK NWWW 261600Z AUTO 00000KT 9999 BKN054/// BKN100/// ///CB 24/22 Q1001 CWDV 261600Z AUTO 15005KT M08/M09 RMK AO1 SOG 44 3001 SLP062 T10761086 50009 CWFD 261600Z AUTO 34024KT 6SM CLR M32/ A2880 RMK SLP868 KBAN 261552Z AUTO 00000KT CLR M04/M09 A3025 RMK AO2 SLP254 T10441089 DNEN 261300Z 00000KT 9999 BKN013 34/23 Q1010 NOSIG KAJO 261556Z AUTO 00000KT 10SM SCT100 13/07 A3002 RMK AO2 T01330066 SLP162 $ KBBF 261615Z AUTO 04012KT 9SM CLR 18/04 A3027 RMK A01 CWFF 261600Z AUTO 26006KT M00/M03 RMK AO1 SOG 04 3011 SLP131 T10041033 ULLI 261600Z 18003MPS 7000 SCT005 BKN046 OVC066 M03/M03 Q1018 60290050 10810545 NOSIG RMK OBST OBSC KBBG 261545Z 33008KT 10SM CLR 05/M01 A3009 KD25 261555Z AUTO 16008KT 2SM -SN OVC026 M09/M11 A2971 RMK AO2 VIS 1 3/4V2 1/2 T10951112 CWEP 261600Z AUTO 29016G22KT M11/M16 RMK AO1 SOG 05 1039 PK WND 29025/1525 SLP204 T11141160 KAKH 261554Z AUTO 35007KT 10SM SCT040 OVC075 10/01 A2966 RMK AO2 SLP042 T01000006 KAIZ 261615Z AUTO 21011KT 10SM CLR 04/M02 A3003 RMK AO1 CWDZ 261600Z AUTO 31001KT M04/M04 RMK AO1 SLP133 T10361043 52006 CWEQ 261600Z AUTO 13001KT M07/M08 RMK AO1 SOG 17 1017 SLP128 T10701075 CWER 261600Z AUTO 21013KT RMK AO1 PK WND 20017/1500 CWFJ 261600Z AUTO 17005KT 10/M04 RMK AO1 T00981038 KALB 261551Z 02005KT 10SM SCT055 OVC085 M11/M18 A3012 RMK AO2 SLP204 T11061183 KBCB 261615Z AUTO 00000KT 10SM SCT013 BKN032 OVC040 04/01 A2968 RMK AO2 LTG DSNT SE T00430005 CWGB 261600Z AUTO 21002KT 08/08 RMK AO1 SLP119 T00820076 56012 CWEU 261600Z 19002KT 8SM FEW095 M40/M43 A2972 RMK AC1 SLP066 CWGD 261600Z AUTO 10010KT M11/M15 RMK AO1 SOG 03 2007 SLP161 T11091150 KBCE 261553Z AUTO 26006KT 10SM CLR M02/M04 A3039 RMK AO2 SLP278 T10221044 $ CWEW 261600Z AUTO 02004KT M17/M23 RMK AO1 SOG 14 0006 SLP261 T11741232 KAKO 261553Z AUTO 28014KT 10SM CLR 07/M02 A3022 RMK AO2 SLP232 T00671022 KBAX 261614Z AUTO 06005KT 10SM OVC018 M08/M11 A2998 RMK AO2 T10811106 KBBP 261615Z AUTO 00000KT 10SM CLR 12/05 A2963 RMK AO2 LTG DSNT SE KBAZ 261551Z 00000KT 10SM CLR 12/04 A3027 RMK AO2 SLP250 T01220044 EDNY 261620Z 23005KT 4100 -SN FEW024 BKN031 OVC039 M01/M03 Q1023 RMK ATIS X EDOP 261620Z 20010KT 3500 BR OVC005 03/03 Q1011 KAKQ 261554Z AUTO 07004KT 10SM BKN037 BKN090 09/02 A2968 RMK AO2 SLP053 T00940022 TSNO KAJZ 261555Z AUTO 00000KT 10SM CLR M01/M05 A3049 RMK AO2 T10081049 CWEZ 261600Z AUTO 34006KT 07/06 RMK AO1 3004 SLP133 T00650058 50004 CWFQ 261600Z AUTO 33003KT M15/M21 RMK AO1 SOG 08 3002 SLP220 T11521209 KALI 261553Z AUTO 00000KT 10SM CLR 20/03 A3029 RMK AO2 SLP256 T02000028 KAKR 261554Z AUTO 36009KT 4SM -SN BKN036 OVC046 M06/M09 A2980 RMK AO2 SLP104 P0000 T10561089 $ KAMA 261553Z 30014KT 10SM CLR 09/M01 A3024 RMK AO2 SLP236 T00941006 ULMM 261600Z 16005MPS 2500 -SHSN BKN014CB M04/M06 Q1000 NOSIG RMK QFE743 13490535 KD39 261612Z AUTO 30011KT 10SM SCT029 02/00 A2972 RMK AO2 T00201002 KALK 261556Z AUTO 10003KT 10SM SCT110 09/M06 A3027 RMK AO2 SLP200 T00891056 TSNO KBCK 261615Z AUTO 16003KT 10SM OVC014 M05/M08 A2977 RMK AO2 T10551077 CWGL 261600Z AUTO 09008KT M16/M21 RMK AO1 SLP189 T11551212 51001 KALM 261615Z AUTO 18010KT 10SM CLR 07/M02 A3035 RMK AO2 CWGM 261600Z AUTO 22010G17KT 10/M06 RMK AO1 PK WND 23018/1511 T01041061 KBDE 261610Z AUTO 33012KT 8SM OVC009 01/M01 A2962 RMK AO2 CIG 007V014 T00061011 TSNO KBBW 261553Z AUTO 31015KT 10SM CLR 11/01 A2999 RMK AO2 PK WND 32026/1536 SLP166 T01110011 KALN 261545Z 27006KT 10SM OVC024 M01/M05 A3005 KALO 261554Z AUTO 18009KT 10SM OVC013 M01/M02 A2979 RMK AO2 SLP099 T10111022 DNGO 251700Z 00000KT CAVOK 33/03 Q1009 KAMG 261553Z AUTO 29013G22KT 250V320 10SM BKN030 12/04 A2984 RMK AO2 SLP102 T01170044 KBDG 261615Z AUTO 00000KT 10SM CLR 06/M03 A3046 RMK AO1 T00551027 KBDH 261615Z AUTO 30010KT 10SM CLR 03/00 A2976 RMK AO2 NZAA 261600Z AUTO 08003KT 9999 FEW015/// BKN024/// 18/17 Q1011 NOSIG OOSA 261550Z AUTO 09003KT 9999 23/13 Q1020 CWHI 261500Z AUTO 32001KT M02/M03 RMK AO1 T10201030 CWGR 261600Z AUTO 28015G20KT M11/M15 RMK AO1 PK WND 30024/1501 SLP176 T11091149 51042 ZSAM 261600Z 05003MPS 4000 BR BKN026 OVC050 16/14 Q1019 NOSIG KALS 261552Z AUTO 00000KT 10SM CLR M05/M10 A3047 RMK AO2 SLP358 T10501100 KBEA 261620Z AUTO 31003KT 10SM CLR 16/05 A3031 RMK AO2 T01600048 KBCT 261520Z 24014G20KT 2 1/2SM +RA OVC025 20/15 A2994 KANB 261601Z AUTO 27009G18KT 10SM SCT016 BKN023 OVC028 05/02 A2996 RMK AO2 T00500017 KD50 261615Z AUTO 30009KT 10SM CLR 04/00 A2994 RMK AO2 DNIB 261400Z 27008KT 8000 SCT016 34/21 Q1011 CWGT 261600Z AUTO 23004KT 08/08 RMK AO1 SLP121 T00840078 56011 KBDL 261551Z 36011KT 10SM OVC055 M09/M18 A3010 RMK AO2 SLP196 T10941178 CWHL 261600Z AUTO 05004KT 06/05 RMK AO1 SLP082 T00590053 56026 KAND 261556Z AUTO 28015G20KT 10SM OVC085 09/02 A2973 RMK AO2 SLP064 T00940017 KBED 261556Z 02008KT 10SM BKN028 BKN070 M09/M16 A3013 RMK AO2 SLP221 T10941156 EDQM 261620Z 21013KT 3400 -SN BKN007 OVC009 M01/M02 Q1016 CWID 261600Z AUTO 29003KT M19/M21 RMK AO1 SLP130 T11881212 53020 CWHM 261600Z AUTO 05006KT M18/M23 RMK AO1 T11771226 KANE 261545Z 21006KT 10SM SCT040 02/00 A2968 KALW 261553Z 00000KT M1/4SM R20/1000V1200FT FG VV002 01/00 A3008 RMK AO2 SLP195 T00060000 KBDN 261615Z AUTO 00000KT 10SM CLR 05/00 A3011 RMK AO2 KAMN 261612Z AUTO 07004KT 10SM CLR M08/M11 A2998 RMK AO2 T10851113 CWGW 261600Z AUTO 00000KT 01/M03 RMK AO1 SOG 02 8007 SLP202 T00051026 CWHN 261600Z AUTO 24005KT 9SM FEW096 M00/M04 A2975 RMK SLP102 KALX 261555Z AUTO 30010G17KT 10SM OVC015 08/03 A2996 RMK AO2 T00750025 CWGX 261600Z AUTO 00000KT M19/M22 RMK AO1 SLP124 T11851216 53007 CWHO 261500Z AUTO 26019G24KT M17/M19 RMK AO1 3045 PK WND 26026/1441 SLP928 T11701187 50014 KD55 261555Z AUTO 32014KT 10SM CLR 00/M03 A2976 RMK AO2 PFSH 261558Z AUTO 03009KT 10SM CLR M31/M34 A3024 RMK AO2 SLP255 T13061339 FZRANO CWHP 261500Z AUTO 29018G23KT M16/M18 RMK AO1 PRESRR PK WND 28026/1430 SLP134 T11581176 53061 CWIG 261600Z AUTO 20013KT RMK AO1 PK WND 18018/1502 CWGY 261600Z AUTO 16005KT M01/M03 RMK AO1 SLP141 T10081031 55003 KBEH 261553Z AUTO 10006KT 10SM CLR M09/M12 A2997 RMK AO2 SLP161 T10891117 CWHQ 261600Z AUTO 32004KT M12/M24 RMK AO1 T11191236 KBDR 261552Z 03015G21KT 1 1/4SM -SN BKN023 OVC033 M07/M11 A3004 RMK AO2 SNB06 SLP172 P0000 T10721111 KD57 261615Z AUTO 31015KT 10SM CLR 04/00 A2995 RMK AO2 CWII 261600Z AUTO 35023KT M05/M06 RMK AO1 PK WND 35027/1551 T10471064 KANJ 261617Z AUTO 10008KT 060V130 1 3/4SM -SN OVC017 M14/M18 A3002 RMK AO2 SNB08 P0000 T11391178 CWIJ 261600Z AUTO 04004KT M23/M26 RMK AO1 SOG 99 6011 SLP050 T12251263 KD60 261555Z AUTO 29006KT 10SM CLR 02/01 A2997 RMK AO2 OPKC 261555Z 27003KT 7000 NSC 19/09 Q1020 NOSIG KANK 261555Z AUTO 00000KT 10SM CLR 02/M06 A3054 RMK AO1 T00161060 CWIK 261600Z AUTO 30004KT M00/M03 RMK AO1 SOG 07 1014 SLP136 T10031026 CWJB 261600Z AUTO 28003KT M18/M22 RMK AO1 SOG 24 T11751221 CWHT 261600Z AUTO 33007KT M23/M28 RMK AO1 SOG 34 1022 SLP205 T12261281 EDSB 261620Z 20016KT 4500 SNRA BR OVC006 01/00 Q1021 KBDU 261616Z AUTO 00000KT 10SM CLR 13/M04 A3025 RMK AO2 ULOO 261600Z 17002MPS 4100 -SN BR BKN007 OVC012 M04/M05 Q1018 19990333 NOSIG RMK QFE759 CWIL 261600Z AUTO 33008KT M30/ A2958 RMK SLP027 KBFD 261553Z AUTO 10008KT 1/2SM SN VV014 M09/M12 A2974 RMK AO2 SLP105 P0001 T10941122 CWJD 261600Z AUTO 30003KT M10/M13 RMK AO1 SLP132 T11031131 51020 CWHV 261600Z AUTO 25002KT M17/M23 RMK AO1 SLP232 T11711233 51009 UMGG 261600Z VRB01MPS 8000 BKN022 M03/M05 Q1022 R28/550342 NOSIG KAMW 261553Z AUTO 27012KT 10SM CLR 02/M01 A2980 RMK AO2 PK WND 25026/1528 SLP098 T00221011 NZAP 261600Z 11014KT 30KM SCT018 14/09 Q1013 RMK ALT VATSIM USE ONLY KBFF 261553Z AUTO 33006KT 10SM CLR 06/00 A3018 RMK AO2 SLP231 T00610000 CXAF 261500Z AUTO 28006KT 02/01 RMK AO1 T00150007 TUPJ 261600Z 13010KT 9999 SCT019 29/23 Q1017 RMK A3004 CXAG 261500Z AUTO 26005KT 02/M00 RMK AO1 T00171003 CWIP 261600Z AUTO 31014G22KT M20/ RMK AO1 PK WND 31024/1529 T1202 KAOH 261553Z AUTO 35007KT 3SM -SN OVC012 M09/M13 A2992 RMK AO2 SLP146 P0000 T10941133 KANQ 261635Z AUTO 00000KT 10SM CLR M08/M13 A2993 RMK CWJH 261600Z AUTO 21002KT M08/M09 RMK AO1 SOG 38 6010 SLP096 T10811090 50002 KBFI 261553Z 14003KT 10SM SCT250 08/06 A2996 RMK AO2 SLP146 T00780056 OPLA 261555Z 00000KT 4000 FU NSC 11/06 Q1021 BECMG 3000 BR CWJI 261600Z AUTO 22006KT M00/M02 RMK AO1 SOG 02 1005 SLP157 T10031021 KAPA 261553Z 18004KT 10SM FEW220 09/M03 A3029 RMK AO2 SLP251 T00941028 PHBK 261556Z AUTO 08004KT 10SM CLR 17/13 A2994 RMK AO2 SLP139 T01670128 PNO $ CXBA 261500Z AUTO 16005KT M02/M03 RMK AO1 T10191032 CXAJ 261500Z AUTO 23005KT M01/M03 RMK AO1 SOG 03 T10091026 CWIS 261600Z AUTO 02002KT M18/M24 RMK AO1 SOG 88 1017 SLP201 T11841240 EEKA 261550Z 19006KT 9999 -RA OVC019 01/M03 Q1014 CXAK 261500Z AUTO 24003KT M02/M04 RMK AO1 T10241038 KBFL 261607Z 00000KT 1 1/2SM R30R/6000VP6000FT BR SCT002 06/05 A3006 RMK AO2 T00610050 KAPC 261554Z 09005KT 5SM BR CLR 05/05 A3006 RMK AO2 SLP169 T00500050 KBFM 261553Z 32015KT 10SM CLR 12/03 A3009 RMK AO2 PK WND 32027/1515 SLP188 T01170028 KBGD 261551Z AUTO 26011KT 10SM CLR 08/M01 A3022 RMK AO2 SLP234 T00831011 CWKD 261500Z AUTO 27013KT M28/M31 RMK AO1 17 2027 SLP201 T12781310 KANW 261555Z AUTO 30010KT 10SM CLR 08/01 A2999 RMK AO2 T00840006 KBGE 261615Z AUTO 31012G20KT 10SM SCT037 14/05 A2995 RMK AO2 CWIW 261600Z AUTO 26006KT 01/M01 RMK AO1 SLP139 T00131010 53006 KAPF 261553Z 30014G23KT 9SM BKN042 BKN050 OVC060 21/14 A2997 RMK AO2 SLP147 T02110144 EEKE 261550Z 20011KT 9999 OVC027 01/M01 Q1015 R17/190095 KAOO 261602Z AUTO 01007KT 3SM -SN BR OVC016 M07/M08 A2977 RMK AO2 P0000 T10671078 KBGF 261615Z AUTO 33005KT 10SM OVC014 00/M02 A2998 RMK KAPG 261553Z 06015KT 4SM -SN BR OVC008 M01/M02 A2984 CWIX 261500Z AUTO 24005KT M23/M29 RMK AO1 T12331287 CWJO 261600Z AUTO 21003KT M21/M27 RMK AO1 SLP268 T12131272 51031 NZCH 261600Z AUTO 06008KT 020V100 9999 OVC010/// 17/15 Q1011 NOSIG NZCI 261600Z 07007KT 25KM BKN034 18/11 Q1015 RMK ALT NZNR VATSIM USE ONLY CWIY 261600Z AUTO 30005KT M17/M23 RMK AO1 SLP230 T11711232 51024 CWKG 261600Z AUTO 28004KT M08/M15 RMK AO1 SOG 06 0019 SLP217 T10801148 50057 CWKH 261600Z AUTO 07/06 RMK AO1 SLP117 T00680056 56007 CWIZ 261600Z AUTO 05006KT M16/M22 RMK AO1 T11631216 CXBI 261600Z AUTO 08010KT M17/M21 RMK AO1 SLP193 T11661212 50001 CWJR 261600Z AUTO 09004KT 01/01 RMK AO1 SOG 09 8012 SLP228 T00140013 CXCA 261600Z AUTO 17005KT M05/M07 RMK AO1 2PAST HR 5000 SLP102 P0001 T10451066 50002 KBHB 261615Z 01006KT 10SM CLR M13/M19 A3024 RMK AO1 NZCM 261455Z 32007KT 9999 FEW080 FEW200 M02/M09 A2919 RMK SLP890 CXAT 261500Z AUTO 07010KT M36/M40 RMK AO1 SOG 02 8020 SLP026 T13551395 CWKK 261500Z AUTO 12006KT M09/M10 RMK AO1 SOG 18 6004 SLP086 T10871096 CWJT 261600Z AUTO 25003KT M19/M24 RMK AO1 SLP258 T11891241 51005 CXBK 261600Z AUTO 25008KT M00/M03 RMK AO1 SOG 13 1009 SLP135 T10011026 CWLB 261600Z AUTO 25007KT 02/M01 RMK AO1 SOG 11 6002 SLP105 T00211014 KBHC 261615Z AUTO 30018G25KT 10SM OVC028 12/05 A2983 RMK AO2 LTG DSNT E EDTL 261550Z 19011KT 4000 SN BKN006 01/M00 Q1022 CWJU 261500Z AUTO 03012KT 06/05 RMK AO1 SLP107 T00600050 58023 CWLC 261600Z AUTO 36008KT 07/06 RMK AO1 PK WND 34021/1500 T00660057 KBGM 261606Z 08007KT 1/2SM -SN FZFG VV015 M12/M13 A2985 RMK AO2 TWR VIS 3/4 P0001 T11171133 RVRNO CXCD 261500Z AUTO 23007KT 02/M02 RMK AO1 T00231015 CWJV 261600Z AUTO 11002KT 01/01 RMK AO1 SLP194 T00050005 56011 CWKM 261600Z AUTO 23006KT M24/ A3012 RMK SLP204 KAPN 261554Z AUTO 00000KT 9SM OVC028 M13/M14 A3002 RMK AO2 SNB1457E46 SLP182 P0000 T11281144 KBFW 261614Z AUTO 00000KT 10SM SCT010 OVC023 M04/M06 A2965 RMK AO2 P0001 DNKN 261200Z 15007KT CAVOK 31/03 Q1015 NOSIG CWLE 261600Z AUTO 23005KT M00/M02 RMK AO1 SLP147 T10021020 56004 CWJW 261600Z AUTO 13002KT 03/01 RMK AO1 SOG 18 8007 SLP143 T00280013 UMII 261300Z 16003MPS 6000 -SN OVC017 M07/M08 Q1019 R23/491030 TEMPO 2000 BKNM005 VCRI 261510Z 06009KT 9999 FEW025 SCT100 26/21 Q1013 NOSIG CWJX 261600Z AUTO 16006KT M01/M02 RMK AO1 SLP140 T10071024 56007 CXBO 261600Z AUTO 25008KT RMK AO1 CWKO 261600Z AUTO 21003KT 02/M02 RMK AO1 SOG 02 0007 SLP164 T00201024 UNAA 261600Z 00000MPS 1100 R02/1500D BR SCT006 BKN200 M27/M31 Q1040 NOSIG RMK QFE757 52190055 CWKP 261600Z AUTO 25029KT M28/ A2970 RMK SLP114 KBGR 261553Z 35003KT 10SM BKN200 M14/M21 A3023 RMK AO2 SLP241 T11391211 CXBR 261500Z AUTO 23013KT 11/M06 RMK AO1 PK WND 23019/1414 T01081064 CWLI 261600Z AUTO 27015KT M28/ A3000 RMK SLP180 KARA 261553Z 01015KT 10SM CLR 12/02 A3018 RMK AO2 SLP218 T01220022 KARB 261553Z AUTO VRB06KT 10SM CLR M07/M13 A2994 RMK AO2 SLP152 T10721133 KBHK 261551Z AUTO 00000KT 10SM CLR 03/M01 A3000 RMK AO2 SLP175 T00331006 DNKT 261000Z 12003KT 9999 NSC 27/M03 Q1017 CXDB 261500Z AUTO 25003KT 08/M04 RMK AO1 T00841044 CXCK 261600Z AUTO 33001KT M25/M28 RMK AO1 SOG 25 2017 SLP226 T12531284 NZDN 261600Z 21003KT 35KM BKN095 15/12 Q1015 RMK ALT VATSIM USE ONLY KBHM 261553Z 31009KT 10SM OVC017 04/01 A3002 RMK AO2 SLP168 T00390006 KBID 261615Z AUTO 04012G20KT 10SM OVC008 M04/M07 A3000 RMK AO1 CWLM 261600Z AUTO 10004KT 07/07 RMK AO1 5000 SLP131 T00710067 50002 KBIE 261555Z AUTO 29008KT 10SM CLR 05/00 A2994 RMK AO2 T00520002 EDVE 261550Z 23013KT 9999 BKN010 03/03 Q1013 CXBW 261500Z AUTO 20008KT 05/M00 RMK AO1 T00481001 CWME 261600Z AUTO 05023KT 06/04 RMK AO1 PK WND 07028/1534 SLP082 T00600041 56021 CXDE 261500Z AUTO 31016G23KT M26/M30 RMK AO1 SOG 15 3017 PK WND 31023/1452 SLP187 T12561296 KBIF 261558Z AUTO 01009KT 7SM BKN250 07/M02 A3035 RMK AO2 SLP266 T00711024 $ CWKW 261600Z AUTO ///// M28/ A2922 RMK SLP963 KAQO 261550Z AUTO 27003KT 10SM CLR 09/02 A3032 RMK AO2 CWKX 261600Z AUTO 09001KT M08/M09 RMK AO1 SOG 48 1003 SLP133 T10751092 KAQP 261614Z AUTO 29010KT 10SM CLR 04/01 A2978 RMK AO2 KARG 261615Z AUTO 31009KT 10SM OVC021 03/M03 A3013 RMK AO1 KD95 261613Z AUTO 06006KT 10SM CLR M08/M12 A2996 RMK AO2 T10781119 OPNH 261555Z 00000KT 4000M FU NSC 15/10 Q1020 KAPY 261615Z AUTO 26003KT 10SM CLR 15/04 A3032 RMK AO2 T01580044 EDTY 261550Z 22009KT 180V240 9999 3900/ -SN SCT010 SCT019 OVC028 01/M01 Q1019 CWLP 261600Z AUTO 13022KT 11/08 RMK AO1 PK WND 14028/1505 SLP071 T01090078 56023 CXCP 261600Z AUTO 10003KT 03/M01 RMK AO1 T00331012 KBIH 261556Z AUTO 31005KT 10SM CLR 02/M07 A3021 RMK AO2 SLP216 T00221072 UNBB 261600Z 21005MPS CAVOK M29/M33 Q1043 NOSIG RMK QFE759/1012 24400560 KAQR 261555Z AUTO 20003KT 10SM CLR 07/00 A3019 RMK AO2 CXDI 261600Z AUTO 07006KT M07/M14 RMK AO1 SLP136 T10701140 53001 OPMT 261454Z 00000KT 2500 BR NSC 10/07 Q1020 TEMPO 2000 KBIJ 261555Z AUTO 32013G21KT 10SM BKN032 11/03 A2996 RMK AO2 CXCS 261500Z AUTO 21007KT M01/M04 RMK AO1 T10101036 CXEA 261600Z AUTO 08002KT M06/M07 RMK AO1 SOG 32 3029 SLP061 T10631070 CWMJ 261600Z AUTO 03003KT M19/M23 RMK AO1 SOG 16 1010 SLP242 T11851232 CWLS 261600Z AUTO 10006KT M14/M20 RMK AO1 SOG 16 0007 SLP166 T11361200 50002 CWNB 261500Z AUTO RMK AO1 53009 CXDK 261600Z AUTO 13008KT M19/M23 RMK AO1 SOG 32 2029 SLP162 T11871227 KBIL 261553Z 23014KT 10SM SCT095 BKN120 BKN220 07/M02 A3010 RMK AO2 SLP195 T00671017 KBJC 261551Z 21004KT 50SM FEW150 12/M02 A3027 EDVK 261620Z 18007KT 8000 -RA SCT006 OVC010 02/01 Q1015 RMK ATIS X KE11 261555Z AUTO 29007KT 10SM CLR 08/00 A3030 RMK AO2 T00821005 CXEC 261600Z AUTO M00/ RMK AO1 T1003 CWNC 261600Z AUTO 06006KT M11/M20 RMK AO1 SOG 00 8002 SLP176 T11121195 KASD 261553Z AUTO 33009G17KT 10SM CLR A3013 RMK AO2 SLP204 $ KCAD 261615Z AUTO 00000KT 10SM CLR M12/M15 A2990 RMK AO2 T11231154 KAQV 261556Z AUTO VRB06KT 10SM CLR 11/01 A3019 RMK AO2 SLP224 T01060006 KARM 261555Z AUTO 35005KT 10SM CLR 13/03 A3029 RMK AO2 T01320026 CWND 262317Z M01/M01 RMK 8009 T10111009 CWMM 261600Z AUTO 00000KT 03/03 RMK AO1 SLP140 T00310031 53014 DNMM 261500Z 26018KT 9999 SCT014 32/25 Q1010 NOSIG KASE 261553Z 00000KT 10SM CLR M04/M08 A3049 RMK AO2 SLP330 T10441078 KAQW 261552Z AUTO 11011KT 10SM OVC065 M08/M21 A3005 RMK AO2 SLP191 T10781211 KCAE 261556Z 28017KT 10SM SCT035 13/04 A2967 RMK AO2 SLP047 T01280044 DNMN 261400Z 30002KT CAVOK 35/18 Q1008 CWNE 261600Z AUTO 28017G22KT M15/M19 RMK AO1 PK WND 28022/1511 SLP205 T11481191 53035 KAQX 261615Z AUTO 29009G16KT 260V320 10SM BKN033 12/04 A2971 RMK AO2 KASG 261548Z 23007KT 10SM SKC 04/M01 A3012 CWLX 261600Z AUTO 34005KT M39/ A2941 RMK SLP995 KCAG 261553Z AUTO 00000KT 10SM CLR M09/M11 A3049 RMK AO2 SLP394 T10891106 TSNO CXDP 261500Z AUTO 23008KT 03/01 RMK AO1 T00250014 50004 CXEG 261600Z AUTO M05/M05 RMK AO1 SOG 00 T10451051 CWLY 261600Z AUTO 16004KT 9SM OVC016 03/02 A2999 RMK SLP162 KASH 261551Z 00000KT 10SM CLR M09/M18 A3017 RMK AO2 T10941177 SLP481 $ KE16 261615Z AUTO 00000KT 10SM CLR 05/05 A3005 RMK AO2 UMKK 261600Z 22003MPS 9999 OVC026 01/M04 Q1018 R24/29//55 NOSIG RMK QFE763/1017 CWMQ 261600Z AUTO 20006KT 03/M00 RMK AO1 SLP144 T00331003 58004 CWNH 261600Z AUTO 33003KT M16/M22 RMK AO1 SOG 28 1020 SLP237 T11591217 ZSHC 261600Z 07005MPS 3000 BR BKN020 08/05 Q1025 NOSIG KARR 261552Z 15003KT 8SM OVC090 M05/M09 A2995 RMK AO2 SLP153 T10501094 KBJI 261613Z AUTO 29012KT 10SM SCT013 SCT019 OVC026 01/00 A2965 RMK AO2 T00121002 PFWS 261556Z AUTO 03016KT 10SM BKN037 BKN050 OVC070 M18/M19 A2984 RMK AO2 SLP112 T11831194 FZRANO KBIS 261552Z 30008KT 10SM CLR 05/00 A2993 RMK AO2 SLP152 T00500000 VECC 261620Z 00000KT 1800 BR NSC 18/16 Q1017 NOSIG KBJJ 261617Z AUTO 35013KT 10SM BKN011 OVC070 M06/M08 A2981 RMK AO2 T10561083 TSNO KASJ 261555Z AUTO 35003KT 10SM CLR 07/04 A2966 RMK AO2 T00650035 KCAK 261551Z 36008KT 1SM R23/6000VP6000FT -SN BKN027 OVC044 M06/M09 A2978 RMK AO2 SFC VIS 2 SLP103 P0001 T10561089 $ KBKB 261554Z AUTO VRB04KT 10SM CLR 12/01 A3018 RMK AO2 SLP249 T01220011 KART 261556Z AUTO 05014KT 10SM BKN100 M17/M22 A3010 RMK AO2 SLP206 T11671222 CWMT 261600Z AUTO 33010G15KT M21/M24 RMK AO1 PK WND 31017/1531 SLP119 T12121236 51017 CWNK 261600Z AUTO 34012G19KT M01/M03 RMK AO1 PK WND 33024/1510 T10081029 CWOB 261600Z AUTO 36018KT M30/ A2920 RMK SLP959 KASL 261555Z AUTO 36006KT 10SM CLR 10/02 A3024 RMK AO1 T00950016 CWOC 261600Z AUTO 28014G22KT M16/M22 RMK AO1 PK WND 30022/1552 SLP200 T11621220 51035 CWNL 261500Z AUTO 10006KT M09/M12 RMK AO1 SLP181 T10901121 55001 KBIV 261553Z AUTO 10007KT 10SM CLR M08/M12 A2998 RMK AO2 SLP163 T10831122 KARV 261555Z AUTO 16007KT 1SM -SN OVC009 M08/M11 A2972 RMK AO2 T10851107 KBKD 261555Z AUTO 26007KT 10SM CLR 13/01 A3025 RMK AO2 T01260014 CWOD 261600Z AUTO 07003KT M24/M28 RMK AO1 6PAST HR SOG 07 3029 SLP242 P0002 T12401284 50055 CWNM 261600Z AUTO 09002KT 03/02 RMK AO1 SOG 01 8013 SLP213 T00280022 ZSFZ 261600Z 03006MPS 3300 BR FEW009 SCT017 14/11 Q1021 NOSIG KBKE 261553Z AUTO 11009KT 10SM CLR 01/M01 A3028 RMK AO2 SLP276 T00111006 TSNO KARW 261615Z AUTO 28014G18KT 10SM SCT030 13/07 A2972 RMK AO2 LTG DSNT E KASN 261615Z AUTO 28009G15KT 10SM BKN023 OVC031 06/02 A2999 RMK AO2 T00580022 KCBE 261559Z AUTO 00000KT 7SM SCT006 BKN012 OVC024 00/M02 A2982 RMK AO1 CWOE 261600Z AUTO 25012KT 09/M01 RMK AO1 SLP142 T00941009 55003 CXDW 261600Z AUTO 33022G29KT M00/M02 RMK AO1 PK WND 32033/1542 T10041022 KCAO 261555Z AUTO 28008KT 10SM CLR 12/M02 A3029 RMK AO2 SLP240 T01171022 KBKF 261558Z 18009KT 10SM FEW220 09/M04 A3028 RMK AO2A SLP231 T00861045 KBIX 261558Z AUTO 34013KT 10SM CLR 11/03 A3010 RMK AO2 SLP196 T01110025 KCBF 261555Z AUTO 28008KT 10SM CLR 04/02 A2986 RMK AO2 KCBG 261616Z AUTO 24006KT 10SM SCT015 BKN042 OVC065 02/M03 A2967 RMK AO2 VEBS 261130Z 18009KT 3000 HZ FEW020 28/18 Q1014 NOSIG CWNP 261600Z AUTO 33001KT 02/02 RMK AO1 SOG 36 6011 SLP208 T00200018 CWMZ 261500Z AUTO 12017KT M16/M18 RMK AO1 PK WND 11025/1422 SLP190 T11561182 53001 CWNQ 261600Z AUTO 07003KT M17/M24 RMK AO1 SLP251 T11701236 53007 KCAR 261554Z AUTO VRB03KT 10SM CLR M16/M24 A3016 RMK AO2 SLP234 T11611239 KCCA 261555Z AUTO 27005KT 5SM HZ CLR 06/00 A3014 RMK AO2 KAST 261555Z AUTO 00000KT 7SM CLR 04/03 A2994 RMK AO2 SLP137 T00390028 KCBK 261555Z AUTO 30015KT 10SM CLR 10/02 A3015 RMK AO2 CXET 261600Z AUTO 07006KT M15/M20 RMK AO1 SOG 05 0004 SLP185 T11471204 KBKL 261553Z 03015KT 10SM OVC010 M05/M08 A2986 RMK AO2 SLP120 T10501083 KATL 261552Z 31017G24KT 10SM FEW015 SCT028 BKN040 07/03 A2985 RMK AO2 PK WND 31027/1540 DZB1458E08RAB08E15 SLP111 P0000 T00670028 EFET 261550Z AUTO 20008KT 9999 OVC008 M04/M05 Q0994 CWPC 261600Z AUTO 06017G22KT M10/M15 RMK AO1 PK WND 07023/1534 SLP150 T10971154 58001 KCBM 261558Z AUTO 32013KT 10SM OVC023 05/00 A3010 RMK AO2 SLP197 T00521005 $ KCAV 261555Z AUTO 28012KT 10SM CLR 02/02 A2977 RMK AO2 CXFM 261500Z AUTO 18009KT 04/M00 RMK AO1 T00351002 CWPD 261600Z AUTO 01001KT M23/M26 RMK AO1 SLP231 T12251263 51019 UMMG 261330Z 29002MPS 4500 BR BKN009 OVC066 M01/M01 Q1021 R35/390337 NOSIG KASW 261615Z AUTO 00000KT 10SM CLR M08/M12 A2995 RMK AO2 CWPE 261600Z AUTO 34007KT M11/M19 RMK AO1 SOG 03 0019 SLP231 T11091188 KASX 261553Z AUTO 18005KT 7SM OVC013 M06/M08 A2970 RMK AO2 SNE42 SLP076 P0000 T10611078 KBLF 261552Z AUTO 28004KT 10SM -RA OVC008 04/01 A2965 RMK AO2 RAB33 CIG 005V010 SLP039 P0000 T00390006 KAUG 261553Z AUTO 07004KT 10SM CLR M14/M21 A3021 RMK AO2 SLP239 T11391206 CWPF 261615Z AUTO 35005KT 06/06 RMK AO1 T00630055 KATP 261615Z AUTO 31019KT 10SM CLR 17/04 A3017 RMK A01 KBLH 261552Z AUTO 20006KT 10SM OVC100 13/02 A3013 RMK AO2 SLP199 T01280017 PHHI 261558Z AUTO 32004KT 10SM CLR 17/16 A2995 RMK AO2 SLP138 T01680155 $ KAUH 261615Z AUTO 32017G23KT 10SM CLR 10/01 A2996 RMK AO2 T01020013 NZGS 261600Z 36002KT 15KM VCSH BKN020 15/13 Q1014 RMK ALT VATSIM USE ONLY CXGH 261600Z AUTO 32010KT M04/M06 RMK AO1 PK WND 34019/1506 T10391060 CWNZ 261600Z AUTO 09004KT M17/M19 RMK AO1 SOG 82 1006 SLP166 T11651186 KBLI 261605Z 16003KT 1/8SM R16/1000V1200FT FG VV002 06/06 A2994 RMK AO2 OPPS 261600Z NW-18KT 4000 VCTS FEW030TCU SCT040 BKN080 11/04 Q1020.2 NZHK 261600Z 16005KT 20KM SCT003 14/13 Q1013 RMK ALT VATSIM USE ONLY CXFR 261500Z AUTO 24006KT 02/M02 RMK AO1 T00221015 ULWC 261600Z 22002MPS 4100 -SN BKN007 OVC/// M11/M13 Q1020 NOSIG RMK QBB210 QFE755/1007 SC042 KATS 261615Z AUTO 32008KT 10SM CLR 04/01 A3034 RMK AO2 KBKS 261615Z AUTO 00000KT 10SM CLR 18/05 A3030 RMK AO1 T01800045 KE38 261555Z AUTO 21004KT 10SM CLR 09/M01 A3041 RMK AO2 T00891015 UMMM 261600Z 24002MPS 5000 BR OVC006 M01/M02 Q1019 R30/490330 TEMPO 2000 RMK QFE744 QBB200 EFHA 261550Z AUTO 18008KT 130V220 4400 -SHSN OVC011 M01/M02 Q1009 KATT 261551Z AUTO 31004KT 10SM CLR 12/02 A3028 RMK AO2 SLP255 T01170022 PFYU 261616Z 00000KT 1 1/2SM CLR M42/ A3024 RMK AO1 KBKT 261555Z AUTO 07003KT 10SM SCT050 BKN070 OVC080 06/05 A2969 RMK AO1 T00610052 UNEE 261600Z 18003MPS 7000 SKC M29/M31 Q1040 NOSIG RMK QFE757 23851035 CWPK 261600Z AUTO 00000KT M21/M25 RMK AO1 SOG 42 1018 SLP241 T12071252 KCDC 261553Z AUTO 14003KT 10SM CLR 02/M02 A3032 RMK AO2 SLP274 T00171017 KAVC 261616Z AUTO 00000KT 10SM OVC041 06/05 A2972 RMK AO2 LTG DSNT S T00570045 KBMC 261600Z AUTO 00000KT 3SM CLR 00/M02 A3042 RMK AO1 T10041018 NZHN 261600Z 12004KT 45KM BKN050 17/12 Q1012 RMK ALT NZTG VATSIM USE ONLY KBKV 261553Z 31016G28KT 10SM CLR 17/07 A2995 RMK AO2 PK WND 30028/1525 SLP139 T01670067 KAUM 261616Z AUTO 21006KT 10SM OVC022 01/M01 A2972 RMK AO2 KBLM 261615Z AUTO 05017G24KT 1 1/2SM OVC006 M02/M06 A2989 RMK AO1 KCDD 261612Z AUTO 15003KT 3SM -SN BKN026 OVC041 M05/M06 A2962 RMK AO2 CXHD 261500Z AUTO 30006KT M02/M03 RMK AO1 T10181031 KBKW 261606Z AUTO 21003KT 5SM -SN BR BKN010 OVC013 02/01 A2964 RMK AO2 RAE1555SNB1555 P0002 T00220006 KATW 261545Z 16009KT 10SM BKN055 OVC070 M07/M11 A2987 KAUN 261615Z AUTO 00000KT 10SM CLR 08/04 A3007 RMK AO1 EDXW 261620Z 31018KT 9999 FEW020 SCT027 BKN034 05/05 Q1009 RMK ATIS ROM KAUO 261615Z AUTO 30012G20KT 10SM BKN019 OVC026 06/01 A2995 RMK AO1 KCCO 261615Z AUTO 32016G21KT 10SM OVC016 07/04 A2988 RMK AO2 T00650036 DNPO 261400Z 27009KT 9999 BKN012 FEW022CB 31/25 Q1009 NOSIG CXHF 261600Z AUTO M19/M23 RMK AO1 T11931226 CWPO 261600Z AUTO 32019KT 02/M01 RMK AO1 SOG 19 1027 PK WND 31026/1521 SLP112 T00161013 KBMG 261553Z 32006KT 10SM OVC015 M03/M07 A2996 RMK AO2 SLP155 T10331067 EFHF 261550Z 18010KT 140V220 9999 BKN022 01/M03 Q1014 KATY 261553Z AUTO 29010KT 10SM CLR 03/M01 A2982 RMK AO2 SLP115 T00281006 CWOY 261600Z AUTO 26007KT M00/M02 RMK AO1 SOG 02 1006 SLP134 T10041024 UMMS 261600Z VRB01MPS 3300 -FZDZ BR OVC003 M02/M02 Q1019 R31/810550 NOSIG RMK QBB110 KCDH 261615Z AUTO 10SM CLR 09/00 A3019 RMK AO2 NZHS 261600Z 07007KT 25KM BKN034 18/11 Q1015 RMK ALT NZNR VATSIM USE ONLY CWQH 261600Z AUTO 01002KT M18/M22 RMK AO1 SOG 14 T11771219 KCCR 261553Z 00000KT 3SM BR OVC004 06/04 A3007 RMK AO2 SLP169 T00610044 KBMI 261556Z 22006KT 10SM CLR M05/M07 A2997 RMK AO2 T10501072 SLP169 NZHT 261600Z 00000KT 20KM SCT004 14/13 Q1014 RMK ALT VATSIM USE ONLY CWPR 261600Z AUTO 22003KT M00/M01 RMK AO1 SOG 36 5007 SLP190 T10041010 KBNA 261553Z 33011G18KT 10SM OVC014 01/M02 A3003 RMK AO2 SLP169 T00061022 KAUS 261553Z 34005KT 10SM SCT200 BKN250 14/03 A3027 RMK AO2 SLP252 T01390028 KCDJ 261552Z AUTO 21009G16KT 03/M01 A2993 RMK AO1 SLP145 T00331011 CWPS 261500Z AUTO M09/M12 RMK AO1 SLP122 T10931120 50003 CWRA 261600Z AUTO 26030G40KT M02/ RMK AO1 PK WND 26040/1556 SLP128 T1019 53042 KAVK 261615Z AUTO 29012KT 10SM CLR 10/00 A3009 RMK AO2 CWQK 261600Z AUTO 07014KT 08/08 RMK AO1 SLP124 T00820075 56012 CXIB 261600Z AUTO 24005KT M08/M16 RMK AO1 PK WND 26019/1513 SLP176 T10761162 52048 KBML 261552Z AUTO 00000KT 10SM CLR M18/M21 A3011 RMK AO2 SLP231 T11831211 KBLU 261552Z AUTO 00000KT 10SM CLR 12/M07 A3017 RMK AO2 SLP153 T01221067 EFHK 261550Z 19013KT 9999 BKN021 01/M04 Q1013 NOSIG KAVL 261610Z 34015KT 10SM FEW009 BKN040 OVC080 04/02 A2970 RMK AO2 RAE05 P0000 T00440022 KCCU 261615Z AUTO 00000KT 10SM CLR 03/M09 A3061 RMK AO2 KCEC 261556Z AUTO 11005KT 10SM CLR 07/06 A3001 RMK AO2 SLP164 T00720061 EEPU 261350Z 18005KT 150V210 3600 BR BKN003 OVC004 00/M00 Q1016 OPRN 261600Z 05004KT 4000 FEW040 10/06 Q1020.9/30.15 KBLV 261558Z AUTO 29005KT 10SM OVC024 M01/M04 A3006 RMK AO2 SLP187 T10081039 $ CXHM 261600Z AUTO 04010G16KT M10/M11 RMK AO1 5PAST HR 3004 PK WND 04017/1521 SLP158 P0002 T11011113 50027 KCDN 261635Z AUTO 27009KT 10SM FEW027 12/04 A2966 RMK AO2 TSNO PGRO 260950Z 08009KT 7SM SCT025 25/24 A2993 RMK LAST KAUW 261613Z AUTO 15010KT 3SM -SN BR BKN032 OVC044 M08/M11 A2977 RMK AO2 P0000 T10831106 KCEF 261617Z AUTO 01008KT 10SM BKN024 BKN043 OVC055 M09/M18 A3009 RMK AO2 CIG 024V044 PHJH 261600Z 05013G24KT 6SM -RA SCT025 BKN040 19/17 A2993 CWQO 261600Z AUTO 25013G18KT M16/M20 RMK AO1 PK WND 26018/1555 T11621202 CWRF 261600Z AUTO ///// M30/ A2943 RMK SLP029 CWPX 261600Z AUTO 35014KT M27/ A2960 RMK SLP058 KAVP 261606Z AUTO 08009G19KT 050V110 4SM -SN BKN030 OVC037 M06/M12 A2987 RMK AO2 P0000 T10611117 KCCY 261615Z AUTO 21010KT 9SM OVC012 M00/M00 A2977 RMK AO2 KAWG 261555Z AUTO 18009KT 10SM OVC024 M01/M01 A2990 RMK AO2 CXHP 261500Z AUTO 20007KT 03/M00 RMK AO1 T00251004 CWQP 262300Z AUTO 29004KT M09/M17 RMK AO1 SOG 04 3020 SLP178 T10921169 KBMQ 261553Z AUTO 28006KT 10SM CLR 10/01 A3030 RMK AO2 SLP258 T01000006 $ KAVQ 261555Z AUTO 12009KT 10SM OVC110 15/M03 A3014 RMK AO2 T01511031 CWRH 261600Z AUTO ///// M29/ A2927 RMK SLP972 KCDR 261553Z AUTO 29016KT 10SM CLR 11/00 A3012 RMK AO2 SLP213 T01060000 CXHR 261500Z AUTO 25014KT 07/M01 RMK AO1 T00731012 CWQR 261600Z AUTO 30015G21KT M18/ RMK AO1 PK WND 29024/1526 T1180 OPSK 261600Z 00000KT 3000 S/H NSC 12/06 QNH 1019 RH 77 PC KCDS 261553Z AUTO 31012KT 10SM CLR 13/00 A3021 RMK AO2 SLP224 T01280000 KAXA 261555Z AUTO 29011KT 10SM CLR 03/02 A2978 RMK AO2 CWQS 261600Z AUTO 04011G22KT 08/04 RMK AO1 PK WND 04022/1555 SLP081 T00800042 56019 CWRJ 261500Z AUTO 22003KT M03/M04 RMK AO1 SOG 08 1001 SLP138 T10261037 CWSA 261600Z AUTO 28012G19KT 9SM BKN030 M02/M08 A3014 RMK SLP205 EGAA 261550Z 27007KT 9999 SCT027 BKN033 BKN043 06/03 Q1025 KBMT 261615Z AUTO 33010KT 10SM CLR 13/02 A3025 RMK AO2 T01260016 CYAB 261600Z 00000KT 25SM FEW050 M36/M41 A2958 RMK SC1 SC TR SLP020 CWRK 261600Z AUTO 05006KT M17/M22 RMK AO1 SOG 21 1001 SLP211 T11681219 50002 KBNL 261615Z AUTO 25012G17KT 020V030 BKN031 12/04 A2971 RMK AO2 EGAC 261550Z 27009KT 230V290 9999 VCSH FEW017 SCT025 BKN035 07/03 Q1025 UMOO 261300Z 20003MPS 8000 OVC021 M06/M07 Q1022 R13/493530 NOSIG KAWM 261553Z AUTO 30006KT 10SM OVC022 04/00 A3013 RMK AO2 SLP203 T00390000 PGSN 261554Z 10006KT 10SM FEW024 26/22 A2988 RMK AO2 SLP140 T02600217 PNO $ KCFD 261615Z AUTO 25005KT 10SM CLR 12/01 A3029 RMK AO2 T01190008 CYAD 261600Z 25003KT 15SM SKC M30/M34 A3004 RMK SLP214 CWRM 261600Z AUTO 30003KT M03/M04 RMK AO1 SOG 26 1004 SLP134 T10251035 CWSD 261600Z AUTO 29012KT M13/M19 RMK AO1 SOG 05 3036 PK WND 31018/1519 SLP216 T11341186 CWQV 261600Z AUTO 28018KT M21/M26 RMK AO1 PK WND 28022/1548 T12081256 KCDW 261615Z AUTO 06010G21KT 3SM -SN BKN015 OVC032 M07/M09 A2998 RMK AO2 P0000 T10671094 TSNO KCFE 261614Z AUTO 27008KT 10SM CLR 02/M01 A2972 RMK AO2 T00211006 EGAE 261550Z 28013KT 9999 FEW026 07/04 Q1025 CWRN 261600Z AUTO 29014G19KT M08/ RMK AO1 PK WND 30025/1509 T1077 KBNO 261553Z AUTO 27003KT 10SM CLR M02/M03 A3024 RMK AO2 SLP264 T10171033 KAVX 261551Z AUTO 13009KT 10SM CLR 21/M04 A3003 RMK AO2 SLP148 T02061039 KAWO 261615Z AUTO 10003KT M1/4SM OVC002 06/03 A2997 RMK AO1 CWRO 261600Z AUTO 01013KT 06/05 RMK AO1 PK WND 01017/1558 SLP091 T00610051 56026 CWSF 261600Z AUTO 26016G27KT M17/M18 RMK AO1 3041 PK WND 28031/1506 SLP177 T11661181 50005 NZKI 261600Z 05012KT 8000 SHRA BKN001 15/15 Q1010 RMK ALT VATSIM USE ONLY CWSG 261600Z AUTO 26020G26KT M17/M19 RMK AO1 PK WND 25026/1556 SLP211 T11711191 51032 PHJR 261553Z AUTO VRB06KT 10SM CLR 20/16 A2993 RMK AO2 SLP143 T02000156 TSNO ORBI 261600Z 13007KT 6000 SCT100 17/04 Q1017 NOSIG KAXH 261555Z AUTO 28005KT 10SM CLR 12/02 A3029 RMK AO2 T01220015 KBOI 261553Z 00000KT 10SM CLR 00/M02 A3033 RMK AO2 SLP290 T00001017 PGUA 261558Z AUTO 09010KT 10SM FEW018 25/22 A2988 RMK AO2 SLP109 T02510219 $ CYAH 261600Z AUTO 24007KT 9SM CLR M30/M34 A2999 RMK SLP204 NZKK 261551Z 06006KT 20KM FEW014 SCT024 18/17 Q1011 RMK NZAA VATSIM USE ONLY CXKA 261600Z AUTO 19006KT M18/M22 RMK AO1 SOG 74 3013 SLP198 T11841224 KBOK 261556Z AUTO 15005KT 10SM CLR 09/08 A3001 RMK AO2 T00940083 SLP164 CYBB 261600Z 23016KT 15SM DRSN FEW030 M28/M32 A2960 RMK SC0 SLP028 CWSK 261600Z AUTO 03001KT 04/04 RMK AO1 SLP135 T00400040 56006 CWRT 261600Z AUTO 28014G24KT 10/M04 RMK AO1 PK WND 29030/1515 T00981042 EGBB 261550Z 31012KT 9999 BKN029 BKN036 07/01 Q1024 KCEU 261554Z AUTO 30013G21KT 10SM BKN085 11/01 A2973 RMK AO2 SLP065 T01110011 KCGC 261615Z AUTO 30010G23KT 10SM CLR 15/06 A2993 RMK AO2 KBPC 261615Z AUTO 27009G14KT 10SM CLR 09/00 A3022 RMK AO2 CWRU 261600Z AUTO 12028G33KT 12/06 RMK AO1 PK WND 12037/1526 SLP060 T01240057 58006 CWSL 261600Z AUTO 00000KT 02/02 RMK AO1 SOG 25 6012 SLP191 T00210016 CYBC 261600Z AUTO 28008KT 9SM CLR M19/M28 A3019 RMK SLP226 CYBD 261600Z VRB02KT 5SM -RA BCFG FEW002 OVC075 02/02 A2985 RMK SF2AC6 VIS W 15 SLP111 CYAM 261600Z 08009KT 15SM FEW018 SCT120 BKN250 M14/M18 A3002 RMK SC1AC3CI3 SLP188 VDPP 261600Z 24004KT 7000 NSC 26/21 Q1012 KAXN 261553Z AUTO 29016KT 10SM CLR 02/M01 A2972 RMK AO2 SLP083 T00171011 KCEW 261553Z AUTO 31013KT 10SM FEW033 17/03 A3002 RMK AO2 SLP163 T01670028 PHKO 261553Z 06004KT 10SM CLR 21/17 A2986 RMK AO2 SLP113 T02060172 $ EFIV 261550Z 20014G25KT 160V220 9999 OVC016 M01/M04 Q0996 KBNW 261555Z AUTO 27012G19KT 10SM CLR 02/00 A2978 RMK AO2 KCGE 261559Z AUTO 04007KT 10SM OVC011 04/01 A2975 RMK AO1 KCGF 261545Z 05010KT 10SM BKN012 BKN080 M05/M08 A2985 EGBE 261550Z 32012KT 9999 FEW028 BKN036 08/02 Q1024 CXKE 261600Z AUTO 04004KT M17/M22 RMK AO1 SOG 09 3008 SLP227 T11681221 EFKE 261550Z 18017KT 1600 -SN OVC005 M01/M01 Q1002 CWRX 261600Z AUTO 08005KT M35/ A2950 EFJO 261550Z 17006KT 140V210 9999 OVC005 M02/M02 Q1012 KBPG 261555Z AUTO 00000KT 10SM CLR 06/00 A3033 RMK AO2 T00620003 KCEY 261555Z AUTO 32011KT 10SM OVC016 00/M04 A3007 RMK AO1 CWRY 261600Z AUTO 20010KT 06/01 RMK AO1 SOG 01 6004 SLP152 T00610005 CWSP 261600Z AUTO 09008KT 09/07 RMK AO1 SLP119 T00870072 56020 CWTG 261500Z AUTO 28012G18KT M21/M26 RMK AO1 PK WND 28021/1404 SLP209 T12101260 51032 CYBG 261600Z 27002KT 25SM FEW035 BKN240 M20/M26 A3025 RMK SC1CI3 SLP261 ZSNB 261600Z 01003MPS 340V040 6000 BKN016 08/05 Q1024 NOSIG KCEZ 261553Z AUTO 00000KT 10SM CLR 01/M04 A3039 RMK AO2 SLP298 T00061044 PHLI 261553Z 05014KT 10SM OVC045 22/14 A2997 RMK AO2 SLP146 T02220144 $ CWRZ 261600Z AUTO 26009KT M15/M22 RMK AO1 PK WND 24017/1544 SLP177 T11491222 51028 KBPI 261553Z AUTO 00000KT 10SM CLR M06/M08 A3043 RMK AO2 SLP323 T10611083 KCGI 261553Z 32010KT 10SM BKN020 01/M03 A3010 RMK AO2 SLP196 T00111033 CWSR 261600Z AUTO 27007KT 04/M01 RMK AO1 SOG 04 1008 SLP109 T00361008 CXKI 261600Z AUTO M18/M22 RMK AO1 SOG 34 3007 SLP222 T11841221 KCHA 261553Z 29014G19KT 10SM OVC017 03/M01 A2993 RMK AO2 SLP136 T00281011 EFKI 261550Z 18009KT 130V230 9999 OVC009 M02/M04 Q1007 KBOS 261554Z 01014KT 7SM -SN FEW023 OVC029 M07/M11 A3013 RMK AO2 SLP203 P0000 T10671106 KCFS 261614Z AUTO 10007KT 10SM CLR M07/M12 A2998 RMK AO2 T10681121 KAXS 261615Z AUTO 27005KT 10SM CLR 09/02 A3019 RMK AO2 T00900020 NZMC 261600Z 00000KT 20KM SCT004 14/13 Q1014 RMK ALT NZHT VATSIM USE ONLY CYAS 261600Z 28015G20KT 15SM DRSN SKC M34/M40 A2969 RMK SLP076 EGBJ 261550Z 29006KT 9999 FEW024 08/03 Q1025 CWSS 261600Z AUTO 34005KT M12/M20 RMK AO1 SOG 20 0021 SLP237 T11151198 50002 KBPK 261553Z AUTO 28005KT 9SM FEW020 04/M02 A3009 RMK AO2 SLP195 T00391017 KE80 261615Z AUTO 31003KT 10SM CLR 02/M02 A3039 RMK AO2 T00241018 CWST 261600Z AUTO 23012KT M16/M23 RMK AO1 SOG 03 1017 SLP236 T11601230 50002 CXLB 261600Z AUTO 34009KT M08/ RMK AO1 SLP222 T1079 51021 CYAT 261600Z AUTO VRB02KT 7SM CLR M23/M26 A3008 RMK SLP186 CYCB 261600Z 03010KT 15SM FEW012 OVC035 M24/M28 A2967 RMK SC2SC6 IC SLP053 CYBK 261600Z 22005KT 20SM -SN OVC040 M22/M25 A2965 RMK SC8 SLP043 PGUM 261554Z 09007KT 10SM CLR 26/23 A2988 RMK AO2 SLP111 T02560233 EFKK 261550Z 18014KT 9999 -SHSN FEW009 SCT013 BKN016 OVC025 M00/M01 Q1004 KAZC 261615Z AUTO 00000KT 10SM CLR 04/M01 A3031 RMK AO2 T00401013 KCHD 261547Z 00000KT 40SM SCT100 BKN200 10/01 A3013 CYBL 261600Z 00000KT 5SM BR OVC010 08/08 A2989 RMK ST8 SLP123 KCFV 261552Z AUTO 20009KT 10SM CLR 04/00 A3009 RMK AO2 SLP193 T00440000 EGCC 261550Z 30013KT 9999 FEW019 BKN025 06/03 Q1024 NOSIG KAXV 261612Z AUTO 34009KT 10SM CLR M09/M12 A2993 RMK AO2 NZMF 261600Z 02004KT 40KM BKN075 15/12 Q1013 RMK ALT NZQN VATSIM USE ONLY CXKM 261500Z AUTO 28001KT M05/M06 RMK AO1 T10461059 KBOW 261547Z 29011KT 10SM SCT036 17/08 A2994 CYCD 261612Z 26004KT 2SM BR PRFG SCT008 BKN015 BKN230 02/02 A2992 RMK FG1SF2SC2CI1 VIS E-S 3/4 SLP132 KAZE 261555Z AUTO 28010G18KT 250V320 10SM BKN027 12/06 A2984 RMK AO2 T01160060 CWSW 261600Z VRB02KT 20SM FEW090 SCT220 M01/M03 A3005 RMK AC1CI3 SLP202 CYAW 261600Z 31006KT 15SM FEW020 BKN240 M08/M16 A3016 RMK SC1CI1 DA-2931FT SLP218 CWTN 261600Z AUTO 26005KT M15/M24 RMK AO1 SLP247 T11531236 51015 CYBN 261600Z AUTO 00000KT 9SM CLR M14/M21 A3004 RMK SLP193 EETN 261620Z 16007KT 130V190 9999 OVC026 M01/M02 Q1014 R08/19//95 NOSIG KAXX 261555Z AUTO 00000KT 10SM CLR M07/M09 A3047 RMK AO2 T10731087 ZSNJ 261600Z 05004MPS 010V070 1500 BR BKN020 OVC040 07/04 Q1027 NOSIG CYCG 261600Z 00000KT 1/2SM FG VV005 01/01 A3012 RMK FG8 SLP217 EFJY 261550Z AUTO 18006KT 130V230 9999 -SN OVC012 M01/M02 Q1009 CYAY 261600Z AUTO 24017G28KT 3/8SM SN FEW008 BKN011 OVC019 M14/M15 A2954 RMK PRESRR SLP005 CYAZ 261600Z 08003KT 040V110 12SM FEW150 SCT220 05/05 A2985 RMK AC1CI3 SHLW FG PTCHS SLP110 CYBQ 261600Z AUTO 21007KT 9SM CLR M27/M30 A2973 RMK SLP105 CYBR 261600Z 28012KT 15SM FEW020 BKN210 M02/M04 A2984 RMK SC1CI7 SC TR SLP127 PHMK 261605Z 03014G27KT 10SM SCT012 20/17 A2994 RMK AO2 PK WND 04027/1601 KAYS 261615Z AUTO 30014G19KT 10SM OVC030 14/06 A2985 RMK AO2 T01350063 KCGS 261555Z AUTO 05005KT 3SM OVC009 01/00 A2980 RMK AO1 CYDA 261600Z 00000KT 20SM SCT180 M36/M39 A3017 RMK CI3 SLP273 VEIM 260800Z 18006KT 6000 NSC 24/18 Q1016 NOSIG EFMA 261550Z 20015KT 9999 OVC008 03/01 Q1008 KBPT 261553Z 33009KT 10SM CLR 14/01 A3024 RMK AO2 SLP240 T01390011 EFKS 261550Z AUTO 18011KT 150V220 9999 OVC007 M04/M04 Q1004 KCHK 261555Z AUTO 00000KT 10SM CLR 08/03 A3015 RMK AO2 KBQK 261555Z AUTO 27017G27KT 10SM BKN031 BKN038 14/05 A2981 RMK AO1 LTG DSNT E CXKT 261600Z AUTO 22006KT M09/M17 RMK AO1 SOG 00 3025 SLP222 T10861170 50004 CWTT 261600Z AUTO 09002KT M18/M20 RMK AO1 T11761202 ZSOF 261600Z 04004MPS 1800 -RA BR BKN020 OVC030 06/04 Q1028 NOSIG CYCK 261600Z AUTO 02010KT 9SM CLR M10/M13 A2992 RMK SLP145 CYDB 261600Z 29005KT 30SM FEW006 BKN180 M30/M33 A2993 RMK SF1AC4 SLP234 EFKT 261550Z AUTO 17011KT 9999 OVC008 M02/M03 Q0997 KCIC 261547Z 31006KT 3SM BR BKN180 04/04 A3009 CYDC 261600Z 23004KT 3/4SM BR VV008 M00/M01 A3005 RMK FG8 SLP196 CYBU 261600Z AUTO 24007KT 9SM OVC120 M01/M01 A2983 RMK SLP120 CXLL 261600Z AUTO 04003KT M20/M23 RMK AO1 SOG 55 3033 SLP178 T11951229 CWTU 261600Z AUTO ///// M23/ A2901 RMK SLP886 EETU 261550Z 17003KT 9000 SCT007 OVC041 M03/M05 Q1017 KCID 261552Z 16009KT 4SM BR SCT014 OVC023 M03/M04 A2984 RMK AO2 UPB23E33SNE01 SLP117 P0000 T10331044 EFKU 261550Z AUTO 17011KT 9999 OVC014 M01/M03 Q1010 KBRD 261553Z AUTO 28010KT 10SM OVC060 01/M02 A2966 RMK AO2 SLP060 T00111017 CYBV 261600Z 33007KT 15SM SCT006 OVC010 M09/M10 A2983 RMK ST3SC5 SLP117 CXMD 261600Z AUTO 34013G24KT 01/M02 RMK AO1 SOG 06 3042 PK WND 33028/1542 SLP100 T00091021 CWVD 261600Z AUTO 32022KT M35/ A2905 RMK SLP941 CYBW 261600Z AUTO 25013KT 9SM FEW240 08/M01 A2986 RMK SLP132 DENSITY ALT 4000FT KAZO 261553Z 00000KT 10SM CLR M08/M13 A2995 RMK AO2 SLP159 T10831128 $ KCHO 261553Z 02007KT 5SM -RA BR OVC004 02/01 A2973 RMK AO2 SLP070 P0001 T00220011 EGCN 261550Z 28017KT 9999 FEW030 07/02 Q1023 PHNG 261557Z 06009KT FEW030 FEW038 OVC050 22/16 A2995 RMK AO2 SLP136 T02220161 $ CWVF 261600Z AUTO 35005KT 07/07 RMK AO1 T00730073 CYDF 261600Z 26014G23KT 3/4SM -SHSN DRSN OVC018 M09/M11 A2976 RMK SN4SC4 PRESRR SLP081 CYCO 261600Z 31008KT 3SM -SN OVC035 M23/M26 A2983 RMK SC8 /S01/ SLP106 CYBX 261600Z 26019G30KT 15SM FEW020 FEW050 SCT120 M17/M21 A2955 RMK SC1SC1AC1 SLP010 KF05 261555Z AUTO 26006KT 10SM CLR 10/01 A3020 RMK AO1 T00990005 KBQP 261555Z AUTO 33006KT 10SM CLR 09/01 A3019 RMK AO2 T00900006 CYCP 261600Z 00000KT 3/8SM FG VV004 00/00 A2999 RMK FG8 SLP184 CXMG 261500Z AUTO 25006KT 01/M02 RMK AO1 T00101015 CWTY 261600Z AUTO 35004KT M17/M23 RMK AO1 SLP256 T11681229 53007 CWUP 261600Z AUTO ///// M35/ A2921 RMK SLP959 EFLP 261550Z AUTO 17004KT 110V230 9999 BKN005 BKN007 M01/M02 Q1014 KCGZ 261615Z AUTO 00000KT 10SM SCT120 12/M02 A3014 RMK AO1 CYCQ 261600Z 23011KT 35SM FEW040 BKN050 OVC200 04/M02 A2976 RMK SC1SC5CI3 SC TR SLP101 CWVH 261600Z AUTO 26026KT M28/ A2998 RMK SLP197 CXMI 261600Z AUTO 31005KT M07/M16 RMK AO1 SLP219 T10671157 51026 CWVI 261600Z AUTO 26008KT 00/M02 RMK AO1 SLP128 T00001022 56001 ZSPD 261600Z 35005MPS 6000 BKN016 07/05 Q1025 NOSIG EFMI 261550Z AUTO 19005KT 140V230 9999 OVC022 M01/M02 Q1013 KCHS 261556Z 30011G20KT 10SM FEW025 12/05 A2969 RMK AO2 SLP054 T01220050 KDAA 261558Z AUTO VRB05KT 10SM -RA OVC008 02/00 A2979 RMK AO2 RAB1537 SLP092 P0000 T00170002 CYCS 261600Z 16007KT 10SM -SN OVC012 M24/M27 A2979 RMK SC8 SLP091 CWWA 261600Z AUTO 05001KT 08/05 RMK AO1 SLP127 T00750049 55000 CWUS 261600Z AUTO 34001KT 01/M00 RMK AO1 SLP201 T00071001 56008 KDAB 261553Z 27019G26KT 10SM FEW020 17/07 A2987 RMK AO2 PK WND 27026/1552 SLP115 T01670067 PHNL 261553Z 34008KT 300V040 10SM FEW027 21/16 A2991 RMK AO2 SLP129 T02060161 CWWB 261600Z AUTO 04022G30KT M06/M08 RMK AO1 PK WND 05030/1558 SLP161 T10591077 51003 KBRL 261558Z AUTO 19009KT 3SM -SN BR BKN020 BKN047 OVC060 M02/M03 A2990 RMK AO2 P0001 T10221028 EGEC 261550Z 30021KT 9999 FEW020 SCT048 07/03 Q1023 CYDL 261617Z AUTO 09003KT 030V110 9SM SCT006 BKN019 M10/M10 A2978 RMK SLP122 EGDM 261550Z 30010KT 9999 FEW030 BKN220 07/02 Q1025 BLU NOSIG CXMM 261600Z AUTO 24006KT 01/M03 RMK AO1 SOG 06 1004 SLP067 T00051026 CYED 261600Z 23006KT 15SM FEW120 FEW250 01/M01 A2984 RMK AC2CI0 DA1289FT FST OBS SLP130 KCIN 261555Z AUTO 29017G24KT 10SM CLR 04/01 A2981 RMK AO2 NZNP 261600Z 15004KT 10KM VCDZ SCT004 14/13 Q1012 RMK ALT VATSIM USE ONLY CWWE 261600Z AUTO 32004KT M06/M14 RMK AO1 SLP221 T10571143 50016 CWVN 261600Z AUTO 25001KT M02/M03 RMK AO1 SLP167 T10211031 56002 CYDN 261612Z AUTO 16002KT 9SM FEW008 SCT012 M06/M07 A2987 RMK SLP131 CWUW 261600Z AUTO 31007KT 9SM FEW066 FEW074 M35/ A2916 RMK SLP967 KBRO 261553Z 02004KT 10SM CLR 18/08 A3030 RMK AO2 SLP260 T01830078 PHOG 261554Z 06008KT 10SM BKN043 BKN050 20/17 RMK AO2 SLPNO T02000172 $ KBQX 261615Z AUTO 36010KT 10SM CLR 14/06 A3029 RMK A01 NZOH 261600Z 10010KT 35KM SCT013 15/12 Q1013 RMK ALT NZPM VATSIM USE ONLY CXMO 261500Z AUTO 19004KT 02/M03 RMK AO1 T00171027 CWWF 261600Z AUTO 30008KT 01/M02 RMK AO1 SOG 03 1013 SLP151 T00131015 CWUX 261600Z AUTO 30005KT M22/M27 RMK AO1 SLP257 T12171273 51027 CYCX 261600Z 28005KT 15SM SCT200 M15/M25 A3022 RMK CI1 DA-3921FT SLP240 VDSR 261600Z 05004KT 8000 NSC 23/21 Q1012 KDAG 261550Z AUTO 00000KT 10SM BKN100 07/00 A3012 RMK AO2 SLP192 T00720000 NZNR 261600Z 07007KT 25KM BKN034 18/11 Q1015 RMK ALT VATSIM USE ONLY VEJS 261200Z 00000KT 3000 BR NSC 26/16 Q1015 CYDP 261600Z 30023G28KT 1SM -SN BLSN VV001 M16/M19 A2941 RMK SN8 SLP959 CWVP 261600Z AUTO 26005KT 09/M04 RMK AO1 SOG 01 1001 SLP136 T00891036 50002 CYCY 261600Z 30018KT 10SM IC DRSN SCT250 M34/M39 A2945 RMK CI3 SLP978 CYEG 261600Z 21003KT 15SM FEW090 FEW150 SCT250 M05/M06 A2986 RMK AC1AC1CI2 LWR AC TR SLP142 ORER 261500Z 00000KT 9000 NSC 13/02 Q1016 NOSIG NZNS 261600Z 20002KT 35KM BKN010 16/14 Q1011 RMK ALT VATSIM USE ONLY CWVQ 261600Z AUTO 06007KT M16/M22 RMK AO1 SOG 16 1003 SLP240 T11571216 CYDQ 261600Z AUTO 05008KT 9SM BKN180 M00/M02 A2976 RMK SLP104 KCIR 261615Z AUTO 32010KT 10SM SCT022 02/M02 A3010 RMK AO2 P0001 T00231022 UNKL 261600Z 00000MPS CAVOK M30/M33 Q1037 NOSIG RMK QFE752 29////65 ZSQD 261600Z 36007MPS CAVOK M02/M08 Q1032 NOSIG PGWT 260850Z 09009KT 7SM FEW015 SCT080 SCT100 27/23 A2989 EGDR 261550Z 33013G23KT 9999 FEW022 SCT028 BKN250 08/03 Q1029 BLU TEMPO SCT022 WHT KBTA 261555Z AUTO 29009G15KT 10SM CLR 05/01 A2987 RMK AO2 T00520008 TVSV 261600Z 09015KT 9999 SCT018 30/23 Q1016 CWXA 261600Z AUTO 25014G25KT 10/M01 RMK AO1 PK WND 25025/1557 SLP104 T01011010 56004 KCKB 261553Z 35003KT 2 1/2SM -RA BR BKN004 OVC018 03/03 A2965 RMK AO2 SLP044 P0003 T00330033 NZNV 261600Z 28006KT 30KM BKN011 14/12 Q1015 RMK ALT VATSIM USE ONLY CWVT 261600Z AUTO 23003KT M01/M03 RMK AO1 SOG 21 5001 SLP096 T10061027 CWWK 261600Z AUTO 07001KT 05/05 RMK AO1 SLP140 T00530049 53008 CYEK 261600Z 21012KT 3SM -SN SCT004 BKN120 M22/M24 A2984 RMK ST3AC4 SLP105 CYFB 261600Z 33015G25KT 4SM IC BLSN SKC M37/M42 A2964 RMK BLSN1 SLP042 KDAL 261553Z 27003KT 10SM FEW250 09/M01 A3023 RMK AO2 SLP236 T00941006 KCIU 261615Z AUTO 11011KT 7SM OVC012 M12/M15 A3000 RMK AO1 KCKC 261614Z AUTO 18008KT 3SM -SN M07/M09 A2965 RMK AO2 CWWL 261600Z AUTO 04006KT 07/06 RMK AO1 2PAST HR 8023 SLP070 P0001 T00690058 50002 CWXC 261600Z AUTO 19004KT M23/M26 RMK AO1 SLP230 T12251262 52029 CWVU 261600Z AUTO 35008KT M09/M12 RMK AO1 SLP244 T10861121 51021 CYFC 261600Z AUTO 30004KT 250V350 9SM CLR M14/M23 A3024 RMK SLP240 CXNM 261600Z AUTO 29018G26KT M14/M16 RMK AO1 SOG 95 PK WND 30031/1511 T11401158 50006 KDAN 261553Z AUTO 00000KT 10SM OVC012 08/03 A2967 RMK AO2 SLP041 T00780033 CYEN 261600Z 29009KT 15SM FEW100 OVC240 02/M01 A2992 RMK AC1CI1 CONTRAILS SLP155 PHNY 261604Z AUTO 05022G30KT 10SM FEW006 18/18 A2995 RMK AO2 TSNO PK WND 05030/1600 $ KCKF 261615Z AUTO 30013G18KT 10SM OVC026 10/04 A2990 RMK AO2 LTG DSNT E T00980037 EGEO 261550Z 31017KT 9999 -SHRA FEW018CB SCT030 07/04 Q1021 EGDX 261550Z 29010KT 9999 BKN039 08/03 Q1027 BLU EGFF 261550Z AUTO 29011KT 9999 SCT022 BKN036 07/04 Q1027 CXMY 261600Z AUTO M08/M18 RMK AO1 T10751178 CXNP 261600Z AUTO 29006KT M12/M18 RMK AO1 SOG 01 1028 SLP226 T11181178 EGDY 261550Z 29013KT 9999 FEW020 SCT160 BKN250 07/03 Q1027 BLU NOSIG KCKI 261615Z AUTO 27007KT 10SM SCT026 13/10 A2966 RMK AO2 LTG DSNT E KCJR 261556Z AUTO 03004KT 5SM RA BKN006 BKN022 OVC028 03/02 A2977 RMK AO2 CWXI 261600Z AUTO 26025G32KT M13/M14 RMK AO1 PK WND 27033/1547 SLP015 T11321144 53046 CYER 261601Z AUTO 14005KT 7SM CLR M27/M29 A3000 RMK SLP161 KDCA 261614Z 04009KT 2 1/2SM -SN OVC009 02/M01 A2980 RMK AO2 RAE02 VIS S 4 P0001 CWWS 261500Z AUTO 33015KT M13/M15 RMK AO1 SOG 64 1043 PK WND 34018/1413 SLP112 T11301147 CXPA 261500Z AUTO 22004KT 02/M00 RMK AO1 T00231003 NZPM 261600Z 10010KT 35KM SCT013 15/12 Q1013 RMK ALT VATSIM USE ONLY CYET 261600Z AUTO VRB02KT 9SM SCT100 OVC120 01/M00 A2984 RMK SLP134 KBTL 261553Z 11004KT 10SM CLR M08/M14 A2995 RMK AO2 SLP157 T10831139 CWWU 261000Z 25021G31KT 15SM SCT030 00/M05 A2960 RMK SC3 SLP023 CXOL 261500Z AUTO 26007KT 05/M01 RMK AO1 T00471010 CXPC 261600Z AUTO M13/M20 RMK AO1 SLP194 T11321199 52003 CWXL 261600Z AUTO 22007KT 06/M00 RMK AO1 T00581002 KBTM 261553Z AUTO 00000KT 10SM CLR M04/M06 A3024 RMK AO2 SLP279 T10441056 KCKM 261555Z AUTO 32009KT 10SM OVC024 05/00 A3018 RMK AO1 CYEV 261600Z 26004KT 3SM -SN VV023 M27/M30 A3015 RMK SN8 SLP221 EGGD 261550Z 29010KT 9999 BKN028 06/02 Q1026 KCLE 261600Z 01017KT 10SM OVC010 M06/M09 A2988 RMK AO2 CIG 008V011 T10611089 $ KDAW 261551Z AUTO 01005KT 10SM CLR M10/M19 A3016 RMK AO2 SLP216 T11001194 KCKN 261614Z AUTO 33013KT 10SM BKN041 03/00 A2974 RMK AO2 KDBN 261555Z AUTO 30013G20KT 10SM OVC026 09/05 A2986 RMK AO2 NZPP 261600Z 06005KT 20KM SCT006 13/11 Q1012 RMK ALT VATSIM USE ONLY CYGE 261615Z 00000KT 1/2SM FG VV010 00/M00 A3009 RMK FG8 BLN ESTD SLP220 KBUF 261611Z 06014KT 1 1/2SM -SN BKN025 BKN034 OVC045 M10/M14 A2993 RMK AO2 VIS NE-E 2 1/2 DRSN P0000 T11001139 CYFO 261600Z 19002KT 8SM -SN OVC004 M11/M12 A2982 RMK ST8 BR SLP122 CWWX 261500Z AUTO 13010G15KT M09/M12 RMK AO1 SLP175 T10921115 58001 KBTP 261615Z AUTO 04008KT 1SM OVC010 M04/M07 A2974 RMK AO1 KDAY 261556Z 34014KT 10SM BKN033 BKN200 M09/M13 A2992 RMK AO2 SLP146 T10941133 KCKP 261555Z AUTO 33006KT 10SM CLR 04/01 A2983 RMK AO2 T00390014 KDBQ 261604Z 18012KT 3SM BR SCT021 BKN037 OVC055 M07/M08 A2985 RMK AO2 SNE01 P0000 T10671083 CYGH 261600Z 25004KT 10SM -SN FEW015 BKN050 M30/M34 A3019 RMK SC2SC4 SLP236 CWWZ 261600Z AUTO 09018KT M06/M10 RMK AO1 SOG 00 2002 PK WND 08023/1539 SLP161 T10641103 KBTR 261553Z 35010KT 10SM CLR 11/01 A3018 RMK AO2 SLP219 T01110006 KCLI 261615Z AUTO 18008KT 10SM SCT028 SCT035 OVC048 M06/M11 A2987 RMK AO2 CYFR 261600Z 32006KT 12SM -SN OVC020 M15/M18 A2976 RMK SC8 SLP096 CWXR 261600Z AUTO 31025KT M25/ A2983 RMK SLP117 KCMA 261555Z 03009KT 10SM SCT100 BKN120 18/04 A2999 RMK AO2 SLP162 T01780044 NZRC 261600Z 28006KT 30KM BKN011 14/12 Q1015 RMK ALT NZNV VATSIM USE ONLY CYHA 261600Z 32025G30KT 10SM DRSN VCBLSN FEW250 M26/M29 A2967 RMK CI1 VIS SE 3 SLP052 CWZA 261600Z AUTO 01001KT 06/04 RMK AO1 SLP133 T00600043 50005 CWYJ 261600Z AUTO 09002KT 07/06 RMK AO1 SLP131 T00720063 53001 CYFS 261600Z 31012KT 3SM -SN DRSN BKN020 BKN210 M20/M24 A2998 RMK SC6CI1 SLP173 KCLK 261615Z AUTO 30009KT 10SM CLR 10/00 A3015 RMK AO2 CYGK 261600Z 04013G20KT 15SM SCT140 BKN250 M14/M20 A3011 RMK AC4CI3 SLP203 CYFT 261600Z 25025G35KT 1/4SM -SN +BLSN VV004 M19/M21 A2930 RMK BLSN8 SLP930 CWYK 261600Z AUTO ///// M23/ A2898 RMK SLP895 KDDC 261552Z AUTO 30014KT 10SM CLR 11/M01 A3012 RMK AO2 SLP204 T01111011 KCLL 261553Z 26008KT 10SM CLR 11/00 A3028 RMK AO2 SLP253 T01110000 NZQN 261600Z 02004KT 40KM BKN075 15/12 Q1013 RMK ALT VATSIM USE ONLY CXPL 261500Z AUTO 21004KT M05/M06 RMK AO1 T10481055 CWYL 261600Z AUTO 27007KT 01/01 RMK AO1 6PAST HR SOG 82 6003 PK WND 26023/1520 SLP186 P0002 T00080008 50014 CYGL 261600Z 19005KT 15SM IC FEW240 M27/M30 A3005 RMK CI1 SLP206 KCKV 261552Z AUTO 32009KT 10SM OVC014 01/M02 A3003 RMK AO2 SLP173 T00061022 EFOU 261550Z AUTO 18012KT 3700 -SN BKN005/// BKN011/// OVC013/// M02/M02 Q1004 KDCM 261615Z AUTO 32005KT 10SM OVC055 11/02 A2967 RMK AO2 KCLM 261611Z AUTO 10004KT 1/4SM FG VV001 07/07 A2990 RMK AO2 T00720067 KBTV 261554Z 00000KT 10SM FEW120 SCT200 BKN250 M15/M21 A3018 RMK AO2 SLP229 T11501206 KCMD 261555Z AUTO 31004KT 10SM BKN012 OVC018 02/00 A3001 RMK AO2 T00171003 CWYM 261600Z AUTO 27021KT M33/ A2900 RMK SLP914 CYHD 261600Z AUTO 10003KT 050V120 9SM OVC011 M07/M08 A2960 RMK SLP054 KBVE 261551Z AUTO 34015G22KT 10SM CLR 11/03 A3014 RMK AO2 SLP206 T01110033 EGHE 261550Z 36014KT 9999 BKN030 09/03 Q1031 CYHE 261600Z AUTO 10011KT 9SM CLR 05/04 A2996 RMK SLP146 KF44 261555Z AUTO 01003KT 10SM CLR 09/00 A3023 RMK AO2 CXOX 261600Z AUTO 12001KT M02/M02 RMK AO1 SOG 32 8001 SLP095 T10171023 EFPO 261550Z AUTO 17013KT 9999 FEW014/// BKN055/// 01/M02 Q1008 CXOY 261500Z AUTO 18010KT M01/M02 RMK AO1 T10091015 CWZG 261500Z AUTO 25007KT 04/01 RMK AO1 SOG 09 8002 SLP164 T00400009 CYGP 261600Z 26011KT 230V290 15SM SCT030 M14/M24 A3003 RMK CU3 SLP173 EGGP 261550Z 29015KT 9999 FEW015 SCT030 07/04 Q1025 KCMH 261551Z 35011KT 10SM BKN048 BKN060 OVC120 M06/M09 A2984 RMK AO2 SLP113 T10611089 KDDH 261554Z AUTO 33004KT 10SM SCT055 BKN075 M09/M18 A3004 RMK AO2 SLP188 T10941178 KF46 261620Z AUTO 00000KT 10SM CLR 10/01 A3022 RMK AO2 T01010012 CYHH 261600Z 20004KT 15SM SCT120 M26/M31 A3009 RMK AC0 SLP226 KBVI 261547Z 02008KT 1 1/4SM -SN SCT008 BKN015 OVC020 M04/M06 A2973 CYGQ 261600Z 11004KT 2SM -SN BKN020 OVC080 M12/M14 A2979 RMK SN2SC3AS3 SLP127 KBUR 261553Z 33004KT 10SM BKN110 17/03 A3001 RMK AO2 SLP152 T01670028 EGHH 261550Z 33008KT 280V350 CAVOK 08/02 Q1026 KCMI 261607Z 27006KT 10SM OVC010 M03/M06 A2999 RMK AO2 T10331061 CYHI 261600Z 32012KT 6SM -SN DRSN OVC055 M27/M31 A2982 RMK SC8 SLP105 CYGR 261600Z 28014G21KT 20SM -SHSN BKN020 M11/M16 A3005 RMK SC7 CU ASOCTD SLP177 EGHI 261550Z 32010KT 290V350 CAVOK 07/01 Q1025 KCLS 261615Z AUTO 18007KT 10SM CLR 07/07 A2996 RMK AO2 KCLT 261611Z 35005KT 10SM BKN049 OVC065 09/01 A2966 RMK AO2 KCNB 261614Z AUTO 29010KT 10SM CLR 06/02 A2982 RMK AO2 T00560015 CYGT 261600Z 30007KT 15SM IC FEW050 BKN230 M39/M43 A2955 RMK SC1CI5 SLP017 CXRB 261600Z AUTO 35003KT M35/M39 RMK AO1 SLP009 T13541392 57008 CYHK 261600Z AUTO 04005KT 9SM CLR M31/M35 A2959 RMK SLP028 KDCU 261553Z AUTO 32011KT 10SM OVC018 03/M01 A3003 RMK AO2 SLP170 T00331006 KDEC 261554Z 25005KT 10SM OVC100 M04/M05 A3000 RMK AO2 SLP167 T10391050 KCNC 261555Z AUTO 23011G21KT 10SM SCT110 01/M01 A2981 RMK AO2 KBUU 261555Z AUTO 18006KT 10SM CLR M06/M09 A2992 RMK AO2 T10591089 CWZL 261600Z AUTO 01021KT 08/05 RMK AO1 PK WND 01025/1547 SLP084 T00840053 56024 KBWD 261615Z AUTO 00000KT 9SM CLR 10/02 A3028 RMK AO2 KDED 261555Z AUTO 28011G22KT 260V320 10SM CLR 17/05 A2990 RMK AO1 P0001 NZRO 261600Z 12004KT 45KM BKN050 17/12 Q1012 RMK ALT NZTG VATSIM USE ONLY CYHM 261600Z CCA 07020G26KT 12SM -SN FEW016 BKN025 BKN058 BKN120 M07/M12 A2994 RMK CU1SC4SC1AC1 SLP153 CYGV 261600Z AUTO 27013KT 9SM CLR M19/M24 A2993 RMK PRESRR SLP140 PHSF 261556Z AUTO 12007KT 10SM CLR 09/06 A3018 RMK AO2 SLP118 T00850058 $ KBVN 261615Z AUTO 32016G22KT 10SM CLR 09/02 A2994 RMK AO2 T00940015 KCLW 261615Z AUTO 33014G20KT 10SM SCT040 16/08 A2995 RMK AO2 KBVO 261553Z AUTO 21007KT 10SM CLR 07/01 A3009 RMK AO2 SLP190 T00720011 EGGW 261550Z 31011KT 9999 BKN042 06/02 Q1023 CYGW 261600Z AUTO 13006KT 9SM CLR M30/M33 A3011 RMK SLP198 CWZO 261600Z AUTO 16011KT RMK AO1 CYGX 261600Z 00000KT 15SM OVC020 M20/M22 A2985 RMK SC8 SLP124 ZSSS 261600Z 36004MPS 9999 BKN026 08/02 Q1026 NOSIG KBWG 261553Z AUTO VRB05KT 10SM OVC014 M01/M04 A3002 RMK AO2 SLP169 T10061039 KBUY 261611Z AUTO 29006KT 10SM OVC009 07/04 A2965 RMK AO2 CIG 008V013 T00720039 KDCY 261555Z AUTO 31011KT 10SM OVC017 M01/M05 A3001 RMK AO2 T10151054 CWYY 261600Z AUTO 14003KT 01/01 RMK AO1 SLP208 T00090008 55002 KDEH 261555Z AUTO 18007G14KT 10SM OVC008 M04/M05 A2977 RMK AO2 EGHQ 261550Z 32015KT 9999 FEW026 SCT035 07/03 Q1029 CXRH 261600Z AUTO 26015G27KT M10/M12 RMK AO1 28 SOG 54 T11001121 CWZQ 261600Z AUTO 26020G27KT M09/M12 RMK AO1 PK WND 28027/1559 SLP190 T10871115 51034 UNNT 261600Z 17005MPS 7000 FEW010 BKN066 M29/M32 Q1042 25810160 16810160 NOSIG RMK QFE771/1029 KBWI 261554Z 06010KT 1SM R10/6000VP6000FT -SN BR BKN008 OVC014 M01/M02 A2981 RMK AO2 SLP096 P0001 T10061022 KCNI 261615Z AUTO 31014G22KT 280V340 10SM OVC016 05/00 A2984 RMK AO2 KBVS 261615Z AUTO 21008KT 1/4SM OVC001 07/07 A2996 RMK A01 P000 KBXA 261615Z AUTO 36011G14KT 10SM 12/03 A3015 RMK AO2 T01190026 EGJA 261550Z 34018KT 320V020 9999 BKN030 08/03 Q1026 CWZS 261600Z AUTO 30008KT M19/M25 RMK AO1 SLP219 T11911247 51032 EFSA 261550Z AUTO 16006KT 120V210 9999 OVC023 M01/M02 Q1013 KCNK 261555Z AUTO 27012KT 10SM CLR 07/01 A2998 RMK AO2 SLP160 T00720006 CYIK 252200Z 00000KT 15SM FEW005 FEW013 M30/M33 A2981 RMK ST1ST1 SN CVR HARD PACK LAST OBS/NEXT 261300UTC SLP102 EGJB 261550Z 33014KT 9999 BKN028 08/04 Q1027 KBVU 261615Z AUTO 02003KT 10SM CLR 09/01 A3019 RMK AO2 CXSC 261500Z AUTO 23002KT M01/M02 RMK AO1 T10131024 UNOO 261600Z 21005MPS CAVOK M22/M25 Q1036 25810545 NOSIG RMK QFE769 CXRL 261600Z AUTO 02/M02 RMK AO1 T00191016 CYHU 261600Z AUTO 04010KT 9SM CLR M17/M22 A3025 RMK SLP247 KCNM 261553Z AUTO 32008KT 10SM CLR 04/M01 A3032 RMK AO2 SLP262 T00441006 KCOD 261615Z 04003KT 10SM CLR 04/M01 A3019 RMK AO1 KDEN 261553Z 24009KT 10SM FEW220 09/M04 A3026 RMK AO2 SLP224 T00941039 KCOE 261615Z AUTO 04010KT 1/4SM OVC002 03/02 A3008 RMK AO1 NZTG 261600Z 12004KT 45KM BKN050 17/12 Q1012 RMK ALT VATSIM USE ONLY CXSE 261600Z AUTO 27009KT M34/M38 RMK AO1 SLP044 T13421378 NZSP 261550Z 04011KT 9999 SKC M30/ A2889 RMK CLN AIR 03012KT ALL WNDS GRID SDG/HDG CWZW 261600Z AUTO 28005KT M16/M18 RMK AO1 SOG 34 3012 SLP131 T11581176 CYIN 261600Z AUTO 13007KT 9SM FEW190 02/M03 A2985 RMK SLP130 KCNO 261553Z 00000KT 10SM OVC110 15/06 A3003 RMK AO2 SLP165 T01500061 KCMX 261607Z AUTO 17007KT 1 1/2SM -SN BKN029 OVC038 M09/M12 A2977 RMK AO2 P0000 T10941122 KBVX 261615Z AUTO 29008KT 240V330 10SM CLR 06/M02 A3012 RMK AO1 KCOF 261558Z AUTO 29021G25KT 10SM CLR 18/10 A2988 RMK AO2 PK WND 29027/42 SLP123 T01800098 VISNO RWY02 CHINO RWY02 $ CYJF 261617Z 04012G20KT 7SM OVC030 M18/M22 A2996 RMK SC8 PRESRR SLP170 EFRO 261550Z 18011KT 2500 -SN DRSN SCT006 BKN012 OVC020 M03/M03 Q1000 CYIO 261600Z 20004KT 30SM SKC M41/M45 A2954 RMK VIS-NE/E-1/4 FROIN -37.1/-41.2/0/22 MEDIUM PACK SLP017 KBVY 261553Z 01008KT 7SM -SN OVC021 M08/M12 A3014 RMK AO2 UPB43E47SNE31B52 SLP205 P0000 T10781122 KBWP 261555Z AUTO 29012KT 10SM CLR 02/00 A2977 RMK AO1 KCMY 261555Z AUTO 18004KT 10SM OVC016 M05/M08 A2979 RMK AO2 T10541077 ZUCK 261600Z 04002MPS 1400 R02L/P2000N R02R/P2000N BR SCT012 SCT020 OVC050 12/09 Q1018 NOSIG CYHY 261600Z 30009KT 15SM BKN025 M18/M20 A2982 RMK SC6 SLP116 KDEQ 261553Z AUTO 25005KT 10SM CLR 07/01 A3017 RMK AO2 SLP216 T00670011 CXSH 261600Z AUTO 30001KT M17/M25 RMK AO1 SLP246 T11671253 51005 CYHZ 261600Z 29006KT 260V330 15SM SCT250 M10/M18 A3013 RMK CI3 SLP214 CWZZ 261600Z AUTO 04008G17KT M21/ A2919 RMK SLP939 KDFI 261553Z AUTO 05004KT 10SM CLR M08/M14 A2996 RMK AO2 SLP157 T10831139 EFSI 261550Z AUTO 17009KT 110V220 9999 -SG FEW012 SCT015 BKN018 BKN032 00/M01 Q1005 EGKA 261550Z 32014KT 9999 FEW020 08/02 Q1024 CYKA 261600Z 10004KT 15SM FEW006 OVC010 01/M00 A3002 RMK SF1ST7 FG BANK 4E SLP182 EGJJ 261550Z 33014KT 9999 BKN025 08/04 Q1027 NOSIG KDET 261553Z 06007KT 10SM CLR M07/M13 A2996 RMK AO2 SLP156 T10671133 KBXK 261615Z AUTO 00000KT 5SM OVC095 11/01 A3014 RMK AO1 KF70 261555Z AUTO 00000KT 10SM CLR 16/02 A3004 RMK AO1 EGKB 261550Z 32010KT 290V350 9999 BKN030 07/M00 Q1024 KCNU 261552Z AUTO 21012KT 10SM CLR 04/00 A3005 RMK AO2 SLP179 T00440000 EHAK 261555Z AUTO 33035KT 310V020 9999 FEW021/// SCT024/// BKN042/// 07/03 Q1013 KCPC 261555Z AUTO 30005KT 10SM CLR 12/06 A2964 RMK AO2 T01160055 CXSL 261600Z AUTO 25005KT 03/01 RMK AO1 T00260009 KCOM 261555Z AUTO 28012KT 10SM CLR 15/02 A3027 RMK AO2 T01450016 CYKD 261600Z 19004KT 15SM IC SCT200 M26/M29 A3018 RMK CI4 SLP221 CXTD 261600Z AUTO 31009KT M10/M14 RMK AO1 SOG 03 1033 PK WND 30018/1547 SLP218 T11011143 50002 CYIV 261600Z 01003KT 310V040 15SM FEW020 BKN030 M13/M15 A2977 RMK SC1SC5 SC TR SLP103 PHTO 261553Z 09005KT 10SM RA BKN026 OVC032 20/18 A2994 RMK AO2 SLP136 P0010 T02000178 $ KCON 261551Z AUTO 35006KT 10SM CLR M10/M19 A3016 RMK AO2 SLP221 T11001194 KDEW 261553Z AUTO 35004KT 10SM CLR 01/01 A3008 RMK AO2 SLP202 T00110006 EHAM 261555Z 30014KT 260V320 9999 FEW022 SCT028 07/04 Q1018 NOSIG KCNW 261355Z 00000KT 10SM SKC 03/00 A3025 CYKF 261600Z AUTO 06014KT 9SM -SN CLR M11/M15 A2994 RMK SLP162 CZBF 261600Z 29010G21KT 15SM DRSN FEW260 M15/M25 A3014 RMK CI2 SLP211 KCNY 261553Z AUTO 00000KT 10SM CLR M01/M04 A3040 RMK AO2 SLP321 T10111039 KBYG 261553Z AUTO 00000KT 10SM CLR 14/M03 A3015 RMK AO2 SLP186 T01391028 KBYH 261554Z 32009KT 10SM BKN019 03/M01 A3012 CXSP 261500Z AUTO 23007KT 01/01 RMK AO1 T00120005 KCOQ 261617Z AUTO 19004KT 2SM -SN OVC004 M05/M06 A2964 RMK AO2 VEPT 261350Z 27002KT 2000 BR SCT018 BKN100 15/12 Q1017 NOSIG CXTH 261500Z AUTO 23005KT 01/M02 RMK AO1 T00101016 KBYI 261605Z AUTO 09011KT 1SM BR OVC002 M02/M03 A3035 RMK AO2 T10221033 CXSR 261600Z AUTO 22008KT 01/M02 RMK AO1 SOG 38 5001 SLP093 T00131023 KCOS 261554Z 36004KT 10SM FEW220 11/M03 A3033 RMK AO2 SLP268 T01061028 NZTU 261600Z 18003KT 10KM VCDZ SCT003 15/14 Q1011 RMK ALT VATSIM USE ONLY CYLA 261600Z 31012G18KT 15SM DRSN SKC M32/M37 A2977 RMK SLP087 CYKJ 261600Z AUTO 25006KT 9SM BKN006 OVC012 M02/M02 A2965 RMK SLP074 KCOT 261553Z AUTO 32004KT 10SM CLR 13/06 A3032 RMK AO2 SLP263 T01280061 KCPK 261615Z AUTO 33005KT 10SM SCT033 11/06 A2965 RMK AO2 KCQB 261555Z AUTO 23014KT 10SM CLR 10/03 A3011 RMK AO2 CYJT 261600Z 28019G29KT 12SM DRSN OVC018 M09/M14 A2989 RMK SC8 SLP122 KCQC 261553Z AUTO 08007KT 10SM CLR 09/M06 A3035 RMK AO2 SLP259 T00891061 EGKK 261550Z 32012KT 9999 SCT034 08/02 Q1024 KCOU 261554Z 21010KT 10SM OVC120 02/M01 A3001 RMK AO2 SLP169 T00171006 EHBK 261555Z AUTO 26005KT 220V320 3200 -RA SCT001 BKN002 OVC004 06/06 Q1018 BECMG 30010KT 7000 SCT004 BKN007 CYLC 261600Z 32012KT 15SM DRSN SKC M33/M38 A2964 RMK SLP047 EGLC 261550Z 31014KT 9999 SCT035 08/01 Q1024 CYKL 261600Z AUTO 29014G20KT 9SM FEW025 OVC031 M31/M36 A2962 RMK SLP105 CYLD 261600Z 18006KT 15SM BKN140 M16/M21 A2995 RMK AC6 SLP196 KDFW 261553Z 22006KT 10SM FEW250 10/M01 A3022 RMK AO2 SLP232 T01001011 KCQF 261555Z AUTO 32011G20KT 10SM CLR 09/02 A3006 RMK AO2 CYKO 261600Z 22006KT 15SM FEW025 FEW200 M30/M33 A2990 RMK SC1CI2 SLP128 EGLF 261550Z 31009KT 280V340 9999 FEW024 07/01 Q1025 CXTO 261600Z AUTO M11/M16 RMK AO1 SLP175 T11101158 53002 CXTP 261600Z AUTO 24019G29KT M03/M13 RMK AO1 SOG 18 1034 PK WND 25034/1525 SLP063 T10331130 CYKP 261600Z AUTO 13005KT 080V150 3SM -SN OVC026 M17/M20 A2988 RMK SLP141 EFTP 261550Z AUTO 18010KT 9999 SCT013 BKN016 00/M02 Q1010 OSDI 261600Z 00000KT CAVOK 13/04 Q1019 CYKQ 261600Z 17003KT 15SM SKC M22/M25 A3016 RMK SLP217 CYLH 261613Z AUTO 06006KT 050V110 4SM -SN BKN019 BKN029 OVC140 M15/M17 A2980 RMK SLP118 KCPR 261553Z 22009G18KT 10SM CLR 06/M03 A3027 RMK AO2 SLP247 T00611028 NZWB 261600Z 20002KT 35KM BKN010 16/14 Q1011 RMK ALT NZNS VATSIM USE ONLY KCPS 261553Z 26004KT 10SM OVC026 M01/M04 A3007 RMK AO2 SLP187 T10061044 KBYS 261555Z AUTO 11006KT 10SM CLR 16/M02 A3012 RMK AO2 SLP185 T01551023 $ CYLJ 261600Z 24008KT 15SM SCT030 BKN050 BKN100 01/M02 A2979 RMK SC3SC2AC2 VIRGA S+W TCU EMBD SLP111 CYMA 261600Z 00000KT 20SM FEW035 M30/M33 A3002 RMK SC1 AURBO SLP233 EFVA 261550Z AUTO 20009KT 4200 -SN OVC006/// 01/00 Q1004 R16/590294 KCPT 261555Z AUTO 24006KT 10SM CLR 11/00 A3025 RMK AO2 CYLK 252200Z 06006KT 15SM OVC030 M14/M17 A2963 RMK SC8 SLP054 ORMM 261600Z 13014KT CAVOK 17/10 Q1020 NOSIG CZDB 261600Z AUTO 28005KT M12/M21 RMK AO1 SOG 00 1023 SLP220 T11181212 NZWD 261555Z 24003KT 9999 FEW020 FEW090 FEW200 M06/M09 A2921 RMK SLP891 GRID05003KT SDG/HDG CYLL 261600Z 25008KT 15SM BKN090 BKN250 00/M03 A2983 RMK AC5CI1 SLP131 EGMC 261550Z 30010KT 270V330 9999 FEW024 08/02 Q1023 EFTU 261550Z AUTO 22006KT 160V270 9999 OVC017/// 01/M02 Q1010 R08/19//95 EGLL 261550Z 32008KT 9999 SCT048 08/01 Q1025 NOSIG KCQM 261614Z AUTO 19003KT 2 1/2SM -SN BKN011 OVC016 M04/M06 A2961 RMK AO2 VIS 1 1/2V4 P0001 EGMD 261550Z 32011KT 9999 FEW028 09/05 Q1023 CXTV 261500Z AUTO 29016KT M26/M28 RMK AO1 PK WND 29020/1444 SLP198 T12571283 51006 KCRE 261553Z 28008KT 10SM CLR 13/06 A2964 RMK AO1 SLP039 T01280056 KDGW 261553Z AUTO 32008KT 10SM CLR 09/M02 A3022 RMK AO2 SLP234 T00891022 KDHN 261553Z 32016G23KT 10SM SCT032 10/03 A2998 RMK AO2 PK WND 32027/1509 SLP152 T01000028 KBZN 261556Z 19004KT 10SM CLR 00/M02 A3023 RMK AO2 SLP254 T00001022 KCRG 261553Z 28015G25KT 3SM HZ SCT035 13/06 A2983 RMK AO2 SLP102 T01330056 KBYY 261615Z AUTO 35005KT 10SM CLR 14/02 A3029 RMK AO2 T01460029 ORNI 261600Z 11010KT 4000 DU SCT033 BKN090 18/05 Q1015 NOSIG CYKY 261600Z 15007KT 15SM SCT045 BKN240 M02/M04 A2987 RMK SC3CI3 SLP142 CZCP 261600Z AUTO ///// 2 1/2SM CLR M27/ A2990 RMK VSBY VRBL 1.8V5.0 SLP140 KCRH 261615Z AUTO 33015G20KT 10SM CLR 13/03 A3025 RMK A01 CYKZ 261600Z 06005KT 12SM FEW030 BKN090 M11/M21 A3002 RMK SC1AS6 SC TR SLP182 CYMH 261600Z 24010KT 15SM BKN100 M15/M21 A2946 RMK AC5 SLP975 NZWK 261600Z 12004KT 45KM BKN050 17/12 Q1012 RMK ALT NZTG VATSIM USE ONLY CZCR 261600Z AUTO 27013KT M17/M24 RMK AO1 SOG 20 1035 PK WND 27022/1539 SLP223 T11731244 50002 KDIJ 261556Z AUTO 00000KT 10SM CLR M07/M07 A3042 RMK AO2 T10721072 SLP330 CYMJ 261600Z 27007KT 15SM FEW097 BKN370 03/M01 A2992 RMK AC1CI2 SLP154 KCQT 261547Z AUTO 08004KT 10SM BKN120 21/00 A2998 RMK AO2 SLP152 T02060000 $ CYNA 261600Z AUTO 29014G21KT 9SM CLR M18/M24 A2989 RMK SLP122 KDHT 261553Z AUTO 30009KT 10SM CLR 08/M01 A3027 RMK AO2 SLP245 T00781011 KDIK 261556Z AUTO 27010KT 10SM CLR 03/00 A2995 RMK AO2 SLP158 T00330000 CYLT 261600Z 30003KT 10SM FEW090 M29/M32 A2981 RMK AC2 SLP099 CXWB 261500Z AUTO 14006KT M28/M30 RMK AO1 T12761303 EFUT 261550Z 18006KT 150V220 9999 FEW008 BKN028 M01/M02 Q1014 CYLU 261600Z 29015KT 10SM DRSN SCT010 SCT020 BKN180 M25/M31 A2967 RMK ST3SC1AS0 SLP056 NZWN 261600Z AUTO 03006KT 9999 NCD 17/13 Q1012 NOSIG EHDL 261555Z AUTO 29008KT 9999 FEW017 SCT021 BKN024 07/05 Q1017 WHT TXKF 261555Z 14013KT 9999 SCT026 SCT038 BKN180 OVC300 21/14 Q1014  CYND 261600Z 09010KT 15SM FEW210 M16/M22 A3022 RMK CI1 SLP240 CXVM 261500Z AUTO 26003KT M01/M03 RMK AO1 T10101034 CYMM 261600Z AUTO 24006KT 9SM CLR M01/M03 A2971 RMK SLP079 KCQW 261615Z AUTO 01007KT 10SM CLR 12/04 A2962 RMK AO2 NZWP 261551Z 06006KT 20KM FEW014 SCT024 18/17 Q1011 RMK NZAA VATSIM USE ONLY CXVN 261600Z AUTO 08009G17KT M07/M13 RMK AO1 PK WND 09019/1546 SLP157 T10661129 51002 CYLW 261600Z AUTO 16002KT 1/4SM FG VV002 01/01 A3008 RMK SLP202 CYNE 261600Z AUTO 33005KT 280V350 9SM OVC023 M13/M14 A2984 RMK SLP125 KCQX 261552Z AUTO 07011KT 10SM OVC030 M01/M07 A3008 RMK AO2 SLP188 T10061072 KCSG 261551Z 31011G21KT 10SM BKN027 OVC034 08/02 A2992 RMK AO2 SLP130 T00830022 KCRP 261551Z 32004KT 10SM BKN250 15/07 A3030 RMK AO2 SLP259 T01500067 CYMO 261600Z AUTO 16002KT 9SM CLR M22/M25 A3013 RMK SLP206 NZWR 261551Z 06006KT 20KM FEW014 SCT024 18/17 Q1011 RMK NZAA VATSIM USE ONLY KCRQ 261553Z 11007KT 10SM CLR 20/03 A2999 RMK AO2 SLP153 T02000028 NZWS 261600Z 21007KT 35KM SCT005 13/12 Q1013 RMK ALT VATSIM USE ONLY EGNH 261550Z 28010KT 9999 FEW020 SCT026 06/04 Q1025 EHEH 261555Z AUTO 31008KT 9999 FEW039 OVC060 07/04 Q1018 BLU 31011KT 9999 BKN033 EFVR 261550Z AUTO 17005KT 130V230 9999 OVC019 M01/M03 Q1012 KCRS 261553Z AUTO 00000KT 10SM CLR 12/00 A3026 RMK AO2 SLP245 T01170000 NZWU 261600Z 10010KT 35KM SCT013 15/12 Q1013 RMK ALT NZPM VATSIM USE ONLY CZFA 261600Z 30010G15KT 30SM BKN086 M21/M24 A2985 RMK AC5 SLP185 CYOA 261500Z 06005KT 4SM -SN FEW004 SCT024 OVC044 M19/M21 A2948 RMK ST2SC2SC4 SLP041 EGNJ 261550Z 27011KT 9999 FEW020 06/03 Q1021 KCTB 261556Z AUTO 25018KT 10SM CLR 09/M03 A2998 RMK AO2 SLP155 T00891033 KDKB 261615Z AUTO 20006KT 10SM BKN060 OVC070 M06/M09 A2993 RMK AO2 T10631088 CYMT 261600Z 23007KT 15SM FEW220 SCT250 M24/M27 A3008 RMK CC2CI1 SLP235 CYMU 261500Z 16005KT 15SM FEW070 FEW280 M31/M36 A3003 RMK AC1CI0 SLP183 CYOC 261600Z VRB02KT 25SM IC FEW019 FEW038 M38/M41 A3016 RMK SF1SC1 SF TR FROIN SLP258 CZEL 261600Z AUTO 06012KT M13/M17 RMK AO1 SLP161 T11271169 51005 KCSM 261553Z 28009KT 10SM CLR 13/03 A3016 RMK AO2 SLP211 T01330033 CZEM 261600Z 13004KT 15SM FEW020 M25/M28 A3016 RMK SC1 SLP216 CXWM 261500Z AUTO 18005KT 04/M01 RMK AO1 T00411014 CYOD 261600Z 23006KT 15SM BKN090 03/M01 A2980 RMK AC6 SLP115 CYNM 261611Z AUTO 22005KT 180V260 9SM CLR M20/M22 A3010 RMK ICG SLP229 EGNM 261550Z 29016KT 9999 FEW012 SCT018 04/02 Q1022 KCRW 261554Z 28007KT 240V010 1SM -RAPLSN BR OVC003 01/00 A2974 RMK AO2 PLB10SNB27 SLP074 VLY FG P0002 T00060000 RVRNO EHDV 261555Z AUTO 31028KT 9999 FEW021/// SCT029/// 07/04 Q1016 EHFD 261555Z AUTO ///34G45KT 4600 -RA FEW009/// SCT019/// BKN024/// 05/03 Q1013 RERA REDZ CXVW 261500Z AUTO 16012KT 02/02 RMK AO1 T00170015 50006 CXWN 261600Z AUTO 32015G29KT M01/M04 RMK AO1 PK WND 33035/1500 SLP094 T10081042 53054 KCRX 261615Z AUTO 33010G15KT 290V350 10SM SCT021 04/M02 A3008 RMK AO2 EGNO 261550Z 31015KT 9999 VCSHRA FEW019 SCT041 06/03 Q1024 CYMX 261600Z 05007KT 010V090 45SM FEW250 M17/M24 A3023 RMK CI2 SLP247 KEBG 261555Z AUTO 02003KT 10SM CLR 19/05 A3031 RMK AO2 T01920051 KCSQ 261555Z AUTO 25017G23KT 10SM SCT100 02/00 A2982 RMK AO2 UNTT 261600Z 21008MPS 9000 -SN SCT033 OVC066 M25/M28 Q1037 NOSIG RMK QFE762 KEAR 261615Z 31013KT 10SM CLR 11/01 A3001 RMK AO1 EGNR 261550Z 29013KT 9999 SCT023 07/04 Q1025 KCTJ 261555Z AUTO 30013G20KT 10SM SCT009 BKN018 OVC025 05/02 A2992 RMK AO2 CYPA 261600Z 23004KT 15SM BKN100 OVC220 M01/M03 A2984 RMK AC7CI1 SLP125 CYOJ 261600Z 00000KT 15SM FEW001 SCT095 M14/M15 A2970 RMK SF1AC2 WND ESTD SLP086 EGPA 261550Z 30016KT 8000 VCSH FEW012 SCT022CB 05/02 Q1014 RESHGS KCUB 261553Z AUTO 31012G19KT 10SM CLR 12/04 A2968 RMK AO2 SLP051 T01220039 KDKK 261553Z AUTO 05009KT 1 1/4SM -SN BR BKN023 OVC030 M09/M11 A2990 RMK AO2 SLP137 P0000 T10891111 KEAT 261615Z AUTO 31005KT 1/2SM FG VV002 01/00 A3009 RMK AO2 T00060000 EGNS 261550Z 28009KT 220V320 9999 FEW025 07/02 Q1025 NOSIG EGPB 261550Z 29019KT 9999 SCT025CB 05/01 Q1010 NOSIG EGNT 261550Z 27010KT CAVOK 05/02 Q1020 KEAU 261556Z 15006KT 3SM BR OVC009 M06/M07 A2973 RMK AO2 SLP083 I1001 T10561072 CYPC 261600Z 27011KT 3SM -SN DRSN OVC030 M26/M30 RMK SC8 ZUGY 261600Z 06002MPS 030V110 5000 BR SCT018 BKN033 11/10 Q1017 NOSIG EGPC 261550Z 30014KT 9999 VCSH FEW010 FEW020CB 03/01 Q1015 KCSV 261614Z AUTO 30010KT 1 3/4SM BR OVC002 M02/M03 A2987 RMK AO2 CIG 002V005 T10171028 CZFM 261600Z 17004KT 10SM -SN BKN080 M27/M30 A3019 RMK AC6 SLP229 EGNV 261550Z 29017KT 9999 FEW026 06/01 Q1021 CZEV 261600Z AUTO 27006KT M27/M30 RMK AO1 SOG 42 2007 SLP220 T12661295 EGOM 261550Z 27012KT 9999 FEW022 02/02 Q1020 BLU EGPD 261550Z 29011KT 9999 FEW045 05/00 Q1017 NOSIG CYPD 261600Z AUTO 30016G22KT 9SM BKN020 M11/M16 A3010 RMK SLP201 CZFN 261600Z 31014G23KT 20SM DRSN FEW025 M26/M32 A3014 RMK SC2 SLP223 CYPE 261600Z 23006KT 15SM FEW100 BKN250 01/M02 A2975 RMK AC2CI5 SLP098 EGPE 261550Z 28011KT 9999 VCSH FEW012 SCT027CB BKN042 05/02 Q1018 KDLF 261558Z AUTO 32003KT 10SM CLR 10/04 A3032 RMK AO2 SLP267 T00990037 $ CYOO 261600Z AUTO 08012KT 9SM FEW130 M10/M21 A3004 RMK SLP183 EGPF 261550Z AUTO 28010KT 9999 FEW003 SCT033 06/02 Q1022 EGNX 261550Z 31011KT 9000 -SHRA SCT023 BKN038 06/03 Q1024 KECG 261554Z 36004KT 10SM CLR 09/06 A2965 RMK AO2 SLP039 T00890061 CYPG 261600Z 32017G22KT 15SM FEW010 OVC017 M02/M04 A2983 RMK SC2SC6 SLP117 EGOP 261550Z AUTO 31014KT 9999 // FEW025/// BKN033/// 08/04 Q1028 EHGG 261555Z AUTO 29012KT 260V330 9999 SCT019 BKN026 BKN029 06/04 Q1015 NOSIG KDLH 261615Z 20006KT 1 3/4SM R09/5000VP6000FT -SN BR BKN008 OVC012 M05/M07 A2962 RMK AO2 P0001 T10501067 KCUH 261555Z AUTO 21007G14KT 10SM CLR 08/02 A3010 RMK AO2 CYPH 261615Z AUTO VRB02KT 6SM HZ CLR M32/M36 A3000 RMK SLP163 CXYH 261600Z AUTO 01004KT M19/M22 RMK AO1 SOG 52 3030 SLP167 T11881223 EGPH 261550Z 26010KT CAVOK 05/01 Q1020 KDKR 261555Z AUTO 31005KT 10SM CLR 13/03 A3028 RMK AO2 KDMA 261558Z AUTO 13011KT 10SM FEW080 SCT095 16/M04 A3016 RMK AO2 SLP192 T01561037 $ KEBS 261555Z AUTO 27014KT 10SM CLR 03/03 A2976 RMK AO2 EGPI 261550Z 30017KT 9999 FEW025 07/04 Q1023 EGQA 261550Z 27014KT 9999 FEW014 SCT020 06/// Q1017 WHT CZFS 261600Z AUTO 31011KT M20/M22 RMK AO1 SOG 36 1031 PK WND 34022/1527 SLP171 T11991215 EGOS 261550Z 31012KT 9999 FEW030 SCT180 BKN220 07/01 Q1025 BLU NOSIG CYQA 261600Z AUTO 08004KT 040V120 9SM CLR M14/M20 A3003 RMK SLP196 EHFS 261555Z AUTO 32014KT 270V340 9999 SCT038/// BKN044/// OVC049/// 08/03 Q1020 KCVB 261550Z AUTO 31003KT 10SM CLR 11/04 A3031 RMK AO2 T01070037 CYQB 261600Z 28003KT 30SM FEW210 M18/M24 A3024 RMK CI2 SLP247 EGPK 261550Z 29013KT 9999 FEW030 07/02 Q1023 KCVC 261615Z AUTO 29013G19KT 10SM OVC023 08/03 A2981 RMK AO2 KCUL 261558Z AUTO 29013KT 10SM OVC014 M01/M03 A3006 RMK AO2 KDLL 261550Z AUTO 19005KT 1 3/4SM -SN BKN021 BKN030 OVC042 M07/M09 A2985 RMK AO2 T10731092 KEDC 261555Z AUTO 33006KT 10SM CLR 14/01 A3028 RMK AO2 CYPL 261600Z 12006KT 5SM -SN FEW012 OVC030 M11/M14 A2968 RMK SF2SC6 SLP083 CXZC 261600Z AUTO 00000KT M22/M25 RMK AO1 SOG 70 2011 SLP205 T12211247 50004 EGPL 261550Z 28016KT 9999 VCSH FEW010CB SCT030 06/04 Q1021 CYQD 261600Z 00000KT 15SM OVC012 M10/M13 A2983 RMK SC8 SLP120 EGPM 261550Z 27014KT 9999 FEW012 05/00 Q1009 NOSIG KDLN 261553Z AUTO 21015KT 10SM CLR 03/M02 A3027 RMK AO2 SLP255 T00281022 EGOV 261550Z 29015KT 9999 FEW019 SCT130 BKN250 07/03 Q1026 BLU NOSIG KEDE 261615Z AUTO 07004KT 10SM CLR 09/06 A2963 RMK AO2 T00880061 VGEG 261550Z 35005KT 4000 HZ NSC 19/14 Q1015 NOSIG EGOW 261450Z 30014KT 9999 FEW015 BKN080 08/01 Q1024 BLU EGPN 261550Z 27013KT 9999 FEW040 06/02 Q1019 CYOW 261600Z 06012KT 15SM SCT220 M17/M22 A3020 RMK CI3 SLP236 CYQF 261600Z 35004KT 15SM FEW150 BKN240 M01/M04 A2985 RMK AC2CI5 SLP146 CYPO 261600Z AUTO 16002KT 9SM CLR M23/M26 A3000 RMK SLP167 KCTY 261553Z AUTO 30016G21KT 14/04 A2992 RMK AO1 PK WND 28026/1513 SLP132 T01440044 PNO KCVG 261552Z 33013KT 10SM BKN013 BKN036 M06/M09 A2993 RMK AO2 SLP141 T10561094 EGPO 261550Z 28008KT 9999 VCSH FEW012CB FEW019 04/02 Q1018 KECP 261553Z 29011G21KT 10SM SCT034 11/03 A2998 RMK AO2 SLP163 T01110028 KDLP 261615Z AUTO 36016G22KT 10SM CLR 12/04 A3013 RMK A01 CYOY 261600Z AUTO 00000KT 9SM CLR M18/M26 A3019 RMK SLP243 CYQG 261600Z 04011KT 15SM BKN270 M09/M13 A2995 RMK CI7 CONTRAILS SLP155 KCVH 261610Z AUTO 00000KT 10SM CLR 04/04 A3004 RMK AO1 KDMH 261554Z AUTO M01/M03 A2983 RMK AO1 SLP100 P0002 T10111028 KCTZ 261555Z AUTO 00000KT 10SM SCT060 SCT070 OVC090 08/06 A2965 RMK AO2 T00830060 CYQH 261600Z 31006KT 20SM FEW030 M09/M13 A2973 RMK SC1 SLP105 CYPQ 261600Z AUTO 05010KT 9SM SCT150 M15/M20 A3007 RMK SLP199 EHFZ 261555Z AUTO 30031KT 9999 FEW018/// SCT021/// 07/04 Q1015 CYPR 261619Z AUTO 34002KT 5/8SM BR VV001 04/04 A2978 RMK SLP086 CYQI 261600Z 33003KT 280V050 15SM FEW025 OVC250 M08/M14 A3019 RMK SC2CI6 SLP227 EHGR 261555Z AUTO 31011KT 9999 OVC047 07/04 Q1018 BLU KDLS 261553Z AUTO 06007KT 5SM BR OVC007 04/03 A3012 RMK AO2 SLP203 T00440033 KEDJ 261610Z AUTO 35014KT 7SM BKN010 M10/M12 A2990 RMK AO1 KCWA 261550Z 16007KT 2 1/2SM SN SCT022 BKN031 OVC048 M09/M09 A2979 KECS 261555Z AUTO 35008KT 10SM CLR 06/M01 A3014 RMK AO2 CYRA 261600Z 31009KT 15SM BKN080 M22/M26 A2981 RMK AS5 SLP123 KCUT 261553Z AUTO 22003KT 10SM CLR 07/M04 A3012 RMK AO2 SLP190 T00721039 KECU 261550Z AUTO 26003KT 10SM CLR 14/00 A3033 RMK AO2 EGQK 261550Z 27014KT 9999 FEW020 SCT070 05/02 Q1017 BLU CYQK 261600Z 34010KT 10SM -SN FEW008 OVC026 M05/M06 A2961 RMK SF2SC6 SLP055 CYRB 261600Z 34004KT 10SM -SN SCT015 M36/M39 A2954 RMK SC4 SLP017 KCWC 261615Z AUTO 27006KT 10SM CLR A3022 RMK AO2 CYQL 261600Z 24012G20KT 40SM FEW120 BKN250 13/M04 A2990 RMK AC2CI5 SLP131 DENSITY ALT 3500FT EGQL 261550Z 27014KT 9999 FEW040 SCT190 05/00 Q1020 BLU KEED 261556Z AUTO 33005KT 10SM FEW110 18/00 A3012 RMK AO2 SLP181 T01780000 EGPU 261550Z AUTO 28017G28KT 250V310 9999 FEW035/// 07/03 Q1022 CYQM 261600Z 23011KT 15SM FEW040 FEW220 M14/M21 A3018 RMK CU1CI1 CU TR SLP226 KDMN 261553Z AUTO 09007KT 10SM CLR 04/M03 A3035 RMK AO2 SLP266 T00441028 KCVN 261615Z AUTO 28008KT CLR 08/01 A3029 RMK AO1 EGQM 261550Z AUTO 27012KT 9999 NCD 06/M00 Q1020 CYPW 261600Z 05003KT 1/4SM FG VV001 05/05 A2990 RMK FG8 SLP128 KDMO 261553Z AUTO 23013G19KT 10SM CLR 03/M01 A3001 RMK AO2 SLP170 T00331006 KCVO 261615Z AUTO 00000KT M1/4SM OVC002 06/04 A3003 RMK AO1 KCWF 261545Z 36010G19KT 10SM SKC 12/01 A3021 CYPX 261600Z AUTO 19008KT 9SM BKN095 M34/M37 A2993 RMK SLP141 CYPY 261617Z AUTO 36005KT 2 1/2SM BR OVC003 M09/M09 A2971 RMK VIS VRB 1 1/4-3 SLP082 KDLZ 261624Z AUTO 33011G16KT 10SM OVC012 M08/M11 A2987 RMK AO2 CYQQ 261600Z 00000KT 8SM OVC006 09/08 A2989 RMK SF8 SLP124 KCWI 261615Z AUTO 16007KT 2 1/2SM SCT006 BKN012 M07/M08 A2994 RMK AO1 CYQR 261600Z 29004KT 15SM FEW095 BKN260 01/M01 A2991 RMK AC1CI5 SLP153 KCVS 261558Z 00000KT 10SM CLR 07/00 A3029 RMK AO2A SLP252 T00651003 $ CYRJ 261600Z 00000KT 25SM FEW120 BKN220 M21/M28 A3023 RMK AC1CI7 AC TR SLP258 EGQS 261550Z 28017KT 9999 FEW011 FEW020CB SCT040 04/02 Q1017 BLU TEMPO 6000 SHRA SCT020CB WHT EHJA 261555Z AUTO 29032KT 9999 FEW021/// SCT026/// BKN031/// 07/03 Q1017 OTBD 261600Z VRB02KT CAVOK 19/14 Q1023 NOSIG CYSB 261600Z 08006KT 20SM BKN240 M21/M24 A3005 RMK CI6 SLP215 CYQT 261600Z 10003KT 040V140 2SM -SN FEW014 BKN025 M05/M05 A2974 RMK SC2SC5 VIS VRB 11/2-21/2 SLP088 KDNL 261553Z AUTO 30010G21KT 10SM FEW029 12/04 A2973 RMK AO2 SLP064 T01220044 KEDU 261615Z AUTO 36004KT M1/4SM OVC001 05/05 A3008 RMK AO1 CYRL 261613Z 36003KT 320V030 12SM -SN OVC014 M08/M10 A2967 RMK SC8 SLP078 EGSC 261550Z 28012KT 9999 FEW028 07/03 Q1023 CXZU 261600Z AUTO 00000KT 02/02 RMK AO1 SLP128 T00200016 58003 CYQU 261600Z 20004KT 25SM BKN058 OVC110 02/M01 A2980 RMK SC6AC2 SLP119 CYSC 261600Z AUTO 07005KT 050V130 9SM CLR M17/M21 A3017 RMK SLP239 KEFD 261550Z 28004KT 10SM BKN250 15/00 A3029 EGSD 261620Z 29015KT 9999 FEW040 06/03 Q1021 CXZV 261600Z AUTO 30010G16KT M21/M27 RMK AO1 SOG 46 3029 PK WND 30017/1507 SLP178 T12121274 50002 CYQV 261600Z AUTO 26010KT 9SM SCT110 M01/M03 A2986 RMK SLP134 KCWN 261556Z AUTO 13004KT 10SM CLR 12/M07 A3003 RMK AO2 SLP142 T01221070 KEEN 261615Z AUTO 36003KT 10SM FEW065 M10/M18 A3011 RMK AO1 KEDW 261558Z 00000KT 90SM OVC090 05/00 A3011 RMK AO2A SLP193 T00470000 KCVW 261615Z AUTO 34007G13KT 10SM CLR 12/02 A3026 RMK A01 KDMW 261555Z AUTO 05006KT 1 3/4SM -SN OVC013 M02/M03 A2980 RMK AO2 KCXE 261555Z AUTO 04003KT 5SM OVC004 06/06 A2967 RMK AO1 T00600060 KDNN 261555Z AUTO 31007KT 10SM OVC019 03/01 A2991 RMK AO2 CYQW 261600Z AUTO VRB02KT 9SM BKN110 M00/M02 A2988 RMK SLP142 KEEO 261553Z AUTO 00000KT 10SM CLR M07/M08 A3047 RMK AO2 SLP363 T10671078 KCVX 261615Z AUTO 11005KT 10SM CLR M11/M13 A3000 RMK AO2 T11091135 CYSF 261619Z AUTO 00000KT 3SM -SN OVC004 M11/M12 A2964 RMK SLP059 CYQX 261600Z 24023G33KT 20SM DRSN BKN036 M04/M12 A2968 RMK SC5 SLP058 CZHY 261600Z AUTO 31008KT M18/M20 RMK AO1 SOG 28 1014 SLP105 T11781200 CYQY 261600Z 31018KT 15SM SCT029 M09/M16 A3006 RMK CU3 SH DIST W SLP183 CYRQ 261600Z AUTO 05003KT 030V090 9SM CLR M17/M24 A3026 RMK SLP253 CYQZ 261600Z AUTO 19003KT 110V220 1/8SM FG VV002 01/01 A2988 RMK SLP144 EGSH 261550Z 29014KT 270V340 CAVOK 07/03 Q1021 NOSIG KDPA 261552Z 18003KT 10SM FEW065 BKN100 M06/M09 A2993 RMK AO2 SLP149 T10561089 KDNS 261555Z AUTO 27007KT 10SM CLR 04/01 A2983 RMK AO2 OSKL 261100Z 09023KT CAVOK 17/M01 Q1017 CYSJ 261600Z 35009KT 15SM FEW020 BKN260 M13/M20 A3020 RMK SC1CI5 SLP234 KEET 261553Z AUTO 31009G15KT 10SM OVC015 05/01 A3001 RMK AO2 SLP162 T00500011 ORSU 261600Z VRB03KT 9999 FEW045 BKN080 09/03 Q1021 KEFK 261555Z AUTO 36003KT 10SM CLR M20/M23 A3014 RMK AO2 T12031232 CYSK 261600Z 19008KT 15SM SKC M31/M34 A3006 RMK SLP186 CYRT 261600Z 21011KT 15SM -SN OVC040 M23/M27 A2978 RMK SC8 SLP091 EGTC 261520Z 30013KT 9999 BKN040 07/02 Q1023 KCWV 261615Z AUTO 28016G25KT 10SM CLR 11/05 A2979 RMK AO2 LTG DSNT E KDNV 261615Z AUTO 30005KT 10SM OVC016 M04/M07 A2996 RMK AO2 T10391068 CZKD 261600Z AUTO 00000KT M16/M18 RMK AO1 SOG 48 3013 SLP116 T11591179 CYSM 261600Z 30005KT 15SM FEW012 M16/M18 A2975 RMK SC1 SLP095 CYRV 261600Z AUTO 00000KT 1/8SM FG VV003 01/01 A3010 RMK SLP212 KEGE 261550Z 00000KT 10SM SKC M04/M04 A3058 EHKD 261610Z AUTO 31016KT 9999 FEW022 SCT030 BKN036 07/03 Q1017 BLU 32015G25KT 9999 BKN022 CYSN 261600Z 08015G22KT 3SM -SHSN DRSN SCT015 OVC026 M07/M12 A2999 RMK SC4SC4 SLP161 EGTE 261550Z 33014KT 9999 SCT035 07/03 Q1027 KCXO 261553Z 33004KT 10SM CLR 13/00 A3027 RMK AO2 SLP248 T01280000 CYTE 261600Z 28008KT 15SM IC FEW008 BKN042 BKN072 M31/M34 A2963 RMK SF1SC4AC2 SLP042 KDPG 261559Z 00000KT 8SM CLR 00/M01 A3040 RMK SLP301 T10031012 NOSPECI KCXP 261615Z AUTO 00000KT 10SM CLR M02/M06 A3024 RMK AO2 CYSP 261600Z 20011G20KT 10SM -SN BKN013 OVC020 M06/M10 A2982 RMK SC5SC3 SLP128 KEGI 261555Z 34013G20KT 10SM FEW025 FEW250 11/02 A3000 RMK AO2A SLP159 T01130021 $ CYTH 261600Z VRB02KT 5SM BKN010 OVC018 M15/M17 A2983 RMK SC6SC2 SLP125 EHJR 261555Z AUTO 29033G37KT //// ///////// 07/03 Q1018 W///H17 OSLK 261600Z 04004KT 9999 SCT030 14/09 Q1019 EGSS 261550Z 31012G23KT CAVOK 06/02 Q1023 CYUA 261600Z AUTO 20021G26KT 1SM -SN CLR M25/ A3013 RMK SLP211 KEFT 261555Z AUTO 18010KT 5SM -SN SCT019 BKN026 OVC040 M07/M08 A2986 RMK AO2 KEHC 261615Z AUTO 32015KT 10SM CLR 14/04 A3023 RMK A01 EGTK 261550Z 30006KT 280V340 9999 FEW025 07/04 Q1024 EGUB 261550Z 30008KT 9999 FEW035 BKN200 07/02 Q1025 BLU NOSIG CYUB 261600Z 28012KT 10SM DRSN SKC M28/M34 A3009 RMK SLP192 KDPL 261615Z AUTO 35005KT 10SM CLR 09/05 A2965 RMK AO2 T00870050 CYTL 261600Z AUTO 07004KT 9SM CLR M18/M20 A2980 RMK SLP116 KDOV 261558Z AUTO 02011KT 10SM OVC009 02/02 A2980 RMK AO2 RAE1457 SLP095 P0000 T00150015 $ KCXY 261556Z 07010KT 7SM OVC019 M04/M08 A2988 RMK AO2 SNB07E54 SLP123 P0000 T10441078 KDQH 261615Z AUTO 30010KT 10SM BKN029 12/04 A2988 RMK AO2 LTG DSNT E VGHS 261550Z 00000KT 3500 HZ NSC 21/14 Q1016 NOSIG CYTQ 261600Z 27020KT 10SM DRSN FEW030 M34/M40 A2982 RMK SC1 SLP106 CYTR 261600Z 04011KT 15SM BKN250 M13/M21 A3009 RMK CI3 SLP198 KCYS 261553Z 25007KT 10SM CLR 11/M06 A3026 RMK AO2 SLP217 T01111056 KDRA 261552Z AUTO VRB04KT 10SM CLR 10/M03 A3018 RMK AO2 SLP203 T01001028 CYTS 261600Z 19007KT 15SM FEW150 SCT200 M20/M23 A3005 RMK AC2CI2 SLP212 EGVA 261558Z AUTO 30009KT 9999 FEW210 07/02 A3026 RMK AO2 SLP253 T00740021 $ EHMA 261555Z AUTO 29026KT 9999 FEW015/// SCT022/// 07/03 Q1014 EICK 261600Z 30010KT 9999 FEW026 BKN030 BKN180 07/03 Q1030 NOSIG CYUL 261600Z 06011KT 30SM FEW240 M16/M22 A3024 RMK CI2 SLP243 CYVC 261600Z 00000KT 15SM BKN020 M02/M02 A2976 RMK SC7 SLP100 EGUL 261558Z 30013KT 9999 BKN180 07/07 A3018 RMK AO2A SLP223 $ KEGV 261550Z AUTO 16004KT 1/2SM SN OVC009 M10/M12 A2974 RMK AO2 T10961121 CZMD 261600Z AUTO 07005KT 9SM CLR M15/M17 A2975 RMK SLP101 EHKV 261555Z AUTO 30031KT 260V340 9999 FEW019/// SCT028/// 07/03 Q1017 EGUN 261558Z AUTO 30014KT 9999 CLR 07/03 A3019 RMK AO2 SLP227 T00690030 KEHO 261615Z AUTO 28005KT 10SM SCT048 BKN065 OVC090 09/02 A2967 RMK AO2 T00850019 EHMG 261555Z AUTO ///25KT 9999 FEW018/// SCT021/// 07/03 Q1015 CYTZ 261600Z AUTO 04012G19KT 4SM -SN OVC016 M11/M14 A3004 RMK SLP178 KEHR 261615Z AUTO 27012KT 10SM OVC014 M01/M04 A3006 RMK AO1 KDRI 261615Z AUTO 36013G18KT 10SM CLR 11/01 A3022 RMK AO2 T01050006 CZMJ 261600Z AUTO 28005KT 03/M01 RMK AO1 SOG 02 1003 SLP154 T00321014 CYWA 261600Z 00000KT 15SM FEW220 M19/M25 A3020 RMK CI0 DA-4197FT SLP241 CYUS 261600Z AUTO 16006KT 9SM CLR M33/ A2960 RMK SLP032 KEIK 261615Z AUTO 00000KT 10SM CLR 11/M03 A3025 RMK AO2 T01071028 KCZT 261615Z AUTO 00000KT 10SM CLR 12/04 A3031 RMK AO2 CYUT 261600Z 00000KT 45SM FEW030 M35/M38 A2967 RMK SC1 SLP051 EIDL 261600Z 30012KT 8000 -RA FEW023 SCT033 08/04 Q1027 EGWC 261450Z 31008KT 9999 FEW012 SCT060 08/01 Q1025 BLU CYVL 261606Z AUTO 25006KT 5SM HZ OVC055 M29/M32 A2997 RMK SLP193 KDRM 261615Z AUTO 09005KT 7SM -SN CLR M12/M16 A3002 RMK AO2 T11251157 CYVM 261600Z 21005KT 15SM IC SKC M36/M40 A2945 RMK SC TR SLP973 CYWE 261600Z AUTO 30009KT 9SM CLR M22/M24 A2959 RMK SLP067 EHLW 261606Z AUTO 30013KT 9999 FEW020 BKN034 06/04 Q1015 BLU 30013KT 9999 SCT020 KDRO 261553Z AUTO 00000KT 10SM CLR M01/M05 A3039 RMK AO2 SLP319 T10111050 EGVN 261550Z 30005KT 9999 FEW030 BKN210 07/02 Q1025 NOSIG KFAF 261558Z AUTO VRB04KT 10SM CLR 11/05 A2966 RMK AO2 SLP047 T01060052 $ EGUW 261550Z 30014KT 9999 FEW030 BKN190 06/02 Q1022 BLU NOSIG CYUX 261600Z 31011KT 12SM IC DRSA VCFG FEW120 M40/M44 A2959 RMK AS1 FG OVR BASIN SLP021 CYVO 261600Z 15005KT 15SM FEW180 BKN280 M20/M22 A3009 RMK AC2CI4 SLP232 EGVO 261550Z 30012KT 9999 FEW025 SCT180 BKN210 07/00 Q1024 BLU NOSIG KEHY 261615Z AUTO 26018G24KT 10SM CLR 07/M06 A3036 RMK AO2 EGUY 261550Z 29015KT 9999 SCT028 BKN120 07/02 Q1023 BLU EGVP 261550Z 30007KT 9999 FEW028 BKN250 07/01 Q1025 BLU NOSIG CYVP 261600Z 27008KT 15SM FEW240 M30/M36 A2981 RMK CI1 CI TR SLP101 CYUY 261600Z VRB02KT 15SM IC FEW160 BKN240 M20/M23 A3011 RMK AC1CI6 AC TR SLP233 CYWG 261600Z 33017KT 15SM OVC019 M01/M04 A2978 RMK SC8 SLP100 KCZZ 261552Z AUTO 07007KT 13/M01 A3006 RMK AO1 SLP159 T01281011 CYVQ 261600Z 29012KT 20SM DRSN FEW040 SCT100 BKN290 M27/M32 A3019 RMK SC2AC1CI2 SLP235 CYWH 261600Z 05004KT 3/8SM FG VV001 07/06 A2992 RMK FG8 SLP130 KEIR 261615Z AUTO 34015KT CLR 12/03 A3022 RMK A01 CYVR 261610Z 09005KT 1/8SM FG VV002 06/06 A2992 RMK FG8 WND ESTD SLP131 KDTA 261555Z AUTO 00000KT 7SM CLR M02/M02 A3037 RMK AO1 T10161023 CYWJ 261600Z 30014G19KT 10SM -SN FEW015 FEW030 SCT050 BKN080 M26/M31 A2999 RMK CF1SC1SC1AC2 OCNL BLSN SLP187 KDRT 261553Z AUTO 30006KT 10SM CLR 10/04 A3032 RMK AO2 SLP263 T01000044 CYVT 261600Z 23006KT 15SM FEW060 SCT080 BKN140 BKN220 M01/M03 A2972 RMK SC1AC2AC2CI1 CI TR SLP085 CZMT 261600Z 00000KT 15SM BKN008 BKN012 07/05 A2983 RMK CF5SC2 SLP100 CYWK 261600Z 28013G19KT 15SM SCT095 M29/M35 A2972 RMK AC3 SLP138 KH21 261555Z AUTO 22010KT 10SM CLR 03/00 A3005 RMK AO2 CZMU 261500Z AUTO 26007KT M00/M02 RMK AO1 SOG 00 T10031024 CYWL 261600Z 11005KT 15SM BKN050 BKN120 02/M01 A2985 RMK SC5AC2 SLP133 CYXC 261600Z 00000KT 25SM SCT130 BKN210 M01/M02 A3006 RMK AC4CI3 SLP204 KDSM 261554Z 26014KT 10SM SCT120 BKN130 03/M01 A2981 RMK AO2 SLP103 T00331011 KFAM 261615Z AUTO 10SM OVC014 M01/M04 A3010 RMK AO1 EGXC 261550Z 29013KT 9999 FEW030 SCT190 07/01 Q1022 BLU NOSIG CYVV 261600Z 08009G15KT 15SM FEW025 FEW250 M11/M15 A3002 RMK SC1CI1 CI TR SLP184 CYXD 261600Z AUTO 22003KT 9SM CLR 00/M02 A2985 RMK SLP132 EGXD 261550Z 29013KT 9999 FEW025 BKN300 06/01 Q1022 BLU TEMPO 30015G25KT BLU EGXE 261550Z 29012KT 9999 FEW040 BKN250 06/00 Q1022 BLU TEMPO 29015G25 BLU CYXE 261600Z 24005KT 15SM FEW055 BKN110 00/M02 A2989 RMK SC2AC5 SLP147 EIDW 261600Z 27014KT 9999 FEW016 SCT025 BKN034 07/03 Q1027 NOSIG KFBG 261616Z AUTO 31003KT 10SM -RA BKN021 OVC060 08/06 A2965 RMK AO2 CIG 021V060 BKN V SCT CYXH 261600Z 21010KT 30SM BKN150 BKN250 05/01 A2988 RMK AC5CI2 SLP137 KFAR 261553Z 30012KT 10SM CLR 04/M01 A2975 RMK AO2 SLP085 T00391006 KDUA 261615Z AUTO 23005KT 10SM CLR 10/02 A3020 RMK AO2 KELA 261555Z AUTO 33003KT 10SM CLR 12/04 A3029 RMK AO2 T01200040 CYXJ 261600Z 21007KT 15SM FEW130 BKN230 00/M04 A2976 RMK AC2CI5 SLP105 KFAT 261553Z 26004KT 3SM BR SCT100 OVC150 04/03 A3006 RMK AO2 SLP179 T00390033 KDUB 261555Z AUTO 32017KT 10SM CLR 03/M05 A3035 RMK AO2 CYYB 261600Z 10010KT 15SM BKN240 M17/M20 A3004 RMK CI7 SLP209 KFBL 261614Z AUTO 27008KT 10SM OVC020 02/00 A2972 RMK AO2 KDTL 261615Z AUTO 32015G19KT 10SM SCT029 BKN040 02/00 A2973 RMK AO2 KDUC 261615Z AUTO 27006KT 10SM CLR 11/03 A3017 RMK AO2 KEKM 261550Z 00000KT 10SM CLR M08/M14 A2997 CZOL 261500Z AUTO 23003KT M01/M02 RMK AO1 T10051022 EGWU 261550Z 32011KT 9999 BKN035 BKN220 08/01 Q1024 BLU NOSIG CYXL 261600Z 15004KT 15SM -SN OVC011 M08/M09 A2962 RMK SC8 SLP059 CYYC 261600Z 22004KT 40SM FEW040 SCT150 BKN300 04/M02 A2987 RMK SC1AC3CI3 SC TR SLP142 CZPC 261600Z AUTO 21006KT 190V270 9SM CLR 11/M06 A2994 RMK SLP142 DENSITY ALT 4300FT KELD 261553Z AUTO 31006KT 10SM CLR 08/01 A3019 RMK AO2 SLP221 T00830006 KDSV 261613Z AUTO 32005KT 2SM -SN SCT023 BKN036 OVC047 M10/M13 A2994 RMK AO2 P0000 T11001128 EGYD 261550Z 30013KT 9999 FEW035 SCT150 BKN180 06/01 Q1022 BLU NOSIG CYYD 261600Z VRB02KT 25SM FEW010 BKN025 OVC065 01/01 A2984 RMK SF2SC3SC3 SLP120 KEKN 261614Z AUTO 00000KT 5SM -RA BR FEW003 OVC017 02/02 A2964 RMK AO2 P0001 T00170017 TSNO KDTN 261553Z VRB05KT 10SM CLR 09/00 A3022 RMK AO2 SLP232 T00890000 CYXN 261600Z 22010KT 15SM OVC040 M22/M24 A2982 RMK SC8 SLP100 EGYE 261250Z 28014KT 9999 SCT025 OVC150 ///// Q1021 BLU CYYE 261600Z 34007KT 15SM FEW050 M16/M18 A2978 RMK SC1 SLP121 KDTO 261553Z VRB03KT 10SM CLR 09/01 A3022 RMK AO2 SLP233 T00940006 KEKO 261556Z AUTO 10004KT 10SM CLR M03/M04 A3032 RMK AO2 SLP290 T10281044 OTHH 261400Z 08003KT 9000 NSC 20/11 Q1022 NOSIG CYYF 261600Z CCA 21003KT 10SM OVC005 02/01 A3009 RMK SC8 VIS LWR DUE LO CLD SLP202 KFAY 261601Z AUTO 00000KT 10SM BKN024 BKN060 OVC090 09/05 A2964 RMK AO2 T00940050 KDUG 261556Z AUTO 22004KT 10SM CLR 07/M04 A3027 RMK AO2 SLP229 T00671044 CYWY 261600Z 36008KT 3SM -SN DRSN OVC040 M24/M29 A3009 RMK SC8 SLP211 EGXP 261550Z 30016KT 9999 FEW020 SCT150 06/02 Q1021 BLU CYYG 261600Z 29010KT 250V320 15SM FEW030 FEW250 M12/M20 A3016 RMK SC1CI1 SLP217 CYXP 261600Z 25004KT 15SM IC SKC M38/M43 A2945 RMK SLP977 KDUH 261615Z AUTO 02004KT 10SM CLR M06/M12 A2995 RMK AO2 KEKQ 261556Z AUTO 29011KT 7SM OVC010 M02/M04 A2996 RMK AO2 T10221038 UPE09SNB28E41 P0000 SLP154 EHPG 261555Z AUTO 29020G30KT 240V330 9999 FEW022/// 08/03 Q1019 CYXQ 252300Z 33002KT 30SM SCT045 SCT220 M25/M29 A2967 RMK SC3CC1 CLIMAT -21.5/-27.5/TRCM/TRMWE/LAST STFD OBS/NEXT 261700 SLP122 EGYH 261550Z 30015KT CAVOK 06/03 Q1022 BLU CYYH 261600Z 17006KT 15SM IC FEW045 FEW080 M35/M39 A2961 RMK SC1AC1 SC TR FROIN SLP032 KFCI 261555Z AUTO 05005KT 10SM FEW031 BKN048 OVC050 07/M01 A2971 RMK AO1 P0001 KFBR 261615Z AUTO 24004KT 10SM CLR 08/M03 A3045 RMK AO2 T00761027 KDUJ 261553Z AUTO 10008KT 1/2SM -SN FZFG BKN015 OVC024 M07/M09 A2972 RMK AO2 SLP089 P0001 T10671089 CYXR 261600Z AUTO 11004KT 9SM CLR M27/M30 A3013 RMK SLP236 KDTS 261553Z AUTO 33009G16KT 10SM CLR 12/03 A3001 RMK AO2 SLP162 T01220028 TSNO EGXS 261550Z AUTO 27013KT 7000 // NCD 06/02 Q1021 CYXS 261603Z AUTO 00000KT 3/4SM R15/P6000FT/U -RA BR SCT007 BKN037 OVC055 01/01 A2987 RMK SLP143 CYYJ 261610Z VRB02KT 1/2SM R27/2800FT/N FG OVC002 04/04 A2992 RMK FG2ST6 SLP131 KELK 261615Z AUTO 29007KT 10SM CLR 17/04 A3020 RMK AO2 EGXT 261550Z 29012KT 9999 SCT035 BKN100 07/03 Q1023 BLU CYXT 261600Z 02006KT 3SM -RA BR FEW005 SCT015 OVC045 03/02 A2985 RMK SF2SC1SC5 SLP115 EGXU 261550Z 28010KT 9999 FEW030 BKN180 06/01 Q1022 BLU NOSIG CYXU 261600Z 04010KT 15SM FEW020 FEW130 SCT250 M10/M14 A2991 RMK CF1AC1CI2 CF TR SLP150 CYYL 261612Z AUTO 18003KT 2SM -SN OVC033 M14/M15 A2973 RMK VIS VRB 1 1/4-3 SLP105 KELM 261553Z 05007KT 1/2SM SN FZFG BKN018 OVC032 M09/M11 A2992 RMK AO2 SLP148 P0001 T10891111 RVRNO KFCM 261553Z 25006KT 10SM SCT018 02/M01 A2969 RMK AO2 SLP065 T00171011 KELN 261553Z AUTO 12004KT 1/4SM FG VV002 00/M02 A3006 RMK AO2 SLP194 I1001 T00001017 KDTW 261553Z 03009KT 10SM SCT230 M07/M13 A2996 RMK AO2 SLP155 T10721128 EGXV 261550Z AUTO 28008KT 9999 NCD 06/02 Q1021 EGYM 261550Z 29012KT CAVOK 06/03 Q1022 BLU CYZE 261600Z AUTO 06008KT 9SM CLR M13/M17 A3005 RMK ICG SLP194 CYYN 261600Z AUTO 20008KT 9SM CLR 01/M02 A2989 RMK SLP146 KELO 261612Z AUTO 18005KT 10SM BKN018 OVC023 M06/M08 A2961 RMK AO2 EGXW 261550Z 29012KT 9999 FEW035 SCT220 06/01 Q1022 BLU NOSIG EHQE 261555Z AUTO 31033KT 9999 SCT020/// BKN024/// BKN032/// 07/03 Q//// CYXX 261600Z 30005KT 30SM BKN220 05/04 A2994 RMK CI6 TR LO ST S-SW PRESRR SLP140 KELP 261551Z 02009KT 10SM SCT180 BKN250 07/M02 A3034 RMK AO2 SLP253 T00721022 CYZF 261600Z 32011KT 15SM BKN050 OVC070 M19/M22 A2972 RMK SC5AC3 SLP090 CYZG 261600Z 22014G21KT 4SM IC DRSN FEW120 M32/M35 A2966 RMK AC1 SLP083 EGYP 261550Z 35012KT 9999 FEW030 BKN040 12/03 Q1007 BLU NOSIG CYXY 261600Z 34006KT 40SM -SN FEW020 BKN060 M19/M24 A2989 RMK SC1SC5 SLP179 CYXZ 261600Z 17013G18KT 15SM FEW020 SCT050 BKN350 M11/M16 A2995 RMK SC2SC2CI1 SLP171 EGXZ 261550Z AUTO 29012KT 9999 NCD 06/01 Q1022 CYYQ 261600Z 00000KT 15SM FEW030 FEW270 M26/M29 A2991 RMK SC1CI1 SLP133 CYZH 261600Z AUTO 26011G16KT 9SM CLR 04/00 A2978 RMK SLP108 CYYR 261600Z 27021G28KT 15SM DRSN FEW030 FEW250 M21/M28 A2960 RMK CF1CI0 SLP030 KFCS 261558Z AUTO 33009KT 10SM CLR 06/M03 A3030 RMK AO2 SLP289 T00611028 CZPS 261500Z AUTO 29007KT 01/M03 RMK AO1 T00121026 KDVK 261615Z AUTO 33007KT 10SM OVC009 M03/M05 A2995 RMK AO2 KEMK 261615Z AUTO 34014KT CLR 20/04 A3025 RMK A01 KFDK 261545Z 07008KT 2 1/2SM -SN OVC012 00/M03 A2986 CYYT 261600Z 25022G36KT 15SM FEW030 M02/M08 A2979 RMK CU2 SLP095 KDVL 261615Z AUTO 30013KT 10SM CLR 02/M02 A2981 RMK AO1 CYYU 261600Z 17004KT 15SM FEW100 SCT220 M19/M23 A3002 RMK AC2CI1 SLP195 KEND 261555Z 27014KT 10SM FEW250 03/M02 A3007 RMK AO2A SLP193 KEMM 261555Z AUTO 34008KT 10SM CLR M01/M03 A3042 RMK AO2 KDVN 261552Z AUTO 17008KT 3/4SM -SN BR VV010 M06/M08 A2993 RMK AO2 SLP147 P0003 T10611078 EHRD 261555Z AUTO 30013KT 270V350 9999 NSC 07/04 Q1019 NOSIG KDUX 261615Z AUTO 29009KT 10SM CLR 05/M01 A3025 RMK AO2 T00541008 KDVO 261615Z AUTO RMK AO2 KELY 261553Z AUTO 16007KT 10SM CLR M04/M06 A3036 RMK AO2 SLP295 T10391061 KEMP 261553Z AUTO 26011KT 10SM CLR 07/00 A2998 RMK AO2 SLP163 T00670000 KDVP 261613Z AUTO 30013G16KT 10SM CLR 03/00 A2980 RMK AO2 T00290000 CYYY 261600Z 27012KT 30SM BKN025 M18/M23 A3021 RMK SC6 SLP236 CYZP 261606Z AUTO 36015G20KT 9SM BKN018 BKN130 BKN150 OVC170 08/06 A2978 RMK SLP085 KDWH 261553Z 23003KT 10SM CLR 12/00 A3027 RMK AO2 SLP250 T01220000 KELZ 261556Z AUTO 08005KT 3/4SM -SN VV010 M11/M13 A2979 RMK AO2 SLP130 P0005 T11061133 CYYZ 261600Z 05010KT 15SM SCT017 BKN140 BKN240 M11/M18 A3002 RMK SC4AS2CI1 SLP180 KFDR 261553Z AUTO 10SM CLR 10/02 A3016 RMK AO2 SLP212 T01000022 CYZR 261600Z AUTO 04008KT 9SM CLR M08/M12 A2997 RMK SLP160 KFFA 261555Z AUTO 04003KT 10SM CLR 10/08 A2962 RMK AO2 T00990084 KEMT 260345Z 00000KT 10SM CLR 18/02 A3005 CYZS 261500Z 29004KT 15SM FEW090 SCT210 M35/M39 A2970 RMK AC2CI1 SLP072 EHSA 261555Z AUTO ///// //// ///////// 08/03 Q1020 W///H16 KDVT 261553Z 00000KT 10SM CLR 15/M02 A3012 RMK AO2 SLP188 T01501017 CYZT 261600Z 12016G22KT 20SM BKN110 OVC200 11/08 A2977 RMK AC6CI2 SLP080 KFFC 261553Z AUTO 30013G21KT 10SM BKN021 OVC027 07/03 A2988 RMK AO2 RAB1455E04 SLP121 P0000 T00720028 KENL 261555Z AUTO 30008G14KT 10SM SCT019 M02/M06 A3005 RMK AO2 T10161059 CYZU 261600Z VRB02KT 15SM -SHRA SCT030 SCT070 02/02 A2984 RMK SC3AC1 FG IN RIVER VLY W SLP131 EHSC 261555Z AUTO 32025G32KT 9999 ///////// 08/04 Q1019 W07/H15 KEMV 261555Z AUTO 00000KT 10SM SCT085 08/03 A2969 RMK AO2 CYZV 261600Z 32012G19KT 30SM DRSN FEW015 FEW220 M21/M29 A3005 RMK CF1CI1 CF TR SLP182 KFDW 261615Z AUTO 27007G14KT 10SM SCT025 SCT120 12/05 A2966 RMK AO1 LTG DSNT SE KEOE 261555Z AUTO 27010G16KT 240V300 10SM SCT029 11/04 A2971 RMK AO2 CYZW 260100Z 18007KT 20SM BKN035 01/M04 A2948 RMK SC6 CLIMAT 2.6/0.2/0.0CM/0.0MM MWE/44042/LAST OBS/NEXT OBS 261700 UTC SLP018 CYZX 261600Z 25008KT 15SM FEW030 SCT250 M09/M14 A3021 RMK SC1CI2 WNDY HILL 31006KT SLP233 KFDY 261553Z AUTO 36008KT 5SM -SN OVC012 M08/M12 A2992 RMK AO2 SLP142 P0000 T10831122 KFEP 261615Z AUTO 20008KT 2SM -SN SCT015 BKN026 OVC035 M07/M09 A2992 RMK AO2 VIS 1 1/2V3 T10711089 CZRP 261600Z AUTO 25007KT M32/M35 RMK AO1 PK WND 27017/1506 SLP044 T13171353 51006 CYZY 261603Z AUTO 16004KT 9SM -RA OVC008 01/01 A2985 RMK SLP137 KDYA 261555Z AUTO 32008KT 10SM OVC024 07/01 A3008 RMK AO2 T00710010 KDYB 261635Z AUTO 25011G16KT 10SM SCT029 13/06 A2969 RMK AO1 CZSJ 261600Z AUTO 02003KT 9SM OVC130 M12/M14 A2973 RMK SLP094 KFET 261555Z AUTO 28010KT 10SM CLR 06/02 A2989 RMK AO2 T00580015 KEOK 261555Z AUTO 20007KT 10SM BKN026 BKN045 OVC060 M01/M02 A2991 RMK AO2 CZTB 261600Z AUTO 09001KT M04/M05 RMK AO1 5PAST HR SOG 04 5001 SLP085 P0002 T10431054 50017 KDWU 261615Z AUTO 34009G14KT 10SM OVC016 A2983 RMK AO1 KFFL 261555Z AUTO 19006KT 10SM FEW060 SCT100 00/M02 A2989 RMK AO2 KFFM 261614Z AUTO 32013KT 10SM CLR 02/M01 A2978 RMK AO2 KENV 261615Z AUTO 00000KT 10SM CLR M02/M05 A3039 RMK AO1 CZSM 261600Z AUTO 26004KT M15/M17 RMK AO1 SOG 34 3012 SLP086 T11531173 50002 KENW 261553Z 19005KT 10SM OVC070 M04/M08 A2993 RMK AO2 SLP147 T10441083 KFEW 261556Z AUTO 28012G17KT 10SM CLR 10/M06 A3022 RMK AO2 SLP220 T01031059 $ KFFO 261558Z 32009KT 10SM SCT015 OVC037 M07/M10 A2991 RMK AO2A SLP143 T10711103 KDWX 261555Z AUTO 09009KT 10SM CLR M02/M05 A3049 RMK AO2 T10171053 VHHH 261600Z 09009KT 070V140 9000 NSC 19/16 Q1018 NOSIG PLCH 261600Z 1206KT 9999 SCT020 26/23 Q1006 CZSP 261600Z AUTO 27014G20KT M12/M16 RMK AO1 SOG 04 1037 PK WND 26020/1532 SLP214 T11161162 KEPH 261553Z AUTO 33005KT 10SM CLR 02/01 A3007 RMK AO2 SLP192 T00170006 ZUUU 261600Z 00000MPS 4000 BR SCT050 11/07 Q1019 NOSIG KDXR 261616Z 04011G17KT 2SM -SN BKN028 BKN035 OVC045 M08/M14 A3002 RMK AO2 P0000 T10831144 KH78 261503Z 32018KT 20SM FEW020 17/11 A3010 RMK SEAS 6-8 KEQA 261615Z AUTO 24008KT 10SM CLR 07/00 A3004 RMK AO2 KFFT 261553Z AUTO 30008KT 10SM OVC013 M04/M07 A2993 RMK AO2 SLP142 T10391072 KDZB 261615Z AUTO 28003KT 10SM CLR 13/01 A3029 RMK AO2 T01300009 KFHB 261555Z AUTO 28020G24KT 10SM SCT036 17/06 A2981 RMK AO1 CZST 261600Z 05002KT 1/4SM FG VV002 01/00 A2990 RMK FG8 SLP125 KDYL 261614Z AUTO 04009KT 5SM -SN BR BKN014 BKN028 OVC032 M06/M08 A2988 RMK AO2 P0000 T10561078 FABL 261600Z 27009KT CAVOK 27/10 Q1018 NOSIG FABM 261515Z 32007G19KT 6000 TSRA SCT025TCU FEW045CB 17/14 Q1022 RETS KFGN 261614Z AUTO 33017G23KT 10SM BKN010 OVC016 M01/M02 A2965 RMK AO2 EIKN 261600Z 27006KT 240V300 9999 FEW020 SCT038 BKN300 06/04 Q1028 NOSIG KDXX 261614Z AUTO 30009KT 10SM CLR 06/02 A2979 RMK AO2 KFFX 261615Z AUTO 12004KT 10SM CLR M10/M14 A2996 RMK AO2 T11011140 KFFZ 261547Z 00000KT 40SM SCT150 BKN200 13/M04 A3012 RMK WIND ESTIMATED PKMJ 260758Z 06017KT 15SM FEW015 SCT050 BKN300 28/24 A2972 KDYR 261615Z 31007KT 10SM OVC024 03/M07 A3014 RMK AO1 KDYS 261558Z AUTO 27009KT 10SM CLR 14/01 A3025 RMK AO2 SLP234 T01370009 $ KDYT 261614Z AUTO 00000KT 2SM -SN BKN006 BKN014 OVC023 M04/M06 A2969 RMK AO2 CZUM 261600Z AUTO 27011G19KT 9SM CLR M27/M32 A2962 RMK SLP087 EIME 261600Z 26010KT 9999 -RA FEW018 SCT028 BKN040 06/04 Q1028 KFGX 261555Z AUTO 32008KT 10SM OVC012 M05/M07 A2990 RMK AO2 T10531074 KFIG 261554Z AUTO 06006KT 1/2SM SN FZFG VV014 M08/M10 A2978 RMK AO2 SLP106 P0003 T10781100 EIKY 261600Z 28006KT 250V320 9999 SCT016 SCT022 BKN026 07/04 Q1031 PKMR 261553Z 04013KT 15SM FEW016 SCT300 28/23 A2972 RMK SLP064 T02750226 KERI 261551Z 04011KT 1 1/2SM -SN BKN027 OVC034 M07/M10 A2986 RMK AO2 SLP124 P0001 T10721100 KFHR 261553Z AUTO 15006KT 1/4SM FG VV002 07/06 A2995 RMK AO2 SLP141 T00670061 FACT 261600Z 16013KT 9999 SCT040 22/13 Q1015 NOSIG EHVK 261555Z AUTO 29007KT 9999 OVC042 07/05 Q1017 BLU 30008KT 9999 SCT030 BKN040 KESC 261615Z AUTO 08004KT 10SM FEW025 SCT030 BKN060 M10/M13 A2990 RMK AO1 KFHU 261555Z 00000KT 10SM SCT075 SCT140 BKN170 OVC200 09/M05 A3025 RMK SLP224 CZVL 261600Z AUTO 28006KT 9SM CLR 03/01 A2984 RMK SLP124 EHVL 261615Z AUTO 31025KT 9999 FEW021 SCT025 BKN033 06/03 Q1016 BLU KGAD 261615Z 30012G19KT 280V340 10SM BKN019 OVC026 04/M01 A2999 RMK AO1 KFIN 261550Z 28010G18KT 7SM SKC A2987 FACV 260946Z 24009KT 9999 BKN060TCU 28/M03 Q1016 KESF 261553Z AUTO VRB03KT 10SM CLR 10/01 A3020 RMK AO2 SLP225 T01000011 VIAR 261600Z 00000KT 3500 BR FEW040 08/07 Q1020 KEQY 261553Z AUTO 32009KT 10SM CLR 11/02 A2963 RMK AO2 SLP047 T01110022 KGAG 261553Z AUTO 27013KT 10SM CLR 09/01 A3015 RMK AO2 SLP215 T00890006 KI16 261555Z AUTO 5SM UP BKN006 BKN011 OVC016 06/06 A2972 RMK AO2 T00550055 KGAI 261615Z 04007KT 2 1/2SM OVC008 M01/M03 A2983 RMK AO1 KFKA 261615Z AUTO 20014KT 5SM BR OVC006 M03/M04 A2973 RMK AO2 T10351043 KFIT 261552Z AUTO 03004KT 10SM BKN024 OVC075 M09/M18 A3013 RMK AO2 SLP211 T10941178 KETB 261550Z AUTO 17006KT 10SM OVC060 M05/M08 A2990 RMK AO2 VIBN 261530Z 00000KT 1800 BR SCT020 BKN100 14/14 Q1019 KETC 261555Z AUTO 32004KT 10SM BKN070 OVC090 09/05 A2968 RMK AO2 T00860045 FAEL 261601Z 19011KT 160V230 3000 -RA BR SCT002 BKN018 22/21 Q1011 KGBD 261615Z AUTO 32015KT 10SM CLR 11/01 A3007 RMK AO1 KERV 261555Z AUTO 33003KT 10SM CLR 09/02 A3029 RMK AO2 T00880022 KESN 261550Z 07015G25KT 10SM OVC008 03/03 A2982 KGAO 261555Z AUTO 10SM CLR 13/03 A3016 RMK AO2 T01290028 EINN 261600Z 26011KT 9999 FEW014 SCT034 BKN040 08/04 Q1030 NOSIG EHWO 261555Z AUTO 32012KT 9999 BKN036 OVC042 07/03 Q1019 BLU FAEO 260652Z 13003KT CAVOK 20/13 Q1024 KERY 261615Z AUTO 13007KT 10SM SCT080 BKN090 M12/M14 A2996 RMK AO2 T11171145 KGBG 261555Z AUTO 16007KT 3/4SM -SN OVC011 M05/M06 A2993 RMK AO2 T10481057 FADY 260747Z 27003KT CAVOK 27/07 Q1017 KETH 261616Z AUTO 29016KT 10SM CLR 03/M01 A2980 RMK AO2 KEST 261552Z AUTO 31014KT 10SM CLR 02/00 A2977 RMK AO2 SLP094 T00220000 KGBK 261615Z AUTO 35026KT 10SM CLR 17/02 A3021 RMK A01 KGCC 261553Z AUTO 26009KT 10SM CLR 11/M02 A3012 RMK AO2 SLP198 T01061017 TSNO $ KFKL 261615Z AUTO 05008KT 1 1/2SM OVC027 M07/M11 A2976 RMK AO1 KFLD 261553Z AUTO 18011KT 10SM OVC075 M06/M09 A2988 RMK AO2 SLP130 T10561094 FAGC 261600Z AUTO 27006KT //// // ////// 26/10 Q1020 KGCD 261555Z AUTO 16012G15KT 10SM CLR 10/02 A3016 RMK AO2 T00990017 KFKN 261555Z AUTO 05004KT 10SM SCT100 10/03 A2967 RMK AO2 T00950034 KEUF 261558Z AUTO VRB03KT 10SM OVC027 09/03 A2995 RMK AO2 SLP140 T00890028 KEUG 261615Z 24004KT 1/8SM R16R/1000V2400FT FG VV002 03/03 A3003 RMK AO2 T00330028 KFLG 261557Z 12005KT 10SM CLR 05/M06 A3035 RMK AO2 SLP254 T00501061 KI35 261555Z AUTO 28011G16KT 10SM OVC016 M01/M02 A2982 RMK AO1 FAGG 261600Z 18008KT 9999 SCT011 BKN025 21/19 Q1015 KFKS 261613Z AUTO 17006KT 10SM CLR M08/M11 A2996 RMK AO2 T10801115 KEVB 261547Z 26017G21KT 10SM SKC 17/08 A2988 KGDB 261613Z AUTO 28010KT 7SM CLR 04/01 A2980 RMK AO2 T00350011 KGCK 261554Z 31012KT 10SM CLR 10/M01 A3015 RMK AO2 SLP213 T01001011 KI39 261615Z AUTO 31011KT 7SM OVC010 M04/M06 A2991 RMK AO2 KFLL 261557Z 30010G27KT 3SM R10L/3500VP6000FT RA BR SCT031CB BKN041 BKN055 17/15 A2996 RMK AO2 WSHFT 1541 CB OHD MOV E P0001 T01670150 $ KEUL 261615Z AUTO 36008KT 10SM CLR M01/M04 A3035 RMK AO1 KGCM 261615Z AUTO 21010KT 10SM CLR 05/01 A3014 RMK AO2 FAGM 261400Z 34008KT CAVOK 26/12 Q1023 VIDP 261600Z 22006KT 0900 R28/29/P2000 MIFG SCT020 BKN080 14/14 Q1020 BECMG 0800 KGCN 261554Z 08010G21KT 10SM CLR 07/M05 A3032 RMK AO2 SLP241 T00671050 $ KFME 261557Z AUTO 07006KT 1 1/2SM OVC009 00/M01 A2983 RMK AO1 KFLO 261553Z 26009KT 10SM CLR 12/05 A2965 RMK AO2 SLP037 T01220050 KFLP 261615Z 29011KT 10SM CLR 06/M02 A3010 RMK AO1 KFMH 261615Z AUTO 06014G19KT 10SM BKN027 BKN032 M00/M06 A3006 RMK AO2 KGDJ 261555Z AUTO 00000KT 10SM CLR 09/03 A3026 RMK AO2 T00910025 CZZJ 261600Z AUTO 00000KT M00/M01 RMK AO1 SOG 24 8001 SLP133 T10011009 KFNB 261553Z AUTO 27010KT 10SM CLR 05/00 A2992 RMK AO2 SLP140 T00500000 KEWB 261553Z 02006KT 10SM OVC043 M04/M09 A3007 RMK AO2 SLP184 T10441094 URFF 261600Z 06006MPS 0150 R01/1200VP2000U FG NSC 02/02 Q1019 01010065 BECMG OVC002 KEVM 261611Z AUTO 00000KT 1SM -SN OVC006 M05/M06 A2962 RMK AO2 KFMM 261615Z AUTO 26008KT 10SM CLR 06/M01 A3024 RMK AO2 T00561015 KGED 261554Z AUTO 04013G21KT 10SM OVC011 05/02 A2976 RMK AO2 SLP077 T00500022 KFMN 261553Z 08004KT 10SM CLR M01/M06 A3039 RMK AO2 SLP315 T10061056 KGEG 261553Z 07005KT 1/16SM R03/0700FT FG VV001 02/02 A3006 RMK AO2 TWR VIS 1/8 SLP194 T00220022 KFLY 261613Z AUTO 28003KT 10SM CLR 12/M06 A3036 RMK AO2 T01181058 KGFA 261556Z AUTO 22020G23KT 10SM BKN180 11/M01 A3003 RMK AO2 SLP180 T01061014 KFOA 261555Z AUTO 29008KT 10SM OVC016 M02/M05 A3005 RMK AO2 T10251054 KEWK 261615Z AUTO 30013KT 10SM CLR 07/M01 A3004 RMK AO1 FAJB 261600Z AUTO 28002KT //// // ////// 26/11 Q1020 KFNL 261615Z AUTO 14003KT 10SM CLR 10/M02 A3026 RMK AO1 KEVV 261554Z 33006KT 10SM OVC016 00/M04 A3004 RMK AO2 SLP175 T00001044 KFOD 261615Z AUTO 30010G16KT 10SM CLR 04/00 A2980 RMK AO1 KGDV 261615Z AUTO 24003KT 10SM CLR 05/01 A3001 RMK AO1 DRRM 261600Z 00000KT CAVOK 35/07 Q1011 KEVW 261553Z AUTO 19004KT 10SM CLR 00/M03 A3042 RMK AO2 SLP298 T00001028 KFOE 261553Z 24011KT 10SM CLR 05/M01 A2996 RMK AO2 SLP151 T00501006 KEWN 261554Z AUTO 00000KT 10SM CLR 09/06 A2967 RMK AO2 SLP046 T00890056 $ DRRN 261600Z 36008KT 340V050 CAVOK 35/M10 Q1011 NOSIG KFMY 261553Z 30015G21KT 10SM BKN038 BKN045 20/13 A2996 RMK AO2 SLP146 T02000128 EISG 261600Z 27014KT 9999 FEW017 SCT046 BKN050 07/04 Q1028 KEWR 261608Z 05015G22KT 5SM -SN BKN015 OVC028 M04/M07 A2998 RMK AO2 P0000 $ EKAH 261550Z AUTO 26007KT 220V290 9000NDV -RA OVC003/// 03/02 Q1006 R99/110195 KI67 261615Z AUTO 34004KT 10SM SCT034 M04/M09 A2995 RMK AO1 FAIR 252203Z 22016KT 9999 -RA BKN035 17/12 Q1020 KFOK 261603Z 04015G21KT 2 1/2SM -SN OVC014 M04/M07 A3001 RMK AO2 UPE1557SNB1557 P0000 T10391072 KFNT 261553Z 08008KT 10SM CLR M07/M12 A2997 RMK AO2 SLP161 T10721122 KGFK 261553Z 31016G21KT 10SM SCT043 SCT250 04/M01 A2974 RMK AO2 SLP081 T00391011 KI69 261617Z AUTO 32008KT 10SM OVC015 M04/M07 A2992 RMK AO1 KGEU 261548Z 31003KT 20SM FEW150 SCT200 BKN250 11/02 A3013 DRRT 261200Z 14006KT CAVOK 33/M05 Q1014 KGFL 261553Z AUTO 35010KT 10SM BKN075 OVC090 M11/M18 A3013 RMK AO2 SLP216 T11111178 KGEV 261555Z AUTO 28010G16KT 10SM BKN014 OVC039 03/00 A2963 RMK AO2 T00281003 KGGE 261615Z AUTO 28007KT 10SM CLR 12/07 A2967 RMK AO2 LTG DSNT E KEYE 261553Z AUTO 29007KT 10SM CLR M04/M09 A2995 RMK AO2 SLP153 T10441089 KEYF 261615Z AUTO 35003KT 10SM BKN070 BKN085 10/06 A2964 RMK AO2 T01040057 KGEY 261553Z AUTO 24003KT 10SM CLR M08/M08 A3025 RMK AO2 SLP298 T10831083 KGGG 261553Z 36007KT 10SM CLR 11/01 A3022 RMK AO2 SLP233 T01060006 KI75 261555Z AUTO 21014KT 10SM OVC110 02/00 A2981 RMK AO2 T00151005 KGEZ 261553Z AUTO 32007KT 10SM CLR M04/M09 A2995 RMK AO2 SLP152 T10441094 KGGI 261615Z AUTO 22008KT 10SM SCT070 01/M01 A2983 RMK AO2 T00061010 EKBI 261550Z 30006KT 9999 FEW012 SCT048 BKN075 04/03 Q1008 FALA 261600Z 26004KT 220V290 CAVOK 28/12 Q1019 NOSIG KFPK 261615Z AUTO 09004KT 10SM CLR M08/M13 A2994 RMK AO2 T10841126 KFOT 261615Z AUTO 15006KT 10SM CLR 09/07 A3002 RMK AO1 KGHB 261615Z AUTO 35016KT 10SM CLR 15/05 A3022 RMK A01 KFQD 261555Z AUTO 04003KT 10SM SCT070 10/01 A2967 RMK AO2 T00990011 FAKM 261600Z 32013KT CAVOK 28/10 Q1016 FALE 261600Z 04016G26KT CAVOK 26/21 Q1009 NOSIG FAKN 261600Z 00000KT 9999 SCT025 FEW035TCU 27/15 Q1015 NOSIG KEZF 261555Z AUTO 03006KT 7SM -DZ BKN009 OVC012 04/04 A2976 RMK AO2 P0001 T00360036 KEXX 261555Z AUTO 31004KT 10SM BKN050 OVC075 07/02 A2966 RMK AO2 T00740020 KGHG 261555Z AUTO 06014G19KT 10SM BKN025 OVC032 00/M06 A3011 RMK AO2 KGGP 261555Z AUTO 00000KT 10SM CLR M08/M12 A2998 RMK AO2 WAAA 261600Z 07006KT 7000 BKN018 23/23 Q1012 NOSIG KFOZ 261613Z AUTO 29005KT 7SM UP OVC008 01/M01 A2961 RMK AO2 EKCH 261550Z 20012KT 2000 -RA BKN004 03/03 Q1008 TEMPO 4000 BKN005 KFPR 261553Z 28012G20KT 10SM FEW022 SCT029 BKN038 18/13 A2991 RMK AO2 SLP128 T01780128 PKWA 261600Z AUTO 03017G24KT 10SM SCT025 27/21 A2974 RMK AO2 T02670214 KGIC 261555Z AUTO 13004KT 10SM CLR 02/M01 A3015 RMK AO1 T00151011 KEZM 261555Z AUTO 30008G17KT 10SM BKN028 OVC035 10/06 A2988 RMK AO2 T01000059 KEYW 261553Z 27013G21KT 10SM CLR 23/16 A3002 RMK AO2 SLP164 T02330161 KGGW 261553Z AUTO 00000KT 10SM CLR 02/M01 A2997 RMK AO2 SLP169 T00171006 FALM 261200Z VRB02KT 9999 SCT045 33/// Q1016 KGIF 261553Z AUTO 31015G24KT 10SM SCT039 18/09 A2993 RMK AO2 SLP135 T01780094 KFRG 261609Z 04013KT 3SM -SN OVC021 M04/M08 A2998 RMK AO2 P0000 T10441078 URKA 261600Z 06004MPS 9999 SCT035 BKN120 07/04 Q1018 NOSIG RMK QFE760/1013 SC070 WABB 260200Z 28003KT 9999 FEW018 29/24 Q1011 NOSIG KFRI 261558Z AUTO 26007KT 10SM CLR 06/00 A3000 RMK AO2 SLP165 T00561001 KEZS 261555Z AUTO 17003KT 10SM OVC050 M06/M10 A2987 RMK AO2 T10611102 EKEB 261550Z AUTO 31010KT 9999NDV BKN005/// 06/05 Q1008 KFRM 261615Z AUTO 31014KT 10SM CLR 05/M03 A2976 RMK AO1 KFSD 261556Z 30011G18KT 10SM FEW110 FEW250 04/02 A2985 RMK AO2 SLP123 T00440017 VIJP 261530Z VRB02KT 1800 R27/P2000N BR SCT035 BKN100 13/13 Q1020 BECMG 1500 FAMM 261600Z 18011KT 9999 FEW040 BKN100 25/11 Q1018 NOSIG KGHW 261613Z AUTO 29014KT 10SM CLR 02/00 A2974 RMK AO2 KFSE 261614Z AUTO 30013G19KT 10SM OVC025 02/M01 A2970 RMK AO2 KHAE 261615Z AUTO 21009KT 10SM SCT050 SCT055 BKN070 00/M01 A2994 RMK AO2 FALW 261600Z AUTO 21013KT //// // ////// 22/12 Q1014 KHAF 261615Z AUTO 00000KT 9SM CLR 09/03 A2999 RMK AO2 PMDY 261556Z AUTO 34005KT 10SM OVC036 17/14 A3006 RMK AO2 TSNO T01660138 OVC V BKN SLP490 $ EIWF 261600Z 30006KT 250V330 9999 FEW030 SCT038 07/04 Q1030 URKK 261600Z 06002MPS 030V090 9999 FEW043CB BKN063 06/04 Q1020 NOSIG RMK QFE761 SC060 KHAI 261615Z AUTO 00000KT 10SM CLR M09/M12 A2996 RMK AO2 T10861125 KFSI 261558Z AUTO 22005KT 10SM CLR 10/01 A3015 RMK AO2 SLP210 T00970011 KFRR 261615Z AUTO 03004KT 2SM OVC006 00/00 A2976 RMK AO1 USCC 261600Z 25005MPS CAVOK M09/M24 Q1034 27000060 NOSIG RMK QFE755 FAOB 261200Z 25015KT 9999 FEW025 26/17 Q1013 KFSM 261553Z 25006KT 10SM CLR 06/00 A3017 RMK AO2 SLP216 T00560000 WABP 260700Z 26005KT 8000 FEW012CB BKN014 30/24 Q1008 KHAO 261553Z AUTO 32007KT 10SM FEW018 BKN039 M06/M10 A2996 RMK AO2 SLP155 T10611100 KFSO 261615Z AUTO 00000KT 10SM CLR M14/M21 A3020 RMK AO2 T11451206 KHBG 261553Z AUTO 33011G19KT 10SM FEW032 11/02 A3013 RMK AO2 SLP202 T01060022 VILK 261530Z 00000KT 1000 R27/P2000 MIFG SCT018 OVC090 16/14 Q1019 BECMG 0800 KHBI 261615Z AUTO 34003KT 10SM SCT060 OVC075 06/05 A2967 RMK AO2 T00630047 KGKJ 261617Z AUTO 03007KT 1 1/4SM -SN OVC033 M07/M10 A2977 RMK AO2 P0000 T10671100 TSNO WADD 261600Z 25006KT 9999 FEW018 28/24 Q1010 NOSIG USCM 261600Z 35002MPS 8000 SCT100 M11/M24 Q1036 NOSIG 01090060 RMK QFE737 KFST 261553Z AUTO 23009KT 10SM CLR 08/01 A3033 RMK AO2 SLP254 T00780006 KGJT 261553Z 14011KT 10SM CLR 01/M04 A3043 RMK AO2 SLP315 T00111039 KFTK 261611Z AUTO 32006KT 10SM OVC013 M03/M05 A2995 RMK AO2 PRESFR KGLD 261553Z AUTO 31013KT 10SM CLR 10/M01 A3016 RMK AO2 SLP217 T01001006 KHCD 261612Z AUTO 29010G16KT 10SM CLR 03/01 A2974 RMK AO2 T00290007 KFTN 261710Z AUTO 24003KT 10SM CLR 16/03 A3032 RMK AO1 KFSW 261555Z AUTO 18009KT 7SM -SN OVC024 M01/M02 A2990 RMK AO2 KGLE 261555Z AUTO 22006KT 10SM CLR 10/00 A3022 RMK AO2 T01000002 FAPE 261600Z 24010KT 9999 -RA FEW005 SCT020 OVC035 21/19 Q1014 TEMPO 5000 KGLH 261553Z AUTO 34012KT 10SM CLR 08/01 A3016 RMK AO2 SLP221 T00830011 KHBR 261553Z AUTO 29009KT 10SM CLR 10/03 A3016 RMK AO2 SLP218 T01000033 URML 261600Z 16007MPS 3200 BR OVC010 05/04 Q1022 TEMPO 1200 RA BR OVC003 RMK MT OBSC QFE766/1022 SC055 WADL 261530Z 30003KT 6000 SCT016 26/24 Q1011 NOSIG FAOR 261600Z 30008KT 260V320 CAVOK 25/12 Q1022 NOSIG RMK CB TO S MOV NE DRZA 261600Z 00000KT CAVOK 32/06 Q1014 URMM 261600Z VRB01MPS 9999 OVC007 01/M01 Q1020 R12/CLRD70 NOSIG RMK MT OBSC QFE737/0983 KGKT 261615Z AUTO 32008KT 10SM OVC023 02/M01 A2983 RMK FBFT 261600Z 12009KT 9999 FEW030 34/08 Q1013 URMN 261600Z 00000MPS 9999 -DZ OVC004 00/M00 Q1020 NOSIG RMK MT OBSC OBST OBSC QFE728 SC06 KFUL 261553Z 07006KT 10SM OVC110 20/02 A2997 RMK AO2 SLP149 T02000017 KHDC 261555Z AUTO 35013G18KT 10SM CLR 11/01 A3016 RMK AO2 URMO 261330Z 04003MPS 9999 BKN140 03/M00 Q1018 NOSIG RMK QFE720/0960 SC070 KHBV 261555Z AUTO 00000KT 10SM CLR 18/04 A3032 RMK AO2 T01820044 PWINO ZWSH 261600Z VRB01MPS 6000 SCT040 M05/M09 Q1024 NOSIG KFVE 261553Z AUTO 29008KT 10SM CLR M18/M25 A3010 RMK AO2 SLP219 T11831250 KFTW 261553Z 22006KT 10SM CLR 11/M01 A3022 RMK AO2 SLP232 T01111006 KHDE 261555Z AUTO 30015G22KT 10SM CLR 11/00 A3002 RMK AO2 T01080000 FAPN 261600Z AUTO 05001KT //// // ////// 33/08 Q1014 KHCO 261615Z AUTO 33019KT 10SM BKN024 02/M01 A2975 RMK AO2 KFTY 261553Z 32013G20KT 10SM -RA OVC022 06/03 A2986 RMK AO2 RAB18 SLP114 P0001 T00560028 KGKY 261553Z 22004KT 10SM CLR 12/M02 A3023 RMK AO2 SLP236 T01171017 FAPP 261600Z 22005KT 9999 FEW050TCU 28/10 Q1017 NOSIG URMT 261600Z 09004MPS 4000 BR OVC005 M00/M00 Q1019 TEMPO 0400 FZFG OVC002 RMK QFE724 SC060 KGLR 261553Z AUTO 00000KT 10SM CLR M13/M14 A2993 RMK AO2 SLP168 T11331144 FAPR 251741Z 14011G25KT 9999 TSRA SCT030 FEW045CB BKN058 25/05 Q1018 KGLS 261552Z 28005KT 10SM CLR 12/05 A3028 RMK AO2 SLP254 T01220050 KFWA 261554Z 00000KT 10SM SCT160 BKN220 M08/M13 A2995 RMK AO2 SLP156 T10831133 KGNA 261556Z AUTO 20012KT M03/M04 A2971 RMK AO1 SLP078 P0003 T10281044 KGMJ 261555Z AUTO 22006KT 10SM CLR 06/01 A3011 RMK AO2 KFWB 261555Z AUTO 24005KT 10SM CLR 04/M01 A3008 RMK AO2 KGNC 261555Z AUTO 31007KT 10SM CLR 07/00 A3031 RMK AO2 T00731001 KFWC 261555Z AUTO 29005KT 10SM BKN017 BKN022 M02/M06 A3006 RMK AO1 T10191058 KHDN 261615Z 11010KT 10SM CLR M04/M08 A3048 RMK AO1 KGLW 261555Z AUTO 32009KT 10SM OVC013 M01/M04 A2999 RMK AO2 T10131038 KHDO 261551Z AUTO 00000KT 10SM CLR 12/04 A3032 RMK AO2 SLP264 T01220039 KHEF 261550Z 07003KT 9SM OVC008 02/02 A2979 KGNF 261615Z AUTO 32010KT 10SM OVC024 05/00 A3016 RMK AO2 KGLY 261615Z AUTO 20010KT 9SM CLR 04/01 A3003 RMK AO2 ZYCC 261600Z 28003MPS CAVOK M17/M24 Q1029 NOSIG KHEI 261553Z AUTO 29010KT 10SM CLR 04/01 A2999 RMK AO2 SLP170 T00440006 DRZR 261600Z 00000KT CAVOK 34/M04 Q1012 FASB 261233Z 13004KT CAVOK 28/11 Q1016 KGMU 261553Z 28008KT 10SM CLR 11/02 A2969 RMK AO2 SLP052 T01110017 KHFD 261553Z 36007KT 7SM OVC044 M08/M16 A3012 RMK AO2 SLP198 T10831161 KFWN 261605Z AUTO 04012KT 1SM -SN BKN024 OVC032 M09/M13 A2997 RMK AO2 P0000 T10941133 KFXE 261553Z 29014G22KT 10SM SCT035 BKN044 17/17 A2996 RMK AO2 PK WND 28030/1537 WSHFT 1528 RAB31E51 SLP147 P0000 T01720167 KHFF 261556Z AUTO 35005KT 10SM BKN055 08/06 A2966 RMK AO2 LTG DSNT S SLP047 T00760055 KFVX 261615Z AUTO 02005KT 4SM -RA OVC004 06/06 A2968 RMK AO2 LTG DSNT S P0001 T00570057 KHEQ 261615Z AUTO 30012G17KT 10SM CLR 12/00 A3017 RMK AO2 KGNR 261556Z AUTO VRB06KT M16/M24 A3006 RMK AO1 SLP216 T11561239 FASI 261600Z AUTO /////KT //// // ////// 25/12 Q1021 KFWS 261550Z 23005KT 20SM CLR 12/M01 A3024 KHFJ 261555Z AUTO 22010KT 10SM CLR 03/00 A3006 RMK AO2 DTKA 261600Z /////KT 9999 SCT020 SCT030 12/06 Q1015 NOSIG EKKA 261603Z 28007KT 7000 -SHRA FEW008 FEW018TCU SCT047 04/04 Q1007 KGOK 261553Z AUTO 24010KT 10SM CLR 08/00 A3011 RMK AO2 SLP202 T00830000 $ KGNT 261555Z AUTO 30007KT 10SM CLR M01/M03 A3041 RMK AO2 T10091033 FCBB 261600Z 25005KT 210V320 9999 FEW017 30/22 Q1009 NOSIG KGNV 261553Z 27014G21KT 10SM SCT037 13/06 A2989 RMK AO2 SLP121 T01330061 KGON 261605Z 02013KT 3SM -SN BR OVC040 M06/M08 A3005 RMK AO2 PRESFR P0000 T10611083 USHH 261600Z 24006MPS 8000 -SHSN BLSN BKN010CB OVC080 M10/M13 Q1015 TEMPO 0700 +SHSN OVC004 RMK QFE757 24////40 FBL ICE INC MOD TURB FBKE 261600Z 09006KT 9999 SCT030 FEW035CB 30/16 Q1014 KGOO 261620Z AUTO 12003KT 10SM CLR 13/00 A3010 RMK AO1 KFYG 261555Z AUTO 13004KT 9SM OVC025 M01/M03 A3005 RMK AO2 KHEY 261553Z AUTO 31013G20KT 10SM BKN032 10/02 A2996 RMK AO2 SLP135 T01000017 KGOP 261555Z AUTO 27005KT 10SM CLR 12/02 A3028 RMK AO2 KGPH 261615Z AUTO 20007KT 10SM CLR 03/00 A2994 RMK AO2 KHEZ 261615Z AUTO 34011G14KT 10SM CLR 09/01 A3019 RMK AO1 KFWZ 261615Z AUTO 00000KT 10SM CLR 11/M11 A3034 RMK AO2 KGPI 261555Z 00000KT 1/4SM FZFG VV002 M05/M05 A3010 RMK AO2 SLP227 I1000 T10501050 KFYJ 261555Z AUTO 08008KT 10SM CLR 11/04 A2971 RMK AO2 T01050035 KGOV 261615Z AUTO 00000KT 10SM CLR M12/M16 A2995 RMK AO2 T11191165 KGPM 261450Z 00000KT 10SM SKC 08/00 A3023 KFYM 261615Z AUTO 10SM BKN014 OVC019 00/M02 A2999 RMK KHHF 261615Z AUTO 29009KT 10SM CLR 12/00 A3019 RMK AO2 T01220002 KFXY 261555Z AUTO 28011KT 10SM CLR 02/00 A2975 RMK AO2 KFZG 261555Z AUTO 30013G19KT 10SM OVC025 11/03 A2990 RMK AO2 T01060031 KHHG 261555Z AUTO 00000KT 10SM CLR M10/M15 A2995 RMK AO2 T11001154 UTAA 261600Z 11006MPS 9999 OVC018 M02/M05 Q1032 R12/CLRD70 NOSIG KHGR 261600Z 04008KT 6SM HZ OVC018 M02/M04 A2980 RMK AO2 T10171044 KHIB 261616Z AUTO 17005KT 3SM -SN BR OVC014 M04/M07 A2961 RMK AO2 P0000 T10441067 KGPT 261553Z 33016G24KT 10SM CLR 11/02 A3011 RMK AO2 SLP194 T01110022 KGRB 261553Z 17006KT 10SM OVC070 M06/M09 A2989 RMK AO2 SLP133 T10611094 DTMB 261600Z 28012KT 9999 SCT016TCU SCT023 11/06 Q1013 NOSIG KFYV 261553Z 20005KT 10SM CLR 04/M02 A3011 RMK AO2 SLP201 T00441017 KGRD 261556Z AUTO 28008G18KT 10SM OVC090 11/02 A2971 RMK AO2 SLP060 T01110022 KHIE 261552Z AUTO 00000KT 10SM CLR M16/M18 A3010 RMK AO2 SLP226 T11611183 KGRF 261613Z 12001KT 3/4SM BR SCT000 03/03 A2995 RMK AO2A PWINO $ KHIF 261558Z AUTO 11008KT 10SM CLR 02/M02 A3039 RMK AO2 SLP295 T00241020 URRR 261600Z 08007G10MPS 8000 -SN BKN005 OVC100 M03/M04 Q1023 04250040 NOSIG RMK QBB170 MAST OBSC FAUP 261600Z 29018KT 9999 VCSH FEW060CB BKN100 27/15 Q1014 NOSIG KGPZ 261615Z AUTO 30010KT 10SM OVC012 00/M02 A2961 RMK AO1 WAJJ 261000Z 00000KT 8000 FEW014 23/22 Q1008 UTAK 261600Z 09007MPS CAVOK M03/M12 Q1027 NOSIG KHHR 261553Z 22006KT 10SM SCT090 OVC120 21/02 A2999 RMK AO2 RAE01 SLP154 P0000 T02060017 KGRI 261553Z 29011KT 10SM CLR 09/01 A2997 RMK AO2 SLP167 T00890011 KHII 261555Z AUTO 11004KT 10SM BKN110 12/01 A3012 RMK AO2 ZWWW 261600Z 33001MPS 4000 -SN BR NSC M14/M16 Q1035 NOSIG UTAM 261600Z 04002MPS 6000 OVC033 M03/M06 Q1037 NOSIG RMK SC07 KGRK 261558Z AUTO 26006KT 10SM CLR 12/01 A3027 RMK AO2 SLP250 T01220010 KIAB 261558Z AUTO 24008KT 10SM CLR 07/M01 A3004 RMK AO2 SLP182 T00651009 KGSB 261558Z 03007KT 10SM BKN100 04003 A2963 RMK AO2A SLPNO WND DATA ESTIMATED $ FAWB 261600Z AUTO 33001KT //// // ////// 29/10 Q1016 FAUT 261600Z 16011KT 9999 FEW030 BKN100 28/10 Q1012 KIAD 261552Z 08006KT 10SM OVC007 01/M01 A2980 RMK AO2 SLP093 SNE37 P0000 T00061011 KHHV 261615Z AUTO 01011KT 10SM CLR 19/05 A3026 RMK A01 KHHW 261555Z AUTO 00000KT 10SM CLR 08/01 A3019 RMK AO2 T00800008 FBMN 261600Z 04004KT 9999 FEW030 34/12 Q1013 KHIO 261553Z 00000KT M1/4SM R13/1400V1600FT FG VV002 05/05 A3002 RMK AO2 SLP166 T00500050 $ KIAG 261553Z 08016G23KT 2 1/2SM -SN FEW020 BKN040 OVC050 M09/M13 A2996 RMK AO2 SLP169 P0000 T10891133 $ KFZY 261554Z AUTO 08004KT 10SM OVC060 M10/M19 A3003 RMK AO2 SLP179 T11001189 URSS 261600Z 08004MPS 9999 BKN060CB OVC093 09/06 Q1019 NOSIG RMK R02/00000MPS QFE763 06190060 02////// ZYHB 261600Z 29003MPS CAVOK M19/M25 Q1028 NOSIG KGSH 261553Z AUTO 09005KT 10SM CLR M09/M12 A2995 RMK AO2 SLP153 T10891122 KIAH 261553Z 30004KT 10SM SCT250 13/00 A3027 RMK AO2 SLP252 T01280000 KHJH 261555Z AUTO 31011G18KT 10SM CLR 10/01 A2996 RMK AO2 T00970005 UTAT 261600Z 06004MPS CAVOK M10/M17 Q1040 99CLRD70 NOSIC KGRR 261553Z 10008KT 10SM FEW095 BKN230 M09/M13 A2997 RMK AO2 SLP163 T10891128 KHKA 261553Z AUTO 30011KT 10SM OVC022 04/M01 A3012 RMK AO2 SLP201 T00391006 UTAV 261600Z 00000PS 7000 SKC M07/09 Q1038 NOSIG KGTB 261558Z AUTO 07005KT 10SM OVC080 M19/M23 A3006 RMK AO2 SLP199 T11891229 FAWK 261600Z AUTO 30004KT //// // ////// 29/14 Q1020 EKOD 261550Z 22007KT 3700 -RA BKN003 OVC009 04/04 Q1007 R06/290095 FAVV 261500Z AUTO /////KT //// // ////// 23/12 Q1020 KGTF 261553Z 23020G26KT 10SM CLR 13/M03 A3002 RMK AO2 PK WND 22029/1500 SLP161 T01331028 KHJO 261553Z AUTO 31004KT 1/4SM FG VV002 03/02 A3005 RMK AO2 SLP180 T00280022 KGSO 261554Z 32004KT 10SM -RA SCT050 BKN100 BKN250 07/02 A2964 RMK AO2 RAB48 SLP038 P0000 T00720022 KGSP 261553Z 28009KT 10SM SCT055 BKN080 11/03 A2968 RMK AO2 SLP048 T01060028 KGRY 261615Z AUTO 34008G20KT 250V050 10SM CLR 18/05 A3018 RMK A01 WALL 261600Z 01003KT 9000 SCT018 25/24 Q1011 NOSIG UTDD 261600Z 22002MPS 4600 -SN BR SCT012 BKN015 OVC037 M01/M02 Q1032 R09/CLRD// NOSIG RMK QFE704/0939 KHLC 261553Z AUTO 31015G23KT 10SM CLR 12/00 A3008 RMK AO2 SLP195 T01170000 KGUC 261615Z 00000KT 10SM CLR M17/M17 A3059 RMK AO1 KIBM 261555Z AUTO 30019G23KT 10SM CLR 11/M03 A3019 RMK AO2 T01101026 KHLG 261613Z 34010KT 3/4SM R03/4500VP6000FT -SN BR BKN007 OVC016 M04/M06 A2972 RMK AO2 P0000 T10391056 URWA 261600Z 10009G12MPS CAVOK M08/M12 Q1031 NOSIG RMK QFE775/1033 SC060 UTDK 261600Z 18002MPS 6000 BKN007 OVC013 M01/M02 Q1032 01óLRD70 RMK QFE716/0955 KGTR 261545Z 34012G15KT 10SM OVC027 06/00 A3009 UTDL 261600Z 27003MPS 7000 SCT012 BKN020 OVC100 M04/M07 Q1034 NOSIG RMK QFE737/0983 88CLRD70 KHKS 261553Z 30008KT 10SM OVC025 07/01 A3015 RMK AO2 SLP205 T00720011 KIDA 261553Z 01004KT 10SM CLR M06/M07 A3042 RMK AO2 SLP339 T10561072 WAMM 261530Z VRB01KT 9000 FEW021 24/23 Q1012 NOSIG KGTU 261550Z VRB05 10SM CLR 13/02 A3027 KGUL 261615Z AUTO 10SM CLR 17/05 A3024 RMK A01 KICL 261615Z AUTO 25008G14KT 10SM CLR 03/01 A2991 RMK AO2 KHLN 261553Z 23004KT 10SM CLR 01/M03 A3019 RMK AO2 SLP257 T00061028 KGVE 261555Z AUTO 04005KT 7SM OVC005 03/03 A2974 RMK AO1 T00310025 URWI 261600Z 10007G11MPS 4100 -SHSN BLSN BKN004 OVC020CB M04/M05 Q1024 NOSIG KGUP 261553Z AUTO 00000KT 10SM CLR 00/M04 A3039 RMK AO2 SLP307 T00001039 KHKY 261553Z 00000KT 9SM SCT034 OVC100 05/03 A2966 RMK AO2 SLP034 T00500028 UTFA 261600Z 24001KT 210V280 2100 BR NSC M01/M03 Q1034 R88/09//70 KICR 261553Z AUTO 28014KT 10SM CLR 09/01 A2998 RMK AO2 SLP161 T00940011 KIDI 261615Z AUTO 10008KT 1SM BR CLR M04/M06 A2976 RMK A01 KHLR 261558Z AUTO M 10SM CLR 12/01 A3026 RMK AO2 SLP245 T01210009 $ KGUR 261555Z AUTO 00000KT 10SM CLR 06/02 A3021 RMK AO2 T00610015 KGUS 261558Z AUTO M 10SM CLR M09/M13 A2996 RMK AO2 SLP162 T10881126 $ KICT 261553Z 28009KT 10SM FEW250 08/M01 A3004 RMK AO2 SLP180 T00831006 KHNB 261615Z AUTO 31009KT 10SM OVC016 M01/M04 A3002 RMK AO1 KGWB 261555Z AUTO 01003KT 10SM CLR M07/M13 A2995 RMK AO2 USNN 261600Z 20009G12MPS 1500 SN BLSN OVC021 M15/M18 Q1016 TEMPO 1000 SN RMK QFE757 21451840 KGVL 261553Z AUTO 29011G17KT 10SM BKN017 OVC023 06/02 A2980 RMK AO2 SLP092 T00560017 UTFF 261600Z 36004KT 0900 R18/0900N FZFG OVC005 M02/M04 Q1032 R18/CLRD70 RMK BASE530 KHND 261556Z 18006KT 10SM CLR 10/01 A3021 RMK AO2 SLP228 T01000011 KHMN 261558Z AUTO 00000KT 10SM FEW200 02/M01 A3033 RMK AO2 SLP265 T00161015 $ KHLX 261555Z AUTO 31008KT 10SM BKN004 OVC011 02/02 A2964 RMK AO2 T00220017 KGUY 261553Z AUTO 31012KT 10SM CLR 13/00 A3019 RMK AO2 SLP214 T01330000 KIDP 261555Z AUTO 21010KT 10SM CLR 04/00 A3007 RMK AO2 WBGB 261600Z 16003KT 4000 RA FEW005 SCT012 OVC140 22/22 Q1012 KGXA 261555Z AUTO 10SM SCT080 BKN095 11/00 A3010 RMK AO2 SLP201 T01100001 TSNO $ KIFA 261615Z AUTO 26010KT 10SM CLR 02/00 A2978 RMK AO2 T00191005 KHOB 261550Z 31005KT 10SM SKC 07/00 A3031 KGVT 261555Z AUTO 00000KT 10SM CLR 10/00 A3023 RMK AO2 URWW 261600Z 09008G11MPS 9999 BKN030 M10/M14 Q1029 NOSIG RMK 11820360 EKRK 261550Z AUTO 21011KT 9000NDV -RA SCT004/// BKN006/// 02/02 Q1008 EKSB 261550Z 24007KT 4500 -DZRA BKN003 05/04 Q1007 WAOO 261200Z 19002KT 9000 FEW018 26/25 Q1010 NOSIG WBGG 261600Z 16002KT 8000 -RA SCT020 BKN150 23/21 Q1013 NOSIG KIEN 261552Z AUTO 23005KT 10SM CLR 06/M01 A3010 RMK AO2 SLP200 T00611006 KHOE 261555Z AUTO 32018G21KT 10SM SCT029 BKN034 BKN041 12/06 A2987 RMK AO2 EKRN 261550Z AUTO 19021KT 2100NDV -RASN BR OVC004/// 03/02 Q1012 KGWO 261553Z AUTO 33006KT 10SM OVC022 06/01 A3015 RMK AO2 SLP211 T00560006 KGXF 261556Z 23006KT 10SM BKN090 13/M03 A3013 RMK AO2A SLP200 T01301033 KGVX 261615Z AUTO 31008KT 10SM CLR 15/06 A3029 RMK A01 KGWR 261615Z AUTO 31015KT 10SM CLR 04/01 A2983 RMK A01 P000 KIER 261615Z AUTO 32007KT 10SM CLR 11/03 A3022 RMK AO2 T01070026 KHNR 261555Z AUTO 27010KT 10SM CLR 04/03 A2988 RMK AO2 KGYB 252135Z AUTO 34010G15KT 10SM CLR 21/02 A3012 RMK AO2 T02050022 DTTA 261600Z 29008KT 270V330 9999 SCT026TCU FEW030CB 10/07 Q1014 CB.NW FDBB 261600Z AUTO 00000KT //// // ////// 33/21 Q1009 DTTB 261600Z 34012KT 8000 SCT016TCU FEW023CB BKN030 10/08 Q1014 RMK CB/NW FBSK 261600Z 01006KT 320V080 9999 FEW030 35/07 Q1013 NOSIG WAPP 260200Z 32004KT 9999 SCT019 32/23 Q1010 NOSIG DTTD 261600Z 29010KT 250V320 8000 SCT030 12/M01 Q1016 USPP 261600Z 23009MPS 9000 BLSN BKN200 M13/M18 Q1031 21810355 NOSIG RMK QFE762/1016 KHON 261555Z AUTO 30013KT 10SM CLR 05/02 A2989 RMK AO2 SLP131 T00500017 KGWW 261555Z AUTO 03004KT 10SM BKN100 08/05 A2965 RMK AO2 T00810050 EKSN 261450Z 24006KT 2000 -RA BR BKN004 03/03 Q1005 DTTF 261600Z 35012KT 320V020 8000 SCT023 BKN026 12/01 Q1016 NOSIG WBGR 261600Z 03005KT 9999 -RA SCT013 BKN150 25/24 Q1011 KHOP 261558Z AUTO 31007KT 10SM OVC012 00/M02 A3003 RMK AO2 SLP175 T00011023 KIFP 261615Z AUTO 02010G16KT 10SM CLR 18/00 A3013 RMK AO2 PWINO FBSP 261600Z 11010KT 9999 FEW030 35/15 Q1013 WBGS 261600Z 16003KT 9999 SCT018 BKN150 24/22 Q1012 DTTG 261600Z AUTO 26007KT NCD 13/01 Q1015 EKSP 261609Z 30006KT 9999 BKN003 BKN032 05/05 Q1008 KGYH 261547Z 27015KT 10SM CLR 09/M01 A2969 KHNZ 261555Z AUTO 05007KT 7SM -RA BKN041 BKN050 OVC065 06/05 A2965 RMK AO2 T00640050 KGYI 261615Z AUTO 22003KT 10SM CLR 10/02 A3022 RMK AO2 T00960023 DTTJ 261600Z 30012KT 9999 SCT016 SCT026 13/06 Q1014 NOSIG KHOT 261553Z AUTO 28006KT 10SM CLR 07/00 A3015 RMK AO2 SLP210 T00670000 DTTK 261600Z 32006KT 8000 -RA BKN023 SCT030 10/07 Q1014 KGYL 261615Z AUTO 28009KT 10SM CLR 03/01 A2973 RMK AO2 T00300008 KHOU 261553Z 27004KT 10SM BKN250 13/00 A3027 RMK AO2 SLP256 T01280000 DTTL 261200Z 29004KT 240V360 8000 -TS SCT020 FEW026CB SCT030 10/07 Q1013 KIGM 261551Z AUTO 08003KT CLR 08/M03 A3019 RMK AO2 SLP192 T00831028 $ WBGY 261600Z 00000KT 9999 FEW024 SCT150 BKN300 24/23 Q1012 KHPN 261556Z 06013G17KT 1 1/2SM -SN BR BKN008 OVC010 M07/M12 A2997 RMK AO2 SLP162 P0000 T10721117 $ DTTN 261500Z 30010KT 260V360 9999 SCT020 SCT030 12/06 Q1015 KGXY 261615Z AUTO 00000KT 10SM CLR 05/M03 A3024 RMK AO1 KGZH 261553Z AUTO 33010G20KT 10SM OVC029 09/02 A3004 RMK AO2 SLP171 T00890022 KIGQ 261615Z AUTO 19004KT 10SM OVC075 M05/M09 A2997 RMK AO2 T10531095 KGYR 261555Z 06005KT 10SM SCT120 BKN180 14/M01 A3013 KHQI 261615Z AUTO 32017KT 10SM CLR 17/04 A3027 RMK A01 DTTR 261600Z 28012KT CAVOK 13/M01 Q1018 KIIB 261555Z AUTO 16016KT 10SM OVC010 M02/M03 A2978 RMK AO2 KGZL 261535Z AUTO 23008KT 10SM CLR 07/M01 A3016 RMK AO2 KHQM 261553Z AUTO 07010KT 1/4SM FG VV002 07/07 A2993 RMK AO2 SLP138 T00670067 EKVD 261450Z 26008KT 3500 -RA BR SCT002 BKN003 06/05 Q1007 WARQ 252300Z 15003KT 2000 BR SCT010 25/24 Q1012 NSG KIGX 261607Z AUTO 00000KT 10SM SCT015 BKN021 OVC060 09/06 A2965 RMK AO2 T00890061 DTTX 261600Z 31008KT 9999 FEW020 SCT030 12/05 Q1013 NOSIG USRR 261600Z 23006G09MPS 1900 BLSN FEW033CB BKN050 M13/M15 Q1014 TEMPO 0800 +SHSN BLSN VV005 RMK OBST OBSC QFE755 25////35 KGYY 261545Z 21004KT 10SM SCT120 M05/M13 A2999 WARR 261600Z 28008KT 7000 FEW020 26/23 Q1010 NOSIG WARS 261500Z 25003KT 7000 SCT018 26/24 Q1011 NOSIG EKVG 261620Z AUTO 27029KT 6000NDV -SHRA BKN023/// 03/01 Q1008 DTTZ 261600Z 31016KT 6000 SCT030 15/M01 Q1016 NOSIG KHRI 261612Z AUTO 34004KT 1 1/2SM BR OVC003 03/02 A3010 RMK AO2 T00280017 KHSA 261550Z 33008G18KT 10SM CLR 11/00 A3012 KHRJ 261555Z AUTO 00000KT 10SM BKN009 OVC055 08/07 A2966 RMK AO2 T00800066 EKVJ 261450Z 30008KT 9000 FEW003 SCT010 05/04 Q1008 KHSB 261615Z AUTO 29007KT 10SM BKN020 M01/M05 A3009 RMK AO2 T10081046 KHRL 261552Z 02006KT 10SM CLR 18/07 A3030 RMK AO2 SLP259 T01830072 KJAC 261550Z VRB05KT 3SM BR OVC005 M04/M04 A3048 KHQU 261555Z AUTO 30014G21KT 10SM BKN030 12/06 A2979 RMK AO1 T01200063 KIJD 261615Z AUTO 04010KT 1 3/4SM -SN BKN024 OVC032 M07/M12 A3007 RMK AO2 P0000 T10721117 KHSE 261551Z AUTO 00000KT 10SM FEW120 11/06 A2963 RMK AO2 SLP033 T01060061 TSNO KHRO 261553Z AUTO 27009KT 10SM CLR 05/M01 A3008 RMK AO2 SLP192 T00501011 ELLX 261550Z 22006KT 190V250 0200 R24/0400V0500N -DZ FG VV002 01/01 Q1018 NOSIG USSS 261600Z 25006MPS 9999 DRSN OVC067 M10/M18 Q1031 76820350 NOSIG RMK QFE752 KHQZ 261550Z 00000KT 10SM CLR 09/01 A3024 WBKK 261600Z 05001KT 9999 FEW014 SCT140 BKN270 26/24 Q1010 NOSIG KHSI 261553Z AUTO 30011KT 10SM CLR 09/01 A2997 RMK AO2 SLP163 T00890006 WBKL 261600Z 03010KT 350V070 9999 FEW010 BKN300 28/24 Q1010 KL18 261615Z AUTO 28005KT 10SM CLR 19/03 A3001 RMK AO2 KHRT 261558Z AUTO 34013G18KT 10SM CLR 12/00 A3001 RMK AO2 PK WND 35029/04 SLP164 T01150000 RVRNO $ UUBP 261600Z 15001MPS 9999 OVC010 M06/M07 Q1021 NOSIG 16720340 RMK QFE748 KJAN 261554Z 32010KT 10SM BKN025 08/01 A3015 RMK AO2 SLP208 T00780011 KHRX 261555Z AUTO 27005KT 10SM CLR 07/03 A3027 RMK AO2 T00720032 USTR 261600Z 23008G11MPS 6000 BLSN SCT046 M10/M16 Q1027 NOSIG RMK QFE761/1014 21390060 30750029 KIIY 261555Z AUTO 29016G23KT 10SM BKN030 BKN037 12/06 A2975 RMK AO2 KHSP 261555Z AUTO 00000KT M1/4SM -SN OVC002 01/01 A2958 RMK AO2 T00060006 WBKS 261600Z 05005KT 010V080 9999 SCT013 BKN270 27/25 Q1011 WATT 261600Z 24003KT 7000 -TS FEW014CB SCT015 25/24 Q1010 NOSIG RMK CB TO SW AND W AREA WBKT 261600Z 07007KT 010V120 9999 FEW013 SCT140 BKN280 27/24 Q1011 KJAS 261555Z AUTO 34008KT 10SM CLR 11/02 A3024 RMK AO2 T01070018 KHUA 261558Z AUTO 33008KT 10SM OVC018 03/M01 A3001 RMK AO2 SLP167 T00271010 UUDD 261600Z 17003MPS CAVOK M13/M15 Q1023 64450295 14490194 NOSIG KHST 261558Z AUTO 25018G26KT 10SM FEW035 SCT045 SCT050 BKN065 24/15 A2995 RMK AO2 PK WND 22028/55 SLP145 T02350153 KIKK 261555Z AUTO 00000KT 10SM OVC075 M05/M07 A2997 RMK AO2 T10471070 UUBW 261530Z 11002MPS CAVOK M12/M13 Q1024 NOSIG RMK SC0.45 WBKW 261600Z 33001KT 9999 FEW017 BKN140 25/22 Q1011 KHTL 261553Z AUTO VRB03KT 10SM CLR M11/M14 A2994 RMK AO2 SLP166 T11111139 KHSV 261553Z 33013G19KT 10SM OVC022 04/M02 A3001 RMK AO2 SLP165 T00391017 KILE 261615Z AUTO 27004KT 10SM CLR 13/01 A3025 RMK AO1 KHTO 261550Z 05012G21KT 5SM -SN BR OVC020 M03/M05 A3002 KHUF 261553Z 32005KT 10SM OVC016 M03/M06 A2999 RMK AO2 SLP163 T10281061 KJAX 261556Z 29018G24KT 10SM SCT035 13/05 A2983 RMK AO2 PK WND 28027/1507 SLP102 T01330050 KIJX 261555Z AUTO 18005KT 10SM OVC024 M01/M04 A2998 RMK AO2 T10141039 KILG 261612Z 05020G30KT 2 1/2SM -SN SCT013 BKN030 OVC036 M02/M04 A2984 RMK AO2 PK WND 06030/1606 P0000 T10171044 KL35 261555Z AUTO 03005KT 10SM OVC037 07/M10 A3022 RMK AO2 KJBR 261553Z AUTO 31006KT 10SM OVC021 03/M01 A3012 RMK AO2 SLP199 T00281011 UUDL 261600Z 17002MPS CAVOK M12/M15 Q1023 NOSIG RMK QFE759 23950337 KHTS 261616Z 31010G17KT 3SM -SN BR BKN013 OVC022 M03/M05 A2982 RMK AO2 P0000 T10331050 KL38 261555Z AUTO 34013G19KT 10SM CLR 11/02 A3017 RMK AO2 T01130016 KIKT 261615Z AUTO 31013G21KT 10SM SCT034 17/07 A3010 RMK A01 UUEE 261600Z 16002MPS CAVOK M10/M12 Q1022 75450230 25450240 NOSIG KHUL 261553Z AUTO 05006KT 10SM CLR M16/M24 A3018 RMK AO2 SLP233 T11561239 KILM 261553Z AUTO 30009KT 10SM CLR 10/07 A2963 RMK AO2 PRESFR SLP033 T01000072 KJDD 261615Z AUTO 00000KT 10SM CLR 09/00 A3024 RMK AO2 KHUM 261550Z 31012KT 7SM SKC 13/03 A3015 RMK RY12/30 CLSD ATIS J VA RY36... LJ KIKV 261555Z AUTO 25014KT 10SM FEW120 03/M01 A2979 RMK AO2 KILN 261554Z AUTO 32014KT 10SM FEW013 SCT049 M07/M11 A2988 RMK AO2 SLP148 T10671106 KIKW 261614Z AUTO 07006KT 10SM CLR M07/M12 A2999 RMK AO2 T10721117 FCPP 261600Z 20008KT 9999 FEW016 FEW030CB 30/25 Q1008 NOSIG OYAA 261600Z 12011KT 9999 SCT018 26/16 Q1018 KJCT 261551Z AUTO 26003KT 10SM CLR 06/01 A3030 RMK AO2 SLP251 T00610011 KHUT 261552Z 32010KT 10SM CLR 08/00 A3003 RMK AO2 SLP173 T00830000 UTNN 261600Z 05007KT CAVOK M13/M19 Q1040 R33/CLRD60 NOSIG EKYT 261550Z 28008KT 9999 FEW011 BKN072 05/05 Q1006 R26/CLRD// KIML 261553Z AUTO 31013KT 10SM CLR 08/M01 A3014 RMK AO2 SLP216 T00831011 KIMM 261615Z AUTO 29008KT 4SM SCT019 BKN026 OVC049 A2997 RMK A01 P000 KIND 261554Z 29008KT 10SM SCT017 BKN180 M04/M08 A2996 RMK AO2 SLP155 T10441078 KHWD 261554Z 06007KT 10SM CLR 09/04 A3003 RMK AO2 SLP179 T00890039 KHVN 261553Z 01012KT 3/4SM R02/4000V6000FT -SN OVC020 M07/M12 A3005 RMK AO2 SNB05 PRESFR SLP174 P0000 T10721122 KJDN 261548Z AUTO 29009KT 03/00 A2999 RMK AO1 SLP176 T00280000 KJEF 261553Z 21009KT 10SM SCT120 03/M01 A3003 RMK AO2 SLP164 T00281011 KINF 261615Z AUTO 28004KT 10SM CLR 16/05 A2992 RMK AO2 ZYTL 261600Z 01003MPS 310V050 CAVOK M06/M14 Q1033 NOSIG KHVR 261553Z AUTO 22020KT 10SM CLR 08/00 A2995 RMK AO2 PK WND 22027/1455 SLP153 T00780000 UTNU 261600Z 05006KT 7000 NSC M11/M18 Q1038 R13/CLRD70 NOSIG KIMS 261612Z AUTO 32004KT 10SM OVC015 M03/M07 A2997 RMK AO1 KHVS 261615Z AUTO 27007KT 10SM CLR 12/02 A2964 RMK AO2 KINJ 261555Z AUTO 24003KT 10SM CLR 09/02 A3025 RMK AO2 T00860018 KINK 261553Z AUTO 36003KT 10SM CLR 07/00 A3032 RMK AO2 SLP260 T00720000 KIMT 261554Z AUTO 14006KT 1 1/4SM -SN BR BKN030 OVC036 M12/M14 A2983 RMK AO2 SNB1456 SLP131 P0000 T11171139 KIOB 261555Z AUTO 33007KT 10SM OVC010 M05/M06 A2991 RMK AO2 KINL 261555Z AUTO 28005KT 9SM OVC007 M02/M03 A2959 RMK AO2 SLP038 T10171033 KHXD 261550Z 28012G20KT 10SM SCT029 12/06 A2974 KHWO 261608Z 30012KT 10SM -RA FEW030 BKN038 OVC047 17/14 A2998 RMK AO2 WSHFT 1543 P0001 T01670144 OYAR 261500Z 04006KT CAVOK 17/00 Q//// KJER 261553Z AUTO 07012KT 10SM CLR M01/M03 A3033 RMK AO2 SLP297 T10111028 OYAT 261500Z 36009KT CAVOK 21/M06 Q1024 KINS 261558Z AUTO 24002KT 10SM CLR 05/M05 A3019 RMK AO2 SLP213 T00451048 $ KHYA 261614Z 06010G18KT 10SM BKN030 OVC036 00/M07 A3004 RMK AO2 T00001067 KJES 261555Z AUTO 30015G19KT 10SM BKN031 BKN038 13/07 A2982 RMK AO2 KJFK 261551Z 05016G24KT 2 1/2SM -SN FEW014 BKN021 OVC029 M03/M07 A2999 RMK AO2 SFC VIS 4 SLP154 P0001 T10331072 $ KINT 261554Z 33009KT 10SM BKN042 BKN055 OVC075 08/01 A2967 RMK AO2 SLP045 T00780011 ZYTX 261600Z 35005MPS CAVOK M12/M23 Q1034 NOSIG ENAL 261550Z 23007KT 9999 FEW011 SCT036 BKN048 04/02 Q1003 KHWV 261611Z AUTO 03007G19KT 360V060 1 3/4SM -SN OVC016 M04/M08 A3000 RMK AO2 P0000 T10441083 TSNO KINW 261556Z AUTO 14007KT 10SM CLR M01/M04 A3037 RMK AO2 SLP297 T10061039 ENAN 261550Z 23011KT 9999 -SHRA FEW012 FEW015CB BKN050 03/M01 Q0990 KJGG 261555Z AUTO 00000KT 10SM 13/06 A2970 RMK AO1 KHWY 261555Z AUTO 04004KT 5SM RA BKN005 OVC008 02/02 A2977 RMK AO2 P0001 T00230023 KHYI 261546Z 00000KT 10SM CLR 12/02 A3028 KIPJ 261615Z AUTO 36005KT 10SM OVC060 07/02 A2967 RMK AO2 T00690018 FDLB 261600Z AUTO 05006KT //// // ////// 34/18 Q1013 KIPL 261553Z AUTO 09008KT 10SM OVC080 16/06 A3009 RMK AO2 PRESRR SLP189 T01560061 ENAT 261550Z 14009KT CAVOK M04/M09 Q0994 RMK WIND 700FT 15018KT ENBL 261450Z VRB01KT 9999 FEW/// SCT012 BKN020 01/00 Q1003 KIOW 261552Z AUTO 14006KT 3SM -SN BR OVC020 M03/M04 A2991 RMK AO2 SNE23B40 SLP137 P0001 T10331044 KHZE 261615Z AUTO 26005KT 10SM OVC100 04/00 A2996 RMK AO2 KIPN 261615Z AUTO VRB05G12KT 10SM SCT038 17/06 A3011 RMK A01 ENBN 261550Z 19017KT 9999 -SHRA SCT015 BKN025 04/01 Q0998 KJFX 261615Z AUTO 32008KT 030V360 10SM OVC018 04/00 A3005 RMK A02 P-128 ENBO 261550Z 19022KT 9999 -SHRA FEW012CB SCT020 BKN030 04/00 Q0994 TEMPO 22030G40KT 4000 TSRAGS BKN012CB UTSA 261600Z 21006KT 4600 BR BKN033 M04/M07 Q1034 R25/CLRD70 NOSIG KJFZ 261555Z AUTO 27005KT 10SM OVC003 02/01 A2966 RMK AO2 T00200010 UTSB 261600Z 28002KT 9999 BKN037 M05/M09 Q1035 R01/CLRD70 NOSIG WBSB 261600Z 01011KT 9999 FEW014 SCT020 BKN140 28/25 Q1011 NOSIG KHYR 261612Z AUTO 18007KT 1SM -SN BR BKN014 OVC021 M07/M08 A2968 RMK AO2 P0000 I1000 T10671083 ENBR 261550Z 29010KT 250V330 9999 6000E SHRA SCT012CB BKN018 03/01 Q1006 TEMPO -SHRA RMK WIND 1200FT 29017KT KHYS 261615Z AUTO 32011KT 10SM CLR 12/00 A3008 RMK AO1 ENBS 261550Z 20028KT 9999 -DRSN FEW015 BKN035 M04/M09 Q0992 KIPT 261616Z 08006KT 1 1/4SM -SN SCT018 OVC031 M06/M08 A2988 RMK AO2 P0001 T10561083 OYDM 261600Z 19008KT CAVOK 14/M25 Q//// KHZL 261555Z AUTO 09008G17KT 070V130 10SM OVC018 M06/M10 A2983 RMK AO2 ENBV 261550Z 20024KT 9999 BKN028 M02/M05 Q0992 KJHN 261615Z AUTO 29013KT 10SM CLR A3020 RMK AO2 KHYW 261615Z AUTO 30003KT 7SM CLR 13/07 A2965 RMK AO2 ENCN 261550Z 06003KT 360V120 9999 FEW030 03/01 Q1005 KHYX 261615Z AUTO 07005KT 10SM CLR M07/M11 A2999 RMK AO2 UTSK 261600Z 00000KT 9999 BKN/// OVC100 M02/M04 Q1033 R16/CLRD70 KHZR 261555Z AUTO 33011KT 10SM CLR 11/01 A3019 RMK AO2 T01050011 KIRK 261555Z AUTO 21010KT 9SM BKN110 01/M01 A2990 RMK AO2 SLP137 T00111006 FDND 261600Z AUTO /////KT //// // ////// 33/18 Q1009 KJHW 261615Z 07008KT 1 1/2SM OVC025 M09/M12 A2977 RMK AO1 KHZX 261607Z AUTO 29004KT 7SM OVC012 00/M01 A2964 RMK AO2 KHZY 261553Z AUTO 05006KT 10SM OVC055 M07/M10 A2984 RMK AO2 SNE05 SLP117 P0000 T10671100 UTSS 261600Z 06002KT 5000 -SHSN OVC055CB M05/M06 Q1032 R88/490340 NOSIG UTST 261600Z 32003KT 9999 FEW066CB BKN100 01/M03 Q1034 R88/CLRD70 NOSIG ENDR 261550Z AUTO 26029KT 05/M00 Q0998 KIRS 261615Z AUTO 00000KT 10SM CLR M09/M13 A2994 RMK AO2 KJKA 261615Z AUTO 33009G15KT 10SM CLR 11/03 A3006 RMK AO2 T01080025 FDMS 261500Z 05004KT 9999 SCT035 31/20 Q1012 NOSIG KM19 261556Z AUTO 33012KT 10SM BKN025 06/M01 A3013 RMK AO2 T00551005 SLP205 ENFB 261550Z AUTO 30021G32KT 9999NDV FEW018/// SCT028/// BKN061/// 05/01 Q1006 W///S6 ENEK 261550Z 29034KT 9999 VCSH FEW012CB SCT020 06/01 Q1013 W08/S4 KISM 261550Z 30011G21KT 10SM SCT036 17/11 A2991 ENDU 261520Z 20011KT 160V220 9999 -SHSN FEW030 SCT050 00/M01 Q0992 TEMPO 4000 -SHSN VV014 FDMV 261600Z AUTO 06006KT //// // ////// 31/19 Q1017 KISN 261552Z AUTO 25004KT 10SM CLR 04/M01 A2996 RMK AO2 SLP161 T00391011 KISO 261556Z 35006KT 10SM CLR 07/05 A2965 RMK AO2 FEFF 261600Z 15008KT 9999 FEW026 FEW040CB BKN300 33/22 Q1007 NOSIG KM25 261635Z AUTO 34006KT 10SM BKN015 00/M03 A3009 RMK AO2 KISP 261556Z 04018G21KT 1 1/2SM -SN OVC027 M04/M08 A2998 RMK AO2 SFC VIS 2 SNE08B25 SLP152 P0000 T10441078 LBBG 261530Z 35006KT 320V020 9999 -RA FEW015 BKN023 OVC049 05/02 Q1021 R99/29//95 NOSIG ENFG 261550Z VRB01KT 9999 FEW060 M07/M09 Q1000 FDMY 261600Z AUTO 36006KT //// // ////// ///// Q1019 KISQ 261615Z AUTO 16012KT 10SM OVC024 M06/M10 A2994 RMK AO2 T10581101 KITH 261556Z 09004KT 2SM R32/4500VP6000FT -SN OVC021 M09/M13 A2993 RMK AO2 T10941127 P0000 SLP159 UTTT 261600Z 25004KT 3000 BR OVC012 M04/M07 Q1034 R88/CLRD70 NOSIG KJKJ 261612Z AUTO 32014KT 10SM CLR 04/02 A2976 RMK AO2 KM30 261555Z AUTO 32009KT 10SM SCT020 00/M03 A3008 RMK AO2 T00031032 OYHD 261600Z 18018KT 4000 BLDU NSC 26/21 Q1015 KJKL 261553Z AUTO 5SM BR OVC004 M04/M05 A2983 RMK AO2 UPB32E40SNE32 SLP110 P0001 T10391050 ENFL 261550Z 25010KT 9999 VCSH FEW015CB SCT018TCU SCT030 04/01 Q1004 ENGC 261550Z 33017KT 9999 VCSH FEW020CB SCT027 04/00 Q1006 W06/S5 ENEV 261550Z 18013KT 9999 SCT037 02/M01 Q0992 RMK WIND 1400FT 22025KT KISW 261617Z AUTO 15008KT 4SM -SN FEW019 OVC028 M07/M10 A2982 RMK AO2 P0000 T10721100 FDNY 261600Z AUTO 34002KT //// // ////// 29/19 Q1021 OYHJ 261500Z 26004KT 9999 FEW020 16/15 Q//// KITR 261553Z AUTO 29012KT 10SM CLR 09/M01 A3020 RMK AO2 SLP225 T00891011 OYIB 261500Z 18010KT 8000 NSC 20/04 Q1021 KM40 261615Z AUTO 33009KT 8SM OVC022 06/00 A3012 RMK AO2 FEFT 260800Z 32008KT CAVOK 23/21 Q1011 FDOT 261600Z AUTO /////KT //// // ////// 33/15 Q1012 UUMO 261600Z 14001MPS 9999 -SN BKN016 BKN200 M11/M13 Q1023 NOSIG RMK QFE752/1002 26510255 ENGM 261550Z 01004KT 0500 R19R/0600D R01R/0650N FG VV002 00/M00 Q1002 TEMPO 0800 FG ENHD 261550Z 28021KT 9000 -SHRA FEW010CB SCT017 BKN028 05/03 Q1006 KJLN 261553Z 22011KT 10SM CLR 04/00 A3007 RMK AO2 SLP186 T00440000 ENHE 261550Z 27031KT 9999 BKN025CB 05/00 Q0995 W///S6 ENHF 261550Z 25005KT 200V290 CAVOK M01/M05 Q0990 RMK WIND 1254FT 19017KT UUOB 261600Z 12004MPS 7000 OVC008 M06/M07 Q1022 29190050 NOSIG KIWA 261547Z 08005KT 45SM SCT080 BKN100 08/M01 A3014 ENHK 261520Z 11015KT CAVOK 02/M02 Q0990 KIWD 261615Z AUTO 17006KT 1 1/2SM OVC017 M08/M09 A2968 RMK AO1